ENHM 021620Z 16028KT 7000 NSC 13/12 Q1016 W12/S5 KJMR 021615Z AUTO 00000KT 10SM CLR 21/12 A3005 RMK AO2 UUOK 021600Z 01002MPS 330V050 9999 SCT033 BKN100 24/13 Q1020 R30/CLRD70 NOSIG RMK QFE746/0995 KIWI 021553Z AUTO 26006KT 10SM CLR 23/14 A2983 RMK AO2 SLP102 T02330139 KIXA 021602Z AUTO 23008KT 10SM CLR 29/21 A2990 RMK AO2 KJMS 021556Z AUTO 18007KT 9SM OVC012 21/17 A2997 RMK AO2 SLP146 T02110172 PPIT 021556Z AUTO 23008KT 10SM OVC042 12/09 A3009 RMK AO2 SLP189 T01220094 UUOO 021600Z 32004MPS CAVOK 24/11 Q1018 R30/090070 NOSIG RMK QFE750 KIXD 021553Z 05010KT 3SM BR BKN010 OVC014 22/20 A2992 RMK AO2 CIG 008V012 SLP122 T02220200 ENHV 021450Z 01008KT CAVOK 09/05 Q1020 KM63 021556Z AUTO 31006G12KT 10SM FEW230 29/11 A3005 RMK AO2 SLP094 T02890106 PPIZ 021607Z AUTO 23023G28KT 3SM BR FEW011 SCT017 OVC027 08/06 A2977 RMK AO2 TSNO RAB1558E01 P0000 PK WND 22028/1604 $ KIYA 021615Z AUTO 00000KT 10SM SCT024 SCT032 30/25 A3009 RMK AO2 T03000248 ENKB 021620Z 01005KT 340V040 CAVOK 24/15 Q1019 FDSK 021550Z 06005KT 9999 FEW040 20/12 Q1026 KJNX 021604Z AUTO 23003KT 10SM SCT100 BKN120 27/22 A2993 RMK AO2 KIZA 020355Z AUTO 24005KT 10SM CLR 21/12 A2992 RMK AO2 ENLA 021620Z AUTO 21010KT 6000NDV FEW190/// 14/14 Q1017 W///S4 KJOT 021615Z AUTO 06009G14KT 10SM BKN027 21/15 A2999 RMK AO2 T02070148 FDST 021500Z AUTO 11005KT //// // ////// 18/11 Q1026 KJQF 021553Z 25009G14KT 10SM CLR 28/17 A3000 LBGO 021600Z AUTO 05009G20KT 9999 BKN060/// BKN068/// 25/16 Q1019 KIZG 021554Z AUTO 29007KT 10SM CLR 22/11 A2985 RMK AO2 SLP107 T02220106 ENKR 021620Z 09006KT 9999 BKN047 11/07 Q1021 RMK WIND 731FT 10005KT ENLK 021550Z 16012KT 9999 -RA FEW010 SCT015 BKN040 12/11 Q1018 KM91 021615Z AUTO VRB05KT 10SM CLR 25/25 A2990 RMK KN03 021615Z AUTO 30003KT 10SM SCT035 SCT044 SCT049 20/13 A2997 RMK AO2 ENMH 021550Z 331009KT 9999 SCT020 SCT059 11/05 Q1019 KLAA 021553Z AUTO 03011KT 7SM CLR 24/15 A3010 RMK AO2 SLP147 T02390150 TSNO ENNA 021620Z 33012KT 9999 FEW048 SCT090 13/07 Q1019 RMK WIND 1800FT 32008KT ENML 021620Z 27003KT 250V320 CAVOK 25/16 Q1018 ENNE 021550Z 21015KT 9999 FEW070 BKN120 15/11 Q1019 W///S4 KLAF 021554Z 03005KT 10SM OVC034 18/14 A2995 RMK AO2 SLP138 T01830144 ENOA 021620Z 17041KT CAVOK 15/12 Q1016 W///S5 ENMS 021420Z 34007KT 9999 VCSH FEW060 BKN085 17/13 Q1021 RMK WIND 412FT VRB07KT KLBB 021553Z 20007KT 170V230 10SM FEW200 SCT260 27/19 A3003 RMK AO2 SLP112 T02720189 KLAL 021545Z 19004KT 10SM FEW050 31/22 A3014 ENNK 021550Z 09002KT 9999 -RA FEW005 FEW015 BKN020 11/10 Q1020 KJTC 021615Z AUTO 08004KT 10SM CLR 23/09 A3034 RMK AO2 KLAM 021540Z AUTO 02005KT 10SM CLR 21/10 A3031 RMK AO2 T02070099 KLBE 021550Z 22006KT 10SM BKN044 22/16 A2996 ENNM 021620Z 32005KT CAVOK 24/12 Q1020 KLAN 021553Z 09003KT 10SM FEW025 SCT042 20/13 A3004 RMK AO2 SLP172 T02000128 KJSO 020355Z AUTO 19007KT 10SM CLR 22/21 A3005 RMK AO2 T02300215 KLBF 021553Z AUTO 31012KT 10SM CLR 26/16 A3002 RMK AO2 SLP136 T02610161 ENNO 021550Z 11013KT CAVOK ///// Q1025 LATI 021620Z 35010KT CAVOK 26/13 Q1020 NOSIG KLAR 021553Z AUTO 00000KT 10SM CLR 18/12 A3033 RMK AO2 SLP171 T01830117 KLAS 021556Z 18007KT 10SM FEW110 SCT150 BKN220 31/17 A2995 RMK AO2 SLP110 ACC SE-S T03110172 VMMC 021600Z 20009KT 170V240 9999 FEW012 SCT020 29/27 Q1003 NOSIG KJST 021554Z AUTO 34007KT 10SM FEW038 21/12 A2997 RMK AO2 SLP138 T02110122 KLBL 021615Z AUTO 01012KT 10SM CLR 26/16 A3003 RMK AO1 KJSV 021555Z AUTO 24013KT 10SM CLR 28/21 A2989 RMK AO2 ENOL 021620Z 35005KT CAVOK 23/16 Q1019 NOSIG KLAW 021553Z 21009KT 10SM CLR 29/21 A2992 RMK AO2 SLP118 T02890206 KLAX 021553Z 26008KT 10SM FEW050 BKN150 BKN250 19/17 A3000 RMK AO2 SLP159 T01940172 KLCG 020355Z AUTO 00000KT 10SM CLR 19/18 A2996 RMK AO2 T01910181 KLCH 021553Z 21008KT 9SM FEW020 29/24 A3007 RMK AO2 SLP190 T02940244 KLCI 021615Z AUTO 26006KT 10SM BKN048 OVC050 21/11 A2987 RMK AO1 KN38 021615Z AUTO 00000KT 9SM BKN022 BKN028 OVC055 19/14 A2999 RMK AO2 KLCK 020530Z AUTO 00000KT 10SM SCT049 BKN060 BKN070 17/16 A2994 RMK AO2 T01710160 ENQA 021620Z AUTO 17038KT 9999NDV NCD 17/13 Q1017 W12/S4 KLBT 021554Z AUTO 24011KT 10SM CLR 29/21 A2996 RMK AO2 SLP142 T02940206 ENQC 021620Z AUTO 17029KT 9999NDV NCD 17/12 Q1017 W///S4 ENOV 021550Z VRB07KT CAVOK 28/07 Q1018 RMK WIND 2175FT 16021KT KLBX 021553Z AUTO 17011KT 9SM CLR 31/24 A3005 RMK AO2 SLP176 T03110244 KLCQ 020355Z AUTO 00000KT 10SM CLR 25/22 A3012 RMK AO2 VLVT 021530Z 27002KT 3000 BR BKN040 30/23 Q1003 NOSIG KLDJ 021615Z AUTO 00000KT 10SM CLR 27/16 A2991 RMK AO2 T02740155 KKLS 021615Z 28005KT 10SM CLR 21/14 A3005 RMK AO1 ENRA 021620Z VRB02KT 9999 FEW006 SCT010 BKN060 14/12 Q1022 KLEB 021553Z 29007KT 10SM FEW042 SCT050 BKN060 22/11 A2988 RMK AO2 SLP111 T02220111 KJVL 021545Z 07008KT 10SM SKC 18/09 A3004 KLDM 021615Z AUTO 08008G16KT 10SM CLR 22/13 A3004 RMK AO2 T02160127 KLEE 021553Z 19004KT 10SM FEW035 31/22 A3014 RMK AO2 SLP204 T03110222 KJWG 020355Z AUTO 20009KT 10SM CLR 29/20 A2989 RMK AO2 T02890201 ENQR 021620Z AUTO 17030KT 9000NDV OVC014/// 14/11 Q1015 W///S5 KN60 021552Z AUTO 35006KT 22/18 A3000 RMK AO1 SLP152 T02170183 UUWW 021600Z 34005MPS 9999 SCT050CB 21/15 Q1020 R24/290050 TEMPO VRB15MPS 2000 TSRA ENSB 021550Z 23013KT 190V250 9999 SCT015 BKN100 05/01 Q1015 RMK WIND 1400FT 22014KT UWGG 021600Z 34005MPS 9999 SCT020CB 22/12 Q1015 R36L/090070 TEMPO TSRA SCT020CB RMK QFE754 ENSD 021620Z 02004KT 9999 FEW060 25/09 Q1019 RMK WIND 1138FT 19006KT ENRM 021620Z 07006KT CAVOK 22/12 Q1020 KJVW 021615Z AUTO 22005KT 8SM CLR 27/24 A3007 RMK AO2 LCEN 021550Z 29014KT CAVOK 31/11 Q1010 NOSIG ENSE 021620Z AUTO 19033KT 8000NDV OVC013/// 14/12 Q1015 W///S4 ENRO 021620Z 21011KT 160V250 CAVOK 27/10 Q1022 ENSF 021620Z AUTO 19033KT 7000NDV OVC010/// 14/12 Q1015 W///S4 ENSG 021550Z VRB04KT CAVOK 24/07 Q1023 RMK WIND 3901FT 15018KT KJXI 020355Z AUTO 17004KT 10SM CLR 25/20 A3000 RMK AO2 T02500199 ENSH 021550Z 21004KT 7000 -RA FEW004 BKN010 12/11 Q1020 KLFI 021558Z AUTO 20011KT 6SM HZ SCT120 SCT180 27/23 A2985 RMK AO2 SLP115 T02730227 KLGA 021551Z 07004KT 10SM FEW045 BKN080 BKN150 BKN250 24/13 A2990 RMK AO2 SLP125 T02440133 ENRS 021550Z 19014KT 9999 -RA FEW014 SCT035 BKN050 11/10 Q1019 KLFK 021604Z AUTO 20008KT 160V230 10SM SCT018 29/23 A3004 RMK AO2 T02940233 KLGB 021553Z 32005KT 10SM CLR 23/17 A2999 RMK AO2 SLP155 T02330172 KLGC 020355Z AUTO 21003KT 10SM -RA CLR 23/23 A3008 RMK AO2 LTG DSNT SW T02250225 ENSK 021550Z VRB02KT 7000 RA FEW003 SCT011 BKN016 12/11 Q1019 EPBC 021600Z 08006KT CAVOK 27/05 Q1026= ENTC 021620Z VRB02KT 9999 -DZ SCT028 BKN038 11/07 Q1019 TEMPO RA BKN012 RMK WIND 2600FT 17009KT ENSL 021620Z 20017KT 6000 FEW060 13/13 Q1017 W11/S4 KLGD 021615Z AUTO 00000KT 10SM CLR 24/07 A3008 RMK AO1 LBPD 021600Z AUTO 36006KT 9999 NCD 28/14 Q1019 KLEW 021615Z 23010KT 10SM SCT047 22/11 A2984 RMK AO1 KJXN 021556Z 02009KT 10SM FEW022 SCT028 BKN041 19/14 A3002 RMK AO2 SLP164 T01940139 ENSN 021350Z 14007G17KT 090V240 CAVOK 22/13 Q1027 KLEX 021554Z 21007KT 10SM -RA BKN006 BKN039 OVC080 22/21 A2992 RMK AO2 SLP122 P0002 T02170206 $ KJWY 020355Z AUTO 17007KT 10SM CLR 25/21 A2999 RMK AO2 T02470206 ENSO 021620Z 16016KT CAVOK 26/10 Q1019 KJYG 021615Z AUTO 12008KT 10SM CLR 21/12 A3004 RMK AO2 ENRY 021620Z 19010KT CAVOK 21/11 Q1027 ENSR 021550Z 32006KT 9999 BKN055 11/07 Q1019 WIND 1119FT 04003KT KLHB 021555Z AUTO 17010G17KT 10SM BKN017 27/23 A3004 RMK AO2 T02690231 ENSS 021550Z 14010KT 9999 SCT045 09/06 Q1021 RMK WIND 500FT 17015KT KLFT 021553Z 20006KT 10SM HZ CLR 29/24 A3009 RMK AO2 SLP190 T02890244 KJYL 020355Z AUTO 29004KT 10SM CLR 25/21 A3006 RMK AO2 LTG DSNT E T02500208 ENST 021550Z 02005KT 350V060 CAVOK 18/14 Q1021 RMK WIND 300FT 05004KT KJYM 021615Z AUTO 08008KT 040V130 10SM SCT022 BKN030 20/14 A3001 RMK AO2 T01990143 UUYY 021600Z 01006MPS 9999 BKN030CB 14/07 Q1014 R01/CLRD61 NOSIG RMK QFE751/1002 EPCE 021600Z 08011KT CAVOK 22/08 Q1029 RMK 217 041 0/0 = KJYO 020350Z AUTO 00000KT 10SM SCT070 20/19 A2993 RMK AO2 ENTO 021620Z 19009KT CAVOK 22/11 Q1027 KJYR 021610Z AUTO 10005KT 5SM BR OVC006 20/20 A2995 RMK AO2 KJZI 021615Z AUTO 23006KT 10SM FEW038 SCT044 BKN055 32/23 A3002 RMK AO2 EPDA 021600Z 09011KT 040V120 CAVOK 26/09 Q1027 RMK 259 034 0/0 = ENVA 021620Z 28006KT CAVOK 22/16 Q1019 NOSIG RMK WIND 670FT 31005KT FGBT 021600Z 23008KT 9999 SCT010 OVC100 27/21 Q1012 NOSIG KLGU 021551Z AUTO 36008KT 10SM CLR 24/11 A3010 RMK AO2 SLP137 T02440111 TSNO KLIC 021555Z AUTO 01005KT 10SM SCT110 18/12 A3024 RMK AO2 SLP177 T01830117 KLHM 020355Z AUTO 06005KT 10SM CLR 31/03 A2980 RMK AO1 ENVD 021550Z 10008KT 9999 FEW030 BKN049 10/07 Q1021 EPDE 021600Z 06006KT CAVOK 26/09 Q1026 RMK 255 034 1/1= KJZP 020355Z AUTO 00000KT 5SM HZ SCT002 BKN046 20/14 A3012 RMK AO2 T02030139 EPBY 021600Z 06009KT CAVOK 26/08 Q1027 KLHQ 021553Z AUTO 04004KT 7SM SCT039 BKN048 OVC060 20/16 A2996 RMK AO2 SLP142 T02000161 ENVH 021620Z AUTO 18005KT 9999NDV FEW098/// SCT100/// BKN190/// 17/14 Q1017 W///S3 UWKD 021600Z 31004MPS CAVOK 24/07 Q1011 R29/CLRD70 NOSIG RMK QFE747/0996 UWKE 021600Z 31004MPS 9999 FEW026 21/12 Q1010 R21/090070 NOSIG RMK QFE740/0987 VOBG 020000Z 0203/0212 27015KT 8000 SCT012 SCT080 TEMPO 0209/0212 5000 RA DZ SCT012 SCT020 BKN080 KMAE 021553Z AUTO 18004KT 10SM -RA FEW032 SCT090 SCT120 28/15 A2992 RMK AO2 RAB46 SLP127 P0000 T02780150 KLHW 021558Z AUTO 23011KT 10SM FEW090 SCT180 31/22 A3003 RMK AO2 SLP172 T03080218 $ KLJF 021613Z AUTO 14005KT 10SM CLR 22/13 A3004 RMK AO2 KLHX 021553Z AUTO 04013G21KT 10SM FEW025 22/14 A3018 RMK AO2 SLP163 T02220144 KMAF 021553Z 15009KT 10SM CLR 24/18 A3004 RMK AO2 SLP125 T02440178 LBSF 021600Z 31006KT 280V340 9999 SCT068 26/14 Q1022 NOSIG DXNG 021500Z 26004KT 210V300 9999 FEW006 24/20 Q1014 NOSIG KLHZ 021600Z AUTO 23003KT 10SM SCT029 BKN035 BKN041 28/21 A2994 RMK AO2 KMAI 021553Z AUTO 25006KT 10SM FEW110 29/24 A3009 RMK AO2 LTG DSNT E AND SW SLP187 T02940244 VOCB 021530Z 20011KT 6000 FEW015 27/23 Q1013 NOSIG ENVR 021550Z 23010KT 9999 -SHRA FEW014 SCT025 OVC090 12/11 Q1019 VOBL 021600Z 27007KT 6000 SCT012 SCT080 27/24 Q1017 NOSIG KLIT 021553Z 23010KT 10SM FEW050 SCT100 BKN250 29/20 A2991 RMK AO2 SLP129 T02940200 KO22 021555Z AUTO 17005KT 10SM CLR 30/10 A3000 RMK AO1 KMAN 021615Z AUTO 29005KT 10SM CLR 29/07 A3001 RMK AO1 KMAO 021615Z AUTO 25009KT 7SM CLR 28/20 A2998 RMK AO2 VOCI 021600Z 00000KT 5000 HZ FEW020 28/24 Q1012 NOSIG KMBG 021612Z AUTO 30008KT 10SM BKN011 22/19 A2997 RMK AO2 T02170189 UWKS 021600Z 28004MPS 9999 FEW030CB 19/14 Q1013 R24/290258 TEMPO -TSRA RMK QFE745 VNKT 021550Z 29004KT 7000 TS FEW015 FEW025CB SCT030 BKN250 24/21 Q1011 NOSIG CB TO SE AND S VOCL 021500Z 00000KT 6000 FEW015 29/24 Q1012 NOSIG KMCB 021604Z AUTO 24008KT 5SM HZ BKN015 BKN019 OVC023 28/25 A3011 RMK AO2 T02830250 KMBL 021615Z AUTO 33006KT 10SM CLR 18/10 A3005 RMK AO1 KMCC 021615Z AUTO 17007KT 10SM CLR 26/10 A2989 RMK AO2 KMCD 021615Z AUTO 20004KT 10SM CLR 18/08 A3006 RMK AO2 T01820075 KMCE 021553Z AUTO 00000KT 10SM CLR 27/13 A2992 RMK AO2 SLP129 T02670133 EPGD 021600Z 07011KT 040V100 CAVOK 20/08 Q1029 KMBO 021615Z AUTO 23007KT 10SM CLR 26/20 A3007 RMK AO2 KMCF 021620Z AUTO 19007KT 10SM -TSRA FEW170 31/25 A3014 RMK AO2 LTG DSNT S AND W-NW RAB15 TSB20 KLKR 021615Z AUTO 23013G17KT 10SM CLR 29/20 A2997 RMK AO2 KMCI 021553Z 06009KT 9SM OVC007 22/19 A2992 RMK AO2 DZE26 SLP120 P0000 T02170194 KMCJ 021615Z AUTO 14005KT 5SM CLR 31/23 A3002 RMK AO1 KMBS 021553Z 06007KT 10SM BKN039 21/10 A3006 RMK AO2 SLP177 T02110100 KLLJ 021555Z AUTO 01003KT 10SM CLR 24/07 A3020 RMK AO2 SLP151 T02390072 KMCK 021553Z AUTO 27007KT 10SM CLR 24/15 A3000 RMK AO2 SLP132 T02440150 LCLK 021600Z 21012KT CAVOK 28/20 Q1010 NOSIG KLKU 020355Z AUTO 00000KT 2 1/2SM BR SCT095 SCT110 20/19 A2990 RMK AO2 UWLW 021600Z 31002MPS 8000 FEW040CB SCT100 25/11 Q1011 R20/CLRD60 NOSIG RMK QFE753 KMDD 021535Z AUTO 14007KT 10SM CLR 25/18 A3005 RMK AO2 T02500175 KLKV 021615Z AUTO 36006KT 10SM CLR 27/10 A3016 RMK AO1 KMCN 021553Z 26006KT 10SM CLR 30/22 A3005 RMK AO2 SLP169 T03000217 KMCO 021553Z 20005KT 10SM FEW037 FEW250 32/22 A3013 RMK AO2 SLP202 T03170222 KMDH 021559Z 23004KT 10SM FEW019 SCT029 BKN037 26/21 A2985 RMK AO2 T02560211 KLLQ 021553Z AUTO 23008KT 10SM CLR 26/21 A2999 RMK AO2 SLP153 T02610211 KMDJ 021615Z AUTO 13007KT 9SM SCT019 29/25 A3015 RMK A01 KMEB 021623Z AUTO 25011KT 2 1/2SM HZ CLR 29/21 A2997 RMK AO2 T02940206 KLNC 020355Z AUTO 18005KT 10SM CLR 25/20 A2998 RMK AO2 T02520197 KLND 021553Z AUTO 04006KT 9SM CLR 23/11 A3025 RMK AO2 SLP173 T02280106 KMCW 021553Z AUTO 10010KT 10SM CLR 19/12 A3005 RMK AO2 SLP170 T01940122 KMCX 021455Z AUTO 08007KT 10SM CLR 18/15 A2995 RMK AO2 T01810147 KLMO 021615Z AUTO 17008KT 150V210 10SM CLR 22/14 A3023 RMK AO2 T02220136 KO54 021615Z AUTO 00000KT 10SM CLR 27/10 A3002 RMK AO1 KMDQ 020355Z AUTO 16003KT 7SM SCT033 BKN039 BKN048 20/18 A3001 RMK AO2 KMEH 021556Z AUTO 00000KT 10SM CLR 27/12 A3012 RMK AO2 SLP164 T02670117 KMEI 021558Z 22009KT 10SM CLR 26/21 A3009 RMK AO2 SLP185 T02610211 KMDS 021610Z AUTO 13007KT 10SM CLR 17/13 A3002 RMK AO2 KLMT 021553Z 33010KT 10SM CLR 27/11 A3013 RMK AO2 SLP143 T02720111 KLNK 021609Z 07008KT 3SM -RA BR OVC008 19/18 A2996 RMK AO2 CIG 007V010 P0002 T01940178 KMDT 021556Z 19003KT 10SM FEW050 FEW065 24/17 A2990 RMK AO2 SLP125 T02440167 LDDU 021630Z 29008KT CAVOK 26/15 Q1022 NOSIG KLNL 021615Z AUTO 21004KT 10SM CLR 21/08 A3007 RMK AO2 T02060076 UWOO 021600Z 31006MPS P5000 BKN040CB 23/13 Q1009 R26/CLRD65 NOSIG RMK QFE747/0996 KMFD 021552Z 03008KT 10SM SCT018 BKN029 21/16 A2999 RMK AO2 SLP150 T02060156 KMEM 021554Z 23009G25KT 10SM BKN130 OVC250 26/20 A2992 RMK AO2 SLP128 T02610200 KLNN 020355Z AUTO 02003KT 10SM CLR 17/15 A2994 RMK AO1 T01730149 ENZV 021620Z 15017G27KT 9999 VCTS FEW050 SCT080 27/12 Q1020 TEMPO 4000 TSRA KMDW 021553Z 02011KT 10SM SCT018 20/14 A3000 RMK AO2 SLP156 T02000139 KMFE 021553Z 15013KT 9SM -RA SCT028 32/24 A3000 RMK AO2 LTG DSNT SE RAB00 SLP156 P0000 T03170239 LBWN 021600Z 12009KT 9999 FEW043TCU SCT045 24/17 Q1019 NOSIG KLNP 021540Z AUTO 22005KT 7SM -DZ BKN004 OVC016 18/18 A3004 RMK AO2 P0001 UWOR 021600Z 30005MPS 9999 SCT050CB 24/15 Q1008 R25/CLRD65 NOSIG RMK QFE733/0977 KMDZ 021435Z AUTO 11004KT 10SM CLR 16/12 A3007 RMK AO2 T01620120 KMER 021550Z VRB04KT 7SM BKN090 29/13 A2993 KMFI 021554Z AUTO 14004KT 10SM CLR 19/11 A3007 RMK AO2 SLP184 T01940106 KLNR 021556Z AUTO 10007KT 10SM CLR 18/09 A3007 RMK AO2 SLP177 T01830089 EPIR 021600Z 12006KT CAVOK 27/09 Q1027 RMK 268 032 0/0 = KLNS 021553Z VRB05KT 10SM CLR 23/17 A2991 RMK AO2 SLP126 T02280167 KO69 021615Z AUTO 29004KT 10SM CLR 20/14 A2998 RMK AO1 DXSK 021500Z 18002KT CAVOK 26/21 Q//// KMGC 020355Z AUTO 36003KT 10SM OVC013 14/12 A3000 RMK AO2 KLOL 021553Z AUTO 00000KT 10SM CLR 29/11 A3008 RMK AO2 SLP131 T02890111 KLPC 021615Z AUTO 30003KT 10SM CLR 18/13 A3001 RMK AO1 KLOM 020355Z AUTO 00000KT 10SM CLR 20/17 A2990 RMK AO1 KMEV 021615Z AUTO 00000KT 10SM CLR 25/10 A3017 RMK AO2 KMGE 021558Z 24008KT 10SM FEW020 SCT040 BKN150 BKN250 27/22 A3002 RMK AO2A SLP157 T02740222 $ KMGG 021617Z AUTO 14004KT 10SM CLR 22/14 A3005 RMK AO2 T02160144 KMEZ 021615Z AUTO 25010G18KT 10SM CLR 28/21 A2996 RMK AO2 LCPH 021600Z 29013KT 9999 FEW040 26/22 Q1011 KLOR 021553Z AUTO 27010G17KT 10SM FEW026 SCT090 30/23 A3007 RMK AO2 SLP179 T03000228 KMFR 021553Z 00000KT 10SM CLR 27/14 A2998 RMK AO2 SLP136 T02720139 KMGJ 021554Z AUTO 18004KT 10SM BKN038 23/15 A2992 RMK AO2 SLP129 T02330150 TSNO KLOT 021615Z AUTO 05013KT 10SM BKN024 19/13 A3000 RMK AO2 T01920125 EPLB 021600Z 04008KT 350V070 CAVOK 26/08 Q1026 KLOU 021600Z 20007KT 10SM SCT011 BKN022 OVC034 24/21 A2989 RMK AO2 T02390211 EPKK 021600Z 07009KT 9999 FEW060 25/10 Q1026 KMFV 020355Z AUTO 17003KT 10SM CLR 22/21 A2990 RMK AO2 KMGM 021553Z 25009G14KT 10SM SCT016 SCT022 BKN075 28/23 A3008 RMK AO2 SLP183 T02830228 KMHE 021553Z AUTO 10005KT 10SM -RA BKN033 BKN047 OVC060 18/16 A2999 RMK AO2 RAB07 SLP152 P0001 T01780156 KMGN 021614Z AUTO 23007KT 10SM CLR 16/11 A3008 RMK AO2 T01650118 FHAW 021550Z 14013KT 9999 FEW024 26/19 Q1015 BLU NOSIG VOHS 021540Z VRB02KT 5000 HZ SCT015 BKN100 27/24 Q1012 NOSIG KLOZ 021553Z AUTO VRB05KT 10SM -RA FEW007 BKN011 OVC110 21/18 A2997 RMK AO2 SLP136 P0003 T02110178 KO86 021500Z AUTO 00000KT 10SM CLR 23/12 A3004 RMK AO1 KMGR 020355Z AUTO 22004KT 10SM CLR 26/21 A3011 RMK AO2 KLPR 021553Z AUTO 01008KT 10SM FEW021 SCT026 BKN048 20/15 A3000 RMK AO2 PK WND 34027/1538 SLP156 T02000150 TSNO KMIA 021553Z 13006KT 10SM SCT033 SCT250 31/22 A3013 RMK AO2 SLP203 CB DSNT W T03110222 LCRA 021550Z 26018G28KT CAVOK 25/21 Q1010 NOSIG KMHK 021622Z 02004KT 10SM OVC021 24/21 A2995 RMK AO2 T02440211 KMIB 021558Z 32008KT 1 1/4SM BR CLR 22/20 A2998 RMK AO2A SLP153 T02220200 $ EPMB 021600Z 02010KT CAVOK 22/11 Q1028 RMK 222 050 0/0= EPLK 021600Z 10006KT 9999 FEW060 26/08 Q1026 RMK 255 033 1/1= KMIC 021553Z 31003KT 10SM CLR 22/12 A3002 RMK AO2 SLP164 T02220117 EPKT 021600Z 12007KT 050V140 CAVOK 26/10 Q1026 KLRD 021605Z 15016KT 9SM BKN031 BKN042 31/22 A2999 RMK AO2 EPLL 021600Z 07005KT 020V100 CAVOK 26/08 Q1026 VOHY 021340Z 29005KT 5000 HZ FEW020 SCT100 29/18 Q1011 NOSIG KMGW 021553Z 28003KT 10SM CLR 24/14 A2996 RMK AO2 SLP139 T02390139 KMIE 021553Z 09010KT 10SM FEW037 SCT055 22/16 A2994 RMK AO2 SLP130 T02220161 KLRF 021558Z AUTO 20009KT 10SM CLR 29/21 A2990 RMK AO2 SLP124 T02910213 KMGY 021616Z AUTO 10005KT 7SM FEW008 FEW028 OVC060 21/19 A2992 RMK AO2 T02110189 KMHR 021545Z 19006KT 10SM BKN180 26/10 A2989 EPMI 021600Z 12008KT CAVOK 26/07 Q1027 RMK 258 030 0/0 = KLRJ 020355Z AUTO 09008G13KT 10SM CLR 19/14 A2997 RMK AO2 KP08 021615Z AUTO 26005KT 10SM CLR 32/15 A2997 RMK AO2 KMHS 021556Z AUTO 00000KT 10SM CLR 28/11 A3009 RMK AO2 SLP161 T02830106 KLSB 020900Z AUTO 28009KT 10SM CLR 24/13 A3007 RMK AO2 KMHT 021553Z 30009KT 10SM SCT049 BKN250 23/11 A2987 RMK AO2 SLP126 T02330111 LEAB 021600Z 10009KT 070V140 CAVOK 34/12 Q1020 NOSIG KMHV 021615Z AUTO 17003KT 10SM BKN100 29/13 A3005 RMK AO1 KLSE 021453Z 20004KT 10SM CLR 17/13 A3006 RMK AO2 SLP175 T01720133 53001 KLRO 021615Z AUTO 25005KT 9SM CLR 32/22 A3001 RMK AO2 KLSF 021558Z AUTO 27011KT 10SM FEW160 30/23 A3006 RMK AO2 SLP180 T03020229 EPMO 021600Z 05006KT 360V110 CAVOK 27/06 Q1026 LEAG 021600Z AUTO VRB09KT CAVOK 31/17 Q1016 EPLY 021600Z 06006KT CAVOK 27/09 Q1026 RMK 265 034 1/1= UWSS 021600Z 32004MPS CAVOK 25/12 Q1015 R30/010095 NOSIG RMK QFE748 KMIS 021615Z AUTO 17005KT 10SM CLR 30/22 A3013 RMK A01 LEBA 021600Z 27007KT 210V330 CAVOK 36/06 Q1015 KNAK 021554Z AUTO 34006KT 6SM HZ OVC070 22/19 A2989 RMK AO2 SLP124 T02220189 LEBB 021600Z 33006KT 300V020 9999 BKN013 BKN018 20/17 Q1023 NOSIG KLRU 020355Z AUTO 18006KT 10SM CLR 29/07 A3003 RMK AO2 T02870072 KMKC 021608Z 07007KT 8SM BKN011 OVC016 23/21 A2991 RMK AO2 T02280206 KNBC 021556Z 27008KT 10SM FEW030 SCT120 BKN200 31/23 A3003 RMK AO2 SLP170 T03060233 LEAL 021600Z 09013KT CAVOK 30/20 Q1016 NOSIG KMIV 021619Z AUTO 05005KT 4SM -RA BR FEW042 OVC060 20/18 A2990 RMK AO2 LTG DSNT S P0004 T02000183 LEAM 021600Z 19005KT 160V240 CAVOK 27/22 Q1017 KMKE 021552Z 03008KT 10SM FEW020 FEW250 16/11 A3005 RMK AO2 SLP177 T01610106 KMIW 021553Z AUTO 12009KT 10SM CLR 19/12 A3002 RMK AO2 SLP162 T01890117 LEAO 021600Z 27004KT 210V350 CAVOK 35/04 Q1018 KNBG 021555Z 21010KT 7SM SCT024 SCT130 OVC250 29/23 A3010 RMK AO2 SLP191 T02940233 PNO $ KMKG 021611Z 05008KT 020V090 10SM BKN027 BKN200 21/12 A3003 RMK AO2 T02110122 LEBG 021627Z 04010KT 360V080 9999 FEW040 29/12 Q1021 KMJQ 021613Z AUTO 14008KT 10SM CLR 19/11 A3004 RMK AO2 KMKJ 020355Z AUTO 23004KT 5SM -DZ SCT006 OVC014 19/18 A3008 RMK AO2 T01900180 KLUA 020355Z AUTO 00000KT 10SM BKN085 21/18 A2995 RMK AO2 KNCA 021556Z AUTO 26007KT 10SM CLR 30/20 A2994 RMK AO2 SLP142 T03000200 KP28 021556Z AUTO 05011KT 31/22 A2991 RMK AO1 SLP110 T03060217 LEAS 021600Z VRB05KT 9999 FEW020 BKN029 20/16 Q1023 NOSIG KMLB 021553Z 23007KT 9SM SCT040 32/21 A3013 RMK AO2 SLP202 T03220206 EPOK 021600Z 04007KT 010V070 CAVOK 19/12 Q1029 RMK 187 066 0/0 = KMKL 021553Z 24009KT 10SM SCT120 26/22 A2992 RMK AO2 SLP125 T02610217 KMLC 021553Z AUTO 22012G20KT 10SM SCT100 27/22 A2992 RMK AO2 RAE24 SLP119 P0000 T02670222 LEBL 021600Z 07011KT 9999 FEW035 SCT045 28/19 Q1021 NOSIG KLUD 020355Z AUTO 18008KT 10SM CLR 27/21 A2996 RMK AO2 T02710206 KLSV 021558Z AUTO 00000KT 10SM CLR 32/18 A2996 RMK AO2 SLP118 T03160175 $ KMLE 021602Z AUTO 16003KT 5SM -RA OVC012 19/17 A2996 RMK AO2 P0001 KMKN 020355Z AUTO 18010G15KT 10SM CLR 25/20 A2999 RMK AO2 T02520203 KMLF 021552Z AUTO 22008KT 10SM CLR 28/09 A3016 RMK AO2 SLP132 T02830094 KMKO 021553Z AUTO 24016G22KT 10SM CLR 29/23 A2989 RMK AO2 SLP112 T02940228 KMJX 021615Z AUTO 00000KT 10SM BKN070 BKN110 22/17 A2991 RMK AO1 KLUF 021558Z AUTO 20007KT 10SM CLR 34/15 A2991 RMK AO2 SLP113 LECH 021600Z 04007KT 360V080 9999 FEW030 28/17 Q1020 KMLI 021552Z 07011KT 10SM CLR 19/12 A2999 RMK AO2 SLP154 T01940117 $ KMLJ 020355Z AUTO 00000KT 7SM CLR 21/20 A3006 RMK AO2 UWUU 021600Z 28004MPS 9999 BKN040CB 19/14 Q1008 R32L/250248 NOSIG RMK QFE743/0991 KMKS 021615Z AUTO 23006KT 7SM SCT120 30/22 A3002 RMK AO2 KLTS 021558Z AUTO 22010G17KT 10SM CLR 31/21 A2992 RMK AO2 SLP114 T03120208 $ VOML 021630Z 00000KT 6000 SCT015 26/24 Q1013 NOSIG VOMM 021540Z 23007KT 6000 SCT020 FEW025TCU 31/26 Q1009 NOSIG KLUK 021625Z 07003KT 5SM BR SCT013 BKN022 BKN031 22/21 A2991 RMK AO2 LTG DSNT SE AND S T02220206 KMKT 021615Z 11008KT 10SM CLR 21/12 A3004 RMK AO1 KNBT 021556Z AUTO 24009KT 10SM CLR A2994 RMK AO2 SLP144 PNO $ LEBT 021600Z AUTO 09004KT 340V150 CAVOK 31/13 Q1020 KLUL 021615Z AUTO 25009KT 10SM BKN023 BKN031 29/25 A3010 RMK AO2 T02860249 KLUM 021540Z AUTO 00000KT 10SM CLR 19/14 A3006 RMK AO2 T01910136 LECO 021600Z 02009KT 330V050 9999 FEW030 21/14 Q1022 NOSIG KMLP 021553Z AUTO 10SM CLR 19/09 A3027 RMK AO2 SLP145 T01890089 KMKY 021615Z AUTO 08005KT 10SM FEW043 SCT050 33/21 A3013 RMK AO1 EPPO 021600Z 07008KT 360V100 CAVOK 26/09 Q1026 DXXX 021630Z VRB13G27KT 4000 RA BKN012 FEW020CB 25/22 Q1015 TEMPO 2500 TSRA KMMH 021555Z AUTO 14003KT 10SM CLR 19/12 A3036 RMK AO1 LEBZ 021600Z 32007KT 260V010 CAVOK 31/02 Q1018 EPPR 021600Z 05010KT CAVOK 22/10 Q1029 RMK 217 048 0/0= KMLS 021553Z AUTO 34015KT 10SM FEW039 24/13 A3010 RMK AO2 SLP176 T02440133 KLVJ 021553Z AUTO 19007KT 8SM FEW020 31/24 A3007 RMK AO2 SLP180 T03060239 KLWA 021615Z AUTO 07004KT 10SM CLR 19/14 A3000 RMK AO2 T01890142 EPRA 021600Z 08008KT CAVOK 25/08 Q1026 RMK 254 034 1/1= KLWB 021535Z AUTO 26005KT 10SM SCT017 SCT050 SCT085 21/16 A3000 RMK AO2 T02120162 KMLT 021553Z AUTO VRB04KT 10SM BKN042 OVC050 20/11 A2978 RMK AO2 SLP087 T02000106 KMMK 021553Z AUTO 22003KT FEW039 SCT060 25/14 A2991 RMK AO2 SLP128 T02500144 TSNO $ KLVK 021553Z 27006KT 10SM CLR 24/13 A2993 RMK AO2 SLP131 T02440128 KLWC 021613Z AUTO 08006KT 7SM OVC013 23/20 A2993 RMK AO2 T02280200 KMLU 021553Z 22010KT 10SM CLR 28/22 A3005 RMK AO2 SLP173 T02780217 KMML 021615Z AUTO 14008KT 10SM CLR 19/09 A3001 RMK AO1 LEEC 021300Z VRB02KT CAVOK 30/09 Q1017 LECV 021600Z 22007KT 130V300 CAVOK 30/02 Q1022 KLVM 021553Z AUTO 09005KT 10SM CLR 23/11 A3022 RMK AO2 SLP184 T02330106 KLWD 021553Z AUTO 06009KT 10SM OVC011 21/17 A2997 RMK AO2 SLP142 T02060172 KMNE 021544Z AUTO 23007KT 10SM CLR 27/21 A3004 RMK AO2 KLVN 021609Z AUTO 14004KT 10SM CLR 21/13 A3004 RMK AO2 KP53 021556Z AUTO 06004KT 18/11 A3005 RMK AO1 SLP178 T01780111 EPPW 021600Z 08010KT CAVOK 27/09 Q1026 RMK 265 033 0/0 = KLUX 021555Z AUTO 24011G17KT 180V270 10SM BKN021 27/24 A2999 RMK AO2 KMNH 021613Z AUTO 35003KT 10SM SCT029 15/10 A3035 RMK AO2 KMNI 021615Z AUTO 23009G15KT 10SM SCT040 SCT049 SCT065 30/18 A3001 RMK AO2 KP58 021551Z AUTO 02004KT 15/12 A3005 RMK AO1 SLP175 T01500122 KLVS 021553Z AUTO 00000KT 10SM SCT075 BKN100 20/14 A3024 RMK AO2 SLP130 T02000139 KP59 021551Z AUTO 06003KT 16/10 A3001 RMK AO1 SLP162 T01610100 KP60 021556Z AUTO 11003KT 18/08 A3039 RMK AO1 SLP200 T01830078 KMOB 021556Z 23005KT 10SM FEW025 BKN110 27/23 A3013 RMK AO2 SLP200 T02670228 KMMT 021558Z 22013G17KT 10SM FEW050 SCT150 BKN200 30/19 A3000 RMK AO2A SLP159 T02950194 KMMU 021545Z 05003KT 10SM SCT120 27/16 A2991 UWWW 021600Z 28006MPS 9999 SCT033 BKN200 24/07 Q1012 R23/CLRD60 NOSIG RMK QFE748/0997 KNEL 021600Z AUTO 10SM OVC070 22/18 A2991 RMK AO2 SLP125 T02170178 PWINO $ KMMV 021553Z AUTO 00000KT 10SM CLR 23/14 A3000 RMK AO2 SLP157 T02330139 KMOD 021553Z 30006KT 10SM FEW090 SCT110 28/09 A2989 RMK AO2 SLP121 T02830094 KLWM 021554Z 24009KT 10SM SCT045 24/14 A2989 RMK AO2 SLP123 T02390139 KMNM 021615Z AUTO 08005KT 10SM CLR 19/07 A3006 RMK AO1 EPSC 021600Z 11008KT 080V160 CAVOK 27/09 Q1026 KMNN 021553Z AUTO 03009KT 6SM HZ FEW017 SCT044 22/17 A2997 RMK AO2 SLP146 T02220172 TSNO KNFE 021556Z AUTO VRB05KT 8SM BKN100 30/22 A2988 RMK AO2 SLP121 T03000222 KNFG 021554Z 21003KT 5SM HZ OVC009 22/18 A3000 RMK AO2 SLP158 T02170183 KNDZ 021556Z 28007KT 220V300 10SM SCT023 BKN080 BKN120 BKN250 31/23 A3011 RMK AO2 SLP179 OCNL LTGICCG DSNT NE CB DSNT NE T2 SET T03060233 KP68 021553Z AUTO 05004KT 24/11 A3026 RMK AO1 SLP149 T02440106 $ KLWS 021556Z 01003KT 10SM CLR 27/11 A2999 RMK AO2 SLP142 T02670111 LEGA 021600Z 19010KT 120V240 CAVOK 35/08 Q1018 KP69 021552Z AUTO 00000KT 22/11 A3005 RMK AO1 SLP152 T02220106 KLWT 021554Z AUTO 30007KT 10SM CLR 21/12 A3023 RMK AO2 SLP203 T02110122 KLXL 021615Z AUTO 21005KT 10SM CLR 21/11 A3004 RMK AO2 KNFL 021556Z 10SM FEW120 SCT240 BKN300 30/11 A3009 RMK AO2 SLP158 ACC DSNT SW T03000106 FGSL 021600Z 04003KT 9999 BKN007 BKN060 26/23 Q1012 NOSIG KLWV 021553Z AUTO 01007KT 6SM BR OVC008 21/19 A2989 RMK AO2 SLP119 T02110189 KLXN 020355Z AUTO 10006KT 7SM CLR 23/20 A2997 RMK AO2 LTG DSNT NE T02310203 KNEW 021613Z 25004KT 8SM BKN020 BKN027 OVC042 31/25 A3012 RMK AO2 T03060250 LEGE 021600Z 19011KT 160V230 9999 FEW050 30/11 Q1022 EPSN 021600Z 08010KT CAVOK 26/10 Q1027 RMK 261 036 0/0 = KMOP 021616Z AUTO 04003KT 10SM BKN039 19/09 A3004 RMK AO2 T01920093 KMNZ 021600Z AUTO 22016KT 10SM CLR 28/19 A3005 RMK AO2 T02790188 KLYH 021554Z 11003KT 10SM BKN035 BKN042 25/17 A2994 RMK AO2 SLP127 T02500167 KMOR 021615Z AUTO 24006KT 10SM FEW010 20/20 A3000 RMK EPRZ 021600Z 03008KT 010V080 CAVOK 25/06 Q1026 LDOS 021630Z 04004KT 9999 FEW037 31/17 Q1021 KMQB 021609Z AUTO 06008KT 10SM CLR 18/14 A3000 RMK AO2 KLXT 021553Z AUTO 06011KT 6SM BR BKN006 OVC010 21/20 A2992 RMK AO2 RAB42E51 CIG 004V010 SLP124 P0000 T02110200 KMOT 021554Z 32006KT 2SM HZ OVC026 21/16 A2998 RMK AO2 SLP149 T02110161 LEHC 021600Z 11015KT 080V150 9999 FEW060 30/07 Q1021 LDPL 021630Z 27006KT 230V320 CAVOK 29/12 Q1022 NOSIG KLXV 021553Z AUTO 22005KT 10SM FEW065 16/11 A3047 RMK AO2 SLP147 T01610106 EPTM 021600Z 05008KT CAVOK 25/08 Q1026 RMK 249 034 1/1= KMQE 021554Z AUTO 26007G14KT 220V290 24/14 A2990 RMK AO1 SLP132 T02390139 KNFW 021552Z 22018G24KT 10SM FEW050 SCT250 29/19 A3000 RMK AO2 SLP141 T02890189 $ KMOX 021614Z AUTO 14010KT 10SM CLR 22/11 A3001 RMK AO2 KMPO 021553Z AUTO 17004KT 10SM SCT038 BKN045 21/13 A2996 RMK AO2 SLP137 T02060133 KLXY 021540Z AUTO 20010G23KT 10SM SCT022 27/22 A3003 RMK AO2 T02680217 KNGP 021556Z 15016G19KT 9SM SCT018 SCT250 30/26 A3002 RMK AO2 SLP164 T03000256 KMQI 020355Z AUTO 24009KT 10SM CLR 26/23 A2995 RMK AO2 T02600233 LEGR 021600Z 27008KT 210V310 CAVOK 37/09 Q1017 KMQJ 021617Z AUTO 06007KT 10SM CLR 23/14 A2992 RMK AO1 KNHK 021552Z 02008KT 7SM -RA SCT010 BKN030 BKN120 23/21 A2987 RMK AO2 RAB38 SLP116 P0007 T02330206 KMRB 021553Z 20003KT 6SM HZ OVC070 22/18 A2993 RMK AO2 SLP132 T02170183 LEIB 021600Z 07012KT CAVOK 28/23 Q1018 NOSIG LEGT 021600Z 30003KT CAVOK 34/05 Q1019 KMRC 021615Z AUTO 14006KT 10SM FEW034 SCT044 25/23 A2994 RMK KNGU 021559Z 21009KT 4SM HZ OVC110 27/22 A2988 RMK AO2 SLP119 T2 SET T02720222 KP92 021553Z AUTO 22006KT 30/26 A3008 RMK AO1 SLP186 T03000256 KMPV 021551Z AUTO 31010G18KT 10SM SCT048 18/08 A2995 RMK AO2 SLP140 T01780078 KLYV 021605Z AUTO 13005KT 10SM CLR 19/12 A3002 RMK AO2 KNID 021556Z AUTO 00000KT 10SM CLR 28/17 A3001 RMK AO2 RAB1457E15 SLP138 P0000 T02780167 KMRF 021615Z AUTO 17006KT 10SM CLR A3014 RMK AO1 KMPZ 020550Z AUTO 04005KT 10SM OVC080 20/13 A2995 RMK AO2 T01950130 10226 20195 402660189 KMRH 021558Z AUTO 22015KT 9SM CLR 28/22 A2996 RMK AO2 SLP145 T02830222 TSNO LDRI 021630Z 33007KT 9999 FEW047 29/16 Q1021 KMRJ 021540Z AUTO 07004KT 10SM CLR 18/08 A3006 RMK AO2 KMQS 020355Z AUTO 29004KT 10SM CLR 19/16 A2992 RMK AO2 EPWA 021600Z 06006KT 010V130 CAVOK 28/06 Q1026 NOSIG KLZU 021545Z 27010KT 10SM SCT040 28/19 A3000 RMK ATIS D ; RWY 25 ; BK KMRN 020355Z AUTO 28003KT 10SM OVC110 22/20 A3004 RMK AO2 T02170196 KNIP 021553Z 25012KT 10SM SCT040 SCT200 34/19 A3010 RMK AO2 SLP188 CB DSNT SW T03390194 KMQY 021610Z 16006KT 10SM SCT005 23/22 A2994 RMK AO2 KLZZ 021615Z AUTO 19009G14KT 10SM SCT033 SCT040 28/21 A3004 RMK AO2 T02780207 KOAJ 021615Z AUTO 25010G17KT 10SM CLR 31/19 A2995 RMK AO1 LFBA 021600Z AUTO 31006KT 270V350 CAVOK 30/18 Q1021 KMRT 021614Z AUTO 10005KT 10SM SCT042 22/17 A2996 RMK AO2 T02230167 KOAK 021553Z 31008KT 10SM SCT008 BKN140 17/14 A2997 RMK AO2 SLP148 T01720139 KNJK 021556Z 00000KT 10SM FEW120 FEW250 32/20 A2989 RMK AO2 SLP137 T03170200 $ KMSL 021553Z AUTO 27016G19KT 10SM FEW070 29/20 A2997 RMK AO2 SLP143 T02890200 KMTC 021555Z 01006KT 10SM SCT040 21/12 A3000 RMK SLP167 T02090121 LFBC 021600Z AUTO VRB03KT CAVOK 25/17 Q1022 LFBD 021600Z AUTO 36004KT 290V050 9999 FEW037 SCT043 BKN120 27/17 Q1022 KOBE 020355Z AUTO 00000KT 10SM CLR 22/20 A3015 RMK AO2 KMSN 021553Z 09008KT 10SM CLR 18/07 A3006 RMK AO2 SLP178 T01780072 LFBE 021600Z AUTO 28006KT 210V340 9999 FEW048 30/19 Q1021 KMSO 021553Z 11013KT 10SM CLR 26/10 A3013 RMK AO2 SLP173 T02560100 VOTR 021510Z 19006KT 6000 FEW018 SCT020 32/24 Q1009 NOSIG KMSP 021553Z 19003KT 10SM FEW300 22/12 A3004 RMK AO2 SLP168 T02170122 KMRY 021554Z 00000KT 10SM OVC007 16/13 A3002 RMK AO2 SLP176 T01560133 LDSP 021630Z 24009KT CAVOK 28/13 Q1021 NOSIG LFBG 021600Z AUTO 26005KT 210V340 9999 BKN041 BKN130 27/17 Q1021 KMTH 021553Z AUTO 12006KT 10SM CLR 33/25 A3012 RMK AO2 SLP198 T03330250 LFBH 021600Z AUTO 29014KT CAVOK 24/16 Q1021 LFAQ 021600Z AUTO /////KT CAVOK 26/16 Q1020 LEJR 021630Z 27010KT 230V300 CAVOK 31/16 Q1016 LFBI 021600Z AUTO 27009KT 230V300 9999 SCT040 BKN140 28/19 Q1020 KMSS 021553Z AUTO 26010G20KT 10SM CLR 20/09 A2991 RMK AO2 SLP129 T02000089 KMTJ 021553Z AUTO VRB04KT 10SM CLR 28/11 A3020 RMK AO2 SLP124 T02780106 EPWR 021600Z 10008KT CAVOK 28/12 Q1026 VOTV 021540Z 27005KT 3000 HZ FEW018 28/21 Q1012 NOSIG LFAT 021600Z AUTO VRB03KT CAVOK 21/16 Q1021 KNLC 021556Z 29004KT 10SM FEW065 BKN120 BKN180 BKN230 30/14 A2990 RMK AO2 SLP121 RH/36 T03000144 LFBL 021600Z AUTO 24008KT 210V300 9999 FEW049 28/17 Q1022 LELC 021600Z 06010KT 040V110 9999 FEW018 28/22 Q1017 NOSIG KMSV 021615Z AUTO 27004KT 10SM FEW032 SCT038 BKN044 21/14 A2996 RMK AO1 LFBM 021600Z AUTO 34003KT 280V030 CAVOK 27/18 Q1022 KMTN 021550Z 00000KT 7SM BKN050 21/20 A2992 KMTO 021553Z AUTO 04010KT 10SM BKN080 21/16 A2991 RMK AO2 SLP123 T02060156 TSNO KOCF 021550Z 25007G14KT 10SM SCT043 31/22 A3013 LFBO 021600Z AUTO VRB03KT 9999 FEW049 29/18 Q1021 KMTP 021554Z AUTO 33004KT 24/14 A2993 RMK AO1 SLP135 T02390139 KMSY 021600Z 20006KT 10SM SCT012 BKN020 BKN150 OVC250 29/24 A3011 RMK AO2 T02940239 LFBP 021600Z AUTO 34004KT 9999 FEW030 OVC043 24/19 Q1022 KOCH 021615Z AUTO 20011G15KT 10SM FEW025 28/23 A3004 RMK AO1 KMUI 021558Z AUTO VRB01KT 10SM FEW140 SCT190 24/16 A2991 RMK AO2 SLP128 T02390162 $ KNKT 021554Z 22010KT 10SM CLR 31/20 A2995 RMK AO2 SLP139 T03060200 LFBT 021600Z AUTO VRB03KT 9999 BKN031 OVC040 24/18 Q1023 LFCK 021600Z AUTO 12010KT CAVOK 28/13 Q1023 LELL 021600Z 13008KT 090V170 9999 FEW060 30/14 Q1022 LFBU 021600Z AUTO 26008KT 220V290 9999 FEW033 SCT040 BKN140 26/17 Q1022 KMTV 021615Z AUTO 00000KT 10SM SCT031 SCT037 BKN100 27/18 A2995 RMK AO2 T02720181 LEMD 021600Z 24006KT 190V300 CAVOK 33/06 Q1019 NOSIG KMVE 021614Z AUTO 17009KT 10SM CLR 22/11 A3002 RMK AO2 KMTW 021556Z AUTO 10SM RA CLR 18/08 A3007 RMK AO2 RAB52 SLP203 T01830083 PNO $ LELN 021600Z 16007G17KT 110V210 9999 FEW045 25/03 Q1021 KNKX 021555Z 00000KT 3SM HZ OVC003 22/18 A3002 RMK AO2 CIG 002V006 SLP158 T02170183 KMUO 021558Z AUTO 31009KT 10SM CLR 31/06 A3002 RMK AO2 SLP131 T03120061 $ LELO 021600Z 09013KT 050V130 9999 FEW035 35/11 Q1017 LFBY 021600Z AUTO 31004KT 260V360 9999 // NCD 26/18 Q1021 LEMG 021600Z 11008KT 070V140 CAVOK 26/18 Q1016 NOSIG EPZG 021600Z 09010KT 070V140 CAVOK 28/10 Q1025 KOCQ 021603Z AUTO 07005KT 10SM CLR 19/07 A3006 RMK AO1 LFBZ 021600Z AUTO 35005KT 320V030 9999 SCT013 OVC033 22/19 Q1022 LEMH 021600Z 10014KT CAVOK 28/20 Q1021 LFCR 021600Z AUTO 21006KT 150V270 CAVOK 30/15 Q1023 KMWA 020355Z AUTO 16004KT 10SM CLR 24/22 A2988 RMK AO2 KMUT 020355Z AUTO 06009KT 10SM OVC075 20/14 A2996 RMK AO2 KOEB 021615Z AUTO 08007G16KT 10SM SCT025 BKN034 19/13 A3001 RMK AO2 T01940126 KMWC 021545Z AUTO 05008KT 10SM SKC 17/07 A3006 KMVL 021554Z AUTO VRB06G14KT 10SM FEW050 20/08 A2991 RMK AO2 SLP126 T02000078 TSNO KNMM 021556Z 25008KT 10SM BKN140 27/21 A3008 RMK AO2 SLP190 T02720211 KOCW 021540Z AUTO 23007KT 190V260 10SM CLR 30/22 A2992 RMK AO2 T02970219 KMVN 021615Z AUTO 04006KT 5SM OVC004 19/16 A2989 RMK AO1 LEMO 021600Z 27009KT 230V330 CAVOK 35/13 Q1016 NOSIG KODO 021553Z AUTO 10SM FEW019 24/18 A3005 RMK AO2 SLP128 T02390178 KMWH 021552Z 01008KT 10SM CLR 31/09 A2999 RMK AO2 SLP145 T03060094 KMWK 020355Z AUTO 00000KT 7SM CLR 23/20 A2999 RMK AO2 T02270198 KMWL 021553Z AUTO 22011G21KT 10SM FEW036 28/19 A2999 RMK AO2 SLP140 T02780194 KMWM 021614Z AUTO 12008KT 10SM CLR 19/11 A3003 RMK AO2 KMWN 021548Z 28032G37KT 0SM FG VV000 04/04 RMK KODX 021553Z AUTO 30014G20KT 10SM 25/17 A2994 RMK AO2 SLP128 T02500167 KOEO 020355Z AUTO 00000KT 10SM CLR 15/15 A3004 RMK AO2 T01520151 KMWO 020355Z AUTO RMK AO2 PWINO KMXF 021608Z AUTO 27008KT 240V300 10SM SCT019 BKN080 BKN200 28/23 A3007 RMK AO2 KOFF 021618Z AUTO 11003KT 7SM -RA OVC011 19/17 A2997 RMK AO2 RAB1558 OVC V FEW PRESRR KMVY 021553Z 21008KT 10SM CLR 24/17 A2991 RMK AO2 SLP129 T02440167 KNOG 021556Z AUTO 17014G19KT 10SM FEW024 BKN030 31/24 A3002 RMK AO2 SLP144 T03060244 TSNO $ KOGA 020355Z AUTO 00000KT 10SM CLR 24/16 A3001 RMK AO2 T02380155 PTKK 021555Z 22012KT 15SM FEW014 BKN120 OVC280 27/25 A2962 RMK SLP032 T02720251 KNPA 021556Z 24007KT 10SM FEW030 FEW070 BKN120 BKN250 29/20 A3012 RMK AO2 SLP199 T02890200 LFGA 021600Z AUTO 16007KT 120V220 CAVOK 37/17 Q1018 LEPA 021600Z 13011KT 090V170 CAVOK 36/13 Q1019 NOSIG KMWT 021553Z AUTO VRB03KT 10SM CLR 27/21 A2992 RMK AO2 SLP119 T02670206 KOGB 021553Z AUTO 23011KT 10SM SCT110 28/19 A3002 RMK AO2 SLP163 T02780194 KOFK 021556Z AUTO 11006KT 3SM RA BR OVC005 17/16 A2996 RMK AO2 LTG DSNT S SLP140 P0007 T01720161 KOGD 021553Z AUTO 15005KT 10SM CLR 29/09 A3010 RMK AO2 SLP122 T02890094 TSNO KMXO 020355Z AUTO 00000KT 10SM FEW110 15/14 A2998 RMK AO2 KMYF 021625Z 20005KT 2SM BR OVC005 20/19 A3002 RMK AO2 T02000189 KOFP 021554Z AUTO VRB04KT 4SM HZ FEW017 BKN023 BKN034 27/22 A2989 RMK AO2 SLP119 T02670222 PTKR 021552Z 26012KT 15SM SCT017CB BKN110 OVC280 28/24 A2984 RMK CB ALQDS SLP104 T02830237 KNQA 021550Z 21007KT 10SM BKN150 BKN250 30/27 A2991 LDZA 021630Z 11006KT 070V190 CAVOK 30/14 Q1021 NOSIG LFGJ 021600Z AUTO 20009KT CAVOK 35/13 Q1019 KMYL 021551Z AUTO 19004KT 10SM CLR 22/08 A3018 RMK AO2 SLP159 T02220078 LDZD 021630Z 29009KT 250V340 CAVOK 29/14 Q1021 NOSIG KNOW 020355Z AUTO 29014KT 10SM CLR 19/11 A2997 RMK AO2 T01880107 ESCF 021620Z AUTO 01004KT 320V070 9999 NCD 27/17 Q1027 KMYP 021612Z AUTO 27011KT 10SM CLR 12/07 A3076 RMK AO2 KMZG 021615Z AUTO 12016G21KT 10SM FEW024 30/24 A3003 RMK A01 LEPP 021600Z 32013KT CAVOK 23/17 Q1021 KMZH 021614Z AUTO 00000KT 10SM SCT049 22/17 A3002 RMK AO2 KMYR 021545Z 27011G16KT 7SM SCT150 31/19 A3001 KNQI 021556Z 13015G21KT 6SM HZ SCT022 BKN037 BKN250 31/26 A3001 RMK AO2 SLP157 T03110256 $ GABS 021600Z 26005KT 220V290 9999 FEW030 BKN100 35/20 Q1012 NOSIG KNRB 021552Z 26008KT 230V300 10SM FEW030 SCT250 32/21 A3009 RMK AO2 SLP187 T03170211 KMYV 021553Z AUTO 27004KT 10SM CLR 27/11 A2988 RMK AO2 SLP120 T02720106 ESDF 021620Z 15007KT CAVOK 22/12 Q1030 FJDG 021555Z 09008KT 9000 -SHRA SCT020 BKN050 OVC080 26/23 A2998 RMK SLP149 T2 SET T02630234 KMYZ 021615Z AUTO 08004KT 7SM -RA OVC009 22/20 A2993 RMK AO2 LERI 021600Z 15009KT 100V200 CAVOK 33/18 Q1016 NOSIG WIBB 021600Z 00000KT 5000 FU FEW020 28/25 Q1010 NOSIG KOJA 021555Z AUTO 23009G16KT 10SM CLR 27/20 A2991 RMK AO2 LESA 021600Z 26007KT 210V310 9999 FEW040 30/05 Q1020 KOJC 021559Z 06009KT 7SM BKN009 OVC014 22/20 A2991 RMK AO2 CIG 007V011 T02220200 LGAD 021550Z 29007KT 9999 FEW020 28/10 Q1018 KPAE 021553Z 02005KT 10SM CLR 21/13 A3005 RMK AO2 SLP172 T02110128 KNSE 021556Z 26012KT 10SM SCT025 BKN070 BKN130 BKN250 29/23 A3010 RMK AO2 RAB40E50 SLP177 OCNL LTGICCG DSNT NE-E CB DSNT NE-E VCSH E T2 SET P0000 T02890233 $ KNQX 021553Z 09008KT 10SM SCT023 SCT250 32/24 A3012 RMK AO2 SLP197 T03170239 KMZZ 020355Z AUTO 36005KT 7SM BKN041 OVC050 17/12 A2996 RMK AO2 T01650122 KPAH 021604Z 23009KT 10SM SCT025 SCT033 OVC080 28/22 A2986 RMK AO2 T02830217 FIMP 021600Z 11003KT 9999 FEW018 SCT050 23/19 Q1022 KNSI 021557Z 32007KT 10SM SCT002 SCT120 19/16 A3001 RMK AO2 SLP161 T01890161 PNO $ KNRS 021556Z 22005KT 6SM BR OVC007 21/18 A3002 RMK AO2 SLP166 T02060183 LERS 021600Z 12005KT 070V160 9999 FEW050 28/20 Q1021 FIMR 021500Z 10008KT 9999 SCT018 BKN050 25/21 Q1021 KOKB 021552Z AUTO VRB04KT 8SM OVC008 22/18 A2999 RMK AO2 SLP156 T02170183 LFKB 021600Z 13003KT 9999 FEW026 30/20 Q1021 NOSIG LERT 021600Z 27014KT CAVOK 27/18 Q1017 NOSIG KOKC 021552Z 22015KT 10SM BKN200 BKN250 29/21 A2990 RMK AO2 SLP106 T02890211 LGAL 021620Z 36005KT 9999 FEW035 27/19 Q1017 LFKC 021600Z 36007KT 330V040 9999 FEW066 30/19 Q1021 NOSIG LFJL 021600Z AUTO 17010KT 140V200 CAVOK 37/13 Q1018 KPAM 021558Z AUTO 26016KT 10SM VCTS CLR 28/22 A3013 RMK AO2 PK WND 25027/09 LTG DSNT NE-SE RAB09E10DZB10E18RAB18E19DZB31E40 SLP206 P0000 T02770222 $ KNTD 021556Z 31003KT 10SM FEW009 SCT120 BKN200 21/17 A3000 RMK AO2 SLP161 T02110167 $ KPAN 021615Z AUTO 24008KT 220V280 10SM CLR 27/14 A3021 RMK AO2 KPAO 021547Z 35007KT 10SM FEW010 BKN130 19/16 A2997 KPBF 021553Z AUTO 23010G19KT 10SM CLR 27/20 A2996 RMK AO2 SLP142 T02720200 LFKF 021600Z AUTO 20006KT 170V240 9999 NCD 33/15 Q1021 LESO 021600Z 00000KT 9999 SCT012 BKN020 21/20 Q1022 KPBG 021553Z AUTO 24007G15KT 200V270 10SM CLR 21/04 A2988 RMK AO2 SLP118 T02110044 KPBH 021545Z AUTO 15004KT 10SM CLR 20/09 A3006 RMK AO2 KPBI 021553Z VRB04KT 10SM SCT027CB SCT160 BKN230 31/23 A3015 RMK AO2 SLP210 CB SW-W MOV NW T03110233 $ LFJR 021600Z AUTO 31007KT 200V010 CAVOK 25/17 Q1021 LFKJ 021600Z 23007KT 200V260 9999 FEW053 33/18 Q1020 NOSIG WIDD 021600Z AUTO 15003KT 120V180 9999NDV FEW040 FEW049 28/25 Q1014 METAR WAAA 021600Z VRB02KT 8000 FEW020 24/24 Q1013 NOSIG KOKK 021615Z AUTO 08007KT 10SM CLR 22/16 A2995 RMK AO1 LFLB 021600Z 36005KT CAVOK 33/20 Q1020 NOSIG LEST 021600Z VRB02KT 9999 FEW048 23/11 Q1022 NOSIG KNUC 021556Z 23010KT 10SM BKN007 BKN150 BKN220 18/15 A3002 RMK SLP165 T01830150 LESU 021600Z 22007KT 200V260 9999 FEW075 SCT085 31/11 Q1024 LGBL 021620Z 11006KT CAVOK 28/13 Q1019 LFLC 021600Z AUTO 27010KT 240V300 CAVOK 35/11 Q1020 LETL 021530Z AUTO 15011KT 120V180 CAVOK 29/11 Q1023 KOKM 020355Z AUTO 20012G18KT 10SM CLR 29/22 A2986 RMK AO2 T02850220 PTPN 020350Z 20009KT 13SM -RA BKN015CB OVC110 26/25 A2968 RMK CB ALQDS MOV E LAST LGAV 021620Z 01015KT CAVOK 28/08 Q1018 NOSIG KOLE 020355Z AUTO 00000KT 7SM CLR 13/12 A2997 RMK AO2 KOLF 021553Z AUTO 25006KT 5SM HZ CLR 23/18 A3007 RMK AO2 SLP176 T02330183 LETO 021600Z 23009KT 180V290 CAVOK 34/05 Q1019 NOSIG KOLG 020355Z AUTO 00000KT 10SM CLR 12/11 A3002 RMK AO1 ESGG 021620Z 23012KT CAVOK 24/11 Q1027 KNUI 021616Z AUTO VRB06KT 6SM HZ SCT024 25/21 A2986 RMK AO2 T02500206 KOMA 021552Z 11005KT 5SM -RA BR OVC012 18/17 A2996 RMK AO2 SLP138 P0002 T01830167 LFKS 021600Z AUTO 16005KT 120V200 9999 FEW088 29/19 Q1021 ESGJ 021620Z 16009KT CAVOK 27/11 Q1027 KPDC 020355Z AUTO 00000KT 10SM CLR 13/11 A3000 RMK AO2 T01270113 WIEE 021600Z 02003KT 7000 R33/M0050N FEW019 25/23 Q1013 KNTU 021556Z 23010KT 9SM FEW100 OVC150 31/23 A2987 RMK AO2 SLP116 T2 SET T03060228 LFMC 021600Z AUTO 24008KT 190V270 9999 ////// 34/13 Q1020 LFLL 021606Z 17016KT CAVOK 34/11 Q1019 NOSIG LEVC 021600Z VRB04KT 9999 FEW025 31/17 Q1019 NOSIG KOKV 020355Z AUTO 00000KT 10SM SCT070 20/16 A2994 RMK AO2 KOLM 021554Z 01005KT 10SM CLR 23/14 A3003 RMK AO2 SLP169 T02330139 KPCM 021615Z AUTO 21005KT 10SM SCT044 33/22 A3016 RMK AO2 LFMD 021600Z AUTO 16010KT CAVOK 31/17 Q1020 LEVD 021600Z 23004KT CAVOK 28/09 Q1020 LFLN 021600Z AUTO 31009KT 270V350 CAVOK 35/12 Q1019 KPBX 021540Z AUTO 19003KT M1/4SM +RA OVC003 19/19 A2997 RMK AO2 T01900190 LFLP 021600Z AUTO 24006KT CAVOK 32/18 Q1021 KOKZ 021600Z AUTO 29006KT 10SM CLR 29/22 A3004 RMK AO2 T02880218 KOMH 020355Z AUTO 00000KT 7SM BKN100 22/21 A2993 RMK AO2 ESGP 021550Z 20009KT CAVOK 24/12 Q1027 KNUQ 021556Z 32005KT 10SM CLR 18/15 A2997 RMK AO2 SLP152 T01830150 LFMH 021600Z 18013KT 150V210 CAVOK 36/13 Q1020 NOSIG PTSA 012350Z 25010KT 10SM SCT015 BKN120 OVC290 29/26 A2978 LFMI 021600Z AUTO 18009KT CAVOK 30/16 Q1022 KPEA 020355Z AUTO 03003KT 10SM OVC055 19/17 A2997 RMK AO2 T01850170 KONA 021614Z AUTO 00000KT 10SM CLR 21/13 A3005 RMK AO2 ESGR 021620Z AUTO 14005KT 9999 NCD 28/14 Q1026 KOLS 021554Z AUTO 00000KT 10SM CLR 26/17 A3012 RMK AO2 SLP133 T02610167 LFLS 021600Z AUTO 22014KT CAVOK 32/13 Q1022 KOMK 021553Z AUTO 34012KT 10SM CLR 27/09 A3003 RMK AO2 SLP157 T02720094 KPDK 021553Z 22010KT 8SM FEW026 28/22 A3001 RMK AO2 SLP147 T02830222 KNY0 021435Z AUTO 27010G14KT 10SM SCT022 18/13 A2993 RMK AO2 T01810133 LFMK 021600Z AUTO 09011KT 070V140 CAVOK 26/16 Q1021 LFLU 021600Z AUTO 19013KT CAVOK 32/14 Q1020 ESIB 021620Z AUTO 16007KT 9999 NCD 28/15 Q1026 ESGT 021620Z 25009KT CAVOK 27/10 Q1026 KOLU 021615Z AUTO 01007KT 4SM BKN005 OVC020 17/14 A2997 RMK AO1 P0001 LFML 021600Z 18008KT CAVOK 31/12 Q1021 NOSIG KOLV 021550Z 23014G18KT 10SM SCT070 BKN150 25/23 A2994 KOMN 021550Z 26006KT 7SM SCT032 31/23 A3011 KPCW 021612Z AUTO 06011KT 10SM FEW021 20/15 A3000 RMK AO2 $ LFLW 021600Z AUTO 24006KT 160V280 CAVOK 29/13 Q1023 PTRO 021550Z 24012KT 14SM BKN016CB OVC290 28/24 A2984 RMK CB VC ALQDS KNUW 021556Z 29004KT 10SM CLR 19/13 A3007 RMK AO2 SLP181 T01940128 VISNO $ LFMN 021600Z 14003KT 100V180 9999 FEW040 28/21 Q1021 NOSIG LFMO 021600Z AUTO 23010KT CAVOK 33/13 Q1021 LFLX 021600Z AUTO 26013KT CAVOK 32/17 Q1020 KOLY 020355Z AUTO 14004KT 7SM -RA BKN023 BKN040 OVC055 21/21 A2990 RMK AO2 LTG DSNT E THRU W P0002 LFMP 021600Z AUTO 04005KT 010V070 CAVOK 26/16 Q1020 LFLY 021600Z AUTO 18017KT 150V210 CAVOK 34/14 Q1019 KOLZ 020355Z AUTO 04003KT A3001 RMK AO2 PWINO KPCZ 021602Z AUTO 05003KT 10SM CLR 21/08 A3008 RMK AO2 KOOA 020355Z AUTO 05006KT 10SM BKN050 OVC065 19/15 A2996 RMK AO2 T01850153 LFOA 021600Z AUTO 26011KT CAVOK 34/13 Q1019 LEVS 021600Z VRB03KT CAVOK 34/04 Q1019 KPDT 021553Z 00000KT 10SM CLR 27/06 A2999 RMK AO2 SLP136 T02720061 LFMT 021600Z 18005KT 140V210 CAVOK 27/18 Q1022 NOSIG LFOB 021600Z AUTO 01005KT 310V050 CAVOK 29/15 Q1020 LEVT 021600Z 01017KT 9999 SCT011 SCT015 20/16 Q1023 KONL 021540Z AUTO 15006KT 4SM BR OVC002 20/20 A2995 RMK AO2 P0001 T02000196 LGEL 021620Z 35011KT 9999 FEW025 29/08 Q1018 LFOC 021600Z AUTO 09004KT 020V160 CAVOK 32/18 Q1018 LFMU 021600Z AUTO 12007KT 090V150 CAVOK 27/17 Q1022 KONM 020355Z AUTO 28008KT 200V340 10SM CLR 30/04 A3003 RMK AO2 T02960039 LFMV 021600Z AUTO 26010KT CAVOK 31/15 Q1021 ETAD 021558Z AUTO 16013KT 9999 FEW190 35/15 A3010 RMK AO2 SLP160 T03530145 $ LFOE 021600Z AUTO 35006KT 290V050 CAVOK 27/16 Q1020 KPEO 021553Z AUTO 31003KT 10SM FEW028 SCT038 BKN048 21/13 A2997 RMK AO2 SLP144 T02060133 KPDX 021553Z 32003KT 10SM CLR 23/15 A2999 RMK AO2 SLP154 T02330150 KONO 021553Z AUTO 00000KT 10SM CLR 30/11 A3001 RMK AO2 SLP139 T03000111 KNXF 021556Z AUTO 00000KT 5SM HZ OVC008 A3000 RMK AO2 SLPNO $ LEVX 021600Z 27008KT 230V320 CAVOK 21/14 Q1022 NOSIG KONP 020355Z AUTO 34007KT 1 3/4SM BR OVC002 13/12 A3001 RMK AO2 LFMY 021600Z AUTO 22007KT CAVOK 30/13 Q1022 RCKH 021600Z 26004KT 210V280 9999 FEW016 BKN150 30/27 Q1005 NOSIG RMK A2969 KPEQ 021549Z AUTO 10007KT 10SM CLR 27/18 A2999 RMK AO2 LFOH 021600Z AUTO 29006KT CAVOK 21/17 Q1021 KPGA 021553Z AUTO 35009KT 10SM CLR 31/12 A3009 RMK AO2 SLP108 T03060122 TSNO LFOJ 021600Z AUTO 18005KT 160V230 CAVOK 33/18 Q1018 LEXJ 021600Z 29003KT 270V330 4500 DZ BR FEW005 SCT010 BKN020 17/16 Q1023 KONT 021553Z 26005KT 9SM SCT130 BKN150 26/16 A3000 RMK AO2 SLP141 VIRGA DSNT SW ACC VC S-SW T02560156 $ LFOK 021600Z AUTO 26009KT 220V280 CAVOK 34/16 Q1018 LFPB 021600Z AUTO 36007KT 320V030 CAVOK 30/16 Q1019 KNYC 021551Z AUTO 00000KT 10SM SCT075 24/16 A2993 RMK AO2 SLP124 T02440156 $ LFPC 021600Z AUTO 35008KT CAVOK 29/14 Q1019 KPGD 021553Z 14005KT 10SM FEW036 32/22 A3015 RMK AO2 SLP211 T03170222 KONX 021040Z AUTO 00000KT 5SM BR CLR 24/22 A2991 RMK AO2 T02400218 KPEX 021614Z AUTO 13006KT 10SM CLR 19/12 A3005 RMK AO2 T01920122 WIHH 021100Z 04005KT 5000 HZ SCT018 29/23 Q1012 NOSIG KOPF 021553Z 14008KT 10SM FEW035 32/23 A3013 RMK AO2 LTG DSNT W SLP205 T03170228 PTTP 021552Z 20005KT 10SM BKN017TCU OVC120 26/24 A2974 RMK TCU ALQDS SLP069 T02570239 VQPR 021050Z 11010KT 9999 SCT030 BKN070 25/12 Q1013 NOSIG KNXP 021556Z AUTO 00000KT 10SM CLR 29/17 A3005 RMK AO2 SLP139 T02890167 KNYG 021556Z AUTO 05009KT 10SM OVC050 23/17 A2990 RMK AO2 SLP126 T02330167 LFPG 021600Z 35008KT 9999 FEW047 SCT150 BKN220 30/17 Q1019 NOSIG LFOP 021600Z AUTO 32007KT 260V350 CAVOK 25/17 Q1021 KPEZ 020355Z AUTO 11003KT 10SM CLR 23/21 A3004 RMK AO2 T02280211 KONZ 021614Z AUTO 06006KT 10SM SCT034 21/13 A3000 RMK AO2 ETAR 021558Z AUTO VRB02KT 9999 CLR 36/15 A3009 RMK AO2 SLP179 T03560145 $ LFQA 021600Z AUTO 33013KT CAVOK 31/21 Q1018 LFOT 021600Z AUTO 27011KT 240V300 CAVOK 31/19 Q1019 LFQB 021600Z AUTO 23011KT CAVOK 35/16 Q1018 KOPL 020355Z AUTO 00000KT 10SM -DZ OVC110 23/22 A3009 RMK AO2 LTG DSNT SE P0003 T02270220 KNYL 021557Z 18007KT 10SM FU FEW001 FEW250 32/19 A2990 RMK AO2 SLP121 FU FEW001 T03170189 $ KPHD 021553Z AUTO VRB04KT 10SM SCT028 SCT037 22/16 A2997 RMK AO2 SLP144 T02220161 LFPM 021600Z AUTO 02003KT 330V090 CAVOK 32/20 Q1018 LFOV 021600Z AUTO 33005KT 290V020 9999 FEW035 SCT044 BKN064 23/16 Q1021 KOPN 020355Z AUTO 00000KT 10SM SCT120 22/22 A3009 RMK AO2 LFPN 021600Z AUTO 32006KT 280V040 CAVOK 30/18 Q1019 ESKN 021620Z 17009KT CAVOK 27/14 Q1027 KPHF 021554Z 21009KT 5SM HZ FEW120 27/23 A2987 RMK AO2 SLP113 T02670228 LFPO 021600Z 32006KT 270V020 CAVOK 32/18 Q1019 NOSIG LFQG 021600Z AUTO 27010KT 240V300 CAVOK 34/13 Q1019 WIII 021600Z 12002KT 4500 HZ SCT020 26/21 Q1013 NOSIG LEZG 021600Z 12014KT 080V150 9999 FEW060 32/10 Q1018 LGHI 021550Z 02009KT CAVOK 27/14 Q1014 KPIA 021554Z 04008KT 10SM FEW017 19/13 A2999 RMK AO2 SLP152 T01890128 KPIB 021615Z AUTO 22006KT 10SM BKN016 BKN023 28/20 A3011 RMK AO1 LFRB 021600Z 26005KT 210V350 9999 FEW033 21/11 Q1022 NOSIG LFPT 021600Z AUTO 05003KT 360V080 CAVOK 30/15 Q1019 KORB 021621Z AUTO 19000KT 10SM SCT025 22/15 A2998 RMK AO2 GAMB 021500Z VRB02KT 7000 NSC 41/19 Q1008 KORC 020355Z AUTO 09007KT 10SM SCT080 16/13 A2998 RMK AO2 KPHL 021554Z 05007KT 10SM FEW036 BKN065 OVC110 23/17 A2991 RMK AO2 RAE40 SLP128 P0000 T02280167 LFRC 021600Z AUTO 29007KT 260V320 CAVOK 18/14 Q1021 LEZL 021600Z 28007KT 160V330 CAVOK 34/11 Q1016 NOSIG KORD 021622Z 04008KT 10SM SCT016 SCT250 18/13 A3001 RMK AO2 T01830128 KPGV 021600Z AUTO 25008G16KT 7SM CLR 31/21 A2993 RMK AO2 LFPV 021600Z AUTO 34007KT 310V030 CAVOK 30/18 Q1019 LFRD 021600Z AUTO 35005KT 300V010 CAVOK 22/15 Q1022 KPIE 021625Z 12009KT 9SM -TSRA SCT034 29/24 A3014 RMK AO2 LTG DSNT N AND SE RAB24 TSB25 P0001 T02940244 KORE 021552Z AUTO 24013G19KT 10SM FEW040 23/12 A2991 RMK AO2 SLP128 T02280122 KPHN 021615Z AUTO 36006KT 10SM CLR 19/11 A3004 RMK AO2 KORF 021551Z AUTO 23010KT 6SM HZ OVC100 28/22 A2987 RMK AO2 SLP115 T02780217 TSNO KORG 021555Z AUTO 16008KT 7SM CLR 30/25 A3008 RMK AO2 T02970254 KPHP 021614Z AUTO 02010KT 10SM FEW023 SCT035 24/18 A3003 RMK AO2 T02440178 LFRG 021600Z AUTO 32006KT 290V360 CAVOK 21/18 Q1021 RCMQ 021600Z 19008KT 9999 FEW012 BKN200 28/23 Q1005 RMK A2970 KPIH 021553Z 31004KT 10SM CLR 25/13 A3014 RMK AO2 SLP148 T02500128 KORH 021554Z 25008KT 10SM SCT034 BKN075 22/13 A2993 RMK AO2 SLP132 T02220128 LFQQ 021600Z AUTO 32006KT 290V350 9999 ///TCU 26/13 Q1020 LFRH 021600Z AUTO 26010KT 230V310 9999 FEW019 20/13 Q1022 LFRI 021600Z AUTO 31008KT 270V360 9999 FEW041 25/16 Q1022 KOSA 020355Z AUTO 19007KT 10SM CLR 25/22 A3000 RMK AO1 T02530216 LFRJ 021600Z AUTO 35008KT 300V070 9999 FEW027 SCT033 BKN044 20/14 Q1022 KOQT 021628Z AUTO VRB06KT 10SM BKN010 OVC015 21/19 A2999 RMK AO2 RAE1557 CIG 006V011 P0000 T02110194 KPHT 021615Z AUTO 23007KT 10SM SCT018 BKN025 27/23 A2991 RMK LFRK 021600Z AUTO 25004KT 220V280 9999 FEW041 OVC054 23/18 Q1021 LFSB 021600Z 09006KT 040V140 9999 FEW070CB 36/17 Q1019 TEMPO VRB15G25KT 3000 TSRA SCT070CB KOQU 021550Z 19011KT 15SM FEW040 BKN250 24/16 A2990 KOSC 021613Z AUTO 05011KT 10SM CLR 20/06 A3006 RMK AO2 T02030069 KPIL 021624Z AUTO 13016G24KT 6SM VCTS HZ SCT018 BKN026 OVC038 29/26 A3001 RMK AO2 LTG DSNT W T02940256 ESMK 021620Z AUTO 11009KT 9999 NCD 20/13 Q1029 KORL 021553Z 20006KT 10SM CLR 31/23 A3013 RMK AO2 SLP205 T03110228 ETEB 021558Z AUTO VRB06KT 9999 CLR 31/14 A3019 RMK AO2 DZB53 SLP210 P0000 T03090142 $ LFRL 021600Z AUTO 29007KT 240V320 CAVOK 20/11 Q1022 LFSD 021600Z AUTO 17009KT 130V200 CAVOK 35/13 Q1019 LFRM 021600Z AUTO 31008KT 260V360 CAVOK 27/18 Q1020 RCNN 021600Z 18005KT 9999 FEW014 SCT050 28/25 Q1005 RMK A2968 LFRN 021600Z AUTO 29004KT 240V010 CAVOK 24/14 Q1021 LGIO 021620Z 28008KT 9999 FEW025 27/14 Q1020 KPHX 021551Z 26010KT 10SM FEW250 35/14 A2991 RMK AO2 SLP107 T03500139 LFRO 021600Z AUTO 30009KT 280V340 CAVOK 19/14 Q1022 KNZY 021552Z 19006KT 5SM -DZ BR OVC008 20/18 A3001 RMK AO2 SLP162 P0000 T02000183 $ LFSG 021600Z AUTO 20011KT CAVOK 34/15 Q1019 ESNG 021620Z 25009KT CAVOK 15/12 Q1020 KOSH 021553Z 06008KT 10SM CLR 18/08 A3006 RMK AO2 SLP175 T01830078 LFRQ 021600Z AUTO 28008KT 220V310 CAVOK 22/13 Q1022 KPIR 021553Z AUTO 30007KT 10SM SCT110 21/18 A2999 RMK AO2 SLP145 T02060178 LGIR 021620Z 33011KT 9999 SCT020 27/19 Q1017 NOSIG PTYA 021550Z VRB06KT 12SM BKN015CB BKN120 OVC290 26/24 A2980 RMK CB ALQDS SLP093 T02610238 ESMQ 021620Z 17012KT CAVOK 21/12 Q1029 LFSI 021600Z AUTO 24011KT 210V270 //// R29///// // NSC 35/15 Q1017 KORS 021635Z AUTO 34008KT 10SM CLR 19/14 A3003 RMK AO2 KQAJ 021555Z AUTO 32013KT 9999 CLR 42/M04 A2961 RMK AO2 SLP013 T04161045 LFRS 021600Z 29009KT 250V330 CAVOK 26/14 Q1021 NOSIG KPKB 021553Z 00000KT 9SM CLR 22/18 A2998 LFRT 021600Z AUTO 06005KT 9999 FEW047 20/13 Q1022 KPIT 021551Z 35005KT 10SM FEW040 BKN150 OVC250 22/16 A2997 RMK AO2 SLP148 T02170156 ESMS 021620Z 10014KT CAVOK 22/09 Q1028 LFRU 021600Z AUTO 34008KT 310V010 9999 FEW025 SCT031 20/14 Q1022 LGKC 021250Z /////KT CAVOK 27/15 Q1020 ESNK 021620Z 15011KT CAVOK 24/15 Q1020 ESMT 021620Z 15010KT 120V180 CAVOK 25/08 Q1027 LHBC 021445Z 36010KT CAVOK 29/10 Q1023 LFSL 021600Z AUTO 22004KT 140V300 CAVOK 32/16 Q1021 KPKD 021553Z AUTO 22009KT 10SM CLR 22/12 A3002 RMK AO2 SLP164 T02220122 ESNL 021620Z AUTO 02004KT 360V060 9999 FEW087/// 23/09 Q1021 LFRV 021600Z AUTO 27008KT 230V310 CAVOK 23/13 Q1022 LFSN 021600Z AUTO 20010KT 160V240 CAVOK 36/14 Q1018 ESNN 021620Z 15006KT CAVOK 24/15 Q1020 ESOE 021620Z 22006KT CAVOK 28/15 Q1027 LGKF 021550Z 33010KT 9999 FEW018 28/14 Q1019 KQBF 021555Z AUTO VRB03KT 10SM CLR 35/20 A3000 RMK AO2 SLP138 T03520202 LFSO 021600Z AUTO 20009KT 170V240 CAVOK 35/14 Q1019 ESNO 021620Z 15005KT CAVOK 22/13 Q1021 ESMX 021620Z AUTO 17010KT 9999 NCD 25/09 Q1029 KOTG 021615Z AUTO 12007KT 10SM CLR 17/10 A3003 RMK AO1 KOTH 021615Z 00000KT 10SM OVC005 14/14 A3002 RMK AO1 LFRZ 021600Z AUTO 28014KT CAVOK 23/12 Q1022 LFTH 021600Z AUTO 21008KT CAVOK 28/21 Q1021 ESNQ 021620Z AUTO 24005KT 9999 -RA FEW140/// 14/11 Q1019 REDZ GANR 021500Z 36008KT CAVOK 41/17 Q//// ESPA 021620Z VRB01KT CAVOK 17/15 Q1021 ESNS 021620Z 06009KT 9999 -RA SCT100 BKN150 19/15 Q1022 LFST 021600Z AUTO VRB03KT CAVOK 36/17 Q1018 KQBL 021556Z AUTO 22004KT 10SM SCT150 29/23 A3014 RMK AO2 LTG DSNT N-E SLP208 T02930227 ESOK 021620Z 18011KT CAVOK 26/14 Q1026 KOSU 021553Z 00000KT 10SM BKN043 OVC055 21/16 A2996 RMK AO2 SLP141 T02060156 LGKL 021620Z 00000KT 9999 SCT030 28/12 Q1018 ESNU 021620Z 18008KT CAVOK 20/12 Q1021 KOTM 021553Z AUTO 06009KT 10SM CLR 18/12 A2998 RMK AO2 SLP148 T01830122 ESNV 021620Z AUTO VRB02KT 9999 NCD 24/11 Q1021 ESPE 021620Z AUTO 31005KT 9999 OVC060/// 17/14 Q1022 LGKO 021620Z 30016KT CAVOK 26/17 Q1013 LFSX 021600Z AUTO 22007KT 190V250 CAVOK 35/13 Q1019 LGKP 021620Z 30032G42KT 9999 FEW018 24/18 Q1012 ESNX 021620Z AUTO 29006KT 9999NDV FEW055/// SCT072/// BKN090/// 17/11 Q1023 KQAY 021555Z AUTO 29008KT 8000 BR CLR RMK AO2 SLPNO $ LHBP 021600Z 10005KT 040V130 CAVOK 29/11 Q1023 NOSIG ETGG 021620Z 11017G28KT 9999 24/14 Q1022 BLU+ LGKR 021620Z 27006KT CAVOK 28/18 Q1019 NOSIG ESNZ 021620Z 28003KT CAVOK 28/08 Q1020 ETHA 021620Z 06007KT 9999 FEW050 28/16 Q1024 BLU+BLU+ VRMM 021600Z 26006KT 9999 SCT018TCU 28/25 Q1014 NOSIG WIMM 021600Z 24006KT 6000 -TS FEW016CB BKN017 27/26 Q1012 RERA KS39 021615Z AUTO 00000KT 10SM CLR 28/08 A3008 RMK AO2 ETHB 021620Z 11008KT 9999 FEW300 32/18 Q1020 BLU+BLU+ KQCL 021555Z AUTO 27002KT 8000 BR FEW180 23/18 A2985 RMK AO2 RAB1524E1534SHRAB1534E1546 SLP040 T02340178 LHDC 021545Z 03010KT CAVOK 27/08 Q1023 ETHC 021620Z 12012KT 9999 FEW230 32/13 Q1021 BLU+ KPMD 021553Z AUTO 24005KT 10SM CLR 29/11 A3004 RMK AO2 SLP142 T02890106 LGLM 021620Z 33009KT CAVOK 27/14 Q1018 LGKV 021620Z 27005KT 9999 FEW025 28/16 Q1017 KPKV 021612Z AUTO 15012G16KT 7SM SCT029 SCT034 SCT040 31/24 A3003 RMK AO2 KOUN 020355Z AUTO 18011KT 10SM CLR 27/21 A2991 RMK AO2 KOVE 021553Z AUTO 29005KT 10SM CLR 29/14 A2988 RMK AO2 SLP118 T02940139 KPLN 021554Z AUTO VRB04KT 10SM CLR 21/06 A3007 RMK AO2 SLP183 T02060061 LFTW 021600Z AUTO 20007KT 170V240 CAVOK 31/13 Q1022 ETHE 021620Z AUTO 12007KT //// // ////// 36/16 Q1017 /// ESOW 021620Z 22009KT 190V260 CAVOK 28/13 Q1026 ETHF 021620Z 12007KT 9999 34/14 Q1019 BLU+ KQDG 021556Z AUTO 17002KT 9999 CLR 17/16 A2962 RMK AO2 SLP032 T01680157 $ LGKZ 021550Z 05004KT 9999 SCT025 SCT070 27/09 Q1022 ETGQ 020420Z AUTO 21002KT //// // ////// 20/17 Q1019 /// LGLR 021550Z 00000KT 9999 FEW035 13/10 Q1019 BLU KOWA 021615Z AUTO 12005KT 10SM CLR 21/11 A3004 RMK AO2 KPNA 021615Z AUTO 14006KT 10SM CLR 21/05 A3034 RMK AO2 LGMK 021620Z 33020G30KT 9999 FEW018 24/16 Q1016 KQEB 021555Z AUTO 08013KT 9999 BKN044 OVC055 20/11 A3023 RMK AO2 SLP195 T02040108 KOWB 021556Z 17008KT 10SM BKN014 BKN034 23/21 A2989 RMK AO2 T02330205 RAE10 P0000 SLP118 KPLU 020355Z AUTO 00000KT 10SM CLR 25/15 A2996 RMK AO2 KOVL 021613Z AUTO 13008KT 10SM CLR 20/11 A3003 RMK AO2 KPNC 021553Z AUTO 02008KT 10SM CLR 32/23 A2986 RMK AO2 SLP095 T03220228 ETHL 021620Z 05005KT 9999 FEW060 30/16 Q1022 BLU+ KOWD 021553Z 25007KT 220V290 10SM CLR 25/14 A2989 RMK AO2 SLP121 T02500144 ETIC 021558Z AUTO VRB02KT 9999 CLR 31/12 A3019 RMK AO2 SLP207 KPNE 021554Z AUTO 03006KT OVC070 24/15 A2993 RMK AO2 SLP132 T02390150 TSNO RVRNO $ ETHN 021620Z 16007KT 9999 31/15 Q1022 BLU+ LFVP 021600Z 09009KT 9999 OVC003 10/10 Q1015 NOSIG KPMP 021553Z 12008KT 10SM CLR 32/23 A3014 RMK AO2 LTG DSNT NW SLP207 T03170233 KQEI 021620Z AUTO 12002KT 3200 BR OVC002 15/13 A2969 RMK A02 TSNO ETIH 021558Z AUTO VRB01KT 9999 CLR 31/14 A3020 RMK AO2 SLP208 KQEJ 021620Z AUTO 11001KT M0400 FG CLR 15/13 A2964 RMK A02 TSNO KOVS 021553Z AUTO VRB06KT 10SM CLR 20/11 A3006 RMK AO2 SLP181 T02000111 PWAK 021616Z AUTO 07012KT 9999 SCT019 BKN029 BKN055 27/24 A2986 RMK AO2 RAB05E16 CIG 029V055 BKN029 V SCT ETHS 021620Z 14011KT 9999 32/12 Q1021 BLU+ ESSA 021620Z 25012KT CAVOK 29/11 Q1026 NOSIG KQFB 021620Z AUTO 24001KT 8000 HZ CLR 20/15 A2970 RMK A02 TSNO KOXB 021627Z AUTO 34007KT 1/4SM +RA FG BKN012 BKN021 OVC055 22/20 A2986 RMK AO2 RAB10 P0053 T02170200 TSNO LGMT 021620Z /////KT CAVOK 28/15 Q1015 KPOB 021558Z AUTO 24006KT 10SM SCT140 SCT180 BKN210 28/20 A2994 RMK AO2 CIG 140 RWY05 SLP139 T02790195 KPOC 021547Z 26007KT 10SM FEW120 24/15 A3004 ESSB 021620Z 22008KT CAVOK 28/12 Q1026 KQEL 021620Z AUTO 07001KT 1600 HZ CLR 16/13 A2970 RMK A02 TSNO KOXC 021550Z 32006KT 10SM SCT035 23/14 A2996 ETIK 021558Z AUTO VRB03KT 9999 CLR 33/14 A3017 RMK AO2 SLP201 T03290140 KPMV 021540Z AUTO 08004KT 4SM -RA OVC008 18/17 A2997 RMK AO2 P0004 T01820166 KPNM 021614Z AUTO 00000KT 10SM CLR 24/13 A3003 RMK AO2 WIOO 021500Z 00000KT 2000 FU FEW013 24/23 Q1012 NOSIG ESSD 021620Z 23011KT CAVOK 28/10 Q1025 KQEN 021620Z AUTO / // CLR / / RMK A02 TSNO KPOE 021558Z AUTO 19008KT 10SM CLR 28/23 A3006 RMK AO2 SLP178 T02800230 KPOF 021553Z AUTO 25010KT 10SM FEW029 28/21 A2985 RMK AO2 SLP103 T02780211 KOWP 021555Z AUTO 27005KT 10SM CLR 31/22 A2988 RMK AO2 T03110219 KQEP 021620Z AUTO 16002KT 4000 HZ CLR 19/15 A2960 RMK A02 TSNO KQFG 021555Z AUTO 14013G19KT 9999 CLR 32/16 A2969 RMK AO2 SLP003 T03240157 $ KQEQ 021620Z AUTO 17001KT 0800 BR CLR 19/17 A2952 RMK A02 TSNO KOXI 020355Z AUTO 33004KT 10SM CLR 12/12 A2999 RMK AO1 KQER 021620Z AUTO 00000KT 8000 /OVC022 15/13 A2964 RMK A02 TSNO RCSS 021600Z 09005KT 9999 FEW025 SCT250 29/25 Q1004 NOSIG RMK A2966 KPNS 021553Z 24011KT 10SM FEW080 29/21 A3011 RMK AO2 LTG DSNT NE SLP197 T02890211 KQES 021620Z AUTO M0400 // CLR 20/18 A2969 RMK A02 TSNO LGPA 021620Z AUTO 34017KT //// // ////// 25/14 Q1016 RE// KPPA 021535Z AUTO 04008KT 10SM CLR 26/17 A3000 RMK AO2 T02570169 KPNT 020355Z AUTO 07006KT 10SM SCT120 16/13 A2999 RMK AO2 T01610130 ESTA 021620Z 13013KT CAVOK 24/11 Q1027 ESSL 021620Z 35004KT 310V020 CAVOK 28/15 Q1027 KQEV 021620Z AUTO 26001KT 3200 HZ CLR 20/17 A2966 RMK A02 TSNO WIPP 021600Z 13005KT 110V160 9999 FEW012 26/21 Q1012 NOSIG FKKD 021600Z 22006KT 9999 FEW006 BKN013 FEW016CB BKN110 26/23 Q1012 BECMG 4000 -RADZ KQEW 021620Z AUTO 26003KT 9999 BKN030 22/16 A2964 RMK A02 TSNO KPPF 021552Z AUTO 36008KT 10SM CLR 28/23 A2987 RMK AO2 SLP103 T02830233 KQEX 021620Z AUTO 22002KT 9999 CLR 23/16 A2968 RMK A02 TSNO LGNX 021550Z 36015KT CAVOK 24/17 Q1016 RCTP 021600Z 21003KT 9999 FEW025 BKN120 29/23 Q1004 NOSIG RMK A2966 KQEY 021620Z AUTO 17002KT 6000 HZ FEW021 BKN023 21/17 A2967 RMK A02 TSNO ESSP 021620Z 10007KT CAVOK 28/16 Q1026 KQFQ 021555Z AUTO VRB03KT 1 1/2SM BR FEW012 SCT023 18/18 A2962 RMK AO2 SLP029 T01820180 $ KOXR 021551Z 29007KT 9SM -RA SCT009 BKN090 OVC110 18/16 A3000 RMK AO2 RAB32 SLP157 P0000 T01830161 KOZA 020355Z AUTO 17010KT 10SM CLR 24/18 A3006 RMK AO2 KQFT 021620Z AUTO 17001KT 9000 HZ CLR 19/14 A2963 RMK A02 TSNO KPOU 021553Z 02003KT 10SM CLR 24/14 A2991 RMK AO2 SLP124 T02440144 ESST 021620Z AUTO 22009KT 9999 NCD 28/13 Q1025 KQFU 021620Z AUTO 20002KT 2400 HZ FEW005 SCT065 19/16 A2966 RMK A02 TSNO KOXV 020355Z AUTO 04005KT 10SM SCT046 OVC050 19/15 A2994 RMK AO2 FKKL 021600Z 23006KT 160V300 CAVOK 34/21 Q1010 KPOV 021616Z AUTO 30003KT 10SM SCT035 22/11 A2998 RMK AO2 T02150111 KQFV 021620Z AUTO 14001KT 6000 CLR 14/12 A2967 RMK A02 TSNO ESUD 021620Z AUTO 12004KT 060V150 9999 SCT180/// 22/11 Q1021 ESSV 021620Z 23012KT CAVOK 24/11 Q1029 KPPO 021540Z AUTO 08010KT 10SM SCT030 21/14 A2999 RMK AO2 T02140139 FKKN 021600Z 22008KT 9999 BKN020 FEW020CB 26/20 Q1016 KQFX 021620Z AUTO 16001KT 4000 HZ FEW006 22/16 A2966 RMK A02 TSNO KPOY 021540Z AUTO 32009KT 10SM CLR 22/10 A3023 RMK AO2 KPPQ 020355Z AUTO 07004KT 5SM BR SCT026 BKN075 22/20 A2990 RMK AO2 T02180202 KPQI 021615Z AUTO 21013KT 10SM BKN034 OVC045 18/09 A2971 RMK AO1 LFYR 021600Z AUTO 23009KT 180V260 CAVOK 33/14 Q1019 FKKR 021600Z 28004KT CAVOK 33/22 Q1008 NOSIG KPRB 021553Z AUTO 22006KT 10SM CLR 26/09 A2999 RMK AO2 SLP146 T02560094 TSNO KPRC 021553Z VRB03KT 10SM CLR 25/15 A3020 RMK AO2 SLP137 T02500150 KPQL 021553Z 23006KT 10SM SCT023 SCT029 SCT038 29/23 A3011 RMK AO2 SLP198 T02890233 KQGV 021555Z 28013G15KT 9999 CLR 41/M03 A2960 RMK SLPNO QNH1003 PA +771 KPQN 021614Z AUTO 14006KT 10SM SCT085 17/11 A3002 RMK AO2 KQHN 021555Z 25007KT 9999 CLR 37/02 A2965 RMK SLP922 Q1004 DA6903 KQGX 021558Z AUTO 01007KT 9999 CLR 36/27 A2958 RMK AO2 SLP018 T03550268 $ KPRG 021150Z AUTO 05007KT 10SM SCT024 SCT060 BKN110 16/13 A2991 RMK AO2 T01580127 10177 20158 ESUP 021520Z 25006KT 9999 RA BKN050 16/12 Q1019 LGPZ 021620Z 26008KT 9999 FEW020 26/18 Q1020 KOZR 021558Z AUTO 26012G19KT 10SM FEW027 31/23 A3008 RMK AO2 SLP185 T03050232 $ LGSA 021620Z 32009KT 9999 FEW025 25/17 Q1018 KOZS 021615Z AUTO 00000KT 10SM OVC003 22/21 A2990 RMK AO2 VTBD 021600Z 25009KT 9999 FEW020 BKN300 29/23 Q1008 NOSIG KPSC 021553Z 33003KT 10SM CLR 27/14 A2995 RMK AO2 SLP139 T02720139 ESUT 021620Z AUTO 28003KT 9999 BKN120/// 18/11 Q1022 KRAC 021553Z AUTO 02009KT 10SM CLR 17/10 A3006 RMK AO2 SLP180 T01720100 ETML 021620Z AUTO 08025KT //// // ////// 19/15 Q1024 /// ETND 021220Z 11010KT 9999 33/18 Q1019 BLU+ KOZW 021615Z AUTO 02007KT 10SM SCT034 OVC040 19/11 A3003 RMK AO2 T01940112 KPRN 021556Z AUTO 27014G21KT 10SM FEW018 29/22 A3008 RMK AO2 SLP178 T02940222 KPRO 020355Z AUTO 07008KT 10SM OVC041 18/15 A2997 RMK AO2 T01800145 402330175 ETMN 021620Z 12009KT 9999 32/15 Q1020 BLU+BLU+ KPSF 021554Z AUTO 26009KT 10SM BKN032 21/13 A2993 RMK AO2 SLP117 T02060133 KQL5 021555Z 10009G14KT 9999 FEW200 33/15 A2966 RMK SLP000 T03260153 LGRP 021620Z 24017KT 9999 FEW018 28/17 Q1011 NOSIG KQHY 021556Z AUTO 24006KT 10SM BKN150 29/23 A3014 RMK AO2 LTG DSNT N-E SLP208 T02850231 ETNG 021550Z 17003KT CAVOK 38/16 Q1016 NOSIG ETNH 021620Z 13009KT 9999 30/12 Q1022 BLU+BLU+ KQIR 021558Z 33008KT 9999 CLR 38/09 A2956 RMK AO2A SLP011 T03750087 KPRS 020355Z AUTO 10SM CLR 31/14 A2995 RMK AO2 T03110144 LIBA 021555Z 14005KT CAVOK 30/16 Q1021 RMK SKC VIS MIN 9999 WIND THR29 09012KT BLU VTCC 021600Z 29002KT 9999 BKN035 29/20 Q1009 A2981 NOSIG KPTB 020355Z AUTO 00000KT 7SM CLR 23/23 A2992 RMK AO2 T02340234 KT20 020355Z AUTO 15005KT 10SM CLR 23/23 A3005 RMK AO2 T02270227 LGSK 021550Z /////KT CAVOK 28/13 Q1019 KPSK 021535Z AUTO 00000KT 10SM BKN029 BKN046 OVC085 22/18 A3001 RMK AO2 T02230176 LIBC 021550Z 05005KT 020V080 CAVOK 28/10 Q1021 KRAL 021553Z 23005KT 10SM BKN150 27/16 A2999 RMK AO2 SLP140 T02670156 ETNL 021620Z 09017KT 9999 27/12 Q1024 BLU+ LIBD 021620Z 04005KT CAVOK 27/17 Q1021 KRBD 021553Z 21009G20KT 170V230 10SM CLR 28/19 A3000 RMK AO2 SLP150 T02780189 LGSM 021550Z 33015KT 9999 FEW025 SCT120 28/17 Q1013 KPSM 021558Z 26009KT 10SM FEW043 BKN250 24/13 A2986 RMK AO2A SLP113 T02370133 VTBO 021100Z 24010KT 9999 FEW023 29/25 Q1007 KPSN 020355Z AUTO 15005KT 10SM CLR 23/21 A3003 RMK AO2 T02310209 LHKE 021615Z 07010KT CAVOK 28/11 Q1023 NOSIG RMK BLU LIBF 021550Z 09006KT 030V140 CAVOK 30/13 Q1020 ETNN 021620Z 08007KT 9999 FEW060 SCT200 35/19 Q1017 BLU+ VTCH 021000Z 20004KT 9999 SCT025 29/22 Q1006 A2971 INFO LGSO 021620Z AUTO 34014KT 330V050 //// // ////// 26/12 Q1016 RE// LGRX 021620Z VRB03KT 9999 FEW080 29/12 Q1018 KPRX 021615Z 24020G26KT 10SM CLR 30/17 A2998 RMK AO1 KPSO 021615Z AUTO 00000KT 10SM CLR 20/11 A3033 RMK AO2 T01990108 LIBG 021550Z 26006KT 230V320 CAVOK 30/13 Q1019 KPSP 021553Z 06004KT 10SM SCT130 33/17 A2992 RMK AO2 SLP126 T03330167 KRAP 021552Z 34016G25KT 10SM FU CLR 23/16 A3010 RMK AO2 SLP168 T02330161 KRBG 021553Z AUTO 00000KT 10SM CLR 24/14 A2999 RMK AO2 SLP150 T02440144 LGTG 021550Z 34010KT 9999 FEW030 27/10 Q1019 BLU LIBH 021555Z /////KT CAVOK 29/23 Q1020 RMK SKC QUK / QUL / VIS MAR 15 KM VIS MIN 9999 VTBS 021600Z 25004KT 9999 FEW020 BKN300 28/23 Q1009 NOSIG LGSR 021620Z 34020KT CAVOK 25/17 Q1015 KRAS 020355Z AUTO 19004KT 10SM CLR A3004 RMK AO2 VTCL 021200Z 24005KT 9999 SCT025 SCT050 BKN100 33/21 Q1005 A2967 INFO KRCA 021558Z AUTO 35017KT 10SM FEW026 23/16 A3010 RMK AO2 SLP172 T02310160 $ LICA 021550Z 23007KT 190V260 9999 FEW030 27/20 Q1021 VTBU 021600Z 26006KT 9999 FEW020 SCT300 29/23 Q1009 A2981 ETNS 021620Z AUTO 08011KT 9999 // ////// 27/16 Q1022 /// KPTK 021553Z VRB05KT 10SM BKN042 21/12 A3002 RMK AO2 SLP164 T02060117 KPUB 021553Z 05012KT 10SM CLR 23/13 A3022 RMK AO2 PK WND 02027/1454 SLP177 T02280128 LICB 021250Z 21009KT 160V250 9999 SCT035 29/11 Q1022 ETNT 021620Z AUTO 14011KT 9999 // ////// 34/17 Q1019 /// VTCN 021200Z 24002KT 9999 SCT025 SCT100 32/16 Q1003 A2964 LICC 021620Z 08008KT 9999 FEW040 SCT070 25/15 Q1021 KPUC 021553Z AUTO 05012KT 10SM CLR 30/03 A3019 RMK AO2 SLP103 T03000028 TSNO KRBL 021554Z AUTO 00000KT 10SM CLR 31/11 A2989 RMK AO2 SLP116 T03060111 LICD 021550Z 13008KT CAVOK 26/20 Q1021 VTCP 020800Z 26004KT 9999 BKN025 35/18 Q1004 A2967 RWY19 INFO H LIBN 021555Z 03009KT CAVOK 31/13 Q1020 RMK SKC VIS MIN 9999 WIND THR14 04009KT BLU KPTN 021615Z AUTO 21008KT 10SM CLR 30/24 A3012 RMK AO1 KRCE 021615Z AUTO 23012G18KT 10SM CLR 29/23 A2992 RMK AO2 KRBO 020355Z AUTO 18004KT 10SM CLR 25/21 A3004 RMK AO2 T02460206 ETNW 021620Z 11014KT 9999 32/16 Q1020 BLU+ LICF 021555Z 21005KT 9999 FEW030 27/15 Q1020 RMK FEW QUK 2 QUL 0 VIS MAR 25 KM MON LIB NC VIS MIN 9999 KPSX 021553Z AUTO 14013KT 8SM CLR 31/25 A3004 RMK AO2 SLP171 T03060250 KT35 020355Z AUTO 17009G14KT 10SM CLR 24/21 A3003 RMK AO2 T02350209 LGSY 021550Z 30011KT CAVOK 25/18 Q1017 BLU LIBP 021550Z 06006KT CAVOK 29/11 Q1021 LICG 021555Z /////KT CAVOK 25/17 Q1021 VTCT 021600Z 24007KT 9999 BKN025 BKN100 29/23 Q1006 A2973 LIBR 021615Z 36003KT CAVOK 27/20 Q1021 NOSIG KPTS 020355Z AUTO 23013G24KT 10SM BKN090 29/23 RMK AO2 LTG DSNT S T02850225 KPUJ 020355Z AUTO 00000KT 22/22 A3007 RMK AO2 PWINO LICJ 021620Z 05013KT CAVOK 28/13 Q1021 LGTS 021620Z 24006KT 9999 FEW025 30/12 Q1018 NOSIG KPVB 021602Z AUTO 05009KT 10SM CLR 19/09 A3005 RMK AO2 KPTT 021440Z AUTO 06009KT 26/21 A2995 RMK AO2 PWINO LICL 021555Z 24004KT CAVOK 25/22 Q1020 RMK SKC QUK 1 QUL 0 VIS MAR 16 KM VIS MIN 9999 KPVC 021615Z 20008KT 10SM CLR 27/M07 A2990 RMK AO1 LIBV 021555Z 35006KT 290V040 9999 FEW046 28/11 Q1021 RMK FEW VIS MIN 9999 WIND THR32 02006KT WIND THR14 01007KT BLU KPVD 021551Z 22009KT 10SM FEW050 FEW150 BKN300 26/14 A2991 RMK AO2 SLP126 T02560139 KRDD 021553Z 22004KT 10SM CLR 31/11 A2989 RMK AO2 SLP114 T03060111 KPTV 021615Z 19006KT 10SM CLR 30/11 A2994 RMK AO1 ETOU 021558Z AUTO 09007KT 9999 CLR 35/17 A3009 RMK AO2 SLP182 T03520169 $ KRCM 021615Z AUTO 03008KT 4SM BR OVC007 21/20 A2991 RMK AO2 GCGM 021600Z 23008KT 9999 FEW014 SCT020 23/20 Q1019 NOSIG RMK R09/24006KT 200V280 ARP/24006KT 170V280 KPTW 021554Z AUTO 09004KT 10SM CLR 22/18 A2993 RMK AO2 SLP130 T02220178 KPVE 021615Z AUTO 20005KT 10SM SCT022 BKN031 26/22 A2992 RMK KRBW 021615Z AUTO 23006KT 10SM SCT060 BKN075 28/20 A3003 RMK AO2 GCFV 021600Z 04016KT 9999 SCT030 25/19 Q1018 KPVF 021615Z AUTO 22007KT 10SM CLR 29/13 A3003 RMK AO1 KQLP 021555Z AUTO RMK AO2 SLPNO PNO TSNO $ LIBY 021555Z 21004KT CAVOK 25/17 Q1020 RMK SKC QUK 2 QUL 1 SW VIS MAR 18 KM VIS MIN 9999 KPVG 021615Z AUTO 22007KT 8SM CLR 29/22 A2990 RMK AO1 KRDG 021554Z AUTO 00000KT 10SM CLR 25/14 A2990 RMK AO2 SLP125 T02500144 KQMH 021555Z AUTO VRB05KT 9999 CLR 28/01 A2999 RMK AO2 SLP022 T02770014 $ KRCR 020355Z AUTO 00000KT 10SM CLR 15/13 A2998 RMK AO2 LICR 021550Z 22007KT 190V250 CAVOK 26/17 Q1021 GCHI 021600Z 03012KT 360V060 9999 FEW020 25/20 Q1020 KPVJ 021555Z AUTO 21012G19KT 10SM CLR 26/21 A2992 RMK AO2 T02590213 LIEA 021620Z 36007KT 290V050 CAVOK 33/11 Q1021 KPWA 021553Z 20014G19KT 10SM CLR 30/22 A2989 RMK AO2 SLP102 T03000217 KRDK 021450Z AUTO 08006KT 10SM OVC014 19/17 A2997 RMK AO2 LIEB 021555Z 08005KT CAVOK 28/24 Q1021 RMK SKC QUK 1 QUL 0 VIS MAR 30 KM MON LIB VIS MIN 9999 LICT 021555Z 32007KT 9999 FEW033 28/21 Q1020 KPWC 021614Z AUTO 21005KT 10SM 22/13 A3006 RMK AO2 LIEC 021555Z 07008KT CAVOK 28/22 Q1021 RMK SKC QUK 2 QUL 0 VIS MAR 25 KM VIS MIN 9999 LIED 021555Z 15015KT CAVOK 32/14 Q1020 RMK SKC VIS MIN 9999 WIND THR35 17012KT WIND THR17 17014KT BLU KRCV 021615Z AUTO 13003KT 10SM CLR 18/10 A3038 RMK AO2 T01820104 KRDM 021556Z 00000KT 10SM CLR 26/09 A3008 RMK AO2 SLP147 T02610089 LIEE 021620Z 18013KT CAVOK 28/20 Q1020 KPUW 021553Z AUTO 00000KT 10SM CLR 27/11 A3006 RMK AO2 SLP160 T02670106 KRCX 020355Z AUTO 03005KT 10SM CLR 14/10 A3004 RMK AO2 T01400097 FLHN 021300Z S/WIND (TRUE) 06015KT CAVOK TEMP +24C D/P +05C QNH 1024 HPA 30.25 INS QFE 909 HPA 26.87 INS RH 31 PERCENT KPWG 021615Z AUTO 20012G18KT 10SM FEW029 28/21 A3003 RMK AO1 KRCZ 020355Z AUTO 21005KT 10SM CLR 25/21 A2997 RMK AO2 T02470209 LICZ 021555Z 08011KT 9999 FEW020 29/06 Q1021 RMK FEW VIS MIN 9999 WIND THR28 08012KT A3016 BLU KRDR 021558Z AUTO 23006KT 10SM CLR 22/16 A2996 RMK AO2 SLP149 T02170161 ETSA 021620Z 02006KT 9999 FEW050 29/17 Q1023 BLU+BLU+ KPWK 021552Z 03010KT 10SM FEW016 17/11 A3003 RMK AO2 SLP170 T01720111 ETSB 021620Z AUTO 13009KT 9999 // ////// 32/16 Q1021 /// KRDU 021551Z 25008KT 8SM SCT035 BKN120 BKN210 29/20 A2993 RMK AO2 SLP128 T02940200 KPVU 021555Z 00000KT 15SM FEW120 BKN140 27/11 A3013 KPWM 021551Z 26012KT 10SM SCT035 SCT250 23/12 A2984 RMK AO2 SLP106 T02280122 KRFD 021554Z 07008KT 10SM SCT024 SCT250 19/11 A3004 RMK AO2 SLP173 T01890111 KPXE 021559Z AUTO 28003KT 10SM CLR 31/22 A3006 RMK AO2 T03100215 KPVW 020355Z AUTO 18008KT 10SM CLR 25/20 A3001 RMK AO2 T02490199 LIEO 021620Z 09009KT 050V130 CAVOK 32/11 Q1021 KREO 021552Z AUTO 35007KT 31/03 A3010 RMK AO1 SLP135 T03110033 KT65 020355Z AUTO 10003KT 7SM CLR 23/19 A3001 RMK AO2 T02330192 KRFI 020355Z AUTO 18003KT 10SM CLR 23/21 A3004 RMK AO2 T02300211 ETSH 021620Z 10010KT 9999 31/08 Q1023 BLU+ ETSI 021620Z 13004KT 9999 FEW070 31/14 Q1022 BLU+ LHPA 021615Z 05001MPS CAVOK 29/16 Q1022 NOSIG RMK BLU KPWT 021615Z AUTO 07003KT 10SM CLR 24/13 A3006 RMK AO1 ETSL 021620Z 05005KT 9999 FEW120 29/16 Q1023 BLU+ ETSN 021620Z AUTO 09004KT //// // ////// 31/12 Q1022 /// LGZA 021620Z 35005KT CAVOK 29/12 Q1018 GCLA 021600Z 02011KT 340V050 9999 SCT016 BKN030 22/19 Q1020 KRGK 021611Z AUTO 14003KT 10SM CLR 22/15 A3003 RMK AO2 FLKK 021300Z 09006KT 9999 BKN035 20/09 Q1024 KPYM 021552Z AUTO 24009KT 10SM CLR 26/14 A2990 RMK AO2 SLP122 T02560144 KT82 021535Z AUTO 17015G22KT 10SM BKN024 BKN029 26/19 A3006 RMK AO2 T02550186 LHPP 021545Z 12002KT CAVOK 30/13 Q1023 FMCH 021600Z 16005KT 9999 FEW020 SCT025 26/22 Q1018 NOSIG KRHI 021553Z AUTO 00000KT 10SM CLR 19/09 A3008 RMK AO2 SLP189 T01890089 LHPR 021545Z 08002KT CAVOK 30/14 Q1022 AGGH 021600Z 00000KT 9999 -RA FEW015 BKN026 OVC100 24/24 Q1004 KRIC 021554Z 22007KT 6SM HZ FEW040 SCT060 OVC110 27/21 A2987 RMK AO2 SLP117 T02720211 KPYX 021610Z AUTO 32011KT 10SM CLR 29/16 A3000 RMK AO2 T02870157 KRHP 021611Z AUTO 10005KT 4SM +RA SCT010 BKN028 OVC075 18/18 A3005 RMK AO2 P0006 KPZQ 021614Z AUTO 36004KT 10SM CLR 18/10 A3008 RMK AO2 T01750104 GCLP 021600Z 01020KT 9999 FEW012 SCT020 25/19 Q1019 WS ALL RWY NOSIG KSAA 021600Z AUTO 00000KT 10SM CLR 21/09 A3031 RMK AO2 KQSA 021558Z AUTO 35018G23KT 9999 CLR 30/04 A2986 RMK AO2 PK WND 01028/16 SLP005 KSAC 021553Z AUTO 18004KT 10SM CLR 23/13 A2988 RMK AO2 SLP117 T02330133 KRIL 021553Z AUTO 00000KT 10SM CLR 24/11 A3017 RMK AO2 SLP133 T02440111 KRHV 021555Z 18010KT 10SM BKN130 23/12 A2997 KSAD 021551Z AUTO 29014KT 10SM CLR 32/15 A3000 RMK AO2 SLP096 T03170150 FMEE 021600Z AUTO 08008KT 9999 BKN052 OVC120 21/15 Q1021 KSAF 021553Z 35008KT 10SM CLR 21/13 A3022 RMK AO2 SLP139 T02060133 KQSF 021555Z AUTO 03006G15KT 9999 CLR 28/02 A3002 RMK AO2 SLP033 T02800021 KU16 021558Z AUTO 32007KT 10SM CLR 33/04 A3008 RMK AO2 SLP804 T03280044 $ FMCZ 021600Z AUTO 17008KT 9999 NCD 25/18 Q1018 KSBA 021553Z 00000KT 10SM OVC100 20/16 A2999 RMK AO2 SLP154 T02000156 KSBD 021550Z 00000KT 7SM BKN100 25/13 A3001 KRKD 021615Z AUTO 19008KT 10SM FEW033 21/16 A2980 RMK AO1 KRIV 021558Z AUTO 22001KT 10SM SCT130 SCT190 26/14 A3001 RMK AO2 SLP148 T02560137 LHSM 021545Z 21004KT CAVOK 30/14 Q1022 NOSIG ETWM 021620Z AUTO 14005KT 8000 // ////// 35/14 Q1017 /// KSAN 021551Z 22004KT 6SM BR OVC008 22/18 A3003 RMK AO2 SLP169 CIG LWR SE T02220178 $ LHSN 021615Z 05010KT 010V080 CAVOK 28/10 Q1022 NOSIG RMK BLU KRIW 021553Z AUTO VRB04KT 10SM FEW100 22/11 A3026 RMK AO2 SLP173 T02220106 KQSN 021555Z AUTO 01008KT 9999 FEW120 27/01 A2997 RMK AO2 SLP004 T02680006 $ FMEP 021600Z AUTO 11010KT 9999 NCD 21/14 Q1022 KSAR 021555Z AUTO 02008KT 5SM BR OVC004 21/20 A2989 RMK AO2 T02060197 KQTI 021555Z 35007G13KT 4000 DU HZ CLR 43/M02 A2958 RMK AO2A SLP012 T04261018 KSAT 021551Z 17013KT 10SM SCT020 BKN250 27/22 A3003 RMK AO2 SLP151 SCT V BKN T02720217 KSCD 020915Z AUTO 00000KT 10SM CLR 20/20 A3003 RMK AO2 T02010201 KSAV 021553Z 27011KT 10SM FEW040 BKN110 BKN150 BKN250 32/21 A3004 RMK AO2 SLP171 T03220206 KSBM 021553Z AUTO 05009KT 10SM CLR 17/09 A3006 RMK AO2 SLP182 T01670094 LHUD 021545Z 01010KT 9999 FEW046 28/14 Q1022 KSBN 021554Z 06006KT 10SM FEW030 21/13 A2999 RMK AO2 SLP152 T02110128 $ GBYD 021600Z 36007KT 9999 FEW015 SCT0140 33/23 Q1012 KSAW 021547Z 28008KT 10SM SKC 19/07 A3006 LJCE 021600Z 11006KT CAVOK 30/16 Q1022 RMK BLU KSBO 020355Z AUTO 26004KT 10SM CLR 24/21 A3008 RMK AO2 LTG DSNT S KSCF 021615Z AUTO 00000G12KT 9SM 32/24 A3010 RMK A01 KRKP 021553Z AUTO 15011G18KT 8SM CLR 31/24 A3002 RMK AO2 SLP167 T03060244 KSBP 021556Z 00000KT 10SM SCT080 BKN095 19/14 A3000 RMK AO2 SLP156 T01940139 KSCH 021550Z 29010G15KT 10SM CLR 22/12 A2993 KSAZ 021613Z AUTO 19005KT 10SM CLR 21/12 A3003 RMK AO2 KRKR 021555Z AUTO 22013G25KT 10SM CLR 29/21 A2990 RMK AO2 T02850205 KSDA 021600Z AUTO 10006KT 9SM OVC014 20/18 A2997 RMK AO2 LIMA 021550Z VRB02KT 8000 NSC 32/18 Q1021 KRKS 021554Z AUTO 08006KT 10SM CLR 22/12 A3030 RMK AO2 SLP167 T02170117 KSBS 021615Z AUTO 24003KT 10SM CLR 22/10 A3027 RMK AO1 T02160098 KSDB 021548Z AUTO 30005KT 10SM -RA OVC090 22/11 A3018 RMK AO2 RAB33 SLP163 P0000 T02220106 $ KSCK 021555Z 32005KT 10SM CLR 26/14 A2989 RMK AO2 SLP121 T02560139 LIMC 021620Z 22007KT 190V250 CAVOK 31/20 Q1021 NOSIG KU42 021615Z AUTO 15005KT 10SM CLR 30/10 A3012 RMK AO1 T02970099 LIME 021620Z 21007KT 160V250 CAVOK 32/16 Q1021 KRME 021553Z 30006KT 10SM SCT031 BKN041 OVC060 18/12 A2996 RMK AO2 SLP143 T01830122 LIMF 021620Z 23007KT CAVOK 32/19 Q1021 KSDF 021625Z 22006KT 9SM SCT012 BKN046 OVC150 23/21 A2988 RMK AO2 T02330206 LIMG 021550Z 06009KT 030V100 CAVOK 30/19 Q1021 KRMG 021553Z AUTO 20006KT 10SM OVC010 23/21 A3000 RMK AO2 SLP151 T02330211 KSBY 021611Z 35006KT 9SM SCT006 BKN029 22/21 A2987 RMK AO2 LTG DSNT NE-SE T02220206 LIMH 021055Z /////KT 9999 FEW000 10/M01 Q1043 RMK FEW MON LIB VAL CLD SCT VIS MIN 9999 KQTZ 021555Z 31010G15KT 5000 DU CLR 42/M03 A2958 RMK VIS 4000V5000 SLP013 WND/ALSTG/SLP ESTMD KSCR 020355Z AUTO 00000KT 10SM SCT120 22/21 A2996 RMK AO2 T02170205 LIMJ 021620Z 24004KT CAVOK 28/20 Q1021 KSEA 021553Z VRB04KT 10SM CLR 26/13 A3004 RMK AO2 SLP175 T02560128 FKYS 021600Z 25003KT 230V290 9999 BKN012 23/20 Q1016 NOSIG LIMK 021555Z 00000KT CAVOK 28/20 Q1024 RMK SKC VAL FOSCHIA SKC SUP VIS MIN 9999 LIML 021620Z 23006KT 200V270 CAVOK 32/19 Q1020 NOSIG KSDL 021553Z 33005KT 10SM CLR 33/14 A2996 RMK AO2 SLP114 T03330139 KRNC 021615Z AUTO 12004KT 7SM FEW009 SCT022 BKN037 22/22 A2999 RMK KSDM 021553Z 25003KT 1SM BR OVC002 19/19 A3002 RMK AO2 SLP163 T01890189 KRND 021616Z AUTO M 10SM BKN023 BKN029 BKN034 28/22 A3003 RMK AO2 CIG 023V034 BKN023 V SCT $ KRMN 020355Z AUTO 00000KT 10SM CLR 23/18 A2995 RMK AO2 T02270184 KSEE 021547Z VRB06KT 1 1/2SM OVC004 21/21 A3003 BR LIMN 021555Z /////KT CAVOK 31/22 Q1020 RMK SKC VIS MIN 9999 BLK BLU KSEG 021553Z AUTO 35003KT 10SM OVC075 24/16 A2993 RMK AO2 SLP132 T02440156 LIMP 021550Z 04005KT 340V100 CAVOK 33/19 Q1020 KRNH 021601Z AUTO 07003KT 10SM CLR 21/12 A3004 RMK AO2 KROA 021554Z 27006KT 10SM FEW039 SCT095 BKN120 24/18 A2996 RMK AO2 SLP134 T02440183 LIMS 021555Z 10005KT 070V160 CAVOK 32/22 Q1019 RMK SKC VIS MIN 9999 WIND THR30 07004KT BLU KSFB 021553Z 24009KT 10SM CLR 32/21 A3012 RMK AO2 SLP198 T03220206 LIMU 021555Z 21013KT CAVOK 27/21 Q1022 RMK SKC QUK 2 QUL 1 S VIS MAR 25 KM VIS MIN 9999 KROC 021554Z 00000KT 10SM SCT018 BKN060 19/11 A2998 RMK AO2 SLP154 T01940111 KRNM 021617Z 33004KT 3SM BR OVC002 19/19 A3003 RMK AO2 T01940189 KSEM 021620Z AUTO 26007G12KT 9SM CLR 27/22 A3007 RMK AO2 KQWM 021555Z 29011G23KT 9000 BLDU CLR 41/M01 A2961 RMK SLP014 QNH1002 LIMW 021620Z AUTO 09017KT CAVOK 31/20 Q1021 VTPH 021000Z VRB05KT 9999 BKN028 34/23 Q1006 NOSIG KSFF 021553Z 00000KT 10SM CLR 27/12 A3004 RMK AO2 SLP152 T02670117 KRNO 021555Z 00000KT 10SM FEW100 FEW160 SCT230 28/09 A3015 RMK AO2 SLP141 T02780094 KSEP 020355Z AUTO 17006KT 10SM CLR 25/19 A3001 RMK AO2 T02500191 LIMY 021555Z 10006KT 4000 BR FEW025 30/24 Q1024 RMK SCT SCT070 VAL FOSCHIA VIS MIN 4000 KRMY 021614Z AUTO 07004KT 10SM BKN021 BKN037 20/14 A3001 RMK AO2 T01960137 KSDY 021615Z AUTO 35006KT 2 1/2SM CLR 21/16 A3007 RMK AO1 KRNP 021614Z AUTO 05006KT 10SM SCT032 BKN041 20/11 A3004 RMK AO2 T02020107 KROG 021557Z 25015KT 10SM OVC025 27/22 A2989 RMK AO2 SLP106 T02670217 LIMZ 021550Z VRB02KT 8000 FEW050 SCT100 30/20 Q1022 KU68 021600Z AUTO 31003KT 10SM CLR 26/11 A3017 RMK AO2 LIPA 021555Z 22006KT 9999 SCT100 29/20 Q1021 RMK BKN BKN200 VIS MIN 9999 WIND THR05 19006KT WIND THR23 20006KT A3018 BLU GCRR 021600Z 36020KT 9999 FEW030 26/18 Q1018 LIPB 021550Z 16009G21KT 130V190 9999 FEW060 34/16 Q1018 KRNT 021553Z 35003KT 10SM CLR 23/15 A3002 RMK AO2 SLP170 T02330150 KSET 021554Z AUTO 07008KT 10SM OVC016 21/17 A2991 RMK AO2 SLP124 T02060167 FLSK 021300Z 00000KT CAVOK 24/07 Q1022 LIPC 021555Z 12011KT CAVOK 28/21 Q1020 FNBC 021600Z 01006KT 9999 FEW017 23/23 Q1013 VTPO 021000Z 24015KT 9999 FEW022 35/20 Q1003 KRPD 021535Z AUTO 00000KT 10SM CLR 20/12 A3007 RMK AO2 T01960115 KSFM 021615Z AUTO 23013G17KT 10SM SCT046 SCT055 24/12 A2987 RMK AO1 KRNV 021615Z AUTO 23011G18KT 10SM CLR 26/23 A3000 RMK AO2 T02590227 VTPP 021400Z 24008KT 9999 FEW025 31/18 Q1004 LIPE 021620Z 05005KT 010V080 CAVOK 33/19 Q1020 LIPF 021555Z 09003KT CAVOK 33/19 Q1020 KSGF 021559Z 16007KT 10SM FEW008 SCT033 BKN055 24/21 A2987 RMK AO2 T02390211 KSFO 021556Z 34003KT 10SM FEW007 SCT120 BKN180 17/13 A2997 RMK AO2 SLP149 T01720133 KSEZ 021540Z AUTO 00000KT 10SM CLR 27/15 A3018 RMK AO2 KRPH 020355Z AUTO 16004KT 10SM CLR 27/21 A2994 RMK AO2 T02720209 FNBG 021600Z 28010KT 9999 FEW015 SCT020 22/18 Q1014 LIPH 021615Z 14005KT 9999 SCT080 29/21 Q1021 KSGH 021556Z AUTO 07008KT 6SM HZ FEW050 22/18 A2995 RMK AO2 T02160177 SLP137 KSFQ 021535Z AUTO 20009KT 7SM BKN110 26/22 A2989 RMK AO2 T02620219 LIPI 021555Z 22008KT CAVOK 29/21 Q1021 RMK BKN BKN180 VIS MIN 9999 WIND THR06 20004KT BLU KRPJ 021540Z AUTO 05008KT 10SM OVC017 16/12 A3004 RMK AO2 T01640124 KROS 021616Z AUTO 18003KT 10SM CLR 22/13 A3004 RMK AO2 T02180128 KSGJ 021558Z 23008KT 10SM SCT033 31/23 A3011 RMK AO2 SLP194 T03110233 LIPK 021550Z 09009KT CAVOK 31/16 Q1020 FNCA 021600Z 25006KT 9999 FEW02 24/20 Q1013 KRQB 021615Z AUTO 06007KT 10SM CLR 19/08 A3004 RMK AO2 T01940078 KQXT 021555Z 18004KT 9999 CLR 40/01 A2959 RMK SLP949 WND DATA ESTMD ALSTG/SLP ESTMD Q1002 LIQC 021555Z ///06KT CAVOK 29/18 Q1022 RMK SKC QUK 1 QUL 1 NW VIS MAR 30 KM VIS MIN 9999 LIPL 021555Z /////KT CAVOK 33/22 Q1020 RMK SKC VIS MIN 9999 WIND THR31 00000KT BLU KSHD 020355Z AUTO 05003KT 10SM BKN075 OVC085 23/17 A2997 RMK AO2 T02320173 KROW 021551Z VRB04KT 10SM -RA CLR 26/17 A3006 RMK AO2 RAB33 SLP108 P0000 T02610172 KRQE 021553Z AUTO VRB03KT 10SM CLR 23/10 A3028 RMK AO2 SLP116 T02330100 TSNO KROX 021614Z AUTO 20007KT 10SM CLR 21/15 A2996 RMK AO2 LIPO 021550Z 20002KT CAVOK 33/16 Q1020 KSFY 020355Z AUTO 05004KT 10SM CLR 17/12 A2998 RMK AO2 T01650115 LIPQ 021620Z 24005KT 9999 FEW080 30/17 Q1021 KSFZ 021615Z AUTO 27006KT 10SM CLR 24/13 A2991 RMK AO1 VTSB 021400Z 25007KT 9999 SCT020 SCT300 29/25 Q1011 A2986 LIPR 021615Z 09009KT CAVOK 27/19 Q1020 KSGR 021553Z 17010KT 9SM SCT034 30/24 A3005 RMK AO2 SLP176 T03000239 KSGS 021613Z AUTO 00000KT 10SM CLR 22/11 A3003 RMK AO2 T02170111 LIPS 021555Z 16008KT 9999 SCT080 30/17 Q1021 RMK BKN SCT200 VIS MIN 9999 WIND THR26 16004KT WIND THR08 14004KT BLU VTSC 020900Z VRB04KT 9999 SCT020 SCT300 33/26 Q1008 A2977 RWY20 INFO H LIRA 021620Z 22005KT 140V280 CAVOK 30/17 Q1022 KSGT 021615Z AUTO 23013G19KT 10SM CLR 28/20 A2993 RMK AO1 GCTS 021600Z 07023KT 9999 FEW020 26/18 Q1018 NOSIG KSHL 021210Z AUTO 12005KT 10SM BKN100 13/13 A3001 RMK AO2 LIPU 021450Z 14007KT CAVOK 32/18 Q1020 KSGU 021615Z AUTO 26003KT 10SM CLR 31/14 A3004 RMK AO1 VTSF 021500Z 11004KT 060V130 9999 FEW020 SCT300 28/24 Q1011 A2985 INFO P / RWY 19 KSHM 021556Z AUTO 36013G20KT 10SM FEW035 16/11 A3031 RMK AO2 SLP204 T01640109 KQYV 021556Z AUTO 11004KT 9999 BKN075 23/09 A3030 RMK AO2 SLPNO T02310092 VTSG 021600Z 24004KT 9999 FEW020 SCT300 27/23 Q1012 A2990 LIQN 021550Z 18005KT CAVOK 30/19 Q1021 LIRE 021555Z 26007KT CAVOK 28/22 Q1022 RMK SKC VIS MIN 9999 WIND THR31 27004KT BLU KSHN 021553Z AUTO 00000KT 10SM CLR 24/14 A3002 RMK AO2 SLP161 T02390139 $ LIQO 020555Z 00000KT CAVOK 24/11 Q1022 RMK SKC VAL MAR CLD VIS MIN 9999 KSIF 021612Z AUTO 26004KT 10SM CLR 28/19 A2993 RMK AO2 VTSH 020800Z 28006KT 7000 TS SH FEW018CB SCT120 BKN300 30/24 Q1009 A2980 TS E LTG KRPX 021555Z AUTO 32011KT 40SM 24/10 A3008 RMK A01 T02380100 LIRF 021620Z 26008KT 220V290 CAVOK 27/21 Q1021 NOSIG LIPX 021620Z 12004KT 090V170 CAVOK 32/17 Q1020 KRQO 021615Z AUTO 20010KT 10SM CLR 27/20 A2991 RMK AO2 LIRG 021555Z 22010KT CAVOK 31/16 Q1021 LIPY 021550Z 08004KT 020V150 CAVOK 31/11 Q1021 WMBA 021600Z 00000KT 9999 FEW035 BKN280 27/26 Q1012 LIPZ 021620Z 15007KT CAVOK 28/17 Q1021 LIRH 021555Z 29005KT 9999 FEW040 32/16 Q1021 LIRI 021550Z 26006KT CAVOK 27/17 Q1021 KSHR 021553Z AUTO 35004KT 10SM CLR 24/13 A3018 RMK AO2 SLP183 T02440133 FMMI 021630Z 09007KT 9999 FEW017 SCT080 15/15 Q1026 NOSIG LIRK 021555Z AUTO 30009KT 270V340 //// 19/14 Q1032 VTSM 021500Z 30008KT 9000 FEW020 BKN300 30/24 Q1011 A2987 KRRL 021603Z AUTO 00000KT 10SM CLR 19/11 A3009 RMK AO2 KSJC 021553Z 00000KT 10SM FEW070 SCT130 BKN160 19/15 A2996 RMK AO2 SLP146 T01940150 LIRL 021555Z 24008KT CAVOK 31/12 Q1021 KTAD 021617Z AUTO 01011KT 10SM BKN022 BKN028 20/14 A3026 RMK AO2 T02000144 KSHV 021627Z 22010KT 10SM FEW019 SCT150 BKN280 30/22 A3002 RMK AO2 T03000222 LIRM 021555Z 27010KT CAVOK 29/16 Q1020 LIQW 021555Z 15003KT CAVOK 29/20 Q1022 VTSP 021600Z 29010KT 9999 FEW018 SCT120 BKN300 29/24 Q1013 A2992 NOSIG LIRN 021620Z 28005KT CAVOK 29/12 Q1021 VTSR 021200Z VRB03KT 6000 -TSRA SCT018CB BKN020 25/24 Q1011 A2987 VOR/DME RWY02 INFO R LIRP 021615Z 25008KT CAVOK 29/19 Q1021 NOSIG LIRQ 021620Z 25009KT 210V290 CAVOK 33/15 Q1020 VTSS 021600Z 00000KT 9999 FEW020 BKN300 26/24 Q1012 A2989 NOSIG VTST 021100Z 27007KT 9999 FEW020 BKN120 31/23 Q1008 RWY08 INFO L WMAU 021600Z 19006KT 8000 FEW010 SCT140 BKN270 27/25 Q//// QFF1011 KSKA 021558Z AUTO 03008KT 10SM CLR 27/09 A3005 RMK AO2 SLP157 T02690089 LIRS 021555Z 23011KT CAVOK 30/16 Q1020 LIRT 012355Z 14004KT CAVOK 15/10 Q1025 RMK SKC MON INVIS VAL INVIS VIS MIN 9999 KRRT 021614Z AUTO 21008KT 7SM CLR 21/16 A2997 RMK AO2 VTUD 021500Z 26004KT CAVOK 32/20 Q1005 A2967 LIRU 021550Z 25008KT CAVOK 30/20 Q1021 FMMT 021600Z 20008KT 9999 VCSH SCT017 BKN033 24/20 Q1020 NOSIG KRSL 021553Z AUTO 21004KT 10SM SCT100 22/18 A2995 RMK AO2 LTG DSNT E-S RAE06 TSE07 SLP126 P0001 T02170183 LIRV 021555Z 24011KT 9999 FEW030 30/21 Q1022 KRSN 020355Z AUTO 20005KT 10SM CLR 26/22 A3006 RMK AO2 T02570218 FMNM 021600Z 28004KT 9999 SCT040 SCT100 25/18 Q1017 NOSIG KTAN 021552Z AUTO 22004KT 10SM CLR 27/13 A2989 RMK AO2 SLP120 T02670133 KSJN 021554Z AUTO 19003KT 10SM CLR 22/13 A3022 RMK AO2 SLP150 T02170128 FMNN 021400Z 24004KT 9999 FEW020 27/21 Q1016 LIRX 021555Z 22008KT CAVOK 31/15 Q1022 RMK SKC VIS MIN 9999 VIS MAR 60 KM KSKF 021613Z 15014KT 10SM BKN024 28/22 A3002 RMK AO2A $ KRSP 021554Z AUTO 8SM FEW014 BKN065 OVC080 21/16 A2996 RMK AO2 SLP140 T02060161 $ KSIY 021553Z AUTO 00000KT 10SM CLR 27/11 A3005 RMK AO2 SLP153 T02720106 TSNO VTUI 021300Z 23004KT 9999 FEW030 BKN100 34/22 Q1003 A2963 INFO M RWY23 LIRZ 021550Z 30007KT 9999 FEW050 34/14 Q1020 VTUK 021600Z 25006KT CAVOK 31/19 Q1005 A2970 NOSIG KSJS 020355Z AUTO 00000KT 4SM BR BKN060 OVC075 21/20 A2997 RMK AO2 T02060203 VTUL 020900Z 26012KT 9999 FEW022 SCT028 36/21 Q1004 A2965 KSLB 020355Z AUTO 10007KT 10SM SCT090 16/12 A2999 RMK AO2 KSJT 021551Z 20013G16KT 10SM CLR 27/18 A3003 RMK AO2 SLP144 T02670183 KRST 021554Z 15005KT 10SM CLR 20/12 A3007 RMK AO2 SLP180 T02000122 KTCC 021553Z AUTO VRB04KT 10SM 26/16 A3007 RMK AO2 SLPNO T02560161 KSLC 021553Z 15004KT 10SM FEW120 FEW200 SCT250 30/11 A3008 RMK AO2 SLP117 T03000111 KRSV 021605Z AUTO 02006KT 7SM OVC014 21/17 A2990 RMK AO2 VTUO 021000Z 25008KT 9999 FEW020 38/26 Q1003 A2962 INFO K RWY 22 KTBN 021612Z AUTO 03004KT 10SM FEW025 OVC033 23/23 A2989 RMK AO2 DZB1559E12 KRSW 021559Z 13005KT 4SM HZ SCT034 31/23 A3014 RMK AO2 T03110233 KRTN 021553Z AUTO 04011KT 10SM CLR 22/14 A3020 RMK AO2 SLP140 T02220144 KRUE 021553Z AUTO 20006KT 10SM CLR 29/21 A2988 RMK AO2 SLP110 T02940211 KSLE 021556Z VRB03KT 10SM CLR 25/14 A2998 RMK AO2 SLP151 T02500139 VTUQ 021000Z 25007KT 9999 FEW030 SCT300 36/19 Q1003 A2964 INFO K RWY 24 KSJX 021616Z AUTO 00000KT 10SM CLR 19/07 A3007 RMK AO2 T01880068 VVCR 021600Z 24008KT CAVOK 32/24 Q1007 NOSIG KSLG 021615Z AUTO 24012G17KT 10SM SCT024 28/21 RMK AO1 GCXO 021600Z 04009KT 340V080 9999 SCT012 BKN025 20/16 Q1021 NOSIG KTAZ 020355Z AUTO 07006KT 10SM SCT110 21/18 A2991 RMK AO2 KSLH 021614Z AUTO 35004KT 10SM CLR 19/08 A3007 RMK AO2 T01940081 KTBR 020230Z AUTO 23020KT +TSRA 22/22 A3008 RMK AO2 LTG DSNT ALQS T02220222 VVCT 021100Z 26010KT 9999 FEW015 SCT050 30/24 Q1007 NOSIG KSLI 021558Z 00000KT 10SM BKN130 BKN150 23/19 A2999 RMK AO2A SLP158 T02300187 FNGI 021600Z 06008KT CAVOK 26/01 Q1020 KRTS 021615Z AUTO 24003KT 10SM CLR 26/08 A3019 RMK AO2 LJLJ 021600Z 10007KT 9999 FEW065 30/18 Q1022 NOSIG VTUU 021600Z 22006KT 9000 FEW023 32/20 Q1005 A2970 NOSIG KSLK 021551Z AUTO 27010G17KT 10SM SCT045 17/06 A2992 RMK AO2 SLP131 T01670056 LJMB 021600Z 15004KT 120V200 9999 FEW050 29/15 Q1022 VTUV 021500Z 23012KT 9999 SCT022 SCT300 34/17 Q1005 A2968 INFO P RWY 18 LIVC 021555Z 31012KT 0300 FG VV003 18/16 Q1035 RMK MON INVIS VAL INVIS VIS MIN 0300 VVDN 021600Z 23001KT 9999 FEW017 SCT300 30/26 Q1004 NOSIG KTCL 021553Z 21008KT 8SM -RA FEW023 SCT055 SCT090 27/22 A3005 RMK AO2 RAB51 SLP172 P0000 T02720222 VTUW 021300Z 23003KT 9999 SCT024 BKN110 34/18 Q1002 A2960 INFO K RWY15 LIVD 021555Z 06009KT 9999 -TS FEW025CB BKN030 26/14 Q1026 RMK BKN VIS MIN 9999 KTCM 021558Z AUTO 01004KT 10SM CLR 25/14 A3003 RMK AO2 SLP171 T02500140 $ KSME 020355Z AUTO 24004KT 10SM OVC016 19/19 A3001 RMK AO2 LIVE 021555Z /////KT 9999 FEW025 28/07 Q1025 RMK FEW VIS MIN 9999 KSLN 021601Z 05005KT 6SM -RA SCT024 SCT080 BKN110 24/21 A2995 RMK AO2 LTG DSNT SW AND W PRESFR P0001 T02440211 KTDF 020355Z AUTO 21005KT 10SM CLR 23/20 A2996 RMK AO2 KSLO 020915Z AUTO 00000KT 7SM -DZ SCT002 BKN015 OVC050 22/21 A2985 RMK AO2 LTG DSNT SE T02230208 KTBX 021555Z AUTO 32008KT 10SM CLR 16/07 A3044 RMK AO2 KSMF 021553Z VRB03KT 10SM BKN200 27/12 A2986 RMK AO2 SLP111 T02670117 KSKX 021615Z AUTO 33005KT 10SM CLR 19/10 A3031 RMK AO1 KRUQ 021604Z AUTO 00000KT 10SM SCT046 BKN100 29/17 A2995 RMK AO2 KSLR 020355Z AUTO 19006KT 10SM CLR 27/22 A3000 RMK AO2 T02650220 KSNA 021553Z 00000KT 10SM SCT130 BKN250 22/18 A2999 RMK AO2 SLP155 T02170178 KTCS 021553Z AUTO 01009KT 10SM CLR 30/12 A3010 RMK AO2 SLP091 T03000117 TSNO EVRA 021620Z 01009KT CAVOK 23/09 Q1028 NOSIG KTEB 021551Z 34004KT 10SM CLR 27/14 A2989 RMK AO2 SLP120 T02670139 KRUT 021615Z AUTO 26007KT 10SM FEW043 BKN050 20/10 A2991 RMK AO1 KSNC 021615Z AUTO 27003KT 10SM FEW090 24/14 A2992 RMK AO2 LIVM 021355Z 10008KT CAVOK 29/24 Q1021 RMK SKC QUK 2 QUL 1 SE VIS MAR 30 KM VIS MIN 9999 LKCV 021600Z 06005KT 360V140 CAVOK 29/07 Q1023 NOSIG RMK BLU BLU KSMN 021615Z AUTO 00000KT 10SM CLR 22/06 A3014 RMK AO1 LIVO 021555Z 23003KT 9999 SCT030 SCT050 27/20 Q1023 RMK BKN VIS MIN 9999 KSMO 021551Z 23005KT 10SM BKN120 BKN150 17/16 A3001 RMK AO2 RAE46 SLP160 P0000 T01720161 KRWF 021553Z AUTO 14009KT 10SM CLR 21/09 A3003 RMK AO2 SLP167 T02060089 LIVP 021255Z 29003KT 9999 FEW005TCU 17/12 Q1032 RMK FEW MON LIB VAL S FOSCHIA SKC SUP VIS MIN 9999 KSMQ 021553Z AUTO VRB03KT 10SM CLR 25/17 A2989 RMK AO2 RAE1457 SLP121 P0000 T02500167 KSNH 021615Z AUTO 23010KT 10SM CLR 26/00 A2995 RMK LIVR 021555Z 09009KT 9999 0500SE +TSRA FG OVC007 13/12 Q1032 RMK OVC MON CIME INC VIS MIN 0500SE KRWI 021626Z AUTO 22010KT 7SM SCT025 29/21 A2991 RMK AO2 T02940211 $ KTDR 021609Z AUTO 26010G17KT 10SM VCTS FEW039 FEW075 27/23 A3011 RMK AO2 LTG DSNT N-NE AND SE-S TSE09 TSNO $ KSOA 020355Z AUTO 16011KT 10SM CLR 24/20 A3008 RMK AO2 KRVS 021553Z 24008KT 10SM CLR 31/23 A2986 RMK AO2 SLP112 T03110228 KSMS 021615Z AUTO 22013KT 10SM FEW070 FEW095 FEW120 30/21 A3000 RMK AO2 KSNK 020355Z AUTO 18005KT 10SM CLR 24/19 A3000 RMK AO2 T02360191 TSNO LIVT 021555Z 00000KT CAVOK 29/19 Q1021 RMK SCT SCT190 QUK 1 QUL 0 VIS MAR 20 KM VIS MIN 9999 KSNL 021555Z AUTO 23007KT CLR 28/22 A2992 RMK AO2 PWINO KRWL 021553Z AUTO 12007KT 10SM CLR 21/12 A3030 RMK AO2 SLP169 T02060122 FNHU 021600Z 00000KT CAVOK 24/03 Q1023 FMSD 021600Z 08012KT 9999 FEW016 SCT033 19/16 Q1022 KRXE 021553Z AUTO 06005KT 10SM CLR 23/12 A3016 RMK AO2 SLP160 T02330117 KSMX 021551Z 00000KT 10SM BKN120 18/15 A3001 RMK AO2 SLP162 T01830150 KTDZ 021553Z AUTO A3001 RMK AO2 SLPNO PWINO $ KSNS 021553Z 27003KT 10SM OVC007 16/13 A3001 RMK AO2 SLP171 T01560128 KSPA 021615Z AUTO 23010G16KT 10SM 27/21 A2998 RMK AO2 KSPB 021553Z AUTO VRB03KT 10SM CLR 24/15 A2999 RMK AO2 SLP154 T02390150 KSNT 021551Z AUTO 01004KT 19/04 A3032 RMK AO1 SLP164 T01890039 KSPD 021556Z AUTO 03011KT 24/17 A3012 RMK AO1 SLP140 T02390172 KRWV 021610Z AUTO 18011G14KT 10SM FEW020 SCT025 BKN080 28/24 A3006 RMK AO2 KTEW 021303Z AUTO 09005KT 10SM OVC010 14/14 A3001 RMK AO2 T01440135 KTEX 021615Z AUTO 00000KT 10SM OVC060 18/13 A3047 RMK AO2 T01810125 KSPF 021615Z AUTO 33012G18KT 9SM CLR 21/16 A3017 RMK AO2 KSPG 021622Z 18007KT 10SM TS CLR 31/22 A3012 RMK AO2 TSB16 T03060222 KSNY 021553Z AUTO 32016G22KT 10SM CLR 22/15 A3016 RMK AO2 SLP163 T02170150 KSOP 021615Z AUTO 24007KT 10SM BKN120 28/19 A2995 RMK AO1 KTFP 021615Z AUTO 15013G19KT 7SM SCT021 31/25 A3003 RMK AO2 T03130246 KSPI 021552Z 05010KT 10SM CLR 22/15 A2995 RMK AO2 SLP138 T02170150 KTGI 021621Z AUTO 34006KT 10SM BKN014 OVC023 26/23 A2985 RMK AO1 KTHA 021615Z AUTO 00000KT 10SM OVC033 22/19 A3000 RMK KSPL 021615Z AUTO 17008KT 150V260 3SM CLR 28/25 A3002 RMK AO1 LTG DSNT S KRYN 021545Z 31007KT 10 CLR 30/17 A3004 KSOW 021615Z AUTO 35004KT 10SM CLR 24/08 A3028 RMK AO2 KSQE 021615Z AUTO 13007KT 10SM FEW017 29/25 A3012 RMK A01 KSQI 021615Z AUTO 07009KT 10SM OVC017 17/13 A3002 RMK AO1 KSPR 021615Z AUTO 16006KT 10SM CLR 30/25 A3010 RMK A01 KSPS 021552Z AUTO 21014KT 10SM CLR 29/21 A2994 RMK AO2 SLP122 T02940211 MBGT 021600Z 12014KT 9999 SCT015 30/23 Q1019 FNMA 021600Z 09004KT 8000 NSC 25/23 Q1018 KSRB 021615Z AUTO 17027G65KT 5SM FEW010 SCT022 BKN027 21/21 A2996 RMK KRYT 021553Z AUTO 01003KT 10SM BKN070 OVC085 22/16 A2992 RMK AO2 SLP123 T02220156 $ EVVA 021620Z AUTO 27006KT CAVOK 21/14 Q1029 KSQL 021547Z 00000KT 10SM FEW008 SCT150 BKN200 18/15 A2998 KRZL 021615Z AUTO 04010KT 10SM SCT026 21/16 A2996 RMK AO2 KSRC 021556Z AUTO 18008KT 10SM CLR 26/23 A2992 RMK AO2 SLP134 T02610228 TSNO KRYV 021540Z AUTO 03007KT 10SM CLR 17/09 A3005 RMK AO2 T01690090 FNKU 021500Z 14008KT CAVOK 24/02 Q1024 KRZN 021600Z AUTO 18003KT 10SM CLR 22/11 A3005 RMK AO2 T02180112 KRYW 020355Z AUTO 18007G14KT 10SM CLR 24/20 A3006 RMK AO2 T02400203 KSPW 021553Z AUTO 10010KT 10SM CLR 18/12 A3001 RMK AO2 SLP161 T01830117 LIYW 021558Z AUTO 20005KT 9999 FEW190 29/17 A3017 RMK AO2 SLP214 T02920172 KTIF 020355Z AUTO 00000KT 10SM CLR 22/19 A3000 RMK AO2 T02220186 KRYY 021547Z 26008G15KT 10SM SCT020 SCT035 27/21 A3002 WMKA 021600Z 02001KT 9999 FEW030 BKN280 28/26 Q1012 LJPZ 021600Z 27005KT 210V310 CAVOK 30/13 Q1021 WMKB 021600Z 03003KT 9999 FEW025 BKN280 29/25 Q1012 KRZR 021615Z AUTO 00000KT 4SM SCT006 BKN030 OVC045 21/19 A3001 RMK WMKC 021600Z 00000KT 9999 FEW020 BKN280 29/25 Q1011 KRZT 021614Z AUTO 00000KT 10SM BKN070 BKN090 20/18 A2994 RMK AO2 WMKD 021600Z 28002KT 7000 -TSRA FEW017CB SCT024 BKN260 26/25 Q1012 BECMG NSW KTIK 021558Z AUTO 22014KT 10SM FEW160 29/21 A2989 RMK AO2 SLP113 T02900210 KSSC 021558Z 22010KT 10SM FEW030 SCT130 BKN210 29/21 A2999 RMK AO2A SLP155 T02860206 $ WMKE 021100Z 14001KT 7000 TS FEW010 FEW016CB SCT018 BKN270 29/26 Q1008 FNLU 021600Z 26007KT 9999 FEW020 22/18 Q1013 KTHV 021553Z AUTO 00000KT 10SM SCT085 24/16 A2991 RMK AO2 SLP129 T02390161 GEML 021600Z 27005KT 190V330 CAVOK 31/11 Q1017 KW13 021455Z AUTO 34003KT 7SM SCT012 OVC042 19/17 A2997 RMK AO1 T01920173 KSSF 021613Z 14015G19KT 10SM SCT024 SCT030 29/22 A3001 RMK AO2 T02890222 KTIP 020355Z AUTO 05009KT 10SM SCT031 BKN120 18/15 A2995 RMK AO2 T01810145 FNMO 021500Z 26019KT 9999 BKN011 19/16 Q1014 WMKI 021600Z 06002KT 9999 FEW030 BKN290 28/25 Q1012 WMKJ 021600Z 00000KT 7000 FEW023 BKN300 26/25 Q1012 KSRQ 021553Z 24007KT 10SM CLR 31/23 A3013 RMK AO2 SLP201 T03110228 WMKK 021600Z 00000KT 9999 FEW030 BKN290 27/25 Q1011 NOSIG KSSI 021553Z AUTO 25009KT 10SM CLR 32/22 A3007 RMK AO2 SLP182 T03170222 KSRR 021615Z AUTO 16005KT 10SM CLR 24/10 A3027 RMK AO2 WMKL 021600Z 08001KT 9999 FEW026 BKN280 28/25 Q1012 WMKM 021600Z 05001KT 9999 FEW030 BKN280 28/26 Q1012 LKKB 021600Z 06006KT 020V090 CAVOK 29/06 Q1023 NOSIG KTKC 021613Z AUTO 12008KT 10SM CLR 20/12 A3003 RMK AO2 T01990118 WMKN 021600Z 21003KT 9999 FEW024 BKN300 28/26 Q1011 KSTC 021553Z 18005KT 10SM CLR 21/12 A3003 RMK AO2 SLP177 T02110122 KW22 020355Z AUTO 00000KT 3SM BR CLR 17/17 A2998 RMK AO2 KUBE 021605Z AUTO 12003KT 10SM CLR 21/10 A3006 RMK AO2 WMKP 021600Z 34005KT 240V030 9000 FEW025 SCT140 BKN280 30/24 Q1012 NOSIG KTIW 021553Z 03003KT 10SM CLR 23/12 A3003 RMK AO2 SLP165 T02330117 KSTE 021535Z AUTO 08006KT 10SM CLR 17/07 A3008 RMK AO2 T01740074 KTIX 021547Z VRB05KT 7SM SCT030 31/22 A3014 KUAO 021553Z AUTO 00000KT 10SM CLR 24/14 A3000 RMK AO2 SLP156 T02390144 KSTF 021615Z AUTO 22006KT 10SM CLR 26/21 A3002 RMK AO2 LLBG 021620Z 30008KT 9999 FEW025 26/19 Q1012 NOSIG KTKI 021553Z 22016KT 10SM CLR 29/18 A2999 RMK AO2 PK WND 21026/1457 SLPNO T02940183 KSTJ 021553Z 05008KT 9SM OVC008 21/19 A2993 RMK AO2 SLP127 T02110189 KSUA 021547Z VRB04KT 7SM HZ SCT022 BKN040 29/20 A3015 KSTK 021610Z AUTO 28014G19KT 10SM CLR 23/15 RMK AO2 KW29 021620Z AUTO 03006KT 10SM 22/18 A2989 RMK AO1 KW31 021628Z AUTO 29004KT 10SM BKN026 BKN033 OVC110 26/21 A2990 RMK AO2 KSTL 021551Z 02009KT 10SM OVC013 20/16 A2992 RMK AO2 SLP122 T02000156 KSUE 021615Z AUTO 01003KT 10SM CLR 18/09 A3009 RMK AO1 KSTP 021553Z 15003KT 10SM CLR 22/12 A3004 RMK AO2 SLP167 T02170117 KTLH 021553Z 29011KT 10SM TS SCT034CB SCT080 BKN250 31/21 A3011 RMK AO2 TSB37 SLP194 OCNL LTGICCG NE TS NE MOV E CB SW MOV E T03110211 VVNB 021600Z 16007KT 9000 NSC 33/26 Q0999 NOSIG KTMA 020355Z AUTO 23004KT 10SM CLR 26/21 A3009 RMK AO2 T02630207 KSTS 021553Z 18006KT 10SM BKN150 18/13 A2994 RMK AO2 SLP132 T01830128 KTMB 021553Z 13007KT 090V190 10SM SCT040 32/23 A3013 RMK AO2 LTG DSNT W SLP202 T03170228 LKKU 021407Z 01010KT CAVOK 29/11 Q1023 KSVC 021615Z AUTO 29010KT 10SM 30/11 A3015 RMK AO2 KTKV 021620Z AUTO 23003KT 7SM CLR 19/09 A3008 RMK AO2 LKKV 021600Z 10007KT 070V140 CAVOK 27/14 Q1025 KW43 020355Z AUTO 03006G22KT 7SM -VCTSRA SCT031 BKN046 BKN085 18/16 A3012 RMK AO2 P0036 LTG DSNT ALQS KSUN 021555Z 30008KT 10SM FEW140 24/08 A3020 KTME 021615Z AUTO 19012KT 10SM SCT020 30/24 A3006 RMK AO2 LKLN 021600Z AUTO VRB03KT CAVOK 31/13 Q1023 KUDG 021615Z AUTO 23014G18KT 10SM CLR 29/20 A2998 RMK AO1 KUCP 021556Z AUTO 00000KT CLR 23/16 A2997 RMK AO2 T02330161 SLP159 $ KSVH 021540Z AUTO 25004KT 10SM BKN075 OVC090 27/19 A2995 RMK AO2 T02650185 KSUS 021554Z 01007KT 10SM OVC011 18/17 A2991 RMK AO2 RAB1455E06B39E48 SLP122 P0000 T01830167 LKNA 021600Z 06008KT 030V120 CAVOK 28/07 Q1024 NOSIG RMK BLU BLU KTNB 021614Z AUTO 27009G14KT 10SM -RA SCT021 SCT034 SCT042 20/15 A3005 RMK AO2 KTMK 021440Z AUTO 00000KT 1SM BR OVC001 13/12 A3005 RMK AO2 KSUT 021552Z AUTO 24013G17KT 10SM CLR 30/21 A2999 RMK AO2 KSUU 021558Z AUTO 24021G27KT 10SM FEW160 SCT210 21/14 A2987 RMK AO2 PK WND 24028/41 SLP121 P0002 T02050141 PWINO $ KSVN 021558Z AUTO 23008KT 10SM FEW039 32/23 A3002 RMK AO2 SLP168 T03180234 $ KSUW 021615Z AUTO 23006KT 10SM CLR 23/16 A3001 RMK AO2 T02270156 KSUX 021607Z 12007KT 10SM -RA BKN018 BKN085 BKN110 18/14 A2998 RMK AO2 RAB01 P0000 T01780144 KSWF 021545Z 00000KT 15SM SCT040 23/15 A2994 KUCY 021615Z AUTO 22006KT 10SM SCT018 SCT023 BKN033 27/00 A2987 RMK VVPB 021600Z VRB01KT 9999 FEW017 SCT300 30/26 Q1004 NOSIG KTOA 021550Z 30007KT 10SM BKN080 21/19 A3000 FNSA 021500Z 00000KT CAVOK 28/11 Q1018 KTOB 021614Z AUTO 13005KT 10SM CLR 21/12 A3005 RMK AO2 LKMT 021600Z 05010KT 030V090 CAVOK 26/11 Q1025 NOSIG KTOC 020355Z AUTO 24003KT 7SM SCT090 BKN110 20/20 A3005 RMK AO2 T02030197 KW63 021543Z AUTO 22007KT 10SM SCT080 27/20 A2991 RMK AO2 KSWO 021553Z AUTO 25008KT 10SM CLR 31/21 A2987 RMK AO2 SLP098 T03060211 TSNO KTOI 021611Z AUTO 22006KT 10SM VCTS FEW021 SCT027 BKN060 30/23 A3008 RMK AO2 LTG DSNT S AND SW T03000233 KUES 021545Z 05007G14KT 10SM SKC 16/08 A3006 KTPA 021553Z 23007KT 10SM TS SCT035CB BKN200 31/22 A3014 RMK AO2 TSB49 SLP206 OCNL LTGICCG SW-W TS SW-W MOV NE T03110222 LLET 021550Z 03012KT CAVOK 37/16 Q1007 KTNU 020355Z AUTO 05008KT 10SM SCT055 OVC065 17/14 A2997 RMK AO2 PWINO KTOL 021559Z 08010KT 10SM SCT023 SCT028 OVC039 21/14 A3000 RMK AO2 T02110139 LKPD 021600Z 16004KT 130V220 CAVOK 29/07 Q1023 NOSIG RMK BLU BLU KSWW 020355Z AUTO 18007KT 10SM CLR 25/19 A3002 RMK AO2 T02500188 VVPQ 021600Z 27014KT 9999 FEW017 29/25 Q1010 NOSIG KTPF 021615Z AUTO 19005KT 10SM CLR 32/23 A3014 RMK AO2 KSYF 021535Z AUTO 00000KT 10SM CLR 22/10 A3008 RMK AO2 T02240104 KW75 021555Z AUTO 21004KT 7SM SCT017 27/23 A2986 RMK AO1 T02720227 FNSO 021600Z 22007KT 9999 FEW012 24/18 Q1013 KTOP 021553Z 05006KT 8SM OVC017 24/21 A2992 RMK AO2 SLP123 T02390206 KTPH 021556Z AUTO 00000KT 10SM CLR 27/09 A3023 RMK AO2 SLP149 T02670094 KTOR 021553Z AUTO 30008KT 10SM CLR 24/16 A3013 RMK AO2 SLP156 T02390156 KSYI 021615Z AUTO 11006KT 10SM FEW027 SCT033 BKN039 23/22 A2998 RMK KW78 021619Z AUTO 10SM SCT030 SCT060 28/21 A2990 RMK AO2 LLHA 021550Z 32010KT 9999 SCT016 26/22 Q1010 KSXS 021625Z AUTO 25010G16KT 9SM TS FEW026 31/22 A3007 RMK AO2 LTG DSNT W-N TSB25 KSXT 021556Z AUTO 00000KT 10SM CLR 24/12 A3012 RMK AO2 SLP131 T02440117 KW81 020355Z AUTO 00000KT 10SM CLR 23/21 A2992 RMK AO1 T02250206 FNUB 021600Z 12010KT 7000 NSC 23/02 Q1025 KTPL 021615Z AUTO 17019G23KT 10SM SCT026 BKN032 28/21 A3002 RMK AO1 FNSU 021600Z 22005KT 9999 FEW010 22/19 Q1016 KSYM 021610Z AUTO 23005KT 5SM -RA BKN006 OVC012 20/19 A2996 RMK AO2 KTQE 021554Z AUTO 11004KT 10SM BKN012 OVC019 19/15 A2996 RMK AO2 SLP137 T01890150 KUGN 021555Z 04009KT 10SM CLR 16/11 A3003 RMK AO2 SLP167 T01610111 KSYN 021605Z AUTO 00000KT 10SM CLR 21/13 A3003 RMK AO2 FNUE 021600Z 17008KT CAVOK 24/07 Q1021 KTQH 020355Z AUTO 21010G15KT 10SM CLR 27/21 A2988 RMK AO2 FNUG 021600Z 33010KT 8000 FEW020 26/18 Q1014 WMSA 021600Z 35001KT 4000 HZ FEW026 BKN280 28/26 Q1012 KSYR 021554Z 31005KT 10SM BKN035 BKN060 BKN150 19/13 A2995 RMK AO2 SLP138 T01940128 LKPR 021600Z 08010KT 050V120 CAVOK 28/11 Q1024 NOSIG LLIB 021450Z 32013KT CAVOK 31/13 Q1011 KSZL 021614Z 07007KT 2SM -DZ BR BKN006 OVC011 22/21 A2990 RMK AO2A DZB08 GFLL 021500Z 24008KT 9999 SCT014 FEW027CB 30/25 Q1012 RMK CB-NE/SE MBPV 021600Z 11010KT 9999 SCT012 32/24 Q1018 KW96 021623Z AUTO 21004KT 10SM SCT019 SCT024 BKN120 27/22 A2987 RMK AO2 KTRI 021622Z 23009KT 3SM -RA BR FEW008 BKN070 OVC100 21/19 A2999 RMK AO2 SFC VIS 6 P0002 T02110194 MDAB 021600Z 13008KT 9999 FEW020 31/25 Q1019 KTRK 021555Z 00000KT 10SM SKC 20/10 A3028 RMK NOSPECI KSZT 020355Z AUTO 00000KT 10SM CLR 22/10 A2996 RMK AO2 KW99 020355Z AUTO 00000KT 7SM CLR 17/15 A2997 RMK AO2 T01710147 KTRL 021553Z AUTO 21014G23KT 9SM FEW031 28/21 A3001 RMK AO2 SLP156 T02830211 KUIL 021553Z AUTO 00000KT 7SM CLR 19/14 A3003 RMK AO2 SLP168 T01940144 KTRM 021552Z AUTO VRB03KT 10SM CLR 33/21 A2986 RMK AO2 SLP114 T03280206 TSNO KVAD 021558Z AUTO 26011KT 10SM FEW095 SCT150 SCT180 BKN210 30/21 A3009 RMK AO2 SLP189 T02950214 $ KUIN 021554Z AUTO 07010G16KT 10SM CLR 21/13 A2996 RMK AO2 SLP138 T02110133 KVAF 021615Z AUTO 14014KT 6SM HZ CLR 29/24 A3006 RMK A01 KTTA 020355Z AUTO 00000KT 10SM CLR 24/23 A2994 RMK AO2 T02390226 LKTB 021600Z 08010KT CAVOK 28/11 Q1023 NOSIG KTTD 021553Z 00000KT 10SM CLR 23/15 A2998 RMK AO2 SLP150 T02330150 KUKF 020355Z AUTO 20004KT 10SM OVC120 20/18 A3004 RMK AO2 KTTF 021614Z AUTO 06005KT 10SM BKN031 OVC050 21/14 A3000 RMK AO2 T02100139 KTSP 021615Z AUTO 25003KT 10SM SCT100 25/12 A3014 RMK AO2 KVBG 021555Z 26003KT 10SM FEW005 FEW070 BKN120 OVC150 17/16 A3001 RMK AO2A SLP162 T01650157 MDBH 021600Z 13020KT 9999 FEW023 SCT300 32/24 Q1019 FOOG 021600Z /////KT 9999 FEW013 24/20 Q1013 VVTS 021600Z 23011KT 9999 SCT017 SCT040 28/24 Q1009 NOSIG KUKI 021556Z AUTO 14005KT 10SM CLR 23/11 A2993 RMK AO2 SLP127 T02280106 KVCB 021553Z AUTO 21008KT 10SM CLR 29/11 A2989 RMK AO2 SLP119 T02940106 KTTN 021553Z 07004KT 10SM BKN075 23/16 A2991 RMK AO2 SLP120 T02280161 FOON 021600Z /////KT 9999 SCT013 OVC020 27/23 Q1011 KVAY 021554Z AUTO 04004KT 10SM OVC065 21/17 A2991 RMK AO2 RAB03E45 SLP127 P0001 T02110172 KTTS 021558Z AUTO 22008KT 10SM CLR 31/22 A3012 RMK AO2 SLP204 T03140224 $ KVBS 021615Z AUTO VRB04KT 10SM CLR 30/25 A3007 RMK A01 KVBT 021615Z AUTO 25013G17KT 10SM FEW024 BKN030 BKN037 27/21 A2990 RMK AO1 KUKT 021615Z AUTO 20003KT 10SM CLR 24/17 A2992 RMK AO1 KTUL 021553Z 26010KT 10SM FEW035 SCT160 BKN250 32/22 A2986 RMK AO2 SLP101 T03170222 KTVC 021553Z 02005KT 10SM FEW030 18/10 A3006 RMK AO2 SLP180 T01830100 KULM 021614Z AUTO 10007KT 10SM CLR 21/11 A3003 RMK AO2 KVBW 021618Z AUTO 00000KT 5SM BKN028 OVC034 19/18 A2996 RMK AO2 KVDF 021635Z AUTO 19004KT 10SM CLR A3014 RMK AO2 KTVF 021615Z AUTO 19011KT 10SM FEW002 21/11 A2999 RMK AO1 KTUP 021553Z 26007G20KT 10SM CLR 28/21 A2997 RMK AO2 SLP143 T02830211 $ KTVI 020355Z AUTO 24004KT 10SM CLR 26/22 A3011 RMK AO2 KVDI 020355Z AUTO 24005KT 10SM TSRA OVC110 22/21 A3010 RMK AO2 LTG DSNT SW RJAA 021600Z 20003KT 170V230 9999 FEW010 SCT140 BKN180 21/20 Q1005 NOSIG KTUS 021553Z VRB04KT 10SM CLR 30/16 A3005 RMK AO2 SLP127 T03000161 KVCT 021551Z 16015KT 9SM SCT024 BKN035 30/24 A3003 RMK AO2 SLP168 T03000244 KTVK 021535Z AUTO 08009KT 10SM CLR 19/14 A2999 RMK AO2 KTVL 021553Z AUTO 05006KT 10SM CLR 25/13 A3028 RMK AO2 SLP175 T02500128 KVCV 020355Z AUTO 20007KT 10SM CLR 27/11 A3000 RMK AO2 RJAF 020700Z 19015KT 9999 SCT060 BKN/// 27/14 Q1002 LKVO 021300Z 11007KT 020V180 CAVOK 29/11 Q1024 KTWF 021553Z 26007KT 9SM CLR 30/04 A3009 RMK AO2 SLP116 T03000044 MDCY 021600Z 10006KT 9999 SCT020 31/25 Q1018 RJAH 021600Z 22004KT 3200 -SHRA BR FEW008 SCT050 BKN120 21/19 Q1004 KTVR 021553Z AUTO 23008KT 10SM CLR 27/22 A3006 RMK AO2 SLP184 T02720217 KUNI 021610Z AUTO 16003KT 10SM BKN065 BKN075 22/16 A2994 RMK AO2 T02210164 RJAK 020740Z 27002KT 8000 -RA SCT015 BKN020 OVC030 23/21 Q1002 RMK 3SC015 5SC020 8SC030 A2961 RJBB 021610Z 24006KT 9999 RA FEW010 SCT050 BKN080 21/20 Q1004 RMK 1CU010 4SC050 6AC080 A2966 KVEL 021553Z AUTO 22003KT 10SM CLR 28/09 A3016 RMK AO2 SLP134 T02780089 RJBD 021010Z 25005KT 200V300 4000 +SHRA BR FEW002 SCT004 BKN025 20/19 Q1006 RMK 1ST002 4ST004 6CU025 A2971 RI++ KTWM 021601Z AUTO 24005KT 10SM CLR 24/18 A2999 RMK AO2 SABE 021600Z 05009KT CAVOK 14/08 Q1018 RJBE 021200Z 23010KT 9999 FEW030 SCT120 BKN150 22/21 Q1004 KUNO 021553Z AUTO 23011G17KT 10SM FEW043 FEW050 26/21 A2990 RMK AO2 SLP109 T02610206 KTVY 021615Z AUTO 31004KT 10SM CLR 31/10 A3010 RMK AO2 SAAR 021600Z 02005KT CAVOK 18/11 Q1015 KVER 021615Z AUTO 05006KT 7SM OVC008 21/21 A2992 RMK AO2 T02120205 KVES 020355Z AUTO 00000KT 7SM SCT049 OVC055 17/17 A2995 RMK AO2 RJAT 020610Z 21010G20KT 2000 BR FEW000 SCT005 BKN008 21/21 Q1005 RMK 2ST000 3ST005 5ST008 A2970 RJCB 021100Z 18003KT 130V250 9999 -SHRA FEW030 BKN050 21/13 Q1000 EYKA 021620Z 36006KT 320V030 CAVOK 24/07 Q1028 KTXK 021553Z 25013G22KT 10SM CLR 29/20 A3000 RMK AO2 SLP152 T02890200 RJCC 021600Z 16009KT 7000 FEW005 16/15 Q1001 KUNU 021606Z AUTO 03005KT 10SM CLR 17/09 A3007 RMK AO2 SACE 021110Z 02003KT 3000 BR BKN035 12/10 Q1016 KUNV 021553Z 00000KT 10SM SCT065 22/15 A2995 RJAW 021500Z 11006KT 9999 FEW015 27/25 Q1013 RMK 2CU015 A2992 RJCH 021100Z 22016G26KT 9999 FEW008 SCT014 BKN025 19/17 Q1000 RJBT 020900Z 03003KT 360V070 9999 FEW010 SCT020 BKN030 22/17 Q1004 RJCK 021100Z 09003KT 050V120 9999 -SHRA FEW030 SCT050 BKN080 18/13 Q1001 RJDC 021200Z 08008KT 9999 FEW008 SCT150 BKN/// 22/20 Q1004 RJCM 021100Z 04003KT 010V070 9999 FEW010 SCT110 BKN/// 15/13 Q1001 RJCN 020900Z 05007KT 010V070 9999 FEW030 BKN040 14/14 Q1000 RJCO 020944Z 17013KT 9999 -SHRA FEW008 BKN050 BKN100 18/16 Q0998 RMK 2ST008 5CU050 6AC100 A2949 SADF 021500Z 36005KT CAVOK 14/09 Q1019 SACO 021600Z 05008KT 9999 FEW025 SCT100 19/10 Q1015 KUOX 021435Z AUTO 23007KT 10SM CLR 25/19 A3000 RMK AO2 PWINO PNO KTYQ 020355Z AUTO 02005KT 10SM SCT065 BKN070 19/14 A2996 RMK AO2 T01850143 FQCH 021600Z /////KT 9999 FEW020 16/14 Q1027 KTYR 021553Z 23012G17KT 10SM FEW028 28/21 A3003 RMK AO2 SLP160 T02780206 RJCT 020507Z 25005KT 9999 FEW030 BKN050 24/12 Q0998 RMK 1CU030 5CU050 A2948 W/E KTYS 021553Z 19007KT 7SM FEW006 SCT044 SCT095 BKN150 OVC200 20/19 A2998 RMK AO2 RAE46 SLP142 P0010 T02000189 RJEB 020700Z 02003KT 350V060 2000 BR FEW001 BKN002 12/11 Q0999 SAEC 021330Z CALMA 5000 BR BKN060 13/11 Q1016 KVGT 021553Z 18004KT 10SM CLR 30/18 A2998 RMK AO2 SLP137 T03000178 RJEC 021100Z 19011KT 9999 SHRA FEW015 BKN040 BKN060 17/15 Q0999 RJCW 020912Z 10013KT 8000 -SHRA FEW003 SCT005 BKN030 11/10 Q0999 RMK 1ST003 4ST005 7CU030 A2952 KVIH 021553Z AUTO 00000KT 10SM SCT012 OVC017 23/20 A2989 RMK AO2 SLP112 T02330200 KTZR 021550Z 05003KT 10SM SCT030 OVC037 20/16 A2996 RJDT 021100Z VRB02KT CAVOK 21/17 Q1003 MDJB 021600Z 00000KT 9999 SCT022 31/24 Q1019 LLSD 021550Z 30008KT 9999 BKN025 26/21 Q1011 RJFF 021600Z 33003KT 9999 FEW015 SCT180 BKN/// 22/19 Q1004 RJFG 020900Z VRB02KT 0200 R31/0300V0500N -SHRA FG VV001 21/21 Q1003 KVJI 020355Z AUTO 22003KT 5SM BR SCT008 BKN031 BKN070 20/20 A3005 RMK AO2 T02000198 KUTA 021615Z AUTO 22015KT 10SM CLR 26/20 A2995 RMK AO2 KVIS 021615Z AUTO 14006KT 10SM CLR 27/17 A2990 RMK AO1 RJFK 021200Z VRB01KT 4500 SHRA BR FEW002 SCT020 BKN030 18/18 Q1005 KY19 021615Z AUTO 06003KT 6SM BR OVC015 20/18 A3002 RMK AO2 KWAL 021606Z 23008KT 6SM HZ BKN018 BKN024 BKN030 28/24 A2985 RMK AO2 LTG DSNT N AND NE T02780244 RJFM 021209Z 36004KT 320V050 3500 SHRA BR FEW002 SCT004 BKN005 19/18 Q1005 RMK 1ST002 3ST004 5ST005 A2968 KY23 020355Z AUTO 00000KT 10SM CLR 14/13 A3002 RMK AO2 T01420127 RJFO 021300Z 15006KT 9999 FEW030 SCT150 BKN/// 20/19 Q1004 RJGG 021600Z 13007KT 9999 -RA FEW004 SCT025 BKN050 22/21 Q1005 TEMPO 4000 -RA BR SAEZ 021600Z 05010KT CAVOK 15/07 Q1018 RJFR 021600Z 04008KT 9999 FEW009 BKN010 BKN/// 21/20 Q1004 RJFS 021600Z 09002KT CAVOK 21/20 Q1003 RJFT 021200Z VRB01KT 9999 FEW015 BKN/// 20/18 Q1004 EYPA 021620Z 34005KT 270V080 CAVOK 20/14 Q1030 RJFU 021200Z 25003KT 9999 FEW015 BKN/// 22/20 Q1003 KVLD 021553Z AUTO VRB05KT 10SM FEW036 SCT050 32/22 A3011 RMK AO2 SLP201 T03170222 TSNO RJFY 021441Z 12003KT 5000 -SHRA BR FEW003 SCT010 BKN020 20/19 Q1004 RMK 1ST003 4CU010 7CU020 A2967 KUVA 021614Z AUTO 15007KT 7SM BKN018 BKN026 OVC033 25/21 A3004 RMK AO2 KUTS 021553Z AUTO 19009KT 10SM SCT020 BKN029 29/23 A3005 RMK AO2 SLP169 T02890233 KVKS 021615Z AUTO 21010KT 10SM CLR 28/22 A3008 RMK A01 KVLL 021615Z AUTO 02004KT 10SM BKN041 21/11 A3004 RMK AO2 T02070108 GGOV 021600Z 18009KT 9999 BKN014 32/24 Q1012 NOSIG KVKY 021615Z AUTO VRB03KT 10SM CLR 28/22 A3013 RMK A01 KWDG 021550Z 00000KT 10SM SCT250 33/20 A2986 SBAA 021530Z 12010KT CAVOK 36/18 Q1014 MDLR 021620Z 12012KT 9999 FEW022 31/24 Q1018 KY50 021556Z AUTO 07010KT 10SM CLR 19/08 A3008 RMK AO2 TSNO T01880077 SLP182 KY49 021615Z AUTO 24006KT 10SM CLR 21/13 A3002 RMK AO2 T02110134 KY51 020355Z AUTO 01003KT 10SM CLR 14/11 A3002 RMK AO1 T01370109 LMML 021615Z 20004KT 160V250 9999 FEW020 27/17 Q1021 NOSIG KUUU 021553Z AUTO 19007KT 10SM CLR 23/16 A2991 RMK AO2 SLP128 T02330156 KVNC 021615Z AUTO 21011KT 10SM CLR 32/23 A3015 RMK AO2 SBAF 021600Z 20009KT 9999 FEW020 BKN100 25/19 Q1019 KWDR 020355Z AUTO 00000KT 7SM CLR 21/21 A3009 RMK AO1 RJKA 021000Z 21015KT 9999 -SHRA FEW010 BKN020 BKN150 28/26 Q1003 KVOA 021615Z AUTO 12007KT 10SM CLR 29/20 A3013 RMK A01 EYSA 021620Z 36011KT 330V030 CAVOK 24/09 Q1029 SBAN 021600Z 06002KT 9999 SCT040 26/12 Q1021 SBBE 021620Z 35005KT 9999 VCSH BKN020 FEW025TCU 25/23 Q1012 KY63 021616Z AUTO 15007KT 10SM CLR 20/13 A3002 RMK AO2 T02030125 SBBG 021615Z 07015KT CAVOK 16/10 Q1017 FQIN 021400Z 00000KT 9999 BKN020 24/16 Q1026 SBAQ 012000Z 09002KT 9999 FEW020 BKN070 21/18 Q1021 SBBH 021600Z 11011KT 9999 FEW040 23/14 Q1021 SBBI 021600Z 10005KT 9999 SCT008 BKN010 14/12 Q1022 SBAR 021600Z 14015KT 8000 VCSH SCT013 BKN100 25/22 Q1016 SBCA 021600Z 06023KT 3000 BR FEW001 OVC002 15/14 Q1017 SBAT 021600Z 03006KT 9999 FEW040 ///// Q1014 SBCB 021600Z 25005KT 9999 FEW015 SCT050 26/20 Q1019 SBAU 021300Z 10005KT 8000 -DZ FEW010 SCT070 19/18 Q1019 SBCC 021600Z 12013KT 9999 FEW030 30/18 Q1016 KY70 021614Z AUTO 07005KT 10SM SCT023 OVC034 19/13 A3003 RMK AO2 T01920134 KVOK 021558Z 07004KT 10SM FEW025 19/13 A3007 RMK AO2A SLP186 KUXL 020355Z AUTO 13003KT 10SM CLR 24/23 A3007 RMK AO2 LTG DSNT E T02400225 MDPC 021600Z 13010KT 9999 FEW025 31/24 Q1019 NOSIG KVPC 021553Z AUTO VRB04KT 10SM BKN022 26/21 A3002 RMK AO2 SLP153 T02560206 SBAX 021600Z 08008KT 9999 SCT020 24/14 Q1022 SBCF 021600Z 14008KT 9999 FEW035 23/16 Q1021 KUYF 021615Z AUTO 03006KT 10SM BKN032 OVC037 18/16 A2995 RMK AO2 SBCG 021600Z 34014KT 9999 FEW030 SCT100 27/18 Q1015 SBCH 021600Z 05003KT 7000 NSC 18/13 Q1017 SBBQ 021600Z 02006KT CAVOK 22/15 Q1024 KVNY 021551Z 14003KT 10SM BKN130 26/13 A2999 RMK AO2 SLP147 T02560133 SBCI 021600Z 02006KT 9999 FEW025 37/17 Q1013 SBBR 021600Z 10008KT 9999 BKN040 26/13 Q1021 SBCJ 021600Z 12010KT 9999 SCT027 29/19 Q1017 KUZA 021554Z AUTO 24007KT 10SM SCT023 27/20 A2998 RMK AO2 SLP138 T02720200 SBBU 021600Z 16006KT 3000 BR SCT004 BKN006 BKN030 18/17 Q1019 SBCM 021600Z 09007KT 9999 BKN027 BKN080 19/12 Q1020 FPST 021600Z 16010KT 9999 FEW017 BKN040 24/21 Q1014 NOSIG SBBV 021600Z 13006KT 9999 SCT015 BKN030 BKN090 24/22 Q1015 FQLC 020900Z 10013KT 9999 FEW010 SCT014 17/12 Q1027 SBBW 021600Z 09010KT CAVOK 32/17 Q1016 SAME 021600Z 34004KT 9000 NSC 15/M02 Q1014 SBCO 021600Z 13012KT 090V160 9999 FEW025 19/13 Q1018 SBCP 021600Z 12002KT CAVOK 27/20 Q1019 MDPP 021600Z 12015KT 9999 SCT025 33/22 Q1017 SBCR 021600Z 08009KT CAVOK 28/23 Q1012 KVPS 021555Z 23009G17KT 10SM SCT020 BKN150 BKN250 29/21 A3011 RMK AO2A LTG DSNT NW AND NE SLP202 T02900215 $ SBCT 021600Z 07006KT 9999 BKN008 OVC012 14/12 Q1022 KVRB 021553Z 10009KT 10SM FEW037 33/23 A3013 RMK AO2 SLP202 T03280233 FQMA 021600Z 07006KT CAVOK 20/15 Q1026 NOSIG SBDN 021602Z 10016KT 3000 RA BR FEW009 BKN045 OVC080 18/17 Q1017 SBCX 021600Z 06006KT 9999 FEW025 18/13 Q1019 RJNG 020706Z 22008KT 9999 FEW030 BKN160 BKN230 27/20 Q1002 RMK 1CU030 5AC160 A2959 SBEG 021600Z 15007KT 9999 SCT025 33/19 Q1013 SBCY 021600Z 01007KT CAVOK 34/12 Q1014 KWHP 021447Z 10008KT 15SM BKN150 24/13 A3003 SBCZ 021600Z 32003KT 9999 SCT030 SCT100 30/25 Q1015 KVQQ 021550Z 30010KT 10SM BKN040 32/22 A3010 KVPZ 021556Z AUTO 06007KT 10SM BKN031 21/13 A2999 RMK AO2 SLP153 T02060128 TSNO RJOA 021200Z VRB02KT 9999 FEW020 SCT160 BKN/// 20/17 Q1005 SBEK 021600Z 10004KT CAVOK 34/23 Q1012 RJNK 021600Z 14003KT 9999 FEW050 BKN160 BKN/// 21/18 Q1004 EYVI 021620Z 36009KT CAVOK 23/07 Q1027 NOSIG RJOB 021200Z VRB01KT 9999 FEW030 BKN/// 22/17 Q1005 KVQT 021615Z AUTO 16006KT 4SM HZ FEW019 31/25 A3010 RMK A01 RJOC 021100Z 24003KT 8000 NSC 22/19 Q1003 SAOC 021600Z 32005KT 9999 BKN025 FEW035TCU 18/11 Q1013 RJOE 020320Z 19005KT 9999 FEW020 SCT050 BKN200 26/19 Q1003 RMK 2CU020 3SC050 5CI200 A2962 MDSD 021600Z 13008KT 9999 FEW023 31/23 Q1018 RJOF 021417Z 08006KT 9999 FEW010 BKN020 BKN150 21/17 Q1004 RMK 1ST010 5SC020 5AC150 A2967 KVSF 021554Z AUTO 29008KT 10SM FEW046 22/10 A2990 RMK AO2 SLP123 T02170100 TSNO KWJF 021556Z 26008KT 10SM CLR 30/10 A3003 RMK AO2 SLP145 T03000100 RJOH 021600Z 00000KT 9000 FEW010 BKN015 BKN/// 20/17 Q1004 SBFI 021600Z 07007KT 9999 BKN017 BKN100 19/17 Q1014 RJOI 021555Z 00000KT 9999 FEW100 BKN230 22/18 A2967 RMK SLP045 T02170183 SBES 021600Z 22008KT 9999 FEW015 24/19 Q1019 RJNS 021100Z 26009KT 9999 SCT006 SCT150 BKN/// 21/20 Q1005 KVTA 021554Z AUTO 00000KT 10SM OVC043 22/16 A2996 RMK AO2 SLP141 T02170156 SANT 021600Z 00000KT 6000 NSC 18/12 Q1014 RJNT 021200Z 25004KT 220V280 9999 FEW010 SCT020 BKN030 23/18 Q1004 RJOK 021100Z 30003KT 210V350 8000 -SHRA FEW006 SCT025 BKN035 21/20 Q1004 SBFL 021600Z 27003KT 9999 FEW023 BKN090 20/13 Q1020 RJOM 021200Z 30001KT 9999 FEW030 BKN/// 21/19 Q1004 SBFN 021600Z 12009KT 090V150 6000 -RA SCT015 BKN017 26/25 Q1014 RJNW 021000Z 26007KT 9999 FEW030 SCT160 BKN/// 20/18 Q1004 LOAN 021600Z 10005KT 30KM SCT090AC RMK SCT RJOO 021100Z 24006KT 210V280 9999 FEW025 SCT100 BKN120 24/20 Q1005 RJOP 021617Z 14006KT 4000 SHRA BR FEW008 BKN020 FEW020TCU BKN050 20/19 Q1004 RMK 2ST008 5CU020 1TCU020 7SC050 A2965 TCU 10KM NE MOV NE RJNY 021311Z 25007KT 220V280 9999 -RA FEW010 SCT012 OVC100 22/21 Q1005 RMK 1CU010 3CU012 8AS100 A2969 FQNP 021600Z 21003KT 9999 FEW020 SCT100 20/17 Q1022 RJOR 021200Z 03003KT 9999 FEW020 SCT100 BKN/// 21/17 Q1004 RJOS 021620Z 17012KT 4900 SHRA BR FEW008 SCT020 BKN060 20/19 Q1004 RMK 1ST008 3CU020 7SC060 A2967 SBFS 021500Z /////KT 9999 FEW020 ///// Q//// KVTI 021555Z AUTO 12008KT 10SM CLR 21/11 A3003 RMK AO2 T02130108 RJOT 021200Z 14003KT 110V190 9999 FEW030 SCT120 BKN180 22/20 Q1004 VYMD 021230Z 18007G17KT 6000 BKN020 FEW025CB 32/24 Q1003 SBGL 021600Z 12008KT 8000 FEW020 BKN050 24/18 Q1019 MDST 021600Z 13015KT 9999 SCT026 31/21 Q1018 SBGM 021600Z 30005KT 9999 SCT035 33/23 Q1014 FQPB 021600Z 18013KT 9999 FEW020 25/20 Q1018 LOAV 021600Z 09006KT 020V100 20KM SCT050CU 29/12 RMK SCT KWLD 021554Z AUTO 04010KT 10SM CLR 29/21 A2990 RMK AO2 SLP110 T02890211 RJOW 021000Z VRB02KT 9999 FEW040 BKN150 BKN/// 22/18 Q1003 KVTN 021606Z AUTO 05016G21KT 10SM FEW018 SCT026 SCT037 22/17 A3003 RMK AO2 T02220167 SBGO 021600Z 02006KT 9999 FEW040 29/08 Q1019 RJOY 021000Z 26004KT 9999 FEW035 SCT120 BKN/// 25/18 Q1004 KXBP 021555Z AUTO 21010G15KT 10SM CLR 28/21 A3000 RMK AO2 T02820205 SBFZ 021600Z 10016KT 9999 FEW020 SCT100 29/19 Q1013 KVTP 021614Z AUTO M1/4SM FG OVC001 10/08 A3054 RMK AO2 SBGR 021600Z 05008KT 9000 SCT017 OVC020 20/16 Q1021 KVUJ 020355Z AUTO 23004KT 10SM CLR 24/22 A3000 RMK AO2 T02380215 SBGU 021400Z 07012KT 9999 OVC015 14/13 Q1022 SBIC 021600Z 05003KT 9999 SCT020 32/24 Q1013 SARC 021600Z 05003KT 9999 SCT018 BKN070 20/16 Q1012 KWMC 021456Z AUTO 00000KT 9SM CLR 28/10 A3011 RMK AO2 SLP131 T02780100 50010 $ SBGW 021600Z 03004KT 9999 BKN025 23/15 Q1020 SARE 021600Z VRB02KT 8000 SCT012 BKN018 19/16 Q1013 SARF 021600Z 11003KT 9999 SCT025 20/18 Q1012 KVUO 021553Z AUTO 30005KT 10SM CLR 24/14 A2999 RMK AO2 SLP155 T02390139 SBIH 021600Z 10004KT 9999 SCT023 34/23 Q1012 KVVG 021615Z AUTO 22009KT 10SM A3002 RMK A01 SARI 021600Z 05006KT 9999 BKN025 OVC100 19/18 Q1015 RJSA 021200Z 21011KT 9999 FEW015 SCT/// 19/15 Q1002 SASA 021600Z 02006KT 8000 BKN020 16/08 Q1014 SBHT 021600Z 12008KT 9999 BKN023 32/26 Q1012 RKJB 021600Z AUTO 20005KT 0900 ///002 21/21 Q1004 SBIL 021600Z 14007KT 9999 SCT025 FEW030TCU 28/22 Q1018 SARL 021600Z 09010KT 8000 OVC015 14/12 Q1015 RJSC 021000Z 34003KT 240V030 9999 FEW030 SCT070 BKN/// 25/17 Q1002 FQQL 021600Z 00000KT 9999 SCT020 BKN100 21/17 Q1023 SBJF 021600Z 03008KT 9999 BKN018 21/15 Q1023 RJSF 021000Z 26003KT 9999 FEW030 BKN/// 22/18 Q1004 SBIP 021600Z 02007KT 9999 SCT025 BKN060 25/16 Q1019 SARP 021600Z 07005KT 9999 BKN040 SCT100 20/15 Q1014 RJSH 021115Z 26015G25KT 9999 FEW030 SCT050 BKN080 23/16 Q1001 RMK 1CU030 3SC050 6AC080 A2956 RJSI 021000Z 27003KT 190V320 9999 FEW040 SCT050 BKN/// 24/17 Q1002 SARS 021330Z 11006KT 4000BR OVC007 15/15 Q1014 REFG SASJ 021600Z 09003KT 9999 FEW030 BKN100 16/12 Q1013 SCBA 021600Z 00000KT 9999 FEW010 OVC020 M02/M03 Q1021 RESHSN RKJK 021620Z AUTO 26007KT 3SM BR BKN008 22/22 A2964 RMK AO2 VISNO RWY18 CHINO RWY18 $ RJSK 021200Z 25008KT 9999 FEW020 SCT040 BKN070 21/17 Q1004 RJTC 020720Z VRB01KT 9999 FEW010 SCT015 BKN025 24/20 Q1002 RMK 1ST010 3SC015 5SC025 A2959 HAAB 021600Z 24006KT 9000-RA FEW022CB BKN024 17/12 Q1027 RJTE 021217Z 21008KT 160V250 9999 -RA SCT005 BKN012 BKN160 21/20 Q1005 RMK 4ST005 5ST012 7AC160 A2969 KVVV 021613Z AUTO 16005KT 10SM CLR 21/08 A3001 RMK AO2 RJSN 021200Z 22009KT 9999 FEW030 BKN040 24/15 Q1004 RJSO 011807Z 25005KT 9999 FEW005 SCT010 BKN020 17/16 Q0995 RMK 2ST005 4ST010 7CU020 A2939 RJTF 020800Z 00000KT 9999 FEW015 BKN025 BKN035 25/19 Q1001 SBKG 021600Z 10009KT 3000 -RA SCT007 BKN010 22/22 Q1017 SBJP 021600Z 13008KT 4500 -RA BKN014 BKN070 27/24 Q1015 SCAP 021600Z VRB02KT 0800 FG OVC002 01/00 Q1028 SBIZ 021600Z 15010KT 9999 SCT020 35/24 Q1012 SBJR 021600Z 19003KT 9999 FEW020 SCT100 25/22 Q1019 SCAR 021600Z 22009KT 9999 BKN030 19/12 Q1015 RJSR 021000Z 23010KT 9999 FEW015 SCT020 BKN040 21/18 Q1001 RJTI 020700Z 19006KT 140V220 9999 FEW010 BKN025 BKN/// 23/21 Q1001 SCAS 021600Z 00000KT 9999 SCT008 BKN030 04/03 Q1024 RJSS 021200Z VRB01KT 9999 FEW040 BKN/// 22/19 Q1002 RJTK 020739Z 20011KT 9999 FEW007 SCT015 BKN120 23/21 Q1001 RMK 1ST007 3CU015 6AC120 A2956 SBLB 021600Z /////KT 9999 FEW025 ///// Q//// W///S3 SCAT 021600Z 17003KT 090V230 8000 SKC 14/08 Q1019 SBJU 021600Z 18010KT 9999 BKN020 31/22 Q1018 RJTL 020338Z 21006KT 160V260 9000 FEW010 BKN015 BKN070 24/22 Q1001 RMK 1ST010 6CU015 7AC070 A2959 SBJV 021600Z 00000KT 9999 BKN018 OVC030 19/15 Q1021 KVWU 021611Z AUTO 23008KT 10SM SCT060 SCT075 21/14 A3000 RMK AO2 SBLE 021600Z 13003KT 9999 BKN040 28/17 Q1019 SCCF 021600Z 26007KT CAVOK 18/M14 Q1026 RJTO 020800Z 20015KT 3000 BR FEW001 BKN002 21/20 Q1002 SBKP 021600Z 18005KT 9999 FEW045 22/16 Q1020 RJSY 021200Z 23005KT 9999 FEW030 SCT050 BKN/// 22/17 Q1003 SCCH 021600Z 24008KT 5000 HZ SKC 10/07 Q1022 RJTR 020309Z VRB05KT 7SM BKN007 OVC014 23/21 A2960 SCCI 021600Z 27015KT 9999 SCT020 BKN200 04/02 Q1009 NOSIG SCDA 021600Z 22011KT 9000 FEW030 19/12 Q1016 SBMA 021600Z 13005KT 9999 SCT030 33/22 Q1013 RJTT 021600Z 18006KT 9999 FEW010 SCT150 BKN/// 22/20 Q1004 NOSIG RJTU 012116Z 07001KT 8000 FEW010 BKN070 BKN240 20/19 Q1002 RMK 1ST010 5AC070 6CI240 A2960 SAVC 021600Z 23003KT 9999 FEW035 SCT040 06/M01 Q1020 SBMD 012000Z 23003KT 9999 FEW025 ///// Q1011 SAVE 021320Z 20010KT 0500 FG SCT004 SCT010 00/M00 Q1017 SBME 021600Z 16007KT 9999 FEW030 29/20 Q1019 SBLO 021600Z 10006KT 4000 -RA SCT003 BKN005 BKN025 17/17 Q1019 SBMG 021600Z 06007KT 9999 -RA SCT010 BKN060 BKN100 18/16 Q1017 SBLP 021600Z 30004KT 9999 FEW030 31/14 Q1017 RJTY 021558Z AUTO 35003KT 7SM R18/5500FT BKN026 21/18 A2972 RMK AO2 SLP062 P0000 T02130183 SBLS 021600Z 16009KT 9999 FEW030 BKN080 23/15 Q1021 SBMK 021600Z 11007KT 070V160 9999 FEW030 27/11 Q1019 KVYS 021619Z AUTO 05012G16KT 10SM OVC017 18/13 A3000 RMK AO2 SBML 021200Z 15012KT 5000 BR SCT020 BKN070 17/15 Q1021 KWRB 021558Z AUTO 26007KT 10SM CLR 30/22 A3004 RMK AO2 SLP172 T02980220 SAWE 021600Z 25012KT CAVOK 04/03 Q1004 SBMN 021600Z 13005KT 9999 FEW020 31/22 Q1013 SBNF 021600Z 09004KT 9999 FEW020 BKN060 19/15 Q1020 SBMO 021600Z 17013KT 3500 BR BKN009 OVC070 23/22 Q1016 SCCY 021600Z 00000KT 4000 VCFG FEW005 SCT020 01/00 Q1022 SAWG 021600Z 27020KT 9999 FEW035 SCT100 BKN200 03/M07 Q1011 SAWH 021600Z 25018KT 9999 -RASN OVC015 01/00 Q1002 SBMQ 021600Z 05009KT 9999 SCT027 BKN100 34/25 Q1012 LOIH 021500Z 00000KT 35KM FEW060CU 34/17 Q1021 RMK FEW KXIH 021615Z AUTO 20010KT 8SM CLR 32/24 A3007 RMK A01 SBMS 021600Z 10007KT 9999 BKN030 35/20 Q1012 KWRI 021559Z AUTO 01006KT 10SM FEW036 BKN070 21/18 A2989 RMK AO2 RAE59 SCFA 021600Z 23006KT 9999 FEW019 BKN250 16/09 Q1017 NOSIG SBMT 021600Z 13006KT 7000 BKN018 OVC025 19/14 Q1021 SAVT 021035Z 23003KT 6000BR BKN017 SCT040 05/04 Q1015 SCEL 021600Z VRB01KT 8000 SCT180 14/02 Q1020 NOSIG KWRL 021553Z AUTO 00000KT 8SM CLR 23/12 A3017 RMK AO2 SLP173 T02330117 FQVL 021600Z 14009KT 120V180 9999 FEW020 20/15 Q1024 SAWP 021440Z 00000KT 9999 FEW009 BKN010 M02/M03 Q1019 SBMY 021600Z 11004KT CAVOK 33/20 Q1014 SBOI 021600Z 15004KT 9999 SCT015 SCT070 30/24 Q1013 SBPA 021600Z 10011KT 070V130 CAVOK 19/12 Q1018 SBPB 021600Z 05011KT 9999 FEW020 33/24 Q1012 SBNT 021600Z 11011KT 9999 BKN019 FEW030TCU BKN100 28/22 Q1014 SBPC 021600Z 06006KT CAVOK 22/15 Q1023 RKPC 021600Z 23005KT 6000 SCT030 BKN200 20/17 Q1004 NOSIG SCGE 021600Z VRB02KT 9000 FEW020 08/06 Q1023 SBPF 021600Z 06018KT 9999 FEW020 14/11 Q1017 RKNY 021600Z AUTO 24009KT 3000 NCD 20/14 Q1002 SBPJ 021600Z 09006G16KT 030V150 CAVOK 33/16 Q1014 SBPK 021600Z 07010KT 9999 SCT038 17/14 Q1019 SCFT 021600Z VRB02KT 4000 FU BR BKN005 01/01 Q1022 RKPK 021600Z 33001KT CAVOK 20/17 Q1004 NOSIG LPBJ 021600Z 33008KT 280V020 CAVOK 29/04 Q1019 MGCB 021600Z 02006KT 9999 BKN016 24/16 QFE 871.5 KWST 021553Z AUTO 19007KT 10SM CLR 24/16 A2992 RMK AO2 SLP131 T02440161 SBPL 021600Z 12014KT 9999 FEW040 29/16 Q1017 SBPN 021600Z 08005KT CAVOK 33/17 Q1013 SBPP 021600Z 01009KT 1000 BR OVC002 18/17 Q1015 RETS SBPR 021600Z 09008KT CAVOK 24/15 Q1021 LPAZ 021600Z 23020KT 9999 FEW006 BKN010 BKN048 21/20 Q1016 SBPS 021600Z 15006KT 9999 SCT020 BKN090 26/21 Q1019 SBRB 021600Z 33006KT 9999 BKN025 30/23 Q1014 SCIC 021600Z 19006KT 3000 HZ BKN006 08/05 Q1021 KXLL 020355Z AUTO 00000KT 10SM SCT075 20/16 A2991 RMK AO2 SAZM 021600Z 02015KT 9999 SCT032 OVC070 10/07 Q1019 SBPV 021600Z 31002KT 9999 SCT025 31/20 Q1013 SAZN 021600Z 23010KT CAVOK 12/05 Q1017 SCIE 021600Z 20004KT 160V230 9999 FEW010 12/08 Q1023 SBRF 021600Z 15004KT 9999 -RA BKN015 BKN060 25/23 Q1015 MGCP 021300Z 00000KT CAVOK 26/24 QFE1005.8 FEW200 SAZR 021115Z 00000KT 0200 FG NSC 04/04 Q1014 SAZS 021600Z 29019KT 9999 SCT030 FEW035 07/01 Q1019 KWVI 021553Z AUTO 00000KT 10SM SCT005 17/14 A3001 RMK AO2 SLP161 T01720139 SBRJ 021600Z 16009KT 9999 FEW015 BKN090 23/20 Q1018 SAZT 021610Z 05009KT 4500 -RABR FEW005 OVC030 09/08 Q1018 KXNA 021553Z 24011G22KT 10SM SCT024 27/22 A2988 RMK AO2 SLP102 T02720222 SBSC 021600Z 22008KT 9999 FEW020 OVC040 23/17 Q1019 FSIA 021600Z 15008KT 9999 -SHRA FEW014CB SCT016 BKN080 26/23 Q1015 TEMPO -SHRA KWVL 021615Z AUTO RMK AO1 SBQV 021600Z 10009KT 9999 SCT025 22/11 Q1022 KWWD 021615Z AUTO 03005KT 4SM TS SCT049 BKN060 OVC075 19/17 A2990 RMK AO1 LTG DSNT ALQDS TSB02 SBSG 021300Z 16010KT 9999 BKN025 27/24 Q1015 SBRP 021600Z 13004KT CAVOK 27/16 Q1017 SCIP 021600Z 00000KT 9999 SCT020 BKN250 17/16 Q1018 NOSIG RKSG 021558Z 18002KT 1 3/4SM R32/3500FT BR FEW010 21/19 A2964 RMK AO2A SLP040 T02080191 $ SCIR 021600Z 12011KT 9999 SCT016 BKN023 13/09 Q1025 RKSI 021600Z 27004KT 3000 BR FEW004 19/16 Q1004 NOSIG SBTA 021600Z 02006KT 9999 BKN025 22/16 Q1020 SBSJ 021600Z 08004KT 8000 BKN020 BKN070 24/16 Q1021 KXMR 021558Z AUTO 22006KT 10SM CLR 32/24 A3012 RMK AO2 SLP203 T03160237 $ SBTC 021600Z 18004KT 9999 FEW020 SCT100 29/22 Q1018 SBSL 021600Z 08009KT 9999 BKN017 FEW020TCU 30/23 Q1012 SBSM 021600Z 12008KT 9999 SCT015 16/12 Q1017 SBSN 021600Z 10008KT 9999 FEW020 FEW030TCU 31/25 Q1012 SBTE 021600Z 08004KT 9999 SCT020 33/23 Q1012 SBTF 021600Z 33005KT 9999 SCT020 31/24 Q1014 SCJO 021600Z 17003KT 130V260 9999 SCT012 10/08 Q1023 RKSO 021558Z 28001KT 3SM BR CLR 21/21 A2964 RMK AO2A SLP040 T02060206 $ SBSP 021600Z 11006KT 9999 BKN017 19/14 Q1022 SBSR 021600Z 20006KT 9999 SCT025 BKN070 22/16 Q1020 SBUA 021600Z 19003KT 9999 SCT017 FEW025TCU SCT090 31/24 Q1014 KWWR 021535Z AUTO 17005KT 10SM CLR 31/18 A2995 RMK AO2 RKSS 021609Z 32003KT 2500 BR FEW020 19/17 Q1003 NOSIG SBST 021600Z 19002KT 9999 SCT015 BKN030 22/18 Q1019 SBTK 021600Z 12003KT 9999 SCT020 30/24 Q1015 MGES 021600Z 03004KT 9999 SCT020 25/18 QFE 911.4 FEW200 LPFL 021600Z 34007KT 280V030 9999 SCT020 22/15 Q1013 SBSV 021600Z 14009KT 9999 SCT017 28/19 Q1017 RKTN 021600Z 33002KT CAVOK 22/16 Q1003 NOSIG SBUF 021600Z 16008KT 9999 SCT015 BKN070 25/22 Q1017 RKTP 020258Z 20009KT 9000 BR FEW020 FEW030 BKN110 26/19 A2958 SBUG 021600Z 08010KT 5000 BR SCT008 SCT020 OVC080 14/12 Q1015 LPFR 021600Z 25012KT CAVOK 26/17 Q1017 SBTT 021600Z 29003KT 9999 SCT017 ///// Q1015 SBUL 021600Z 03013KT CAVOK 24/13 Q1020 SBTU 021600Z /////KT 9999 BKN025 ///// Q1015 RKTU 021600Z 27004KT 4800 BR BKN030 21/16 Q1004 NOSIG VYYY 021600Z 23003KT 6000 BKN018 FEW022CB BKN100 26/25 Q1008 SBVH 021600Z 05007KT 9999 FEW020 30/18 Q1017 SBUR 021600Z 01006KT CAVOK 25/13 Q1019 SCMK 021600Z 17006KT 9999 BKN018 08/05 Q1022 KWYS 021610Z AUTO 06003KT 10SM CLR 20/08 A3030 RMK AO2 MGGT 021600Z 36014KT 9999 SCT018 SCT200 21/15 Q1025 A3027 KXPY 021615Z AUTO 17007KT 10SM CLR 29/24 A3012 RMK A01 YABA 021630Z AUTO 30005KT 9999 // NCD 12/09 Q1020 LPHR 021600Z 29015KT 9999 FEW009 BKN014 BKN030 21/18 Q1013 SBVT 021600Z 36004KT CAVOK 28/14 Q1018 KXSA 021615Z AUTO 34006KT 10SM SCT014 26/20 A2988 RMK AO2 T02590198 MGHT 021600Z 18008KT CAVOK 22/13 QFE 818.5 FEW200 WSAP 021500Z 15004KT 9999 FEW018 BKN300 29/25 Q1012 KYIP 021553Z AUTO 04005KT 10SM CLR 23/13 A3003 RMK AO2 SLP162 T02280128 TSNO SBYA 021600Z 27002KT 9999 FEW012 BKN020 29/24 Q1014 SCNT 021600Z 28024KT 250V310 9999 FEW036 BKN200 06/M02 Q1013 MHAM 021600Z 04006KT 9999 FEW030 34/21 SCON 021600Z 20003KT 140V220 9999 OVC015 09/06 Q1023 MHCA 021600Z 00000KT 9999 BKN024TCU 27/24 Q1017 TCU ALL LPLA 021600Z /////KT 9999 FEW014 BKN018 BKN035 21/18 Q1012 LQBK 021600Z 07004KT CAVOK 30/12 Q1022 NOSIG KYKM 021553Z 30008KT 10SM CLR 29/14 A2999 RMK AO2 SLP145 T02940139 KYKN 021615Z AUTO 06004KT 9SM FEW005 BKN014 16/14 A2998 RMK AO1 SCPQ 021600Z 18007KT 9999 FEW010 SCT023 08/06 Q1023 MHCH 021600Z 03008KT 9999 FEW032 34/21 SBYS 021600Z 15004KT 9999 FEW035 SCT080 24/16 Q1019 LPMA 021600Z 03012KT 010V070 9999 FEW018 23/15 Q1022 SCRD 021600Z 18005KT 8000 NSC 16/05 Q1019 SCRG 021500Z 12005KT 3800 HZ BKN100 08/07 Q1020 SCQP 021500Z 31003KT 250V350 0300 R01/0325V0500 FG VV002 07/07 Q1023 KXVG 021616Z AUTO 24005KT 10SM CLR 22/13 A3003 RMK AO2 SCRM 021600Z 26024KT 5000 DRSN BKN010 M12/M16 Q0981 MGMM 021600Z 12008KT 9999 BKN018 31/24 Q1015 A2997 SCSE 021600Z 18001KT 9999 OVC015 12/08 Q1019 LOWG 021620Z 13006KT 9999 FEW055 FEW060CB SCT070 BKN150 28/17 Q1023 TEMPO VCTS KYNG 021551Z 34008KT 10SM BKN020 21/16 A2998 RMK AO2 SLP148 T02110156 LOWI 021620Z 05011KT 020V110 9999 FEW070 FEW070TCU 30/17 Q1021 NOSIG SCTB 021600Z 23002KT 3000 HZ BKN120 13/05 Q1021 MGMT 021600Z 05004KT CAVOK 34/22 Q1009.0 BKN200 LOWK 021620Z 09006KT 030V160 9999 FEW060 FEW060CB SCT180 BKN300 29/17 Q1021 NOSIG SEAM 021600Z 12004KT 9999 FEW023 SCT030 BKN100 17/11 Q1030 LOWL 021620Z 13007KT 090V160 9999 FEW060 29/15 Q1022 NOSIG SCTE 021600Z 20006KT 9999 BKN040 09/09 Q1023 NOSIG SCSN 021600Z 25007KT 8000 SKC 14/07 Q1020 SECA 021600Z 10008KT 9999 FEW040 28/13 Q1017 LOWS 021620Z 02008KT 9999 FEW070 29/16 Q1022 NOSIG MGPB 021600Z 08006KT 9999 FEW020 BKN090 30/25 Q1013 A2991 SCTN 021600Z 18005KT 9999 FEW015 SCT020 BKN030 08/07 Q1023 LPPD 021600Z 24020KT 8000 FEW007 BKN014 21/20 Q1013 LOWW 021620Z VRB03KT CAVOK 30/13 Q1022 NOSIG LOWZ 021600Z 01011KT 50KM SCT080CU FEW080TCU 31/16 Q1021 RMK TCU SW/ SCT LOXT 021550Z 06007KT 020V090 35KM FEW070CU 31/14 Q1022 RMK FEW SCVD 021600Z 00000KT 2000 BR BKN003 08/08 Q1023 SECO 021600Z 16003KT 9999 FEW016 BKN100 27/26 Q1016 LOXZ 021550Z 13008KT 30KM FEW060CU FEW060CB 28/16 Q1023 RMK CB AND SH E/SCT LPPR 021600Z 32009KT 290V360 CAVOK 21/15 Q1021 LPPS 021600Z 02008G18KT 320V060 9999 FEW015 24/14 Q1022 SECU 021500Z 03006KT 9999 FEW033 19/10 Q1028 LPPT 021600Z 30010KT 270V350 9999 FEW045 24/13 Q1020 SCVM 021600Z 03005KT 9999 HZ NSC 13/08 Q1020 YBAF 021630Z AUTO 25008KT 9999 // NCD 08/05 Q1020 MGQZ 021600Z 36004KT 9999 FEW018 SCT200 20/10 QFE 769.2 YBAS 021630Z AUTO 00000KT 9999 // NCD 02/// Q1026 MGSJ 021600Z 17004KT CAVOK 33/22 Q1011 A2985 SCT200 MGRT 021600Z 21004KT CAVOK 31/23 Q1014 A2994 BKN200 VOL. STA. MARIA Y SANTIAGUITO EN ACTIVIDAD YBBN 021630Z 23010KT CAVOK 07/04 Q1020 LRBC 021600Z 33015KT 9999 FEW060 24/12 Q1022 YBCG 021630Z AUTO 20015KT 9999 // NCD 13/02 Q1019 YBCK 021630Z AUTO 15011KT //// // ////// 10/05 Q1022 YAMB 021600Z AUTO 21002KT 9999 // NCD 02/02 Q1020 LRAR 021600Z 36009KT CAVOK 28/11 Q1022 MHLC 021500Z 30003KT 9999 SCT024CB BKN200 30/24 Q1013 A2992 NOSIG LRBM 021600Z 01005KT 340V040 CAVOK 26/09 Q1023 YBDG 021630Z AUTO 18004KT 9999 // NCD 01/00 Q1028 MHLE 021600Z 08006KT 9999 FEW024 SCT200 23/13 LRBO 021600Z 26010KT 9999 SCT034 BKN100 23/13 Q1021 BLU BLU YBCS 021600Z 15005KT 9999 FEW025 18/15 Q1017 SEGS 021600Z 13015KT 9999 SCT026 SCT090 30/22 Q1012 A2990 LRBS 021600Z 06007KT 9999 -SHRA SCT055 21/15 Q1021 NOSIG YBCV 021630Z AUTO 15006KT 9999 // NCD 07/04 Q1024 SEGU 021600Z 13004KT 9999 FEW026 SCT100 28/22 Q1009 NOSIG A2981 LRCK 021600Z 31007KT 9999 FEW050CB 26/11 Q1019 NOSIG MGTU 021600Z 36006KT 9999 FEW018 SCT200 31/24 LRCL 021600Z 31009KT 9999 FEW058 26/11 Q1023 MHLM 021600Z 00000KT 9999 FEW024 BKN250 30/26 Q1013 A2992 NOSIG YBDV 021630Z AUTO 16007KT //// // ////// 08/02 Q1025 LRCT 021600Z 36010KT 9999 SCT055 25/12 Q1022 BLU BLU SEJD 021600Z 28005KT 9999 SCT020 SCT100 27/23 Q1018 RMK A3007 LRCV 021600Z 22004KT 180V260 CAVOK 28/13 Q1020 LQMO 021630Z VRB04KT 9999 FEW060 33/11 Q1018 BGBW 021550Z 25008KT 9999 FEW160 17/03 Q1020 ROAH 021600Z 19015KT 9999 FEW012 BKN/// 29/26 Q1006 SFAL 021550Z 30012KT 9999 FEW013 BKN200 02/M00 Q1011 GMAD 021600Z 25010KT 200V280 CAVOK 28/15 Q1014 NOSIG MHNO 021600Z 34006KT 9999 FEW040 28/20 Q1016 GMAG 021600Z 28010KT CAVOK 32/16 Q1012 NOSIG FTTA 021600Z 18006KT 9999 -TSRA FEW050CB 22/21 Q1014 FTTC 021500Z 00000KT 9999 SCT040 38/16 Q1010 FTTD 021500Z 00000KT 9999 SCT040 33/23 Q1010 HDAM 021600Z 04007KT 9999 FEW023 33/27 Q1006 YBHI 021630Z AUTO 13003KT 9999 // NCD 04/02 Q1028 KZPH 021615Z AUTO 00000KT 10SM CLR 32/18 A3014 RMK AO2 MGZA 021600Z 30004KT 9999 FEW017 31/22 QFE 988.4 FEW200 SEMC 021600Z 03006KT 9999 SCT020 BKN100 22/21 Q1020 FTTJ 021600Z 18009KT 9999 FEW040 37/25 Q1008 NOSIG YBHM 021630Z AUTO 16015KT 9999 // SCT013 SCT032 19/17 Q1018 MHPL 021500Z 07010KT 9999 BKN028TCU SCT250 30/25 Q1014 TCU ALL GMAT 021600Z 02016KT CAVOK 24/17 Q1015 NOSIG YARG 021600Z AUTO 13007KT 9999 // NCD 22/08 Q1019 BGGH 021550Z 20007KT 180V240 9999 SCT070 11/05 Q1021 SELT 021600Z 16017KT 9999 BKN030 16/12 Q1031 LRIA 021600Z 02010KT 9999 FEW050CB 23/12 Q1022 YARM 021630Z AUTO 28003KT 9999 // NCD M01/M02 Q1021 RODN 021558Z AUTO 17011KT 10SM CLR 29/28 A2973 RMK AO2 SLP072 T02880278 FVBU 021600Z 11007KT CAVOK 16/05 Q1027 NOSIG FTTY 021500Z 04016KT 9999 FEW040 43/10 Q1008 YCBA 021630Z AUTO 00000KT 9999 // NCD 02/02 Q1027 YCBB 021630Z AUTO 18009KT //// // ////// 03/02 Q1023 SEMT 021600Z 20007KT 9999 OVC020 27/23 Q1010 WSSL 021500Z 12004KT 9999 FEW018 BKN300 29/24 Q1012 RMK 1430Z Q1012 LQSA 021600Z 31004KT 260V070 9999 FEW070 27/13 Q1024 NOSIG SENL 021600Z 27002KT 9999 6000SW VCSH FEW016 BKN100 25/22 Q1017 YBKE 021630Z AUTO 18005KT //// // ////// 08/04 Q1026 MHSC 021558Z 02007KT 350V050 9999 SCT050 SCT250 29/19 A2999 RMK AO2A SLP109 T02900188 $ MHRO 021600Z 09018KT 9999 FEW020 BKN070 29/25 Q1014 A2995 NOSIG YCAR 021630Z AUTO 11005KT 9999 // ////// 12/12 Q1022 YCAS 021630Z AUTO 28004KT //// // ////// 04/02 Q1021 WSSS 021600Z 15007KT 8000 FEW016 BKN300 29/25 Q1012 NOSIG FVCZ 021200Z 10010KT CAVOK 25/08 Q1028 FVFA 021500Z 12010KT 070V150 CAVOK 22/06 Q1024 MHTE 021600Z 03006KT 9999 FEW024TCU SCT250 30/26 Q1012 TCU SW YCBP 021630Z AUTO 10007KT //// // NCD 08/03 Q1028 MHTG 021600Z 04006KT 9999 BKN026 SCT080 25/19 Q1019 A3009 NOSIG GMFF 021600Z 31007KT 260V020 9999 FEW033 32/15 Q1019 NOSIG YBMA 021630Z AUTO 16007KT 9999 // NCD 15/04 Q1021 YBKT 021630Z AUTO 17011KT //// // ////// 19/06 Q1018 MHSR 021600Z 03003KT 9999 SCT022 25/16 YBLN 021630Z AUTO 09001KT //// // ////// 12/12 Q1021 GMFK 021600Z 21010KT 170V240 9999 BKN030 39/M07 Q1019 NOSIG GMFM 021600Z 31006KT 9999 FEW026 31/12 Q1018 NOSIG BGJN 021550Z 23007KT 200V260 9999 FEW090 SCT200 17/01 Q1020 GMFO 021600Z 35018KT 9999 FEW030TCU SCT100 30/18 Q1017 NOSIG YBNA 021630Z AUTO 25009KT 9999 // NCD 10/03 Q1020 MHTR 021600Z 09009KT 9999 FEW024CB BKN090 30/23 CB NNW HZ YBMK 021630Z AUTO 24005KT 9999 // NCD 12/11 Q1018 SERB 021600Z 09008KT 9999 BKN040 SCT100 18/11 Q1030 FVHA 021600Z 13009KT 100V160 9999 BKN040 15/08 Q1029 NOSIG YCEE 021630Z AUTO 36007KT //// // ////// 09/08 Q1028 SEQM 021600Z 36004KT 9999 FEW040 23/05 Q1025 NOSIG RMK A3027 YCDO 021630Z AUTO 24001KT //// // ////// 00/M01 Q1026 BGKK 021550Z 07009KT 9999 FEW180 06/00 Q1022 YCCY 021630Z AUTO 18006KT //// // ////// 14/05 Q1020 ROIG 021100Z 20012KT 9999 FEW016 BKN/// 30/27 Q1004 LQTZ 021600Z 10003KT 070V130 9999 FEW060 28/17 Q1023 SESA 021600Z 23010KT 9999 BKN010 25/21 Q1010 YCDU 021630Z AUTO 07005KT 9999 // NCD 03/02 Q1028 YCEM 021630Z AUTO 00000KT //// // ////// 02/02 Q1028 SESD 021600Z 28003KT 2000 -RA BR OVC005 23/22 Q1011 GLRB 021630Z 26004KT 9999 BKN012 27/24 Q1013 SERO 021600Z VRB03KT 9999 SCT016 29/26 Q1009 YBNS 021600Z AUTO 28010KT 9999 // SCT031 SCT036 SCT048 06/04 Q1027 YBOK 021630Z AUTO 27006KT 9999 // NCD 02/01 Q1022 YCFL 021630Z AUTO 14016KT //// // ////// 23/16 Q1016 SESM 021600Z 09002KT 9999 -DZ FEW002 SCT023 OVC100 21/20 Q1021 A3015 YAYE 021630Z AUTO 14006KT 9999 // NCD 07/M01 Q1026 LROD 021600Z 06008KT 030V100 CAVOK 28/08 Q1023 YCFS 021630Z AUTO 24007KT 9999 // NCD 10/03 Q1021 SGAS 021622Z 10004KT 9000 -RABR BKN020 BKN080 20/19 Q1011 RETS SEST 021600Z 15012KT 9999 FEW020 27/24 Q1009 A2981 HEBA 021600Z 33013KT 9999 FEW020 26/19 Q1014 NOSIG FVKB 021500Z 05001KT CAVOK 25/11 Q1021 NOSIG YBPN 021630Z AUTO 22004KT 9999 // NCD 12/12 Q1018 LSGC 021620Z 03005KT 340V100 CAVOK 30/14 Q1025 RMK HIGH DENSITY ALTITUDE SETN 021600Z 24007KT 9999 FEW026 BKN100 28/24 Q1009 A2981 LSGG 021620Z 23014KT 190V250 CAVOK 35/11 Q1021 NOSIG LROP 021600Z 09005KT 9999 -SHRA SCT050CB 21/16 Q1021 NOSIG ROLI 021500Z 09002KT 9999 FEW019 27/25 Q1007 RESH RMK A2974 YCHK 021630Z AUTO 05002KT 9999 // NCD 13/05 Q1023 HEAR 020300Z 00000KT 9999 SCT020 19/19 Q1012 NOSIG SETU 021600Z 05010KT 9999 BKN020 15/09 Q1033 HECA 021600Z 34008KT CAVOK 30/12 Q1012 NOSIG HEAT 021600Z 01009KT CAVOK 33/12 Q1012 NOSIG HEBL 021600Z 33010KT CAVOK 37/08 Q1009 NOSIG HEAX 021600Z 34015KT 9999 FEW020 26/18 Q1013 NOSIG MHYR 021500Z 27004KT 9999 SCT020 BKN080 24/20 YBRK 021630Z AUTO 21006KT 9999 // NCD 12/04 Q1020 YBRL 021630Z AUTO 16003KT //// // ////// 18/15 Q1017 LSGS 021620Z 26013KT 9999 SCT100 35/17 Q1019 YBRM 021630Z AUTO 12006KT 9999 // NCD 23/15 Q1018 YCIN 021630Z AUTO 16007KT //// // NCD 20/08 Q1017 GMMB 021600Z 35014KT 320V050 9999 SCT020 27/18 Q1019 NOSIG FWCL 021400Z 24012KT 9999 FEW035 BKN100 22/10 Q1024 NOSIG GMMC 021600Z 36014KT 9999 SCT016 24/20 Q1017 YBSG 021630Z AUTO 18003KT //// // OVC083 20/18 Q1015 GMME 021600Z 35012KT 9999 SCT020 25/17 Q1017 NOSIG GMMH 021600Z 34024KT CAVOK 23/17 Q1015 NOSIG GMMI 021600Z AUTO 02019KT 9999NDV NCD 29/17 Q1014 NOSIG LTAB 021407Z 32014KT 9999 -TSRA FEW025CB BKN035 24/09 Q1016 BECMG TL1450 VRB02KT NSW RMK RWY06 VRB10KT LRSB 021600Z 35007KT 9999 FEW055 BKN074 24/09 Q1023 LTAC 021550Z 29006KT 9999 SCT040 21/14 Q1017 NOSIG LTAD 021606Z 09006KT 9999 FEW027CB BKN035 20/17 Q1017 REPRRA NOSIG RMK RWY29 12003KT 080V190 SGEN 021600Z 08013KT 9999 SCT025 BKN080 18/15 Q1013 KZZV 021553Z AUTO 09004KT 10SM OVC044 23/15 A2996 RMK AO2 SLP138 T02280150 GMML 021600Z 04018KT CAVOK 28/16 Q1016 NOSIG YBRY 021630Z AUTO 00000KT 9999 // NCD 13/04 Q1024 YBTH 021630Z AUTO 06004KT 360V070 9999 // NCD M01/M02 Q1024 LTAF 021550Z 18007KT 9999 SCT035 28/21 Q1009 NOSIG GMMN 021600Z 01014KT 340V050 9999 FEW016 27/18 Q1018 NOSIG ROMY 021100Z 20012KT 9999 FEW020 SCT/// 29/26 Q1005 LTAG 021550Z 19008KT 9999 SCT035 28/21 Q1010 NOSIG LTAH 021233Z 35010KT 9999 -TSRA FEW030CB BKN035 23/13 Q1017 RETS RMK RWY13 36008KT 340V050 SGES 021600Z 06006G16KT 9999 BKN027 OVC070 20/18 Q1014 LTAI 021550Z 13005KT 9999 SCT030 28/16 Q1010 NOSIG YBSU 021600Z AUTO 23007KT 9999 // NCD 09/03 Q1018 YBTL 021630Z AUTO 00000KT 7000 // NCD 15/15 Q1017 LTBA 021550Z 03011KT 360V100 CAVOK 26/14 Q1018 NOSIG LTAJ 021550Z 24010KT CAVOK 32/10 Q1010 NOSIG YBUD 021630Z AUTO 22010KT 9999 // NCD 10/04 Q1019 YCKN 021630Z AUTO 00000KT 9999 // NCD 18/17 Q1016 LTAL 020601Z VRB02KT 9999 SCT033 BKN100 18/13 Q1021 LRTC 021600Z 35015KT 9999 FEW050CB 25/07 Q1020 LTBD 020329Z 07005KT 9999 FEW036 SCT100 19/19 Q1014 LRSM 021600Z 03005KT CAVOK 25/13 Q1022 FVMV 021500Z 15007KT CAVOK 19/04 Q1027 LTAN 021550Z 02015KT 9999 FEW040 27/06 Q1015 NOSIG LTBF 021550Z 02015KT CAVOK 26/10 Q1017 NOSIG GMMW 021600Z 04010KT 010V090 CAVOK 29/17 Q1016 NOSIG LTAP 021550Z 03016KT 9999 SCT040 21/13 Q1016 NOSIG GMMX 021600Z VRB05KT CAVOK 35/11 Q1016 NOSIG BGSF 021550Z AUTO 26006KT 230V290 9999NDV NCD 19/02 Q1019 LTAR 021550Z 35016KT CAVOK 19/10 Q1020 GMMZ 021600Z 18009KT 140V210 CAVOK 39/M07 Q1019 NOSIG LTAS 020519Z VRB02KT 9999 FEW032 BKN100 20/15 Q1018 RMK RWY18 00000KT LTBJ 021550Z 03016KT 9999 FEW030 29/12 Q1013 NOSIG LTCA 021550Z 01006KT 340V040 CAVOK 35/06 Q1010 NOSIG LTCB 020949Z 23004KT 190V260 9999 SCT015 FEW023CB BKN028 21/19 Q1017 RESHRA LTAT 021550Z 07007KT CAVOK 34/08 Q1010 NOSIG LTAU 021550Z 34012KT 9999 FEW040 27/10 Q1015 BECMG VRB02KT LTCC 021550Z 26011KT CAVOK 36/M01 Q1008 NOSIG LTAV 021310Z 36010KT 9999 -TSRA FEW020CB BKN035 23/11 Q1017 RMK RWY11 01010KT 330V040 LRSV 021600Z 35015KT CAVOK 22/11 Q1024 LRTM 021600Z 32009KT 9999 FEW039 FEW041TCU 26/11 Q1022 LTCD 021550Z 24005KT CAVOK 32/06 Q1012 NOSIG YDBY 021630Z AUTO 20006KT //// // ////// 18/08 Q1017 LTCE 021550Z 27005KT CAVOK 27/03 Q1018 NOSIG LTBO 020916Z 06008KT 020V090 9999 FEW027CB BKN035 BKN090 22/12 Q1018 RETSRA RMK RWY09 02009KT 350V060 BIBD 021600Z 01007KT 9999 BKN040 12/// Q1014 LTCF 021550Z 09012KT CAVOK 22/15 Q1019 LTAY 021519Z 06011KT 4500 -TSRA BR BKN025CB 17/14 Q1017 RETSRA RMK RWY06 13007KT LTCG 021550Z 22005KT 160V260 9999 BKN035 BKN100 23/17 Q1017 NOSIG LTBQ 021550Z 01008KT 9999 SCT035 24/15 Q1018 NOSIG LTAZ 021550Z 35010KT 9999 FEW040 28/08 Q1015 LTCI 021550Z 03003KT 270V080 CAVOK 27/08 Q1018 NOSIG LRTR 021600Z 36008KT 310V030 CAVOK 29/12 Q1021 LTBR 021550Z 05014KT 9999 FEW035 25/13 Q1018 NOSIG LTBS 021550Z 17013KT 9999 FEW030 27/18 Q1010 NOSIG LTCJ 021550Z 19004KT CAVOK 35/14 Q1007 LSMA 021550Z AUTO 06008KT 9999NDV NCD 33/20 Q1021 RMK BLU YCMM 021630Z AUTO 00000KT //// // ////// 07/// Q1029 LTCK 021450Z 23008KT 190V280 CAVOK 33/M02 Q1014 BIAR 021600Z 03006KT 9999 BKN026 08/06 Q1015 LTBU 021550Z 04012KT CAVOK 25/11 Q1019 LSMD 021550Z AUTO 08003KT 020V170 9999NDV NCD 34/14 Q1021 RMK BLU BGTL 021558Z AUTO VRB03KT 9999 OVC002 04/03 A2998 RMK AO2 SLP136 T00380028 $ LSME 021550Z AUTO VRB02KT 9999NDV FEW240 34/18 Q1021 RMK BLU HEGN 021600Z 31010KT CAVOK 32/21 Q1008 NOSIG LRTZ 021600Z VRB03KT 9999 SCT035 BKN100 24/15 Q1020 BLU BLU YCMT 021630Z AUTO 17003KT //// // ////// 09/04 Q1021 YCNK 021630Z AUTO 07001KT //// // ////// 04/01 Q1023 YCNM 021630Z AUTO 20007KT //// // ////// 03/03 Q1025 YCOE 021630Z AUTO 08005KT //// // ////// 20/15 Q1015 LSMM 021550Z AUTO 24004KT 9999NDV NCD 33/18 Q1022 RMK BLU YBWP 021630Z AUTO 14003KT 9999 // OVC085 21/18 Q1015 LTCW 020502Z 00000KT CAVOK 22/06 Q1023 LSMP 021550Z AUTO 23010KT 9999NDV NCD 35/14 Q1020 RMK BLU RORS 021000Z 20012KT 9999 FEW018 BKN/// 30/26 Q1004 LSMS 021350Z 27012KT 240V310 9999 FEW080 35/17 Q1019 YCOM 021600Z AUTO 22011KT 9999 // SCT025 M01/M03 Q1024 YBWW 021630Z AUTO 13002KT 9999 // NCD 03/03 Q1021 LTFC 021550Z 33015KT 9999 FEW025CB SCT030 20/16 Q1016 YBWX 021600Z AUTO 16005KT //// // ////// 20/18 Q1020 YCNY 021630Z AUTO 18007KT //// // ////// 18/04 Q1019 LTFE 021550Z 26014KT 9999 FEW020CB SCT035 30/13 Q1011 NOSIG LTFH 021550Z 30004KT 270V330 9999 SCT033 BKN100 23/18 Q1017 NOSIG BIEG 021600Z 36010KT 9999 SHRA SCT025 BKN044 OVC065 09/08 Q1014 RPLB 021600Z 00000KT 9999 FEW018CB FEW020 BKN080 27/25 Q1006 RMK A2971 CB NW LTFJ 021550Z 04014KT CAVOK 24/15 Q1018 NOSIG LTFK 021247Z 31010KT 9999 FEW020TCU 27/17 Q1018 GMTA 021600Z 02008KT CAVOK 26/21 Q1016 NOSIG RPLC 021600Z 34004KT 9999 FEW020 BKN300 26/25 Q1007 RMK NOSIG A2976 ROTM 021558Z 22012G20KT 9999 BKN015 BKN180 29/27 A2974 RMK SLP055 T02890267 RPLI 021500Z 09002KT 9999 FEW019 27/25 Q1007 RESH RMK A2974 FWKI 021400Z 09012KT 9999 FEW030 BKN100 20/09 Q1024 NOSIG RPLL 021600Z 19003KT 130V250 9999 FEW025 28/25 Q1007 NOSIG RMK A2974 RPMD 021500Z 30003KT 9999 FEW016 BKN090 OVC290 25/23 Q1010 RMK A2983 FVTL 021500Z 11005KT CAVOK 17/05 Q1027 GMTN 021600Z 09009KT 060V120 CAVOK 30/15 Q1016 NOSIG HEMA 021600Z VRB03KT CAVOK 30/14 Q1009 NOSIG GMTT 021600Z 31009KT 9999 FEW016 25/18 Q1017 NOSIG HEMM 021600Z 36013KT CAVOK 26/20 Q1015 NOSIG BIHN 021600Z 28006KT 9999 FEW008 SCT012 OVC020 11/// Q1014 HELX 021600Z 27004KT CAVOK 37/15 Q1008 NOSIG RPMZ 021500Z 27002KT 9999 FEW017CB BKN100 27/26 Q1012 RMK A2988 CB NW-NE AND OHD BIHU 020824Z 35003KT 6500 DZ SCT004 OVC006 07/// Q1014 FVWN 021500Z 14008KT CAVOK 24/07 Q1024 MKJP 021600Z 14025KT 9999 FEW024 31/25 Q1014 MKJS 021600Z 06017KT 9999 FEW022 31/25 Q1015 YCUN 021630Z AUTO 08004KT //// // ////// 13/12 Q1023 BIIS 021600Z 05010KT 9999 FEW018 SCT025 OVC035 08/06 Q1015 LUBL 021630Z 02009KT 350V050 9999 -SHRA BKN045CB 17/13 Q1023 YDLQ 021630Z AUTO 21006KT //// // ////// 00/M02 Q1028 YCWA 021630Z AUTO 00000KT 9999 // NCD 07/04 Q1024 GOGG 021600Z VRB02KT 9999 SCT016 SCT130 35/25 Q1014 BIKF 021600Z 15013KT 9999 SCT018 BKN022 BKN027 11/08 Q1012 GOGK 021600Z VRB02KT 9999 BKN016TCU BKN230 37/23 Q1011 HEPS 021600Z 33015KT CAVOK 26/22 Q1013 NOSIG GOGS 021600Z 30008KT 9999 FEW013 SCT130 32/23 Q1013 YCWR 021630Z AUTO 10003KT //// // ////// 00/00 Q1026 HESC 021600Z 03010KT 9999 SCT025 28/11 Q1019 NOSIG HESH 021600Z 02007KT CAVOK 32/17 Q1007 NOSIG YDPO 021600Z AUTO 20004KT 150V220 9999 // NCD 03/// Q1024 HESN 021600Z 31012KT CAVOK 38/04 Q1008 NOSIG LSZA 021620Z 19007KT CAVOK 31/20 Q1021 NOSIG LSZB 021620Z 30003KT 250V340 CAVOK 35/17 Q1021 NOSIG LSZC 021620Z VRB03KT 9999 FEW070 31/21 Q1021 LSZG 021620Z 27004KT 9999 VCTS FEW045 SCT070CB 33/18 Q1021 NOSIG LSZH 021620Z 07006KT 020V100 CAVOK 34/15 Q1021 NOSIG LSZL 021550Z AUTO 26003KT 220V300 9999NDV NCD 31/21 Q1020 RMK BLU RPVM 021600Z 22012KT 9999 FEW020 OVC090 28/23 Q1008 RMK A2977 LSZR 021620Z VRB01KT CAVOK 33/14 Q1021 NOSIG RMK M LSZS 021620Z 30011KT 270V330 9999 FEW050 26/03 Q1030 MMAA 021548Z 00000KT 8SM FEW080 SCT300 33/23 A2986 RMK 8/032 TCU S-SW FXMM 021500Z 09004KT CAVOK 15/M00 Q1030 NOSIG YELD 021630Z AUTO 14006KT //// // ////// 23/21 Q1015 CAHR 021600Z AUTO 20013G20KT 23/17 RMK AO1 PK WND 21021/1528 SLP066 T02310168 58001 BIRK 021600Z 25007KT 9999 FEW028 BKN040 13/07 Q1012 MMAN 021540Z 09003KT 7SM SCT025 BKN090 26/20 A3004 RMK 8/570 HZY GOOD 021600Z 30002KT 9999 SCT015 SCT130 40/21 Q1011 YFBS 021630Z AUTO 00000KT //// // ////// M01/M02 Q1026 GOOG 021600Z 16004KT CAVOK 40/21 Q//// MMAS 021541Z 22004KT 10SM SCT028 BKN030TCU 15/10 A3029 RMK 8/200 MDT TCU FRMG ARND ISOL AC CI MMCB 021545Z 00000KT 8SM SCT030 BKN080 OVC200 25/17 A3016 RMK 8/177 HZY LUKK 021630Z 01009KT 9999 SCT049CB 23/10 Q1020 R08/CLRD65 TEMPO 03016G26KT 4100 TSRA BKN012 GOOK 021600Z 00000KT 9999 SCT016 SCT130 40/22 Q1012 FYGB 021600Z AUTO 09003KT //// // ////// 21/M00 Q1027 YFDF 021630Z AUTO 13002KT 9999 // NCD 14/05 Q1023 MMCE 021548Z 12011KT 6SM FEW015 BKN080 BKN280 29/23 A2996 RMK 8/178 HZY CBBC 021600Z AUTO 36003KT 270V070 9SM CLR 17/11 A3019 RMK SLP223 YEML 021630Z AUTO 15011KT 9999 // NCD 10/05 Q1021 MMBT 021545Z 00000KT 4SM HZ SCT035 OVC200 30/21 A2993 RMK 8/101 BINOVC MMCL 021540Z 03006KT 10SM BKN090 BKN230 31/23 A2992 RMK 8/034 MMCM 021540Z 07010KT 7SM BKN015 BKN200 28/26 A2998 RMK 8/502 RA W RAE20 MMCN 021548Z 00000KT 10SM SCT080 BKN100 30/22 A2988 RMK 8/090 HZY MMCP 021541Z 09012KT 7SM SCT030 SCT220 30/24 A2995 RMK 8/101 GOOY 021630Z 26005KT 200V340 9999 FEW008 31/23 Q1012 NOSIG MMCS 021544Z 00000KT 10SM BKN250 31/11 A2998 RMK 8/008 MMCT 021541Z 15010KT 8SM BKN015 BKN180 30/24 A3003 RMK 8/408 HZY MSGTX MMMD MMCU 021543Z 00000KT 10SM FEW030 FEW080 28/11 A3011 RMK 8/170 MMCV 021541Z 17004KT 6SM SCT040 BKN080 28/20 A3000 RMK 8/530 HZY MMDO 021540Z 00000KT 12SM FEW020 BKN100 OVC200 18/15 A3027 RMK 8/537 HZY BINOVC MMCZ 021540Z 10013KT 8SM SCT015TCU BKN250 28/24 A3003 RMK 8/208 AC FZAA 020530Z 00000KT 4000 BR FEW016 BKN100 21/19 Q1016 BECMG 1500 BIVM 021600Z 10014KT 9999 FEW007 SCT030 BKN060 09/09 Q1012 MMEP 021548Z 00000KT 12SM SCT015 BKN160 BKN250 28/19 A3006 RMK 8/139 GOSM 021600Z 28004KT CAVOK 41/20 Q1010 GOSP 021600Z 24002KT CAVOK 41/20 Q1011 GOSS 021600Z 29010KT 140V350 CAVOK 30/24 Q1012 GOTK 021600Z 00000KT 9999 SCT020 BKN230 37/21 Q1011 MMGL 021551Z 00000KT 7SM BKN015TCU 21/15 A3022 RMK 8/200 CI MMGM 021543Z 00000KT 10SM FEW150 33/24 A2984 RMK 8/030 HZY FYKM 021600Z 02004KT CAVOK 23/08 Q1023 MMIA 021545Z 00000KT 8SM FEW020 SCT230 27/21 A3001 RMK 8/108 HZY YERN 021630Z AUTO 10004KT //// // ////// 07/00 Q1027 GOTT 021600Z 04004KT CAVOK 38/22 Q1011 FYKT 021600Z 04006KT CAVOK 24/M08 Q1022 MMHO 021549Z 00000KT 10SM SCT080 BKN200 31/24 A2994 RMK 8/033 HZY NCPY 021600Z AUTO 14006KT //// ////// 26/21 Q1009 NCRG 021600Z 16003KT 9999 FEW025 BKN045 20/12 Q1015 FYML 021600Z AUTO 02002KT //// // ////// 26/M03 Q1025 YESP 021630Z AUTO 01013KT 9999 // SCT075 BKN087 12/12 Q1023 MMIO 021540Z 17005KT 10SM OVC100 22/17 A3019 RMK 8/07/ OCNL DROPS YGBI 021630Z AUTO 13012KT //// // ////// 24/19 Q1015 FYLZ 021600Z AUTO 19011KT //// // ////// 12/09 Q1019 MMIT 021540Z 36012KT 6SM FEW070 FEW180 32/21 A2985 RMK 8/011 HZ FYOA 021200Z 01008KT CAVOK 28/M01 Q1021 YFLI 021630Z AUTO 23010KT 9999 // BKN040 OVC045 09/03 Q1024 MNBL 021600Z 08008KT 9999 SCT017 30/26 Q1012 YGDH 021630Z AUTO 17005KT //// // ////// 01/M01 Q1023 FYOO 021600Z AUTO 09006KT //// // ////// ///// Q1021 MNCH 021600Z 09006KT 9999 FEW025 32/21 Q1010 MMMA 021615Z 15005KT 6SM SCT015CB OVC070 23/22 A3003 RMK 8/32/ HZ -RAE12 PCPN 1 2 QUAD VRB COND MMLM 021548Z 10004KT 10SM BKN100 OVC200 29/20 A2991 RMK 8/027 ISOL CU MMMD 021544Z 12012KT 7SM SCT100 OVC300 30/23 A3001 RMK 8/077 HZY CU HALO MMLO 021547Z 18005KT 7SM SCT030 BKN120 BKN220 19/15 A3031 RMK 8/538 FRMG TCU HZY PCPN N ABD E FYOW 021600Z AUTO 11031G70KT //// // ////// 22/M04 Q1023 MMLP 021549Z 00000KT 10SM FEW120 SCT200 30/17 A2991 RMK 8/036 YGEL 021630Z AUTO 02010KT 9999 // NCD 14/13 Q1022 MMLT 021445Z 00000KT 8SM BKN140 30/23 A2987 RMK SLP115 8/020 MMML 021544Z 16006KT 10SM SKC 30/22 A2989 RMK ISOL-CI MMMM 021542Z 23003KT 5SM BKN012 19/15 A3026 RMK 8/100 HZY TCU/N/NE MMMT 021543Z 36010KT 7SM FEW030 SCT190 29/20 A2990 RMK 8/101 MMNL 021541Z 17008KT 8SM SCT025 29/22 A2999 RMK 8/500 HZ YGFN 021630Z AUTO 14003KT 9999 // NCD 07/02 Q1021 MMMV 021542Z 00000KT 8SM FEW050 SCT100 24/18 A2999 RMK 8/570 HZY FYRN 021600Z 17007KT CAVOK 23/03 Q1023 MMMX 021550Z 06004KT 4SM FEW020 BKN080 OVC200 18/12 A3034 NOSIG RMK 8/832 HZY BINOVC SKBG 021600Z 34006KT 9999 SCT017 28/19 A2997 MMMY 021546Z 08008KT 6SM SCT030 BKN080 BKN200 25/19 A3000 RMK 8/572 HZY SKAR 021600Z 00000KT 9999 SCT030 SCT120 27/17 A3004 MMMZ 021548Z 10005KT 15SM FEW018 SCT100 BKN230 28/21 A2989 RMK 8/139 MMPA 021543Z 36006KT 4SM SCT015 BKN030 OVC070 26/23 A3000 RMK 8/85/ HZY BINOVC MMPB 021547Z 13002KT 5SM FEW012 BKN100 BKN220 17/12 A3034 RMK 8/538 HZY SKCC 021600Z 15030 9999 FEW020 SCT090 31/18 A2994 MMPE 021456Z RTD 00000KT 10SM SKC 30/20 A2989 RMK HZY SKBO 021600Z 13016KT 99999 SCT020 18/06 A3037 SKCG 021600Z 33010KT 9999 FEW017 32/26 A2977 MMPG 021545Z 12008KT 4SM BKN015 25/21 A3001 RMK 8/5// HZY SKBQ 021600Z 36009KT CAVOK 32/25 A2979 SKCL 021600Z 17003KT 9999 FEW040 BKN300 29/18 A2994 MMPN 021554Z 18007KT 12SM SCT120 SCT250 23/18 A3018 RMK 8/072 HZY CU MMOX 021540Z 36003KT 10SM FEW025 SCT100 SCT200 22/11 A3023 RMK 8/132 MMPQ 021608Z RTD 09013KT 5SM SCT030 BKN070 BKN200 29/23 A2991 RMK 8/138 HZY MSGTX MMMD MMPR 021549Z 00000KT 15SM FEW250 31/23 A2989 RMK 8/001 TCU/E MMPS 021540Z 23004KT 7SM BKN230 31/23 A2996 RMK 8/006 HZY CU N YHBA 021630Z AUTO 23004KT 9999 // NCD 08/05 Q1019 SKEJ 021600Z 24005KT 9999 FEW015 33/24 A2976 YFRT 021600Z AUTO 06009KT //// // ////// 08/02 Q1025 MMQT 021550Z 12006KT 6SM BKN015 OVC120 20/15 A3032 RMK 8/17/ BINOVC HZY BKPR 021630Z 02009KT 9999 FEW050 25/09 Q1023 NOSIG FYWB 021500Z 26005KT CAVOK 17/10 Q1018 MMSD 021543Z 32006KT 15SM SCT250 31/18 A2992 RMK 8/002 FYWE 021500Z 00000KT CAVOK 23/M06 Q1027 MNJG 021600Z 36004KR 3000 -DZ BKN016 22/19 Q1013 YGLA 021630Z AUTO 20007KT 9999 // NCD 12/05 Q1019 YGLB 021630Z AUTO 00000KT //// // ////// M06/M07 Q1024 TAPA 021600Z 08015KT 9999 SCT020 30/23 Q1018 NOSIG FYWH 021600Z 09003KT CAVOK 20/M06 Q1027 NOSIG GQNI 021500Z 36014KT 3000 BLSA NSC 41/15 Q1009 MMTB 021600Z 00000KT 7SM SKC 28/18 A3000 RMK RMK ISOLD CU MMSL 021546Z 24009KT 9SM SKC 29/23 A2994 RMK HZY AC MMTC 021545Z 11003KT 10SM FEW015 BKN080 26/17 A3010 RMK 8/570 HZY YHAY 021600Z AUTO 18006KT //// // ////// 02/M01 Q1028 GQNN 021630Z 29008KT 7000 NSC 28/21 Q1012 NOSIG MMRX 021540Z 16008G18KT 8SM BKN025 BKN140 28/22 A2999 RMK 8/530 BLDU HZY FU YGLI 021630Z AUTO 18007KT 9999 // NCD 01/M02 Q1021 MMTG 021543Z 14003KT 10SM FEW020 SCT300 26/17 A2997 RMK 8/102 MMSP 021546Z 03005KT 10SM FEW015 OVC020 17/14 A3027 RMK 8/5// HZY LWRSC MMTJ 021549Z 24003KT 1SM BR OVC002 19/17 A3005 RMK 8/6// GQPA 021200Z 22008KT 8000 NSC 37/02 Q1015 MNJU 021600Z 08008KT 9999 SCT020 31/24 Q1012 MMTM 021545Z 29005KT 7SM SCT100 27/23 A2999 RMK 8/070 CU N HZY YFTZ 021630Z AUTO 00000KT //// // ////// 19/05 Q1018 MMTO 021546Z 27004KT 4SM SCT015 BKN070 BKN200 17/12 A3039 RMK 8/132 HZ FYWW 021600Z 27004KT CAVOK 21/M03 Q1026 MMTP 021541Z 00000KT 10SM BKN200 31/26 A2987 RMK 8/006 YGLS 021630Z AUTO 08007KT //// // ////// 12/M00 Q1025 SKIB 021600Z 18008KT 140V210 9999 FEW040 SCT200 31/16 A3008 MMVA 021546Z 11015G26KT 7SM FEW010 SCT200 30/22 A2994 RMK 8/106 MMUN 021548Z 11011KT 7SM SCT018TCU SCT300 30/25 A3004 RMK 8/208 HZY K04V 021616Z AUTO 12005KT 10SM CLR 18/11 A3037 RMK AO2 K06D 021615Z AUTO 33006KT 10SM 22/17 A2998 RMK AO2 K04W 021613Z AUTO 23003KT 10SM CLR 22/13 A3004 RMK AO2 MNMG 021600Z 07016KT 9999 SCT023 31/22 Q1010 A2983 NOSIG GQPP 021600Z 34018KT 4000 DRSA FEW008 23/17 Q1012 NOSIG SKIP 021600Z 08007KT 9999 BKN018 14/09 A3051 GQPZ 021500Z 04016KT CAVOK 44/13 Q1013 MMVR 021544Z 30004KT 5SM FEW030 BKN070 OVC200 26/24 A2997 RMK 8/677 HZY K08D 021615Z AUTO 33009KT 4SM BR CLR 22/20 A3004 RMK AO2 LWOH 021330Z 16006KT 9999 FEW040 23/14 Q1023 SLCA 021600Z 00000KT 9999 OVC020 20/15 Q1014 SLCB 021600Z 00000KT 9000 NSC 21/02 Q1024 SKLC 021600Z 33008KT 9999 SCT020 32/24 A2978 LXGB 021550Z 20018KT CAVOK 26/18 Q1016 NOSIG MNPC 021600Z 08010KT 7000 BKN016 30/26 Q1012 HZ NFFN 021600Z 03004KT 9999 FEW030 BKN300 20/17 Q1012 NOSIG YHID 021630Z AUTO 11011KT 9999 -SHRA NCD 24/19 Q1014 SKMD 021600Z 36010KT 9999 FEW040 BKN200 28/10 A3010 MMZC 021546Z 00000KT 8SM BKN020 OVC130 17/13 A3031 RMK 8/87/ SLCO 021600Z 33006KT 9999 SCT020 30/24 Q1015 SLCP 021600Z 36012KT 9999 BKN015 27/23 Q1016 MMZH 021545Z 22010KT 6SM BKN250 31/23 A2987 RMK 8/002 HZY SKLT 021600Z 25003KT 9999 SCT015 30/25 A2995 MMZO 021541Z 36005KT 12SM SCT250 34/26 A2985 RMK 6//// 8/004 HZY SKMR 021600Z 00000KT 9999 SCT020 34/25 A2975 K11R 020355Z AUTO 16003KT 10SM CLR 23/22 A3006 RMK AO2 P0003 T02330223 YGTE 021630Z AUTO 16003KT //// // ////// 21/20 Q1016 YGTH 021600Z AUTO 00000KT 9999 // NCD 01/M01 Q1027 K12N 021554Z AUTO VRB03KT 24/16 A2993 RMK AO1 SLP127 T02440161 SKMZ 021600Z 30007KT 9999 SCT100 22/14 A3030 YHLC 021630Z AUTO 09001KT //// // ////// 18/09 Q1020 MNRS 021600Z 10008KT 9999 BKN018 29/25 Q1011 SLET 021600Z 32012KT 9999 BKN010 BKN017 OVC080 22/20 Q1012 TBPB 021600Z 07019KT 9999 BKN014 SCT036 28/25 Q1016 SKPC 021600Z 08009KT 9999 SCT017 SCT070 30/23 A2988 LWSK 021630Z 01011KT 9999 FEW060 29/11 Q1021 NOSIG YGTN 021630Z AUTO 00000KT 9999 // NCD 14/08 Q1018 SKNV 021600Z 00000KT 9999 FEW040 SCT110 32/17 A2990 SKPE 021600Z 33006KT 9999 FEW017 BKN200 28/18 A3003 LYBE 021600Z 32004KT 270V330 CAVOK 29/14 Q1021 NOSIG MPBO 021600Z 27005KT 9999 SCT018 SCT080 Q1014 RERA SKPS 021600Z 10019KT 9999 FEW030 26/10 A3015 YHML 021600Z AUTO 32005KT 9000 // NCD 00/M01 Q1028 MPDA 021600Z 00000KT 9999 FEW020 ///// Q1008 LYBT 021600Z 32004KT CAVOK 31/14 Q1021 NOSIG SKPV 021600Z 08008KT 9999 FEW018 SCT080 30/25 A//// SKRG 021600Z 10008KT 9999 FEW025 BKN250 22/10 A3028 SKRH 021600Z 13018KT 9999 FEW020 33/22 A2985 K14Y 021617Z AUTO 16004KT 10SM CLR 20/13 A3005 RMK AO2 SKSA 021600Z 06004KT 9000 BKN040 28/22 A3003 RMK HZ NFNA 021600Z 00000KT 9999 FEW020 SCT045 BKN120 17/17 Q1012 K0A9 021615Z AUTO 24005KT 6SM -RA BR BKN014 OVC019 19/18 A3001 RMK SLJE 021600Z 02006KT 9999 OVC012 24/20 Q1016 MPEJ 021300Z 36007KT 330V040 9000 FEW016CB FEW018TCU 29/27 Q1010 RMK CB SW/TCU N/SE/W/ HZ ALQDS K18A 021540Z AUTO 26006KT 10SM BKN024 BKN028 27/22 A3001 RMK AO2 LTG DSNT NW T02670220 SKSM 021600Z 32008KT 9999 FEW020 35/23 A2980 YHOO 021630Z AUTO 10008KT //// // ////// 18/06 Q1020 SLJO 021600Z 32008KT 9999 SCT017 BKN200 29/22 Q1014 SKSP 021600Z 08012KT 9999 FEW016 29/25 A2989 SKUC 021600Z 10003KT 9999 SCT020 SCT100 28/24 A3001 K19A 020355Z AUTO 00000KT 5SM BR CLR 21/21 A3006 RMK AO2 TDCF 021600Z 12010G24KT 9999 SCT019 31/20 Q1016 SKUI 021600Z 00000KT 6000 BKN012 OVC200 29/26 A2981 RMK HZ AD OPR IMC K0E0 020355Z AUTO 13009KT 10SM 25/03 A3019 RMK AO2 LTG DSNT N T02530030 NGFU 021600Z 00000KT 9999 FEW019TCU BKN310 28/25 Q1008 K21D 021615Z AUTO 00000KT 10SM CLR 22/12 A3004 RMK AO2 SLMG 021600Z 32008KT 9999 SCT017 BKN200 30/24 Q1013 SLLP 021600Z 30009KT 240V350 9999 FEW017 BKN200 13/M09 Q1038 YJAB 021630Z AUTO 10005KT //// // ////// 23/16 Q1015 K20U 021615Z AUTO 34011G16KT 10SM CLR 20/17 A3009 RMK AO2 K0F2 020355Z AUTO 16008KT 10SM CLR 25/20 A2995 RMK AO2 T02500195 K20V 021615Z AUTO 00000KT 10SM CLR 22/05 A3034 RMK AO2 SKVP 021600Z 05015KT 9999 NSC 34/19 A2984 K0CO 021613Z AUTO 01005G15KT 10SM SCT021 BKN050 BKN075 09/03 A3070 RMK AO2 YHSM 021630Z AUTO 27006KT 9999 // NCD 01/M01 Q1029 SKVV 021600Z 08004KT 9999 SCT023 31/21 A3003 HKEL 021600Z 00000KT 9999 FEW018CB BKN250 19/14 Q1025 YHUG 021630Z AUTO 15010KT //// // ////// 15/03 Q1019 NFTF 021600Z 11005KT 9999 FEW016 BKN035 20/19 Q1016 RESH SLOR 021600Z 30004KT 9999 NSC 13/M02 Q1035 K24J 021615Z AUTO 25007KT 10SM FEW033 FEW046 32/23 A3012 RMK AO1 LTG DSNT SE AND W NFTL 021200Z 00000KT 9999 FEW020 22/18 Q1016 SLPO 021500Z 24004KT 9999 FEW070 BKN200 10/M06 Q1034 SLPS 021600Z 09008KT 9999 BKN070 28/22 Q1013 SLRB 021600Z 36015KT 9999 SCT023 BKN200 28/21 Q1015 NFTV 021600Z 12010KT 9999 FEW017 BKN110 23/18 Q1014 LYKV 021600Z 01003KT 310V100 9999 FEW040 28/14 Q1022 NOSIG MPMG 021600Z 34012KT 9000 FEW020 33/24 Q1009 NOSIG K0J4 021558Z AUTO 21014G19KT TS SCT025 SCT033 BKN090 29/22 A3010 RMK AO2 TSB17RAB12E22 SLP189 P0000 T02890222 $ K1A5 020355Z AUTO 00000KT 17/17 A3010 RMK AO2 T01680168 PWINO SLRI 021600Z 36008KT 7000 BKN017 BKN200 31/23 Q1014 K1A6 020355Z AUTO 00000KT 10SM RA BKN027 BKN034 OVC055 21/20 A3001 RMK AO2 P0001 T02050195 SLSA 021600Z 36005KT 9999 FEW017 BKN080 BKN200 28/24 Q1013 K1A9 021455Z AUTO 25006KT 10SM OVC011 25/23 A3007 RMK AO2 T02540229 SLRQ 021600Z 00000KT 9999 FEW008 BKN015 BKN070 25/25 Q1013 SLSI 021600Z 36008KT 9999 SCT017 28/22 Q1014 LYNI 021600Z 30010KT 260V320 9999 FEW033 SCT050 28/14 Q1021 NOSIG SLRY 021600Z 34006KT 9999 BKN012 BKN080 27/25 Q1015 SMJP 021600Z VRB04KT 9999 BKN030 31/23 Q1013 NOSIG SLTJ 021600Z 00000KT 9999 NSC 17/11 Q1016 MPPA 021600Z 36010KT 9999 FEW020 30/21 Q1010 SLSU 021600Z 06006KT 9999 NSC 18/01 Q1026 K28J 021555Z AUTO 26008KT 10SM FEW039 32/23 A3010 RMK AO2 TSNO HKJK 021600Z 08014KT 9999 BKN023 21/12 Q1023 NOSIG LYPG 021600Z 22006KT 170V250 9999 FEW050 32/11 Q1018 NOSIG SLTR 021600Z 36003KT 9999 FEW015 BKN200 27/23 Q1014 ZBAA 021600Z 09002MPS 050V130 CAVOK 24/10 Q1005 NOSIG LZIB 021600Z VRB02KT CAVOK 31/11 Q1022 NOSIG SLVM 021600Z 00000KT 9999 SCT020 BKN070 22/16 Q1011 K1F0 021610Z AUTO 25010G15KT 10SM CLR 28/19 A2994 RMK AO2 SLVR 021600Z 35010KT 9999 BKN005 BKN015 OVC070 23/22 Q1013 HKML 021500Z 18007KT 9999 FEW022TCU SCT090 26/22 Q1016 HKMO 021600Z 19008KT 9999 FEW023 BKN080 25/21 Q1017 NOSIG GUCY 021600Z 23008KT 9999 BKN015 FEW023TCU SCT110 30/27 Q1012 NOSIG SLYA 021600Z 36006KT 9999 BKN020 OVC070 20/16 Q1014 YJLC 021630Z AUTO 16009KT //// // ////// 13/04 Q1020 NGTA 020600Z 21011KT 9999 FEW020 BKN100 30/25 Q1006 TDPD 021600Z 10011KT 9999 FEW020 BKN042 30/23 Q1018 K1H2 020355Z AUTO 08005KT 3SM VCTS BR SCT003 BKN018 BKN030 22/20 A2991 RMK AO2 LTG DSNT SW T02180203 CERM 021600Z AUTO 21009G15KT 16/11 RMK AO1 PK WND 24018/1524 SLP042 T01610108 53007 K33V 021615Z AUTO 00000KT 10SM SCT100 18/08 A3038 RMK AO2 HKNW 021600Z 09010KT 9999 BKN022 20/12 Q1022 MPTO 021600Z 00000KT 9999 FEW020 34/24 Q1008 NOSIG NGTT 021600Z 22014KT 9999 VCSH SCT010CB BKN040 OVC080 27/26 Q1006 REDZ K1J0 021558Z AUTO 24009G15KT 10SM CLR 29/23 A3010 RMK AO2 SLP151 T02940233 YIVO 021630Z AUTO 19005KT //// // ////// 04/02 Q1028 LYTV 021600Z 22003KT 110V280 9999 FEW050 28/16 Q1020 NOSIG LZKZ 021600Z 02010KT CAVOK 26/09 Q1024 NOSIG K0S9 021615Z AUTO 00000KT 10SM CLR 24/13 A3003 RMK AO2 K1K1 021455Z AUTO 04006KT 10SM OVC010 24/21 A2992 RMK AO2 T02420210 LYUZ 021600Z 35004KT 310V040 9999 SCT020 23/11 Q1026 LYVR 021600Z VRB05KT 9999 SCT030 SCT040 29/14 Q1021 NOSIG K1II 020355Z AUTO 00000KT 7SM BKN050 OVC065 20/18 A2994 RMK AO2 K1L0 020355Z AUTO 17003KT 10SM CLR 25/23 A3010 RMK AO2 LTG DSNT W T02520226 K36U 020355Z AUTO 09006KT 10SM CLR 21/10 A3012 RMK AO2 GVAC 021600Z 05011KT 9999 BKN014 28/19 Q1015 NOSIG SOCA 021600Z AUTO 05008KT 9999 BKN024/// OVC034/// 28/25 Q1013 GVBA 021600Z 02010KT 9999 BKN015 26/20 Q1015 NOSIG K2C8 021615Z AUTO 20007KT 8SM FEW075 23/19 A2993 RMK AO2 K40B 021616Z AUTO 20011G20KT 160V290 14/10 A2972 RMK AO1 SLP062 T01420102 52011 ZBHH 021600Z 10002MPS CAVOK 17/06 Q1012 NOSIG K0V4 021600Z AUTO 00000KT 10SM SCT035 SCT042 BKN048 26/21 A2990 RMK AO1 T02630210 K1M4 021556Z AUTO VRB05KT 10SM CLR 28/21 A3003 RMK AO2 T02830211 SLP181 K2D5 021615Z AUTO 19010KT 10SM 19/18 A3000 RMK AO2 K40J 020355Z AUTO 19003KT 25/25 A3011 RMK AO2 T02540250 PWINO YKII 021630Z AUTO 22009KT 9999 // SCT042 08/03 Q1027 LZPP 021600Z VRB02KT CAVOK 31/10 Q1022 HLLM 021350Z 08014KT CAVOK 27/19 Q1021 K0VG 020355Z AUTO RMK AO2 PWINO PNO TSNO YLBD 021630Z AUTO 19003KT 9999 // NCD 20/17 Q1017 K42J 021615Z AUTO 29006KT 10SM FEW038 SCT050 30/22 A3011 RMK AO1 TSNO K1P1 021615Z AUTO 28004KT 10SM BKN050 OVC060 20/13 A2988 RMK AO2 T02020131 TFFF 021600Z AUTO 08018KT 9999 BKN032 BKN041 BKN048 31/22 Q1017 K2G4 021620Z AUTO 30004KT 10SM SCT023 SCT035 SCT040 18/18 A3001 RMK AO1 K2DP 021556Z AUTO 21013G17KT 10SM CLR 30/22 A2992 RMK AO2 SLPNO T02960224 $ K2G9 020355Z AUTO 20009KT 10SM CLR 13/13 A2999 RMK AO2 LZSL 021600Z VRB02KT 9999 FEW060 29/14 Q1024 TFFR 021600Z AUTO 10017KT 9999 BKN041 31/20 Q1017 MRLB 021600Z 09018G29KT 9999 FEW040 SCT250 33/20 A2978 K2I0 020355Z AUTO 21006KT 10SM SCT110 24/21 A2992 RMK AO2 T02350205 YLEC 021630Z AUTO 12006KT //// // ////// 07/04 Q1027 K1R7 021615Z AUTO 23006KT 020V030 CLR 28/24 A3011 RMK AO2 LZTT 021600Z 06011KT 9999 FEW063 22/10 Q1027 NOSIG MRLM 021600Z 28004KT 9999 SCT020 SCT120 27/23 A2987 REDZ YKMP 021630Z AUTO 23011KT //// // ////// 08/02 Q1021 K46D 021615Z AUTO 27004KT 9SM SCT016 BKN022 BKN031 23/22 A2997 RMK AO2 SMZO 021600Z 02005KT 9999 VCSH FEW018CB BKN025 31/24 Q1013 NOSIG K1S5 021615Z AUTO 28004KT 10SM CLR 26/16 A2996 RMK AO2 T02550156 K2J9 021615Z AUTO 10SM 30/23 A3012 RMK AO1 YLEO 021630Z AUTO 00000KT 9999 // NCD 09/03 Q1023 YKNT 021630Z AUTO 09015KT //// // ////// 15/M02 Q1023 MROC 021600Z 08012G22KT CAVOK 29/16 A2997 NOSIG K1QW 021556Z AUTO 35013G17KT M /// /// M 27/06 A3007 RMK AO2 SLP157 T02720056 $ K49A 020355Z AUTO 00000KT 5SM HZ BKN004 OVC120 A3011 RMK AO2 YKOW 021630Z AUTO 13002KT //// // NCD 19/14 Q1016 K3D2 020915Z AUTO 00000KT 10SM CLR 10/07 A3004 RMK AO2 T00970070 YLHI 021630Z AUTO 25022KT 9999 // SCT043 BKN050 18/09 Q1010 K1V4 021554Z AUTO 19/07 A2987 RMK AO1 SLP108 T01940072 K1V6 021610Z AUTO 16010KT 10SM SCT049 23/15 A3024 RMK AO2 SPCL 021600Z VRB02KT 9999 BKN017 BKN080 28/24 Q1016 RMK BIRD HAZARD RWY 02/20 PP000 K3AU 020355Z AUTO 24008KT 10SM CLR 27/20 A2981 RMK AO2 YLHR 021630Z AUTO 00000KT //// // ////// 18/18 Q1015 LZZI 021600Z 05004KT CAVOK 28/13 Q1023 YKSC 021630Z AUTO 00000KT 9999 // OVC041 04/03 Q1029 AYNZ 020600Z 09030KT 9999 FEW035 BKN280 29/20 Q1008 RMKS MRPV 021600Z 07016KT 9999 FEW020 26/17 A2999 NOSIG YMBA 021630Z AUTO 16006KT //// // ////// 13/10 Q1018 YLIS 021630Z AUTO 00000KT 9999 // NCD 05/03 Q1021 ZBSJ 021600Z 33001MPS CAVOK 22/13 Q1004 NOSIG OAHR 021555Z 01012KT 330V050 6000 DRDU NSC 35/M03 Q1012 RMK SKC VIS MIN 6000 WHT YMBD 021630Z AUTO 29003KT 9999 // NCD 01/01 Q1030 YKRY 021630Z AUTO 19014KT //// // ////// 06/03 Q1021 ZBTJ 021600Z 09005MPS CAVOK 24/14 Q1004 NOSIG AYPY 021200Z 16006KT 9999 SCT030 BKN140 25/19 Q1013 YMAV 021630Z AUTO 29007KT 9999 // NCD 04/03 Q1028 OAKB 021550Z 02016G29KT 9999 FEW120 28/02 Q1014 NOSIG RMK BLU BLU YLLE 021600Z AUTO 13009KT //// // ////// 08/02 Q1026 YMAY 021630Z AUTO 32003KT 9999 // NCD M01/M02 Q1027 GVNP 021600Z 090014KT 9999 SCT017 28/20 Q1015 NOSIG OBBI 021600Z 35003KT 320V020 CAVOK 33/19 Q1001 NOSIG K54J 020355Z AUTO 00000KT 10SM CLR 24/21 A3012 RMK AO2 T02370205 SPGM 021600Z /////KT 9999 SCT030 SCT090 26/20 Q1019 RMK BIRD HAZARD RWY 19 PP000 YMCO 021630Z AUTO 27009KT //// // ////// 07/04 Q1024 K3I2 020355Z AUTO 00000KT 5SM BR CLR 18/18 A2995 RMK AO2 NIUE 020300Z 10014KT 9999 SCT018 24/15 Q1014 RMKS YMDG 021630Z AUTO 06004KT //// // ////// 01/00 Q1024 MTBO 021630Z AUTO 21006KT 9999 // NCD 00/M06 Q//// SPHI 021600Z 18005KT 110V250 9999 SCT017 OVC022 24/19 Q1011 RMK PP000 SPHO 021600Z VRB01KT 9999 FEW040 19/08 Q1029 RMK PP000 MSLP 021550Z VRB05KT CAVOK 34/20 Q1009 A2982 YMEK 021600Z AUTO 08004KT 9999 // NCD 12/03 Q1024 K4A6 021615Z AUTO 22007G14KT 180V250 10SM SCT019 BKN025 27/23 A2998 RMK AO2 LTG DSNT W-NE K4A7 020355Z AUTO 00000KT 7SM CLR 21/20 A3007 RMK AO2 T02100202 K3J7 021535Z AUTO 22006KT 10SM CLR 26/18 A3000 RMK AO2 LTG DSNT NW K4A9 020355Z AUTO 00000KT 5SM BR BKN003 BKN120 20/18 A3005 RMK AO2 YMEN 021630Z AUTO 30004KT 9999 -SHRA BKN034 OVC041 06/04 Q1028 K1YT 021556Z AUTO 33005KT 10SM CLR 30/08 A3000 RMK AO2 SLPNO T02970083 $ SPIM 021600Z 20006KT 150V260 9999 SCT018 OVC022 21/16 Q1013 NOSIG RMK PP000 K3K3 021535Z AUTO 02015G21KT 10SM CLR 25/16 A3005 RMK AO2 SPHY 021600Z /////KT 9999 FEW015 13/03 Q1036 RMK PP000 YMER 021630Z AUTO 30003KT 9999 // NCD 05/01 Q1024 YMES 021630Z AUTO 30008KT 9999 // NCD 04/04 Q1027 SPJI 021600Z 11003KT 9999 FEW020 SCT100 28/25 Q1024 RMK PP000 YMGB 021630Z AUTO 14007KT //// // ////// 22/20 Q1015 OAMS 021550Z 20005KT 9999 SKC 39/03 Q1002 BLU+ BLU+ YMGD 021630Z AUTO 12008KT 9999 // NCD 22/19 Q1015 SPJL 021600Z VRB02KT CAVOK 14/M05 Q1038 RMK PP000 SPJR 021630Z 06007KT 9999 SCT040 21/06 Q1029 YMHB 021600Z 23004KT 150V310 9999 FEW040 03/M02 Q1022 ZBYN 021600Z 04002MPS 350V070 CAVOK 20/05 Q1009 NOSIG AYWK 020500Z 09006KT 9999 FEW020 SCT140 30/25 Q1007 YMIA 021630Z AUTO 17004KT 9999 // NCD 01/M00 Q1029 K2V5 021615Z AUTO 25010KT 10SM CLR 24/14 A3012 RMK AO2 T02440138 YLRE 021630Z AUTO 16009KT 9999 // NCD 12/05 Q1022 SPME 021600Z 36007KT 9999 SCT012 29/24 Q1009 RMK BIRD HAZARD RWY 32/14 PP000 SPMF 021316Z 00000KT 5000 BCFG SCT010 BKN050 20/19 Q1020 SPLO 021600Z 17010KT 9999 FEW030 SCT120 20/14 Q1014 RMK PP000 GVSV 021600Z 06019KT 9999 SCT018 28/20 Q1015 NOSIG K4BM 021616Z AUTO 00000KT 10SM CLR 13/08 A3062 RMK AO2 K3LF 021600Z AUTO 03010KT 10SM SCT033 SCT042 SCT049 20/14 A2993 RMK AO2 T02010144 K2W6 021620Z AUTO 01003KT 10SM SCT015 SCT032 23/19 A2989 RMK AO1 YMHU 021630Z AUTO 22005KT 8000 // NCD 17/13 Q1018 K3N8 021540Z AUTO 20013KT 10SM CLR 20/12 A3002 RMK AO2 LTG DSNT N T02040123 YMIN 021630Z AUTO 07009KT //// // ////// 07/06 Q1029 SPMS 021600Z 02003KT 9999 FEW020 SCT100 28/23 Q1017 RMK BIRD HAZARD 09/27 PP000 YNAR 021630Z AUTO 29005KT //// // ////// 01/00 Q1027 YLST 021630Z AUTO 03004KT 9999 // NCD 08/02 Q1023 YLTN 021630Z AUTO 00000KT //// // ////// 10/00 Q1025 DAAD 021600Z 00000KT CAVOK 40/13 Q1017 YNBR 021630Z AUTO 00000KT 9999 // NCD 02/01 Q1023 DAAE 021600Z 14012KT CAVOK 28/24 Q1017 YMMB 021630Z AUTO 32005KT 9999 // SCT009 SCT023 SCT033 07/06 Q1027 DAAG 021600Z 35009KT 300V030 CAVOK 30/23 Q1018 MSSS 021550Z 36003KT CAVOK 29/21 Q1014 A2995 YLTV 021600Z AUTO 23004KT 9999 // SCT025 BKN032 BKN038 05/05 Q1027 DAAJ 021600Z 07014KT CAVOK 37/06 Q1017 DABB 021600Z 06014KT CAVOK 28/23 Q1016 DABC 021600Z 01013KT CAVOK 35/13 Q1020 K4I3 021616Z AUTO 14004KT 10SM BKN041 21/17 A2997 RMK AO2 MUCF 021551Z 08008KT 030V130 9999 SCT020 SCT200 32/24 Q1018 K2WX 021556Z AUTO 30013KT 23/15 A3004 RMK AO1 SLP153 T02280150 YMLT 021630Z AUTO 01006KT 9999 // NCD M03/M04 Q1023 DAAP 021600Z /////KT CAVOK 40/10 Q1013 K3R7 020355Z AUTO 17003KT 10SM -RA SCT110 23/21 A3007 RMK AO2 LTG DSNT SE P0001 T02270207 YMML 021600Z 00000KT 9999 FEW028 SCT035 BKN045 06/03 Q1028 NOSIG K4I7 021615Z AUTO 00000KT 10SM SCT075 22/15 A2992 RMK AO2 MUCL 021452Z 10011KT 070V130 9000 SCT020 30/23 Q1017 DAAS 021600Z 34013KT CAVOK 35/03 Q1022 MUCM 021550Z 09012KT 9000 SCT020 32/21 Q1018 DAAT 021600Z 13010KT CAVOK 35/M01 Q1020 YMNG 021600Z AUTO 00000KT 9999 // BKN044 OVC049 01/00 Q1028 TGPY 021600Z 10010KT 9999 -SHRA SCT018 BKN036 26/25 Q1016 NOSIG DAAV 021600Z 30010KT CAVOK 31/21 Q1016 K5A6 021555Z AUTO 24007G14KT 10SM CLR 27/21 A3003 RMK AO2 T02650212 DAAY 021600Z 15008KT 7000 SCT030 SCT100 37/01 Q1023 SPQT 021600Z 33004KT 290V040 9999 BKN015 30/24 Q1014 NOSIG RMK BIRD HAZARD RWY 06/24 PP000 K65S 021615Z AUTO 27004KT 10SM CLR 24/14 A3008 RMK AO2 SPQU 021600Z 25005KT 180V320 CAVOK 19/M12 Q1026 NOSIG RMK PP000 YNEN 021600Z AUTO 03010KT 9999 // SCT014 BKN055 OVC100 25/22 Q1015 MUCU 021553Z 15010KT 9000 SCT020 SCT200 31/22 Q1017 DABS 021600Z 16010KT 9999 FEW046 37/11 Q1020 DABT 021600Z 22006KT 9999 FEW026 37/04 Q1019 YMOG 021630Z AUTO 00000KT //// // ////// 15/06 Q1024 K3T5 021610Z AUTO 16010G14KT 7SM SCT026 SCT033 29/25 A3003 RMK AO2 T02940246 K66R 020355Z AUTO 00000KT 10SM CLR 22/22 A3006 RMK AO2 T02180215 SPRU 021600Z 14007KT 8000 OVC022 20/18 Q1011 RMK PP000 K5C1 020355Z AUTO 18004KT 10SM CLR 21/20 A3008 RMK AO1 SPSO 021600Z 27008KT 8000 NSC 21/14 Q1012 RMK FU QUAD E BIRD HAZARD RWY 22/04 PP000 YMOR 021630Z AUTO 23005KT 9999 // NCD 04/03 Q1023 DAEF 021600Z 08020KT 9000 DRSA NSC 40/// Q1014 SPST 021600Z 16003KT 9999 SCT020 29/23 Q1015 RMK BIRD HAZARD RWY 17/35 PP000 SPTN 021600Z 17004KT 100V260 9999 FEW030 BKN300 19/12 Q1016 RMK PP000 DAEN 021600Z /////KT CAVOK 41/// Q1012 YMRB 021630Z AUTO 13011KT 9999 // NCD 13/07 Q1020 YNGU 021630Z AUTO 16004KT //// // ////// 20/20 Q1017 YNHL 021630Z AUTO 00000KT //// // ////// 00/M00 Q1029 DAFH 021600Z 09008KT CAVOK 37/07 Q1020 MUHA 021555Z 11006KT 060V160 9000 SCT033 31/21 Q1019 SPTU 021600Z 28004KT 9999 FEW009 30/23 Q1014 RMK BIRD HAZARD RWY 01/19 PP000 K4M9 021615Z AUTO 25007KT 10SM 27/22 A2988 RMK AO2 MUGM 021556Z 12017KT 9999 FEW035 SCT050 BKN280 33/24 A3004 RMK SLP172 T03280239 MTPP 021600Z 10010G20KT 9000 FEW029 34/22 Q1017 A3003 MUHG 021551Z 11011KT 070V140 9000 SCT030 33/21 Q1017 K4O4 021624Z AUTO 24014G21KT 10SM CLR 30/17 A2997 RMK AO2 YMRY 021600Z AUTO 24006KT 9999 // NCD 05/02 Q1024 YMTG 021630Z AUTO 01004KT 9999 // OVC046 05/03 Q1029 YMTI 021630Z AUTO 15007KT //// // ////// 22/13 Q1017 K4MR 021556Z AUTO M 10SM BKN120 26/15 A3010 RMK AO2 SLP127 T02570147 $ K5H4 021615Z AUTO 30007KT 5SM HZ CLR 22/18 A2998 RMK AO2 SPZA 021630Z 29003KT CAVOK 26/14 Q1013 SPYL 021600Z 16018KT CAVOK 26/19 Q1011 RMK BIRD HAZARD RWY 17/35 PP000 DBBB 021600Z 15012KT 120V180 6000 -RA BKN010 FEW023CB BKN100 25/24 Q1011 TEMPO 4000 TSRA BKN006 DBBC 021500Z 19009KT 9999 SCT012 BKN100 27/24 Q1011 NOSIG K6A1 020355Z AUTO 00000KT 10SM 24/22 A3009 RMK AO2 T02390221 K6A2 020355Z AUTO 00000KT 10SM CLR 20/20 A3007 RMK AO2 SPZO 021630Z VRB04KT 9999 FEW050 18/02 Q1032 UAAA 021600Z 19003MPS 9999 FEW050CB SCT100 26/05 Q1010 R88/CLRD65 NOSIG K6B0 020355Z AUTO 12003KT 10SM BKN050 OVC070 17/16 A2980 RMK AO2 T01740164 UAAH 021200Z 21007MPS 9000 FEW046 37/03 Q1005 R05/0///60 NOSIG RMK QFE717/0956 YMYB 021630Z AUTO 23011KT 9999 // NCD 10/04 Q1019 UACC 021600Z 19009MPS 9999 FEW050TCU BKN130 26/08 Q0999 R22/0/0070 NOSIG RMK QFE718/0958 DAOB 021600Z 04012KT 9999 FEW023TCU 39/02 Q1020 TJBQ 021550Z 09015KT 10SM SCT024 SCT030 BKN046 32/23 A3010 RMK RWY 08 - ATIS X DAOF 021600Z 00000KT 9999 FEW046 44/// Q1013 YNRC 021630Z AUTO 00000KT //// // ////// 00/00 Q1029 UACK 021400Z 26002MPS 9999 BKN060CB OVC079 23/19 Q0998 R20/190065 NOSIG RMK QFE726/0968 DAOI 021600Z 34012KT 9999 FEW030 38/20 Q1014 K79J 021628Z AUTO VRB03KT 1SM +TSRA BKN026 BKN038 OVC070 25/22 A3009 RMK AO2 RAB14 P0044 K5M9 021615Z AUTO 19003KT 10SM SCT019 SCT025 BKN090 27/23 A2987 RMK AO2 T02720231 UADD 021600Z 21004MPS 9999 NSC 29/06 Q1009 R13/0///65 NOSIG RMK QFE700/0934 DAOL 021600Z 34012KT 7000 SCT026 BKN100 29/20 Q1017 UACP 021130Z 24005MPS 9999 VCTS BKN033CB BKN043 22/19 Q0997 R23/0/0060 NOSIG RMK QFE735/0981 DAON 021600Z 34010KT 9999 SCT026 FEW030CB 28/18 Q1018 DAOO 021600Z 35013KT 9000 SCT023 SCT233 27/21 Q1016 YPAD 021600Z 00000KT CAVOK 04/02 Q1029 DAOR 021600Z 36004KT 9999 FEW040 41/18 Q1018 K82C 020355Z AUTO 00000KT 10SM CLR 12/11 A3000 RMK AO2 T01160105 DAOV 021600Z 35014KT 9999 FEW030 33/21 Q1017 DAOY 021400Z /////KT CAVOK 35/05 Q1025 YNSM 021630Z AUTO 08007KT //// // ////// 11/11 Q1025 OEAB 021600Z 28008KT 9999 SCT025 22/17 Q1023 NOSIG OEAH 021600Z 34004KT CAVOK 39/M03 Q1002 NOSIG YPCC 021630Z AUTO 11013KT 9999 // SCT025 SCT043 27/22 Q1016 OEBA 021600Z 21004KT 9999 FEW030 29/11 Q1019 NOSIG YOLD 021630Z AUTO 17004KT 9999 // NCD 05/03 Q1028 YNTN 021600Z AUTO 17010KT //// // ////// 21/07 Q1017 YPBO 021630Z AUTO 05007KT 9999 // NCD 13/04 Q1022 K82V 020355Z AUTO 22010KT 10SM CLR 18/12 A3012 RMK AO2 OEAO 021600Z 25008KT CAVOK 39/M06 Q1012 OEBH 021600Z 03005KT CAVOK 35/M03 Q1013 NOSIG OEAR 021600Z 27004KT CAVOK 37/14 Q1008 MWCB 021600Z 11010KT 9999 FEW016 30/25 Q1016 K6I2 021610Z AUTO 17005KT 10SM BKN016 BKN022 BKN075 24/20 A2991 RMK AO2 YPEA 021600Z AUTO 03004KT 9999 // OVC017 15/14 Q1022 YPED 021630Z AUTO 36004KT 9999 // OVC039 04/02 Q1029 K5R8 021210Z AUTO 00000KT 10SM CLR 23/23 A3005 RMK AO2 T02250225 YOLW 021630Z AUTO 00000KT //// // ////// 16/09 Q1021 YPDN 021600Z 23004KT CAVOK 24/20 Q1016 RMK SMOKE DAUA 021600Z 02025KT 2500 BLSA NSC 43/// Q1010 DAUB 021600Z 14004KT CAVOK 39/11 Q1015 TJIG 021545Z 10015KT 10SM SCT040 29/23 A3012 RMK RWY09 IN USE ATIS F DATM 021200Z 33020KT 8000 DRSA NSC 45/// Q1010 OEDF 021600Z 04007KT 7000 SKC 37/06 Q1000 NOSIG DAUE 021600Z 01014KT CAVOK 39/14 Q1015 UAII 021600Z 13002MPS 080V150 7000 NSC 32/08 Q1008 R28/0///70 NOSIG RMK QFE719/0959 MWCR 021600Z 10011KT 9999 FEW020 30/25 Q1017 DAUG 021600Z ///16KT CAVOK 38/07 Q1018 DAUH 021600Z 06014KT CAVOK 40/05 Q1014 YOOD 021630Z AUTO 00000KT //// // ////// 07/02 Q1027 DAUI 021500Z 06012KT CAVOK 45/// Q1009 YNWN 021630Z AUTO 09003KT 9999 // NCD 09/02 Q1024 OEDM 021600Z 27015KT CAVOK 37/M04 Q1012 DAUK 021600Z 03010KT CAVOK 38/11 Q1016 DAUL 021600Z 10006KT CAVOK 38/07 Q1020 DAUO 021600Z 08008KT CAVOK 38/13 Q1015 OEDR 021600Z 09005KT CAVOK 36/10 Q0999 NOSIG MUVR 021550Z 09009KT 9000 BKN020 31/21 Q1019 UBBB 021600Z 33007KT CAVOK 26/21 Q1013 88CLRD70 NOSIG YOOM 021630Z AUTO 12006KT //// // ////// 07/02 Q1027 UAKD 021100Z 23007G12MPS 7000 SCT060CB OVC100 40/05 Q1005 NOSIG R22/0///65 RMK QFE721/0961 K5T9 021615Z AUTO 13010KT 10SM SCT020 BKN027 BKN036 26/21 A3000 RMK A01 DAUT 021500Z 07018KT 8000 DRSA NSC 42/// Q1013 ZGGG 021600Z 13002MPS 100V160 CAVOK 31/26 Q1002 NOSIG DAUU 021600Z /////KT CAVOK 41/02 Q1014 UBBG 021600Z 07010KT 9999 SCT100 30/15 Q1014 R12/CLRD70 NOSIG K6L4 021615Z AUTO 00000KT 1SM +RA SCT020 SCT028 OVC044 20/19 A2994 RMK AO2 ZGHA 021600Z VRB01MPS 9999 SCT040 27/23 Q1002 NOSIG TIST 021553Z 09015G20KT 10SM FEW009 OVC043 32/22 A3009 RMK AO2 SLP190 T03170222 UAKK 021600Z 11005MPS 080V180 9999 VCTS BKN033CB OVC150 20/16 Q1005 R05/2///60 TEMPO VRB15MPS TSRA SQ BKN030CB RMK QFE707/0943 DAUZ 021600Z 10014KT CAVOK 38/04 Q1015 UBBL 021600Z 13005KT 9999 SCT200 28/19 Q1014 R33/CLRD70 RMK MT OP UBBN 021630Z 12014KT 9999 FEW100 33/12 Q1009 R14R/CLRD60 NOSIG RMK MT OP QFE682 K5SM 021613Z AUTO 00000KT 10SM SCT075 18/11 A3059 RMK AO2 TISX 021553Z 11018G25KT 10SM FEW018 32/22 A3009 RMK AO2 SLP186 T03220222 UBBQ 021600Z 18005KT 9999 BKN200 30/17 Q1014 R16/CLRD70 NOSIG RMK MT PT OBSC YPGV 021630Z AUTO 15005KT 9999 // NCD 22/19 Q1015 YORG 021630Z AUTO 21008KT 9999 // NCD M01/M02 Q1024 OEGN 021600Z 03012KT 5000 BLSA FEW030 SCT100 33/24 Q1007 NOSIG UBBY 021600Z 26003KT 9999 BKN100 25/21 Q1018 R33/////// NOSIG RMK MT OP OEGS 021600Z 34011KT CAVOK 40/08 Q1009 OEGT 021600Z 09012KT CAVOK 39/M02 Q1005 NOSIG OEHL 021600Z 04008KT CAVOK 38/00 Q1013 NOSIG UBEE 021400Z 14009KT CAVOK 34/18 Q1012 R12/CLRD70 NOSIG YPKA 021630Z AUTO 09001KT 9999 // NCD 16/09 Q1019 YPKG 021630Z AUTO 16005KT 9999 // SCT100 13/03 Q1024 TJMZ 021550Z 09008KT 10SM SCT040 33/22 A3010 TJNR 021553Z AUTO 08010KT 10SM SCT027 31/24 A3011 RMK AO2 SLP197 T03110239 $ YPJT 021630Z AUTO 06005KT //// // BKN013 BKN019 13/13 Q1022 YPLC 021630Z AUTO 31007KT 9999 // OVC042 09/08 Q1029 ZGKL 021600Z 00000MPS CAVOK 26/25 Q1002 NOSIG ZHCC 021600Z VRB01MPS CAVOK 25/17 Q1005 NOSIG OEJN 021600Z 32005KT CAVOK 32/22 Q1006 NOSIG UAOO 021600Z 31006MPS CAVOK 35/12 Q1005 R24/CLRD70 NOSIG RMK QFE742/0990 YPKS 021630Z AUTO 06004KT //// // ////// M03/M04 Q1025 YPKT 021630Z AUTO 15008KT //// // ////// 25/10 Q1015 YPKU 021630Z AUTO 15005KT 9999 // NCD 21/11 Q1017 OEKJ 021600Z 01009KT CAVOK 38/00 Q1009 OEKK 021600Z 30018KT 8000 SKC 39/09 Q1007 NOSIG YPLM 021630Z AUTO 22010KT 9999 // NCD 13/08 Q1021 K6R3 021518Z AUTO 00000KT 10SM 28/26 A3007 RMK AO2 TJPS 021550Z 11010G18KT 8SM FEW030 32/23 A3003 RMK HZ ALQDS K6R6 021553Z AUTO VRB06KT 26/19 A3000 RMK AO1 SLP124 T02610189 OEMA 021600Z 29005KT 9000 NSC 42/M09 Q1010 NOSIG K8A0 020355Z AUTO 18004KT 5SM BR CLR 20/20 A3004 RMK AO2 K96D 021615Z AUTO 10SM CLR 23/23 A2993 RMK AO2 YPMQ 021630Z AUTO 25009KT 9999 // NCD 10/02 Q1021 SUAA 021500Z 05013KT CAVOK 14/06 Q1021 YPOD 021600Z AUTO 00000KT 9999 // OVC038 OVC045 07/05 Q1028 ZGNN 021600Z 12002MPS 9999 SCT013 30/27 Q1001 NOSIG UARR 021600Z 33005MPS CAVOK 26/10 Q1012 R22/CLRD70 NOSIG RMK QFE755/1007 TJSJ 021556Z 09016G25KT 10SM FEW033 SCT045 31/24 A3009 RMK AO2 SLP189 T03060239 UASK 021600Z 10003MPS 9999 FEW040 SCT230 23/16 Q1006 R30/090060 TEMPO TSRA RMK QFE729/0972 YPPD 021630Z AUTO 19008KT 9999 // NCD 18/07 Q1019 YPPF 021630Z AUTO 00000KT 9000 // NCD 04/03 Q1029 UATE 021600Z 03008MPS CAVOK 30/10 Q1014 R30/0///70 NOSIG RMK QFE759/1012 K7L2 021615Z AUTO 31007KT 10SM SCT013 SCT090 20/20 A2999 RMK AO2 YPPH 021600Z 04004KT 9999 BKN022 14/13 Q1022 UASP 021600Z 18002MPS 9999 SCT033CB BKN100 27/12 Q1001 R21/0///70 NOSIG RMK QFE740/0986 UATG 021600Z 32006MPS CAVOK 31/02 Q1013 R32/CLRD70 NOSIG RMK QFE762/1016 SUCA 021600Z 03011KT CAVOK 14/02 Q1018 UASS 021200Z 33003MPS 290V010 CAVOK 36/08 Q1004 R08/0///60 NOSIG RMK QFE732/0977 OEPA 021600Z 35012KT CAVOK 39/11 Q1005 NOSIG ZGOW 021600Z 00000MPS 5000 BR FEW050 28/27 Q1004 NOSIG K8D3 021556Z AUTO 16008KT 21/12 A2999 RMK AO1 SLP145 T02060117 ZHHH 021600Z 06002MPS CAVOK 27/24 Q1002 NOSIG UATT 021600Z 31007MPS 9999 FEW065CB SCT100 26/10 Q1009 R31/CLRD70 NOSIG RMK QFE737/0982 K7N0 021615Z AUTO 23005KT SCT023 30/24 A3012 RMK AO1 CMGB 021615Z AUTO 25008KT 18/11 RMK AO1 SLP101 T01840110 53003 CMFM 021600Z AUTO 24007G16KT 10/09 RMK AO1 PK WND 22018/1515 SLP045 T01040092 53013 UAUU 021600Z 30005MPS 9999 BKN050CB OVC100 22/14 Q1002 R33/CLRD70 NOSIG RMK QFE736/0981 OERF 021600Z 32012KT CAVOK 40/M02 Q1007 SUDU 021600Z 07015KT CAVOK 14/M00 Q1018 OERK 021600Z 02011KT CAVOK 38/M02 Q1009 NOSIG OERR 021600Z 34009KT CAVOK 41/11 Q1008 NOSIG OETB 021600Z 21016KT CAVOK 37/00 Q1011 NOSIG OESK 021600Z 07006KT CAVOK 39/00 Q1010 NOSIG YPTN 021630Z AUTO 14007KT 9999 // NCD 17/11 Q1017 UCFM 021600Z 19003MPS CAVOK 30/09 Q1009 R26/CLRD70 NOSIG UCFO 021600Z 14003MPS 9999 FEW050 24/12 Q1013 R12/CLRD70 NOSIG OETF 021600Z 28017KT CAVOK 30/04 Q1018 NOSIG ZGSZ 021600Z 16006MPS 9999 FEW015 30/27 Q1003 NOSIG OERY 021600Z 36008KT CAVOK 39/03 Q1009 TKPK 021600Z 05016KT 9999 FEW024 31/23 Q1019 TKPN 021600Z 08021KT 9999 SCT024 31/22 Q1018= RMK HZ OETR 021600Z 09002KT CAVOK 38/04 Q1010 NOSIG K9A5 020355Z AUTO 00000KT 5SM CLR 21/17 A3005 RMK AO2 T02090174 SVAC 021600Z 110//KT 9999 BKN017 ///// Q1015 YREN 021630Z AUTO 00000KT //// // ////// M00/M01 Q1029 YPWR 021630Z AUTO 13008KT 9999 // NCD 09/07 Q1028 OEWJ 021600Z 31011KT CAVOK 30/25 Q1007 NOSIG YPXM 021600Z AUTO 14007KT 9999 // NCD 23/16 Q1017 SVBC 021600Z /////KT 9999 SCT013 31/26 Q1015 SVBI 021600Z 09003KT 9999 SCT017 SCT080 28/24 Q1016 SVBM 021600Z 09012KT 9999 BKN016 27/20 Q1018 MYGF 021600Z 14005KT 9999 BKN020 30/25 A3012 SVBS 021600Z 18005KT 9999 BKN013 30/21 Q1018 HTAR 021600Z 09010KT 9999 FEW034 SCT080 20/15 Q1022 K9D7 021615Z AUTO 30005KT 10SM FEW017 22/18 A2997 RMK AO2 SVCN 021600Z 00000KT 9999 OVC040 ///// Q1020 OEYN 021600Z 27020KT CAVOK 32/24 Q1005 NOSIG K7W4 020355Z AUTO 12004KT 10SM SCT100 22/20 A2990 RMK AO1 T02190203 SVCR 021600Z /////KT 9999 BKN016 35/21 Q1015 SULS 021600Z 05007KT CAVOK 15/04 Q1020 SVCU 021600Z 02013KT 9999 FEW013 30/18 Q1013 HTDA 021600Z 25005KT 9999 FEW024 25/20 Q1017 NOSIG HTBU 021600Z 00000KT 9999 FEW019 FEW021CB 23/20 Q1017 SUMU 021600Z 12005KT CAVOK 15/07 Q1019 NOSIG HTDO 021600Z 09012KT 9999 FEW026 BKN090 23/13 Q1020 NOSIG YSBK 021630Z AUTO 19005KT 9999 // NCD 05/M02 Q1024 YSCB 021630Z AUTO 36002KT 9999 // NCD M02/M04 Q1024 TLPC 021600Z 09013KT 9999 BKN023 BKN044 29/23 Q1017 NOSIG SVGD 021600Z 36002KT 9999 BKN020 29/21 Q//// SVGI 021200Z /////KT 9999 BKN010 25/21 Q//// TLPL 021600Z 08017KT 9999 SCT027 BKN042 29/23 Q1016 NOSIG YRMD 021600Z AUTO 13011KT //// // ////// 14/05 Q1019 YSCN 021630Z AUTO 20007KT 9999 // NCD 06/M02 Q1024 YSCO 021630Z AUTO 32003KT //// // ////// 01/01 Q1023 YSCR 021630Z AUTO 28002KT //// // ////// 12/09 Q1024 SVGU 021600Z /////KT 9999 FEW017 SCT070 27/19 Q1017 MZBZ 021615Z 0218/0318 09010KT 9999 SCT020 SCT045 TEMPO 0218/0224 5000 SHRA BKN014 PROB40 TEMPO 0218/0222 11015G30KT 3000 TSRA SCT012CB BKN040 PROB30 TEMPO 0300/0306 5000 SHRA BKN014 YSDU 021630Z AUTO 19009KT 9999 // NCD 04/02 Q1025 HRYR 021600Z 14007KT 9999 BKN025 24/15 Q1020 NOSIG SVJC 021500Z 07027KT 9999 BKN013 XX/XX Q1014 YROM 021630Z AUTO 24007KT 9999 // NCD 04/02 Q1024 YSGE 021630Z AUTO 26005KT //// // ////// 05/04 Q1024 SVJM 021600Z /////KT 9999 BKN020 30/18 Q1017 SUSO 021500Z 08010KT 9999 SCT013 OVC067 13/10 Q1017 MYNN 021600Z 14009KT 9999 SCT018 SCT220 31/23 A3013 K9L2 021555Z AUTO 35004KT 10SM FEW075 28/12 A3001 RMK AO2 SLP139 T02830117 $ TNCA 021600Z 08023G34KT 9999 SCT023 31/25 Q1014 A2995 NOSIG HTIR 021600Z 00000KT 9999 FEW016 20/10 Q1024 TNCB 021600Z 08018KT 050V130 9999 FEW020 30/24 Q1015 NOSIG HTKA 021600Z 21004KT CAVOK 26/17 Q1019 TNCC 021600Z 10016KT 9999 FEW020 30/23 Q1015 NOSIG TNCE 021600Z AUTO 06017KT //// ////// ///// Q1019 SVLF 021500Z 00000KT 9999 SCT045 XX/XX Q1012 DFFD 021600Z 26007KT 230V290 9999 FEW026 BKN130 35/24 Q1010 NOSIG YSHK 021630Z AUTO 12006KT //// // ////// 14/12 Q1022 ZJHK 021600Z 10002MPS CAVOK 28/24 Q1002 NOSIG SVMC 021500Z /////KT 9999 FEW010 33/24 Q1014 HTKJ 021600Z 06006KT 9999 BKN026 SCT080 24/15 Q1018 NOSIG HSSS 021630Z 24005KT CAVOK Q1010 SVMD 021600Z 18012KT 9999 FEW020 SCT080 XX/XX Q1020 TNCM 021600Z 10011KT 060V130 9999 SCT022 30/22 Q1019 A3009 NOSIG K8W2 021620Z AUTO 00000KT 7SM OVC048 20/18 A2994 RMK AO2 SVMG 021600Z /////KT 9999 FEW010 SCT080 30/25 Q1015 NOSIG SVMI 021600Z 02003KT 9999 FEW016 30/25 Q1014 NOSIG YSHT 021630Z AUTO 00000KT 9999 // NCD 01/01 Q1028 YSHW 021630Z AUTO 23007KT 9999 // NCD 05/M00 Q1023 HTMB 021500Z 18015KT 9999 FEW020 20/12 Q//// SVMN 021500Z 11003KT 9999 FEW013 35/// Q1011 UEEE 021600Z 31002MPS CAVOK 12/07 Q1007 R23L/09//60 NOSIG RMK QFE746 HTMG 021600Z 00000KT 9999 BKN024 24/19 Q1018 SVMT 021300Z 07007KT 9999 BKN010 28/23 Q1014 OIAA 021600Z 32006KT CAVOK 42/07 Q0999 OIAD 020900Z 00000KT 3500 HZ SKC 46/12 Q1001 A2958 K9MN 021614Z AUTO 00000KT 10SM CLR 21/10 A3005 RMK AO1 T02110102 YTAR 021630Z AUTO 00000KT //// // ////// 04/01 Q1028 YRTI 021630Z AUTO 01010KT //// // ////// 17/17 Q1021 OIAG 021600Z 29006KT CAVOK 43/M24 Q0999 OIAH 021600Z 28008KT CAVOK 39/01 Q1006 SVPA 021100Z /////KT 9999 SCT013 SCT090 24/24 Q1013 OIBA 021500Z 27006KT 4000 HZ NSC 33/28 Q0999 SVPC 021600Z 06011KT 9999 SCT030 30/// Q1016 OIBB 021600Z 21010KT CAVOK 31/22 Q0999 A2952 HTMT 021600Z 15005KT 9999 FEW021 23/18 Q1018 DGAA 021600Z 22018KT 9999 BKN017 BKN041 27/24 Q1011 NOSIG HTMU 021600Z 27007KT 9999 FEW022CB SCT090 24/19 Q1018 OIAM 021600Z 27008KT CAVOK 43/09 Q0998 HTMW 021600Z 00000KT 9999 FEW024 FEW025CB 25/17 Q1016 NOSIG HUEN 021400Z 18008KT 9999 FEW022 FEW024CB BKN220 241/19 Q1017 OIBJ 021500Z 21016KT 7000 NSC 33/19 Q1005 OIBK 021600Z 20006KT 3500 BR NSC 31/27 Q1000 SVPM 021500Z 18010KT 9999 BKN035 XX/XX Q1017 OICC 021600Z 10010KT 9999 FEW045 38/M09 Q1012 OIBL 021600Z 25006KT 5000 HZ NSC 35/17 Q1000 OIAW 021600Z 29006KT CAVOK 43/20 Q0997 YSMH 021630Z AUTO 17007KT 9999 // NCD 13/07 Q1019 YSMI 021630Z AUTO 00000KT //// // ////// 02/02 Q1026 OIBP 021600Z 00000KT 4000 HZ NSC 33/26 Q1000 A2953 OIBQ 021500Z 25004KT CAVOK 34/21 Q0999 OICI 021600Z 27008KT CAVOK 35/M04 Q1014 A2995 OIBS 021500Z 18006KT CAVOK 34/27 Q1000 OICK 021200Z 00000KT 9999 FEW045 42/M04 Q1011 YTEE 021630Z AUTO 20005KT 9999 // NCD 11/02 Q1021 KMG 021630Z AUTO 21009KT 9999 // BKN016 BKN019 OVC032 03/02 Q1026 YSNF 021630Z AUTO 35011KT 9999 // SCT021 SCT027 18/14 Q1013 YTEF 021630Z AUTO 15008KT //// // ////// 17/02 Q1022 OIBV 021400Z 18010KT 8000 NSC 32/28 Q0999 SVSA 021600Z /////KT 9999 SCT020 32/19 Q1015 OICS 021300Z 04008KT 9999 SCT045 40/M02 Q1013 YTEM 021630Z AUTO 14005KT //// // ////// 01/M00 Q1026 SVSE 021600Z 00000KT 9999 OVC045 ///// Q//// CPBT 021500Z AUTO 25004KT 20/16 RMK AO1 T02010157 UDSG 021600Z 06010MPS 9999 NSC 21/14 Q1017 R02/CLRD70 NOSIG YSNW 021600Z AUTO 29007KT 9999 // NCD 04/M02 Q1024 SVSP 021400Z 00000KT 8000 HZ OVC030 XX/XX Q1018 SVST 021600Z 07008KT 9999 SCT010 ///// Q1017 CPEH 021500Z AUTO 26003KT 21/15 RMK AO1 T02090148 YTGM 021630Z AUTO 17003KT //// // ////// 06/00 Q1026 HTTB 021600Z 13003KT 9999 SCT024 26/14 Q1019 OIFM 021600Z 05010KT CAVOK 33/M08 Q1016 A3002 SVSZ 021600Z 00000KT 8000 HZ SCT015 XX/XX Q1011 HTSO 021600Z 18005KT 9999 FEW020 19/12 Q1024 OIGG 021530Z 04004KT CAVOK 28/21 Q1013 YTIB 021630Z AUTO 22006KT //// // ////// 06/02 Q1027 SVVA 021600Z 11006KT 9999 BKN016 31/20 Q1017 OIFS 021600Z 08008KT CAVOK 25/01 Q1022 CPFI 021600Z AUTO 36003KT 23/14 RMK AO1 T02320138 K9V9 020355Z AUTO 11006KT 10SM CLR 20/19 A2995 RMK AO2 T02020187 HTSU 021600Z 15006KT 9999 FEW020 21/08 Q1024 SVVG 021600Z 27004KT 9999 SCT020 34/25 Q1010 YSRI 021600Z AUTO 25004KT 9999 // NCD 04/01 Q1024 DFOO 021600Z 26006KT 9999 SCT020 FEW040CB BKN260 36/20 Q1011 OIHH 021151Z 08010KT 9999 FEW040 35/00 Q1019 SVVL 021500Z 34003KT 9999 FEW030 31/20 Q1016 YSRN 021630Z AUTO 03005KT 9999 // SCT025 BKN035 BKN041 04/04 Q1025 OIIE 021600Z 12008KT CAVOK 38/M04 Q1013 OIII 021600Z 13006KT 9999 FEW040 36/M03 Q1015 A2999 NOSIG OIIK 021600Z 14002KT 5000 HZ NSC 32/02 Q1016 PAAD 021615Z AUTO 10008KT 10SM FEW090 08/07 A2988 RMK AO2 YSTH 021630Z AUTO 33007KT 9999 // NCD 01/M01 Q1023 OIIP 021600Z 15006KT 9999 FEW045 34/M00 Q1015 OJAI 021600Z 29020KT 7000 NSC 29/17 Q1013 NOSIG PAAK 021616Z 11011KT 3SM OVC006 08/06 A2957 RMK AO1 OIKB 021550Z 17010KT 4000 HZ NSC 33/28 Q0999 A2953 OJAM 021600Z 29010KT 5000 HZ NSC 28/13 Q1013 NOSIG PABE 021553Z 24008KT 8SM SCT049 BKN120 12/09 A3011 RMK AO2 SLP198 T01170094 YSSY 021600Z 27011KT CAVOK 07/M01 Q1023 NOSIG ZJSY 021600Z 33002MPS CAVOK 29/25 Q1004 NOSIG PAAP 021454Z 20010KT 10SM FEW015 BKN030 12/10 A3008 RMK NO SPECI OJAQ 021600Z 36010KT CAVOK 36/19 Q1008 NOSIG PAAQ 021553Z 00000KT 10SM OVC033 11/08 A2996 RMK AO2 SLP146 T01060078 PABI 021603Z 30008KT 1 3/4SM -RA BR OVC004 11/10 A2990 RMK AO2 P0001 T01060100 CPIR 021500Z AUTO 24004KT 21/15 RMK AO1 T02050154 OIKK 021550Z 01010KT CAVOK 30/M07 Q1018 A3007 YSTW 021630Z AUTO 05001KT 9999 // NCD 02/00 Q1023 PACD 021604Z 15015KT 10SM BKN022 BKN200 11/08 A3009 RMK AO2 T01110083 OIKQ 021600Z 23012KT 4000 HZ NSC 33/27 Q0999 PABR 021553Z AUTO 11004KT 10SM FEW037 BKN090 OVC110 09/07 A2979 RMK SLP088 T00890072 TSNO VIA AUTODIAL HTZA 021600Z 13006KT 9999 FEW018 26/22 Q1017 NOSIG PABT 021553Z 15005KT 10SM FEW170 14/07 A2987 RMK AO2 SLP119 T01390067 OIMB 021600Z 06021KT 3000 SA NSC 31/M03 Q1016 OIMC 021600Z 31006KT CAVOK 37/14 Q1009 YTMO 021630Z AUTO 15006KT //// // ////// 12/02 Q1022 PABV 021616Z AUTO 21005KT 10SM OVC030 12/10 A2998 RMK AO1 PACM 021604Z AUTO 21008KT 10SM OVC014 08/08 A3008 RMK AO2 PWINO TSNO $ OIMD 021600Z 36008KT 6000 NSC 35/03 Q1010 YTNG 021630Z AUTO 12005KT 9999 // NCD 07/04 Q1022 PADE 021553Z AUTO 14006KT 10SM FEW075 BKN110 08/04 A2991 RMK AO2 SLP127 T00830039 TSNO $ YSWG 021630Z AUTO 14005KT 9999 // NCD 00/// Q1026 YSWH 021600Z AUTO 00000KT //// // NCD M00/M03 Q1029 PADG 021556Z 21009KT 2SM -RA BR BKN003 OVC005 07/07 A2988 UDYZ 021600Z 03009G15MPS 9999 FEW100 30/14 Q1009 R09/000070 TEMPO 03013G18MPS YTNK 021630Z AUTO 12012KT 9999 // NCD 14/M00 Q1022 PADK 021616Z 07010KT 10SM BKN014 OVC021 08/04 A2958 RMK AO1 PAEC 021447Z 00000KT 1/2SM -RA FG VV004 07/07 A2991 RMK NOSPECI PADL 021545Z 31004KT 20SM FEW100 BKN200 09/08 A3010 PACV 021553Z 00000KT 10SM FEW028 SCT120 12/08 A2985 RMK AO2 SLP108 T01170078 PADM 021556Z AUTO 21009KT 5SM HZ CLR 12/08 A3011 RMK AO2 TSNO T01220083 SLP184 $ PAED 021618Z 15006KT 10SM OVC008 11/09 A2997 RMK AO2A OIMM 021600Z 35010KT CAVOK 33/06 Q1015 A3000 OIMN 021600Z 32010KT 9999 FEW045 29/17 Q1017 OINE 021600Z 24010KT 9999 SCT035 32/22 Q1013 UERP 021600Z 35004MPS 9999 -SHRA BKN030CB 11/06 Q1007 R35/290250 NOSIG RMK QFE711 PAEG 021553Z AUTO 00000KT 10SM OVC060 14/11 A2981 RMK AO1 SLP094 T01390106 TSNO $ OING 021600Z 34010KT 9999 FEW030CB SCT035 BKN090 29/23 Q1015 PAEH 011855Z AUTO 35001KT 10SM SCT180 11/10 A3018 RMK AO2 SLP223 T01110098 UERR 021600Z VRB01MPS CAVOK 13/03 Q1009 R25/010060 NOSIG RMK QFE726 PADQ 021553Z 27012KT 10SM FEW110 SCT200 16/08 A3004 RMK AO2 SLP173 T01610078 $ PACZ 021555Z AUTO 24007KT M1/4SM FG VV002 06/06 A3005 RMK AO2 SLP179 T00580060 OIMQ 021600Z 06010KT CAVOK 34/04 Q1014 PAEI 021558Z 00000KT 1 5/8SM -RA BR BKN007 OVC015 12/11 A2989 RMK AO2A SLP126 P0001 T01200114 $ OIMS 011900Z 04016KT CAVOK 32/08 Q1016 NSFA 021600Z 18002KT 9999 FEW022 24/24 Q1010 PAFA 021618Z 00000KT 3SM BR FU BKN014 OVC045 12/11 A2989 RMK AO2 T01220106 OIMT 021200Z 03008KT 6000 NSC 43/03 Q1007 PAFB 021600Z 24006KT 3SM FU VCSH BKN010 OVC040 13/11 A2989 RMK CIG 008V012 PAEL 020252Z 12012KT 15SM -SHRA BKN024 OVC032 13/09 A2998 RMK NOSPECI LAST PADU 021559Z 14012G19KT 10SM SCT016 OVC021 11/06 A2999 RMK AO2 CS PAEM 021616Z AUTO 23009KT 10SM OVC008 08/05 A3002 RMK AO1 PAEN 021553Z 23003KT 10SM SCT007 BKN010 OVC065 10/09 A2999 RMK AO2 SLP156 T01000089 PAFE 021616Z AUTO 14008KT 10SM FEW012 SCT033 BKN050 A3014 RMK AO1 OINN 021600Z VRB02KT 9999 FEW080 27/22 Q1013 OINR 021600Z VRB02KT 9999 SCT025 27/22 Q1012 PAGA 021558Z AUTO 24010KT 10SM SCT021 OVC033 11/06 A3001 RMK AO2 SLP169 T01060061 PNO $ PAGB 012021Z 01011KT 15SM BKN100 14/ A2995 RMK LAST PAFM 021616Z AUTO 15005KT 10SM OVC034 08/04 A2999 RMK AO1 PAGH 021557Z AUTO 24007KT 10SM OVC029 09/05 A2997 RMK AO2 SLP176 T00890050 OINZ 021600Z 35004KT 9999 BKN033 27/23 Q1013 PAFR 021555Z COR 19003KT 10SM BKN006 OVC008 10/09 A2997 RMK SLPNO AO2A COR 1606 SYCJ 021600Z 09008KT 9999 BKN017 SCT090 29/24 Q1014 NOSIG PAFS 021556Z AUTO 23007KT 10SM CLR 09/07 A3003 RMK AO2 TSNO T00880066 SLP177 $ PAGK 021553Z AUTO 00000KT 10SM OVC100 09/04 A2991 RMK AO2 SLP131 T00940039 TSNO $ PAGL 021235Z 23006KT 10SM OVC019 08/03 A3003 RMK VIA PHONE PAHC 021556Z AUTO 00000KT 10SM BKN034 09/07 A3008 RMK AO2 TSNO T00940072 SLP189 $ YTRE 021630Z AUTO 25009KT 9999 // NCD 10/01 Q1021 PAGM 021616Z AUTO 23018KT 1SM OVC002 06/05 A2990 RMK AO1 PAGN 021556Z AUTO 17009G17KT 10SM FEW055 15/07 A3001 RMK AO2 TSNO T01500072 SLP163 $ PAGS 021616Z AUTO 14019G28KT 10SM FEW037 SCT047 OVC060 13/08 A2991 RMK AO1 PNO PAHL 021616Z AUTO 27004KT 10SM OVC034 10/04 A2997 RMK AO1 PAHN 021554Z AUTO 10012G22KT 10SM -RA SCT014 BKN019 OVC055 12/11 A2991 RMK AO2 PK WND 14028/1518 SLP130 P0004 T01220106 TSNO PAHO 021553Z 07004KT 10SM -RA FEW040 BKN085 11/09 A2999 RMK RAE28B46 SLP155 P0001 T01060089 VIA AUTODIAL PAGY 021553Z AUTO 21010G16KT 10SM -RA FEW027 OVC060 13/09 A2989 RMK AO2 SLP122 P0000 T01330094 TSNO PAHP 021616Z AUTO 28006KT 10SM OVC004 07/05 A3008 RMK AO1 PAIG 021556Z AUTO 00000KT 10SM SCT070 12/11 A3008 RMK AO2 TSNO T01220105 SLP189 $ PAII 021616Z AUTO 23006KT 1/4SM OVC002 11/11 A3015 RMK AO1 NTAA 021600Z AUTO 17003KT 9999 NCD 23/20 Q1009 PAIK 021601Z AUTO 27005KT 9SM OVC020 09/08 A2994 RMK AO2 SLP179 T00890083 PNO $ PAIL 021553Z 32004KT 10SM OVC090 14/09 A3007 RMK AO2 SLP184 T01440089 PAJC 021616Z AUTO 00000KT 10SM CLR 11/09 RMK AO1 PAIM 020538Z X/////W////7///////W//////W PAIN 021616Z AUTO 00000KT 9SM FEW006 BKN016 OVC046 07/07 A2995 RMK AO1 P0002 OISF 021150Z 03014KT 9999 PO 40/M04 Q1008 PAHX 021556Z AUTO 22006KT 10SM OVC023 11/07 A3007 RMK AO2 SLP186 T01060067 PAHY 021616Z AUTO 00000KT 10SM BKN034 OVC042 13/09 A3020 RMK AO1 YTST 021630Z AUTO 15004KT 9999 // OVC120 25/15 Q1015 OISL 021600Z 24008KT CAVOK 38/11 Q1004 PAJN 021553Z 12023G29KT 5SM -RA FEW034 BKN055 OVC070 12/09 A2997 RMK AO2 PK WND 13031/1530 SLP150 P0001 T01220094 PAIW 021627Z AUTO 19030G34KT 1/2SM -RA FG OVC002 06/05 A2988 RMK AO2 PK WND 19034/1618 P0000 DIAD 021600Z 20008KT 9999 BKN013 28/25 Q1012 NOSIG PAKF 021601Z AUTO 19006G16KT 10SM SCT017 OVC027 11/07 A3010 RMK AO2 SLP288 T01110072 $ CPRO 021600Z AUTO 21002KT 23/16 RMK AO1 T02310161 PAKI 021556Z AUTO 20007KT 10SM CLR 12/08 A3011 RMK AO2 TSNO T01160083 SLP199 $ OISR 020900Z 12008KT CAVOK 43/11 Q1003 OISS 021600Z 00000KT CAVOK 34/M04 Q1013 A2992 ZLLL 021600Z 31003MPS 260V350 9999 SCT046 16/09 Q1018 NOSIG PAKK 021616Z 23005KT 10SM SCT021 OVC029 07/M02 A2995 RMK AO1 OKBK 021600Z 31010KT CAVOK 43/01 Q1001 NOSIG OITL 021600Z 09010KT 9999 VCFG FEW010 SCT090 19/16 Q1019 OITM 021600Z 08012KT 9999 SCT040 36/06 Q1013 SYGO 021600Z 08012KT 9999 SCT020 BKN080 30/24 Q1014 NOSIG PAKN 021617Z 14004KT 3/4SM BR BKN004 BKN200 12/11 A3009 RMK AO2 SFC VIS 5 T01170111 $ PAKP 021616Z AUTO 17006KT 10SM CLR 12/04 A2982 RMK AO1 PALG 021614Z AUTO 14003KT 2SM HZ FEW035 BKN050 11/08 A3009 RMK AO2 TSNO BKN V OVC $ OISY 021600Z 10004KT CAVOK 31/M03 Q1017 PALH 021553Z AUTO VRB03KT 10SM OVC009 11/08 A2998 RMK AO2 SLP154 T01110083 TSNO CPRY 021500Z AUTO 28004KT 20/15 RMK AO1 T01980148 DIAP 021630Z 23013KT 200V260 9999 FEW012 27/24 Q1012 NOSIG OITR 021600Z 00000KT 9999 FEW040 30/18 Q1014 PALJ 021455Z 22005KT 20SM BKN040 OVC060 12/10 A3003 RMK FIRST EST PASS CLSD NOSPECI PAKT 021553Z 14006KT 10SM SCT018 OVC030 15/12 A3019 RMK AO2 SLP223 T01500122 PAMB 021556Z AUTO 00000KT 10SM CLR 09/09 A3007 RMK AO2 TSNO T00940094 SLP184 $ OITT 021600Z 09012KT 9999 FEW035TCU FEW040CB FEW090 35/08 Q1015 A2998 NOSIG PAKU 021550Z 24005KT 10SM R24/P6000FT SCT075 BKN100 15/11 A2985 PAMC 021553Z 26007KT 10SM SCT070 SCT150 10/04 A3005 RMK AO2 SLP179 T01000044 DIBK 021600Z VRB02KT 9999 BKN013 30/21 Q1015 NOSIG CPST 021600Z AUTO 12004KT 21/14 RMK AO1 T02050139 PAKV 021625Z AUTO 21005KT 10SM OVC030 10/06 A3004 RMK AO2 T01000056 TSNO PAMD 021616Z AUTO 26012KT 10SM CLR 13/10 A2989 RMK AO1 PAKW 021553Z AUTO 18005KT 10SM FEW020 OVC043 13/09 A3017 RMK AO2 SLP216 T01330094 TSNO CPSV 021600Z AUTO 32003KT 23/15 RMK AO1 T02290152 50006 PALP 021555Z 22010KT 15SM BKN100 15/10 A2983 PAMH 021616Z AUTO 00000KT 10SM OVC065 12/07 A2995 RMK AO1 OITZ 021500Z 07019KT 9999 FEW035 33/06 Q1018 PANA 021556Z AUTO 24005KT 10SM BKN038 12/10 A3010 RMK AO2 SLP194 T01170100 PAMK 021556Z AUTO 20009KT 10SM BKN019 OVC025 08/06 A3003 RMK AO2 TSNO T00770061 BKN V SCT SLP172 $ PANC 021553Z 18004KT 10SM BKN006 BKN010 OVC016 12/09 A2997 RMK AO2 RAE03 SLP149 P0000 T01220089 PALU 021555Z 21028G34KT 4SM BR FEW014 SCT020 BKN075 06/05 A2975 RMK AO2A SLP073 BWC LOW PAMM 021616Z 24011KT 10SM BKN017 OVC023 A3020 RMK AO1 DIBU 021600Z 12010KT 9999 RA BKN013CB/EST 25/18 Q1015 TEMPO TSRA PAMO 021556Z AUTO 23006KT 10SM BKN005 OVC015 09/08 A3008 RMK AO2 TSNO T00940083 CIG 003V007 SLP071 $ PAMR 021553Z 17003KT 10SM OVC007 11/08 A2998 RMK AO2 SLP151 T01110083 PANI 021616Z AUTO 12004KT 1SM OVC041 09/07 A3011 RMK AO1 UHBB 021600Z 24002MPS CAVOK 13/11 Q1004 R36/090060 NOSIG RMK QFE736/0981 DIDK 021600Z ///// 9999 SCT015 BKN016 32/24 Q//// NOSIG DIDL 021600Z ///// 9999 BKN015 32/23 Q1013 NOSIG PANN 021602Z AUTO VRB03KT 4SM BR BKN029 OVC080 13/11 A2989 RMK AO2 T01280106 TSNO PAMY 021616Z AUTO 30004KT 1/2SM OVC002 07/03 A3009 RMK AO1 PAOH 021556Z AUTO 08008KT 10SM -RA FEW029 SCT036 OVC045 13/11 A2995 RMK AO2 TSNO T01270111 RAB55 P0000 SLP141 $ PAPB 021553Z AUTO 14012KT 10SM OVC011 09/07 A3002 RMK AO2 SLP153 T00890067 TSNO PANT 021553Z VRB04KT 10SM OVC018 15/12 A3019 RMK SLP225 T01500122 VIA AUTODIAL PAOM 021605Z 22012KT 10SM BKN010 OVC016 06/06 A2996 RMK AO2 T00610056 PANV 021616Z AUTO 23003KT 10SM OVC024 09/05 A3005 RMK AO1 PANW 021556Z AUTO 00000KT 7SM CLR 13/09 A3013 RMK AO2 TSNO T01270088 SLP178 $ UGKO 021600Z 25009KT 9999 SCT029CB OVC049 20/17 Q1017 R25/09//70 NOSIG PAOO 021556Z AUTO 19007KT CLR 10/08 A3010 RMK AO2 TSNO T01000083 SLP195 $ PAPG 021616Z 21009G14KT 190V250 10SM SCT028 BKN050 14/09 A3014 RMK AO1 VCSH PAPH 021616Z AUTO 10SM CLR 11/07 A3017 RMK AO1 PAOR 021553Z 32004KT 10SM FEW012 BKN044 11/08 A2983 RMK AO2 SLP103 T01060078 PAOT 021553Z 26008KT 10SM FEW018 OVC027 09/05 A2991 RMK AO2 SLP129 T00940050 OIZB 021600Z 32010KT CAVOK 40/05 Q0999 DIGA 021600Z 28004KT 9999 BKN013 31/27 Q1011 NOSIG OIZC 020900Z 14014KT 5000 SA NSC 35/26 Q1002 A2960 PAOU 021556Z AUTO 24004KT CLR 11/11 A3014 RMK AO2 TSNO T01050105 SLP210 $ PAPM 021556Z AUTO 00000KT 10SM BKN009 A3014 RMK AO2 TSNO CIG 007V011 SLPNO $ CPXL 021600Z AUTO 12001KT 23/14 RMK AO1 T02310144 PAPN 021556Z AUTO 25005KT 10SM CLR 12/10 A3016 RMK AO2 PWINO TSNO T01160100 SLP212 $ PAPO 021616Z AUTO 17018KT 1SM OVC003 05/04 A2979 RMK AO1 PAQH 021556Z AUTO 10004KT 10SM CLR 10/09 A3013 RMK AO2 SLP204 T01000094 OIZH 021600Z 34006KT CAVOK 33/05 Q1011 A2985 NOSIG OIZI 021600Z 30006KT 9999 FEW045 41/M00 Q1003 OIZJ 021600Z 22004KT 6000 NSC 32/30 Q1000 PAPT 021459Z 25010KT 25SM US SCT030 OVC045 12/10 A2993 RMK NO SPECI OIYY 021600Z 02004KT CAVOK 36/M08 Q1014 PASA 021616Z AUTO 24020KT 10SM OVC011 06/04 A2990 RMK AO1 PAQT 021553Z AUTO 20007KT 10SM OVC100 15/09 A2985 RMK AO2 SLP109 T01500094 TSNO PASC 021553Z 10006KT 10SM BKN080 OVC095 13/10 A2985 RMK AO2 SLP108 T01280100 PASD 021616Z 00000KT 10SM FEW014 BKN019 BKN060 11/11 A3017 RMK AO1 WEA YWCA 021630Z AUTO 17006KT //// // ////// 04/03 Q1028 PASH 011858Z 21011KT 10SM BKN010 OVC015 A3000 RMK VIA PHONE PASI 021553Z 17012G21KT 6SM -RA BR SCT012 BKN022 OVC060 12/11 A3006 RMK AO2 SLP179 P0003 T01220106 YWBL 021630Z AUTO 31009KT 9999 // NCD 04/02 Q1028 OLBA 021600Z 30006KT 8000 FEW026 27/21 Q1012 PATA 021552Z 28008KT 240V320 1/4SM FU VV009 14/10 A2993 RMK AO2 SLP136 FU ALQDS T01390100 PARS 021556Z AUTO 10SM FEW070 SCT110 11/09 A3008 RMK AO2 TSNO T01110088 SLP191 $ PASK 021616Z AUTO 24008KT 10SM BKN017 OVC021 09/07 A2995 RMK AO1 PATC 021555Z AUTO 22022KT M1/4SM -RA FG VV002 05/04 A2987 RMK AO2 PK WND 21030/1457 RAB1456 SLP120 P0000 T00450044 PASL 021616Z AUTO RMK AO1 PASM 021616Z AUTO 23009KT 9SM BKN010 OVC017 10/07 A3005 RMK AO1 PASN 021553Z 13009KT 10SM OVC009 08/06 A3003 RMK AO2 SLP170 T00830061 $ PATE 021607Z AUTO 21014KT 5SM BR OVC004 06/05 A2992 RMK AO2 CIG 003V008 PASO 021553Z AUTO 00000KT 10SM SCT075 OVC100 13/11 A2998 RMK AO2 SLP151 T01330111 TSNO YWBR 021630Z AUTO 00000KT //// // ////// 08/M01 Q1025 PATG 021616Z AUTO 36003KT 10SM CLR 10/09 A3012 RMK AO1 PARY 021556Z AUTO 26007KT 10SM BKN033 10/06 A2999 RMK AO2 TSNO T01000061 SLP160 $ MSV 021600Z AUTO 26004KT 9999 // NCD M00/M04 Q1023 PATK 021604Z 00000KT 10SM -RA FEW003 OVC065 09/08 A2997 RMK AO2 P0000 T00940078 $ PATL 021555Z AUTO VRB06KT 10SM CLR 08/04 A3007 RMK AO2 SLP182 T00820044 PASV 021555Z AUTO VRB04KT 10SM BKN018 BKN090 08/04 A3008 RMK AO2 SLP189 T00760042 MUI 021630Z AUTO 14018KT 9999 // NCD 04/M01 Q1022 PASW 021455Z 00000KT 4SM RABR OVC008 10/09 A2999 RMK FIRST NOSPECI PATO 021607Z AUTO 28010G15KT 10SM FEW019 BKN024 OVC048 11/08 A2995 RMK AO2 T01110083 TSNO PASX 021616Z AUTO 00000KT 10SM BKN050 OVC065 09/07 A2998 RMK AO1 PASY 021618Z AUTO 03013KT 2 1/2SM BR OVC002 07/07 A2975 RMK AO2 TSNO $ UHHH 021600Z METAR 36003MPS CAVOK 11/09 Q1003 R88/60D NOSIG PATQ 021556Z AUTO 14005KT 10SM BKN060 BKN100 OVC120 11/09 A2980 RMK AO2 TSNO T01050094 BKN V SCT SLP095 $ NSTU 021600Z 11020G24KT 4SM -SHRA FEW006 BKN013 OVC038 25/23 A2985 RMK SLP108 T02530230 PAVC 021556Z AUTO 07007KT OVC020 11/07 A3014 RMK AO2 TSNO T01050072 SLP206 $ PAVD 021616Z 00000KT 10SM BKN250 11/07 A2987 RMK AO1 1547Z WEA PAUN 021616Z AUTO 24014KT 6SM BKN006 OVC012 09/07 A3003 RMK AO1 P0001 DIKO 021600Z ///// 9999 SCT015 SCT100 33/22 Q1011 NOSIG UIAA 021600Z VRB01MPS 9999 FEW050CB 15/09 Q1008 R29/CLRD70 NOSIG RMK QFE698 UGSB 021600Z 20003KT 9999 FEW026 SCT050 22/18 Q1019 R13/CLRD70 NOSIG PAUT 021455Z AUTO 10SM OVC017 10/07 A3003 RMK AO2 T00950068 PAVL 021610Z AUTO 19014KT 2SM -RA BR BKN008 OVC013 07/07 A2986 RMK AO2 CIG 005V011 P0000 T00720067 TSNO PAWD 021553Z AUTO 04013G19KT 10SM OVC045 13/07 A2992 RMK AO2 PK WND 02026/1519 SLP132 T01330067 TSNO $ PAWG 021616Z 00000KT 10SM FEW020 BKN045 14/09 A3018 RMK AO1 WEA PAWI 021600Z AUTO 21008KT 7SM FEW010 BKN032 OVC055 09/07 A2977 RMK T00890072 TSNO VIA AUTODIAL UIBB 021600Z 08001MPS P5000 NSC 19/15 Q1008 R30/CLRD60 NOSIG RMK QFE713/0951 UGTB 021600Z 31007KT 9999 BKN050CB 25/18 Q1018 R31L/CLRD80 NOSIG PAWM 021235Z 25004 8M OVC019 07/04 A3000 RMK VIA PHONE PAWN 021616Z AUTO 16005KT 10SM OVC019 07/04 A2983 RMK AO1 YWHA 021630Z AUTO 30004KT 9999 // NCD 05/// Q1028 PAYA 021553Z 34006KT 10SM -RA FEW045 FEW055 OVC070 11/10 A2982 RMK AO2 SLP098 P0010 T01110100 PAWS 021616Z AUTO 00000KT 10SM SCT006 OVC032 10/09 A2996 RMK AO1 ZLXY 021600Z VRB01MPS CAVOK 25/21 Q1005 NOSIG DIOD 021300Z ///// 9999 SCT016 31/23 Q1012 NOSIG UHMA 020630Z 12006MPS 9999 VCSH FEW050CB OVC080 19/10 Q1007 NOSIG RMK QFE751/1002 YWGT 021600Z AUTO 12004KT 9999 // NCD M00/M01 Q1027 YVRD 021630Z AUTO 00000KT //// // ////// 16/09 Q1018 UHMD 020430Z 19006MPS 0500 DZ FG VV009 05/05 Q1013 RMK QBB270 MT OBSC QFE758/1011 PAZK 021616Z AUTO 26010G15KT 10SM BKN035 BKN050 OVC070 05/03 A2989 RMK AO1 UHMM 021600Z 10003MPS 9999 BKN040CB OVC100 09/05 Q1009 RMK QFE742 YWIS 021630Z AUTO 17009KT //// // ////// 13/07 Q1019 OMAA 021600Z 36007KT 9000 NSC 34/28 Q1000 A2955 NOSIG OMAD 021600Z 36006KT 7000 NSC 33/28 Q1000 A2955 NOSIG ZMUB 021630Z VRB01MPS 9999 FEW033 SCT100 18/02 Q1012 NOSIG RMK QFE652.1 34 NT OMAL 021600Z 32010KT 8000 NSC 40/18 Q1003 A2963 NOSIG YWLG 021630Z AUTO 21007KT 9999 // SCT042 06/04 Q1025 TQPF 021600Z 09017KT 9999 BKN019 31/23 Q1019 YWLM 021630Z AUTO 25009KT 9999 // SCT043 08/01 Q1023 DITB 021600Z ///// 9999 OVC013 26/// Q//// NOSIG UHPP 021600Z 00000MPS 3000 DZ BR OVC005 07/05 Q1012 R34R/290050 NOSIG RMK QFE755/1007 EBBE 021555Z 32011KT 9999 FEW170 BKN210 26/18 Q1019 BLU BLU DISP 021600Z 22012KT 9999 SCT013 27/23 Q1013 NOSIG OMDB 021600Z 29004KT CAVOK 34/25 Q1001 NOSIG DISS 021600Z ///// 9999 SCT015 28/24 Q1013 NOSIG EBBL 021555Z 33011KT 9999 FEW050 SCT160 29/18 Q1018 BLU EBAW 021620Z 34009KT 310V010 CAVOK 26/15 Q1019 NOSIG UIII 021600Z 17005MPS CAVOK 21/12 Q1007 R12/CLRD60 NOSIG RMK QFE713/0951 EBCI 021620Z 34010KT 300V360 CAVOK 27/19 Q1019 NOSIG EBBR 021620Z 34010KT 300V360 CAVOK 25/16 Q1019 NOSIG VAAH 021540Z 18010KT 4000 DU FEW020 32/25 Q1006 NOSIG YWOL 021630Z AUTO 23013KT 9999 // NCD 08/M01 Q1024 VABB 021540Z 25009KT 3200 HZ FEW020 SCT025 30/25 Q1010 NOSIG KA08 020355Z AUTO 00000KT 10SM CLR 24/21 A3005 RMK AO2 T02410214 PWINO OMDW 021600Z 35004KT 8000 NSC 35/26 Q1002 NOSIG EBCV 021555Z AUTO 36007KT 9999 NCD 27/17 Q1019 BLU UHSS 021600Z 02007MPS 9999 -SHRA SCT006 BKN036CB 08/08 Q1002 RMK MT OBSC QFE750/1001 OMFJ 021600Z 15003KT 7000 NSC 34/26 Q1001 A2956 EBDT 021555Z AUTO 33013KT 9999 OVC170/// 29/18 Q1018 BLU EBFN 021555Z VRB02KT 9999 FEW070 SCT140 BKN210 24/15 Q1020 BLU EBFS 021555Z 32008KT 9999 FEW150 BKN230 28/21 Q1019 BLU DIYO 021600Z 10004KT 9999 BKN013 30/24 Q1013 NOSIG YWUD 021630Z AUTO 07003KT //// // ////// 07/06 Q1028 YWTN 021630Z AUTO 15011KT //// // ////// 14/06 Q1021 UHWW 021600Z 23002MPS 9999 SCT040 12/11 Q1003 R25L/0///70 NOSIG RMK QFE751 TRPG 021600Z 10013KT 9999 -SHRA HZ BKN019 28/21 Q1018 EBLB 021555Z AUTO 20005KT 9999 FEW170/// BKN180/// 32/15 Q1021 BLU EBLG 021620Z 34012KT 310V010 CAVOK 29/20 Q1018 NOSIG YWWL 021630Z AUTO 19003KT //// // ////// 01/M01 Q1026 UKBB 021600Z 01003MPS CAVOK 20/15 Q1021 88290060 NOSIG YWYM 021630Z AUTO 08001KT //// // ////// 20/08 Q1016 CTNK 021600Z AUTO 31004KT 17/02 RMK AO1 SLP145 T01660022 55000 UKDD 021600Z 00000MPS 9999 SCT033CB BKN100 18/17 Q1018 08250554 NOSIG UKDE 021600Z 31002MPS 260V340 9999 BKN020CB BKN033 18/16 Q1018 02CLRD70 TEMPO TS BKN015CB YWYY 021630Z AUTO 23005KT 9999 // NCD 01/01 Q1025 TTCP 021600Z 08012KT 9999 FEW016 30/23 Q1016 NOSIG RMK JP-S SE UIUU 021600Z 02002MPS 9999 FEW046 23/11 Q1007 R26/010095 NOSIG RMK QFE711/0948 EBOS 021620Z 26003KT 220V300 CAVOK 22/16 Q1020 NOSIG UKDR 021600Z 06002MPS 360V130 9999 SCT033 21/14 Q1018 3609//70 NOSIG OMRK 021600Z 01005KT CAVOK 34/24 Q1001 A2957 CTRA 021600Z AUTO 23005KT 22/17 RMK AO1 SLP124 T02180166 55001 VANP 021540Z 00000KT 5000 HZ FEW020 SCT100 30/22 Q1007 NOSIG OMSJ 021600Z 34002KT 8000 NSC 34/25 Q1001 EDAC 021620Z 07005KT 030V130 CAVOK 30/13 Q1022 EDAH 021450Z 04007KT 010V090 CAVOK 25/13 Q1026 EDBC 021620Z 11009KT 080V140 CAVOK 32/12 Q1022 UKHH 021600Z 36002MPS 9999 FEW040 SCT100 BKN200 23/14 Q1019 070///65 NOSIG PFCL 021556Z AUTO 25005KT 10SM FEW006 13/12 A3011 RMK AO2 SLP198 T01330122 YYNG 021630Z AUTO 18004KT //// // ////// M02/M02 Q1025 ULAA 021600Z 36003MPS 310V090 9999 SCT026 SCT/// 14/04 Q1023 R26/CLRD70 NOSIG RMK QFE765/1021 EDDB 021620Z 12008KT 080V160 CAVOK 29/10 Q1024 NOSIG EDDC 021620Z 09012KT 050V120 CAVOK 29/10 Q1023 NOSIG EDDE 021620Z 07011KT CAVOK 30/13 Q1022 NOSIG EDDF 021620Z 13007KT 090V160 CAVOK 35/13 Q1018 NOSIG EDDG 021620Z 11006KT CAVOK 36/15 Q1017 NOSIG EDDH 021620Z 11015KT CAVOK 31/10 Q1021 NOSIG KAAA 021600Z AUTO 03005KT 10SM CLR 21/14 A2997 RMK AO2 T02050138 KC09 021600Z AUTO 05006KT 10SM BKN021 BKN028 19/14 A2998 RMK AO2 T01920137 PFEL 021558Z AUTO 21005KT 10SM OVC024 08/04 A2999 RMK AO2 SLP162 T00830044 NVVV 012000Z 09004KT 9999 SCT020 BKN120 22/20 Q1013 RMK RESH EDDK 021620Z 13011KT CAVOK 35/16 Q1017 NOSIG EDDL 021620Z 12012KT CAVOK 36/16 Q1017 NOSIG EDDM 021620Z 06005KT 020V100 CAVOK 29/16 Q1023 NOSIG KAAF 021622Z AUTO 1/4SM +TSRA SCT014 BKN030 BKN047 23/20 A3014 RMK AO2 PK WND 26044/1609 LTG DSNT ALQDS RAB15 TSB22 P0010 T02330200 EDDN 021620Z 14005KT 050V190 CAVOK 32/12 Q1021 NOSIG VCBI 021610Z 22009KT 9999 SCT016 29/25 Q1013 NOSIG EDDP 021620Z 11009KT CAVOK 31/09 Q1022 NOSIG UKKK 021600Z 02005MPS CAVOK 22/12 Q1021 08CLRD70 NOSIG EDDR 021620Z 12007KT 100V160 CAVOK 34/13 Q1019 NOSIG EDDS 021620Z 09006KT 060V120 CAVOK 32/17 Q1021 NOSIG UKKM 021600Z 04002MPS 360V070 CAVOK 21/15 Q1021 3319//65 NOSIG EDDT 021620Z 12009KT 070V150 CAVOK 29/10 Q1023 NOSIG ZPPP 021600Z 02003MPS 5000 -SHRA BR FEW003 FEW026TCU SCT026 OVC040 19/18 Q1016 NOSIG KABE 021551Z 35004KT 10SM CLR 25/16 A2991 RMK AO2 SLP127 T02500156 EDDV 021620Z 11012KT CAVOK 32/14 Q1020 NOSIG EDFE 021620Z 12004KT CAVOK 35/12 Q1018 KAAO 021554Z AUTO 04009KT 10SM CLR 26/22 A2991 RMK AO2 SLP113 T02560217 EDDW 021620Z 14013KT 110V170 CAVOK 33/13 Q1019 NOSIG UKLI 021600Z 34004MPS 300V020 CAVOK 22/12 Q1025 NOSIG KABH 021556Z AUTO 03012KT 10SM CLR A3028 RMK AO2 PK WND 04027/1500 SLPNO $ KABI 021552Z 20014KT 10SM CLR 27/18 A3002 RMK AO2 SLP137 T02670183 EDFH 021620Z 12010KT 090V150 CAVOK 32/18 Q1021 UKLL 021600Z 03004MPS 350V060 CAVOK 24/10 Q1026 31CLRD80 NOSIG KC29 020355Z AUTO 11006KT 10SM CLR 15/13 A3002 RMK AO1 T01520128 KAAT 021555Z AUTO 00000KT 10SM CLR 24/09 A3015 RMK AO2 SLP151 T02440089 KACB 021613Z AUTO 34004KT 10SM CLR 21/09 A3006 RMK AO2 T02060091 UKLN 021500Z 33006MPS 9999 SCT033CB BKN100 22/11 Q1024 3309//70 NOSIG EDFM 021620Z 14007KT 110V180 CAVOK 35/14 Q1018 UKLR 021500Z 03005MPS 9999 FEW026 SCT100 24/12 Q1024 NOSIG KC35 021300Z AUTO 04004KT 10SM CLR 13/12 A3006 RMK AO2 T01280115 KABQ 021552Z VRB06KT 10SM FEW100 SCT160 SCT300 27/12 A3016 RMK AO2 SLP116 T02670122 KABR 021603Z AUTO 00000KT 4SM -RA BR SCT027 BKN035 OVC055 16/15 A3000 RMK AO2 P0002 T01610150 KACJ 020355Z AUTO 06005KT 10SM SCT050 23/22 A3010 RMK AO2 UKLU 021600Z 04004MPS 9999 SCT043 25/09 Q1023 10090070 NOSIG KACK 021553Z 23007KT 10SM OVC095 23/16 A2992 RMK AO2 SLP131 T02330161 KADC 021614Z AUTO 19009KT 10SM 21/13 A3002 RMK AO2 KADF 021556Z AUTO 22011KT 9SM FEW060 29/21 A2996 RMK AO2 T02880211 SLP158 KADG 021553Z AUTO 07008KT 10SM SCT025 BKN042 19/14 A3002 RMK AO2 SLP166 T01890139 TSNO KABY 021553Z 27013G17KT 10SM FEW019 SCT120 28/22 A3011 RMK AO2 SLP193 T02780222 KACP 021610Z AUTO 16004KT 10SM CLR 29/25 A3008 RMK AO2 T02920247 KADH 021540Z AUTO 23012G17KT 10SM SCT120 26/21 A2992 RMK AO2 KACQ 021614Z AUTO 11007KT 10SM CLR 20/11 A3005 RMK AO2 EDHI 021620Z 10011KT 070V130 CAVOK 32/11 Q1020 EDGS 021620Z 16008KT CAVOK 31/17 Q1023 KACT 021551Z 20015G23KT 10SM SCT029 BKN035 28/21 A3002 RMK AO2 SLP157 T02830206 EDHK 021620Z 08012KT CAVOK 25/16 Q1022 KADM 021555Z 23014G18KT 10SM SKC 29/21 A2993 RMK RWY 17 / ATIS C KACV 021610Z AUTO 22003KT 1/2SM R32/1800V3000FT FG OVC002 13/13 A2996 RMK AO2 T01280128 EDHL 021620Z 14007KT 090V200 CAVOK 31/11 Q1022 KACY 021619Z 11006KT 2 1/2SM RA BR OVC065 21/19 A2990 RMK AO2 RAB07 P0003 T02060189 KAEG 021547Z 03008KT 10SM SCT120 BKN200 26/12 A3020 KADS 021547Z 22010G21KT 13SM SKC 29/18 A3000 KAEJ 021615Z AUTO 00000KT 10SM CLR 19/11 A3036 RMK AO2 T01910111 DNAA 021500Z 23003KT 180V300 9999 BKN012 28/19 Q1013 NOSIG EDJA 021620Z 08005KT CAVOK 30/15 Q1023 KADU 020950Z AUTO 36003KT 10SM CLR 14/12 A2998 RMK AO2 KAEL 021612Z AUTO 12005KT 10SM CLR 21/11 A3004 RMK AO2 UKON 021600Z 35004MPS 320V040 9999 FEW026CB SCT200 23/12 Q1018 NOSIG UKOO 021600Z VRB01MPS 9999 VCTS FEW036CB SCT043 BKN100 20/13 Q1019 34190058 TEMPO -TSRAGR KADW 021558Z AUTO 02006KT 10SM BKN060 21/19 A2990 RMK AO2 SLP130 T02120188 $ CWAE 021600Z 36003KT 15SM SKC 24/09 A3011 RMK WND ESTD SLP180 DENSITY ALT 3400FT KAFF 021618Z 36012G18KT 10SM SCT015 BKN035 16/12 A3032 RMK AO2A CWAF 021600Z AUTO 12/ RMK AO1 T0119 KAFK 020355Z AUTO 06010KT 10SM BKN013 BKN038 22/19 A2991 RMK AO2 T02220189 CWBA 021600Z AUTO 34008G16KT 18/04 RMK AO1 PK WND 31017/1543 T01750035 CWAJ 021600Z AUTO 06005KT 19/14 RMK AO1 SLP159 T01890141 53007 KAGC 021620Z VRB04KT 10SM SCT030 SCT035 BKN046 22/13 A2995 RMK AO2 T02220133 KAFN 021552Z AUTO 22005KT 10SM SCT036 BKN048 21/12 A2992 RMK AO2 SLP134 T02060117 TTPP 021600Z 11014KT 9999 SCT018 32/23 Q1014 NOSIG KAFO 020355Z AUTO 00000KT 10SM CLR 16/11 A3018 RMK AO2 TSNO CWBE 021600Z AUTO 01009G18KT 19/02 RMK AO1 PK WND 35018/1546 SLP169 T01940022 55001 KAEX 021553Z 22008KT 10SM CLR 28/23 A3005 RMK AO2 SLP180 T02780228 KC75 020355Z AUTO 08010KT 10SM SCT120 18/14 A2995 RMK AO2 T01750141 KAFP 021540Z AUTO 21006KT 10SM CLR 28/19 A2995 RMK AO2 T02830190 CWAQ 021600Z AUTO 31007KT 18/16 RMK AO1 SLP181 T01810160 50008 CWAR 022300Z AUTO 21011KT 12/09 RMK AO1 SLP162 T01190093 53005 PFKT 021627Z AUTO 21017KT 3SM BR BKN007 OVC013 07/06 A2993 RMK AO2 CIG 005V010 CWCA 021600Z 15008KT 15SM OVC030 18/12 A2993 RMK SC8 SLP134 DENSITY ALT 400FT CWBK 021600Z AUTO 21011G18KT 25/17 RMK AO1 PK WND 23018/1548 SLP070 T02530166 58006 PFKW 021556Z AUTO 21003KT 10SM CLR 12/11 A3010 RMK AO2 SLP193 T01170106 CWAV 021600Z AUTO 13004KT 22/11 RMK AO1 SLP204 T02170114 KAFW 021553Z 22017G24KT 10SM FEW035 FEW150 FEW250 28/18 A2999 RMK AO2 SLP139 T02780183 CWCF 021600Z AUTO 08004KT 21/18 RMK AO1 SLP107 T02060182 50000 CWBO 021600Z AUTO 06002KT 24/14 RMK AO1 SLP202 T02370138 50002 CWCI 021500Z AUTO 21005KT 09/06 RMK AO1 SLP183 T00940057 KAIA 021553Z AUTO 34016KT 10SM CLR 23/14 A3012 RMK AO2 SLP158 T02280144 KAGS 021553Z 23008KT 10SM CLR 30/20 A3001 RMK AO2 SLP159 T03000200 CWDA 021500Z AUTO 10007KT 09/09 RMK AO1 SLP165 T00940086 CWCJ 021600Z AUTO 19005KT 13/06 RMK AO1 SLP176 T01330058 50001 CWBS 021600Z AUTO 26019G25KT 20/10 RMK AO1 PK WND 25027/1547 T01950095 EDMA 021620Z 12005KT 090V150 CAVOK 30/16 Q1022 RMK ATIS HOT KAIB 021615Z AUTO 00000KT 10SM CLR 25/11 A3025 RMK AO2 CWBT 021600Z AUTO 08010G17KT 12/12 RMK AO1 PK WND 07020/1529 SLP032 T01220122 56008 KAID 021449Z 04005KT 10SM SCT110 19/13 A2994 CWBU 021600Z AUTO 29004KT 20/17 RMK AO1 SLP147 T02010167 50003 CWDC 021600Z AUTO 25003KT 21/13 RMK AO1 SLP125 T02060128 56001 CWBV 021600Z AUTO 23014KT 14/14 RMK AO1 PK WND 23018/1539 SLP109 T01420137 50001 KAHN 021551Z 25007KT 10SM SCT028 29/22 A3002 RMK AO2 SLP157 T02890217 EDLN 021620Z 13008KT 100V160 CAVOK 35/17 Q1016 RMK ATIS W CWCO 022200Z AUTO 32008KT 17/14 RMK AO1 SLP105 T01660135 51005 KAIG 021610Z AUTO 00000KT 10SM CLR 19/07 A3009 RMK AO2 T01910071 KAHQ 020355Z AUTO 06008KT 10SM SCT042 22/20 A2992 RMK AO2 T02220196 CWBY 021600Z AUTO 13012G19KT 15/ RMK AO1 6004 PK WND 12019/1551 SLP024 T0150 50002 EDLP 021620Z 12011KT 100V160 CAVOK 34/12 Q1019 RMK ATIS PAP CWBZ 021600Z AUTO 25010G17KT 20/12 RMK AO1 PK WND 27017/1549 SLP116 T01980115 53003 UMBB 021400Z 06006G09MPS 9999 SCT040 FEW200 26/09 Q1026 R29/CLRD// NOSIG KD07 021556Z AUTO 35010KT 23/17 A3005 RMK AO1 SLP164 T02280167 OOMS 021550Z 10005KT CAVOK 37/25 Q1001 NOSIG CWDJ 021600Z AUTO 32008KT 23/16 RMK AO1 SLP168 T02280161 50006 KBAB 021558Z AUTO VRB04KT 9SM CLR 28/11 A2986 RMK AO2 SLP113 T02770106 $ CWDK 021600Z AUTO 13003KT 23/13 RMK AO1 SLP212 T02300127 50003 CWCT 021600Z AUTO 28005KT 23/13 RMK AO1 SLP199 T02300132 50001 CWEB 021600Z AUTO 30019KT 16/11 RMK AO1 PK WND 30022/1555 SLP174 T01550111 53009 KBAC 021615Z AUTO 21010G15KT 10SM CLR 22/18 A2998 RMK AO2 KBAD 021558Z AUTO 21011KT 10SM FEW210 28/21 A3001 RMK AO2 SLP163 T02800209 CWDM 021600Z AUTO 08007KT 15/11 RMK AO1 SLP103 T01460113 58015 EDLV 021620Z 30008KT 250V360 9999 VCSH SCT080TCU 31/21 Q1017 PFNO 021612Z AUTO 26005KT 3SM -RA BR SCT008 OVC014 09/08 A2994 RMK AO2 RAB02 P0000 KAIO 020355Z AUTO 06007KT 10SM OVC065 20/16 A2994 RMK AO2 CWEE 021500Z AUTO 12/11 RMK AO1 SLP995 T01150113 53021 KBAF 021553Z VRB05KT 10SM SCT042 SCT080 23/13 A2992 RMK AO2 SLP128 T02330128 EDLW 021620Z 13005KT 100V180 CAVOK 36/11 Q1018 RMK ATIS A KAJG 020355Z AUTO 19006KT 10SM VCTSRA SCT019 BKN041 OVC050 22/20 A2991 RMK AO2 LTG DSNT E SE AND W P0006 CWEF 021500Z AUTO 17020KT 11/11 RMK AO1 PK WND 16024/1407 SLP091 T01130110 CWDO 021600Z AUTO 11010G16KT 17/11 RMK AO1 PK WND 13017/1534 SLP163 T01650108 56007 EDMO 021620Z 03008KT 360V060 CAVOK 28/16 Q1023 CWEH 021600Z AUTO 33012KT 18/15 RMK AO1 PK WND 32018/1522 SLP205 T01780151 50007 CWDQ 021600Z AUTO 27007KT 14/11 RMK AO1 0PAST HR 3014 SLP066 P0004 T01420108 50010 EEEI 021450Z 28007KT CAVOK 23/13 Q1027 NOSIG KBAK 021545Z 02007KT 10SM SCT011 BKN020 OVC085 21/17 A2991 KBBB 021614Z AUTO 18009KT 10SM CLR 21/08 A3002 RMK AO2 KAIT 021613Z AUTO 22006KT 10SM CLR 23/14 A3002 RMK AO2 CWDT 021500Z AUTO 20004KT 14/13 RMK AO1 SLP972 T01400131 51011 CWEK 021600Z AUTO 24006KT 15/13 RMK AO1 SLP226 T01470133 53011 KBBD 020355Z AUTO 36009KT 10SM CLR 24/18 A3003 RMK CWEL 021600Z AUTO 32023KT 19/13 RMK AO1 PK WND 32029/1539 SLP170 T01880132 51010 NWWW 021600Z AUTO 00000KT 9999 BKN016 BKN060 OVC150 16/15 Q1013 CWDV 021600Z AUTO 23005KT 20/16 RMK AO1 SLP157 T01970162 57002 KBAN 021552Z AUTO 00000KT 10SM CLR 17/11 A3032 RMK AO2 SLP170 T01720111 $ CWFD 021600Z AUTO 20009KT 0SM CLR 03/ A2986 RMK SLP159 KAJO 021556Z AUTO 27007KT 10SM OVC001 23/18 A2999 RMK AO2 T02330177 SLP150 $ KBBF 021615Z AUTO 16017KT 4SM HZ 30/23 A3003 RMK A01 KD25 020355Z AUTO 00000KT 10SM CLR 08/08 A3005 RMK AO2 T00840084 KBBG 021545Z 00000KT 10SM OVC040 24/22 A2990 ULLI 021600Z 30003MPS 270V330 CAVOK 21/09 Q1026 R28L/090070 NOSIG CWFF 021600Z AUTO 28005KT 18/18 RMK AO1 SLP163 T01820177 52005 CWEP 021600Z AUTO 18014G22KT 19/16 RMK AO1 PK WND 18022/1555 SLP074 T01940161 58005 KAIZ 021615Z AUTO 05008KT 10SM BKN006 OVC023 23/20 A2989 RMK AO1 KAKH 021554Z AUTO 24007KT 10SM -RA FEW029 BKN039 BKN050 26/19 A2997 RMK AO2 RAE1459B34 SLP140 P0000 T02610189 CWDZ 021600Z AUTO 02001KT 21/15 RMK AO1 T02130148 CWEQ 021600Z AUTO 24001KT 22/17 RMK AO1 SLP134 T02170166 50001 CWER 021600Z AUTO 25018G25KT RMK AO1 PK WND 25030/1505 CWFJ 021600Z AUTO 08003KT 22/15 RMK AO1 T02170148 KALB 021551Z 31008KT 10SM SCT038 SCT048 22/13 A2992 RMK AO2 SLP131 SCT048 V BKN T02220128 KBCB 021610Z AUTO 29004KT 10SM SCT036 BKN090 OVC110 21/18 A3002 RMK AO2 T02050177 CWEU 021600Z 15008KT 15SM FEW080 BKN100 10/02 A2992 RMK AC1AC7 DIST PCPN SE SLP132 CWGD 021600Z AUTO 32009KT 15/12 RMK AO1 SLP171 T01450121 51011 KBCE 021553Z AUTO 27004KT 10SM FEW120 21/13 A3037 RMK AO2 SLP157 T02110128 CWEW 021600Z AUTO 23010G17KT 20/13 RMK AO1 PK WND 22019/1535 SLP098 T02010128 56002 KAKO 021553Z AUTO 27014KT 10SM CLR 20/15 A3019 RMK AO2 SLP174 T02000150 KBAX 021614Z AUTO 02005KT 10SM SCT034 SCT039 BKN045 18/10 A3006 RMK AO2 T01800099 KBBP 021615Z AUTO 21013G16KT 10SM CLR 31/21 A2996 RMK AO2 KBAZ 021551Z 16011KT 10SM SCT023 28/22 A3003 RMK AO2 SLP159 T02830222 EDOP 021620Z 11013KT 070V130 CAVOK 30/12 Q1023 RMK ATIS Z EDNY 021620Z 05004KT CAVOK 33/11 Q1021 RMK ATIS W KAKQ 021554Z AUTO VRB06KT 5SM HZ SCT110 26/22 A2988 RMK AO2 SLP118 T02610222 TSNO KAJZ 021615Z AUTO 00000KT 10SM CLR 29/10 A3015 RMK AO2 T02870101 PWINO CWEZ 021600Z AUTO 28005G17KT 21/13 RMK AO1 PK WND 29017/1501 SLP163 T02080134 51009 CWFQ 021600Z AUTO 24005KT 18/10 RMK AO1 SLP109 T01830101 53004 KALI 021553Z AUTO 14012KT 10SM SCT023 BKN030 BKN035 30/24 A3000 RMK AO2 SLP157 T03000239 KAKR 021607Z AUTO 00000KT 10SM SCT022 22/14 A2998 RMK AO2 T02220144 KAMA 021553Z 23003KT 10SM CLR 25/19 A3003 RMK AO2 RAE05 SLP113 P0000 T02500189 KBCK 021616Z AUTO 16004KT 10SM CLR 21/12 A3006 RMK AO2 KD39 021614Z AUTO 16005KT 10SM CLR 20/13 A3004 RMK AO2 T02020130 ULMM 021600Z VRB01MPS 9999 -SHRA BKN028CB 11/06 Q1022 R31/090070 NOSIG RMK QFE759 KALK 021556Z AUTO 29009KT 10SM CLR 26/14 A3018 RMK AO2 SLP125 T02560144 CWGL 021600Z AUTO 31010KT 18/04 RMK AO1 SLP149 T01780036 51005 KALM 021615Z AUTO 28004KT 10SM CLR 30/10 A3006 RMK AO2 KALN 021550Z 36008KT 10SM OVC015 19/18 A2992 CWGM 021600Z AUTO 04003KT 22/13 RMK AO1 T02160128 KBDE 021553Z AUTO 23007KT 10SM CLR 22/13 A2997 RMK AO2 SLP148 T02170133 TSNO KBBW 021553Z AUTO 34013KT 10SM CLR 25/16 A2999 RMK AO2 SLP131 T02500161 KALO 021554Z AUTO 13009KT 10SM CLR 20/12 A3003 RMK AO2 SLP167 T02000122 DNGO 021400Z 28010KT 9999 FEW012 30/23 Q1012 KBDG 020355Z AUTO 01003KT 10SM CLR 28/06 A3015 RMK AO1 T02800055 KAMG 021553Z AUTO 27008KT 10SM CLR 28/21 A3007 RMK AO2 SLP180 T02830206 KBDH 021615Z AUTO 13006KT 10SM CLR 21/11 A3005 RMK AO2 NZAA 021600Z AUTO 02005KT 9999 FEW042/// 07/06 Q1015 NOSIG OOSA 021550Z 19007KT 9999 FEW012 SCT025 28/26 Q1007 NOSIG RMK01 RH88? KBEA 020355Z AUTO 12004KT 10SM BKN045 24/24 A3004 RMK AO2 T02400240 CWHI 021500Z AUTO 34002KT 22/15 RMK AO1 T02210149 CWGR 021600Z AUTO 20014G19KT 18/17 RMK AO1 PK WND 20022/1504 SLP067 T01840173 55008 KALS 021552Z AUTO 00000KT 10SM CLR 18/11 A3033 RMK AO2 SLP181 T01830106 ZSAM 021600Z 03001MPS 7000 FEW015 SCT020 28/26 Q1003 NOSIG KBCT 021547Z 16008KT 10SM SCT031 32/23 A3015 KANB 021604Z AUTO 22010KT 10SM SCT017 26/22 A3003 RMK AO2 T02610217 KD50 021615Z AUTO 33007KT 5SM BR CLR 21/21 A3004 RMK AO2 DNIB 020800Z 22010KT 9999 BKN011 25/22 Q1015 CWGT 021600Z AUTO 31017KT 17/11 RMK AO1 PK WND 31019/1545 SLP180 T01710111 51011 KBDL 021551Z VRB04KT 10SM BKN049 24/13 A2991 RMK AO2 SLP126 T02440128 CWHL 021600Z AUTO 09002KT 14/11 RMK AO1 SLP221 T01430108 52011 KAND 021556Z AUTO 25012KT 10SM SCT022 BKN027 BKN033 28/21 A3000 RMK AO2 SLP149 T02780211 KBED 021556Z VRB06KT 10SM SCT090 SCT200 24/13 A2988 RMK AO2 SLP128 T02390133 KANE 021545Z 00000KT 10SM SKC 23/13 A3004 CWHM 021600Z AUTO 24016G24KT 19/13 RMK AO1 PK WND 24024/1551 T01900128 KALW 021553Z 23010KT 10SM CLR 28/09 A2998 RMK AO2 SLP141 T02780094 KBDN 021615Z AUTO RMK AO2 PWINO PNO TSNO EDQM 021620Z 08006KT CAVOK 29/11 Q1024 KAMN 021610Z AUTO 02005KT 10SM SCT031 SCT040 19/12 A3005 RMK AO2 T01890120 KALX 020355Z AUTO 21005KT 10SM TSRA BKN009 OVC014 19/18 A3011 RMK AO2 LTG DSNT ALQS P0009 T01930175 CWGW 021600Z AUTO 03001KT 21/12 RMK AO1 SLP205 T02070122 58009 CWHN 021600Z AUTO 28003KT 6SM CLR 23/15 A3003 RMK SLP174 CWHO 021400Z AUTO 01005KT 06/06 RMK AO1 SLP136 T00620062 56009 CWGX 021600Z AUTO 23007KT 21/12 RMK AO1 SLP055 T02110122 57016 KD55 021615Z AUTO 25006KT 7SM BKN007 BKN037 OVC100 23/20 A2996 RMK AO2 PFSH 021604Z AUTO 23010KT 10SM SCT020 BKN024 OVC033 09/06 A3002 RMK AO2 SLP181 T00940061 CWIG 021600Z AUTO 23021G28KT RMK AO1 PK WND 23030/1500 CWHP 021600Z AUTO 15017KT 09/09 RMK AO1 PK WND 15020/1502 SLP063 T00910086 CWGY 021600Z AUTO 28005KT 23/14 RMK AO1 SLP198 T02320139 50002 KBEH 021553Z AUTO 04008KT 360V070 10SM SCT027 21/13 A2999 RMK AO2 SLP155 T02110128 CWGZ 021628Z 28004KT 10SM OVC003 03/03 A2996 RMK ST8 VIS S 2 SLP148 CWHQ 021600Z AUTO 27006KT 17/12 RMK AO1 T01740124 KBDR 021552Z 16010KT 10SM CLR 23/16 A2991 RMK AO2 SLP129 T02330156 KD57 021615Z AUTO 31008KT 10SM CLR 21/15 A3003 RMK AO2 CWII 021600Z AUTO 22012KT 21/19 RMK AO1 T02050188 KANJ 021555Z AUTO 24004KT 10SM CLR 19/10 A3005 RMK AO2 SLP176 T01940100 CWIJ 021600Z AUTO 04007KT 10/03 RMK AO1 SLP166 T00990028 51004 KD60 021555Z AUTO 34009KT 6SM BR FEW022 22/20 A3007 RMK AO2 KANK 021615Z AUTO 12003KT 10SM CLR 20/12 A3040 RMK AO1 T02040115 OPKC 021625Z 24010KT 7000 BKN020 31/24 Q1006 TEMPO 25015G15KT CWIK 021600Z AUTO 31006KT 21/16 RMK AO1 SLP160 T02070161 51006 CWJB 021600Z AUTO 25009G18KT 16/10 RMK AO1 PK WND 23018/1549 T01600104 CWHT 021600Z AUTO 13001KT 10/08 RMK AO1 5002 SLP107 T01030076 50002 EDSB 021620Z 34005KT CAVOK 35/17 Q1018 KBDU 021619Z AUTO 17005KT 10SM CLR 20/14 A3022 RMK AO2 DNIL 021400Z 18005KT 9999 BKN010 26/22 Q1013 CWJC 021500Z AUTO 33006KT 16/07 RMK AO1 SLP102 T01580069 ULOO 021600Z 31007MPS P6000 NSC 23/08 Q1025 R01/090070 RMK QFE765 KBFD 021553Z AUTO VRB04KT 10SM FEW023 SCT029 BKN047 18/12 A2999 RMK AO2 SLP148 T01830117 CWIL 021600Z AUTO 07011KT 03/ A2988 RMK SLP125 CWJD 021600Z AUTO 30005KT 24/14 RMK AO1 SLP114 T02430142 55006 CWHV 021600Z AUTO 24005KT 15/10 RMK AO1 SLP078 T01490104 53009 UMGG 021600Z 02005MPS CAVOK 24/12 Q1023 R10/CLRD// NOSIG KAMW 021553Z AUTO 13010KT 10SM CLR 18/13 A3001 RMK AO2 SLP157 T01830133 NZAP 021600Z 36005KT 10KM SHRA SCT019 08/06 Q1017 RMK ALT VATSIM USE ONLY KBFF 021553Z AUTO 32012KT 10SM CLR 23/16 A3013 RMK AO2 SLP161 T02280161 CXAF 021600Z AUTO 24003KT 24/11 RMK AO1 T02370113 TUPJ 021600Z 12011KT 9999 FEW020 32/23 Q1019 RMK A3010 KANQ 021715Z AUTO 07009KT 10SM 19/14 A3000 RMK CXAG 021500Z AUTO 30004KT 20/14 RMK AO1 T02010135 CWIP 021600Z AUTO 12005KT 12/ RMK AO1 8PAST HR M P0023 T0124 50082 KAOH 021553Z AUTO 06009KT 10SM FEW060 21/17 A2996 RMK AO2 SLP143 T02110172 CWJH 021600Z AUTO 32007KT 21/13 RMK AO1 SLP131 T02060128 51007 KBFI 021553Z 33003KT 10SM CLR 24/12 A3002 RMK AO2 SLP166 T02440122 OPLA 021625Z 00000KT 4000 FU FEW040 SCT100 31/24 Q1002/A29.62 CWJI 021600Z AUTO 34005KT 20/15 RMK AO1 SLP191 T01990146 51013 KAPA 021553Z 21008KT 10SM FEW013 FEW040 BKN220 17/12 A3029 RMK AO2 SLP204 T01670117 PHBK 021556Z AUTO 10006KT 10SM CLR A2987 RMK AO2 SLP118 $ CXBA 021500Z AUTO 29006KT 21/17 RMK AO1 T02070166 CXAJ 021500Z AUTO 24004KT 20/14 RMK AO1 T01950141 CWIS 021600Z AUTO 26008G20KT 12/10 RMK AO1 PK WND 28020/1513 SLP037 T01200099 53012 EEKA 021550Z 01004KT CAVOK 22/15 Q1027 CXAK 021500Z AUTO 24004KT 21/14 RMK AO1 T02060144 KAPC 021554Z 20010KT 10SM CLR 19/15 A2995 RMK AO2 SLP133 T01940150 KBFL 021554Z 15003KT 10SM CLR 32/08 A2992 RMK AO2 SLP123 T03220078 KBFM 021553Z 20004KT 10SM SCT023 BKN110 28/23 A3014 RMK AO2 SLP204 T02780228 KBGD 021551Z AUTO VRB04KT 10SM FEW120 25/18 A3001 RMK AO2 SLP115 T02500183 KBGE 020355Z AUTO 22004KT 10SM CLR 27/24 A3009 RMK AO2 KANW 020355Z AUTO 00000KT 10SM BKN031 21/18 A2999 RMK AO2 T02080177 CWKD 021500Z AUTO 05007KT 14/13 RMK AO1 SLP959 T01420134 58003 CWIW 021600Z AUTO 29006KT 19/17 RMK AO1 SLP170 T01940166 51005 KAPF 021553Z VRB04KT 9SM SCT035 32/23 A3013 RMK AO2 SLP200 T03220228 KAOO 021553Z AUTO 02003KT 10SM BKN045 BKN055 22/15 A2995 RMK AO2 SLP137 T02170150 EEKE 021550Z 24009KT 210V270 CAVOK 21/17 Q1028 KBGF 021615Z AUTO 00000KT 8SM FEW012 SCT034 BKN040 22/21 A2999 RMK DNJO 021200Z 13012KT CAVOK 27/16 Q1018 KAPG 021548Z 03004KT 4SM BR OVC080 21/19 A2992 RMK RAE48 CWIX 021500Z AUTO 23015KT 14/12 RMK AO1 25 T01410123 CWJO 021600Z AUTO 23013G21KT 15/11 RMK AO1 3015 PK WND 21026/1503 SLP022 T01490113 50009 NZCH 021603Z 02008KT 40KM NSC 11/04 Q0999 RMK VATSIM USE ONLY NZCI 021600Z 34006KT 40KM BKN080 09/03 Q1013 RMK ALT NZNR VATSIM USE ONLY CWIY 021600Z AUTO 22015G21KT 16/11 RMK AO1 PK WND 21021/1553 SLP052 T01620108 53006 CWKG 021600Z AUTO 22007KT 23/15 RMK AO1 SLP098 T02330154 52006 CWKH 021600Z AUTO 24/08 RMK AO1 SLP162 T02360083 53008 CWIZ 021600Z AUTO 26010G16KT 19/12 RMK AO1 PK WND 26018/1530 T01890115 CXBI 021600Z AUTO 32006KT 18/07 RMK AO1 SLP159 T01790067 53005 CWJR 021600Z AUTO 32002KT 24/12 RMK AO1 SLP179 T02390118 50000 CXCA 021600Z AUTO 17003KT 19/12 RMK AO1 SLP145 T01940118 58007 KBHB 021615Z AUTO 18013G16KT 10SM CLR 22/16 A2980 RMK AO1 NZCM 021155Z 07017G25KT 9999 IC DRSN OVC020 M34/M42 A2964 RMK PK WND 07027/38 SLP045 KBHC 021450Z AUTO 27012G19KT 10SM CLR 28/21 A3007 RMK AO2 CWKK 021500Z AUTO 16003KT 16/11 RMK AO1 SLP150 T01590114 CXAT 021500Z AUTO 31002KT 04/03 RMK AO1 SLP128 T00430031 CXBK 021600Z AUTO 29006KT 22/16 RMK AO1 SLP165 T02160159 51009 CWJT 021600Z AUTO 27006KT 19/08 RMK AO1 SLP099 T01930079 53001 CWLB 021600Z AUTO 22001KT 23/13 RMK AO1 SLP176 T02250126 58001 EDTL 021620Z 36005KT 320V070 CAVOK 36/17 Q1018 CWJU 021600Z AUTO 24011KT 13/10 RMK AO1 PK WND 26017/1503 SLP234 T01300098 CWLC 021600Z AUTO 27008KT 15/12 RMK AO1 T01460119 KBGM 021553Z 33006KT 10SM SCT029 BKN047 OVC060 19/12 A2996 RMK AO2 SLP140 T01940122 CXCD 020200Z AUTO 25004KT 27/09 RMK AO1 T02740089 KBFW 021613Z AUTO 21003KT 10SM CLR 24/17 A2998 RMK AO2 CWJV 021600Z AUTO 27001KT 22/13 RMK AO1 SLP174 T02150131 58002 KAPN 021554Z AUTO 04008KT 10SM CLR 21/04 A3007 RMK AO2 SLP183 T02110039 CWKM 021600Z AUTO 34006KT 04/ A2990 RMK SLP132 DNKN 021400Z 22008KT CAVOK 34/21 Q1012 NOSIG CWJW 021600Z AUTO 21003KT 18/09 RMK AO1 SLP204 T01830093 58012 CWLE 021600Z AUTO 30005KT 20/16 RMK AO1 SLP188 T01980164 51010 VCRI 021610Z 24007KT 9999 FEW018 28/24 Q1013 NOSIG UMII 021600Z 34004G07MPS P6000 SCT030 22/11 Q1025 R23/CLRD// NOSIG CXBO 021600Z AUTO 25015G22KT RMK AO1 PK WND 25024/1512 50012 CWJX 021600Z AUTO 29004KT 21/14 RMK AO1 SLP193 T02100135 50004 CWKO 021600Z AUTO 31007KT 18/16 RMK AO1 SLP199 T01780158 51011 UNAA 021600Z VRB01MPS CAVOK 28/13 Q1003 R02/090065 NOSIG RMK QFE730 CWKP 021600Z AUTO 10017KT 14/ A2993 RMK SLP154 CXCH 021600Z AUTO 28/17 RMK AO1 T02750170 KBGR 021553Z 25010G17KT 10SM BKN045 BKN200 22/12 A2980 RMK AO2 SLP089 T02170117 KARA 021053Z 00000KT 10SM SKC 24/22 A3005 CXBR 021600Z AUTO 19001KT 22/14 RMK AO1 T02200136 CWLI 021600Z AUTO 10007KT 16/ A2985 RMK SLP118 KARB 021553Z AUTO 10SM SCT030 21/13 A3002 RMK AO2 SLP163 T02110133 KBHK 021551Z AUTO 30013G20KT 10SM BKN023 OVC030 20/14 A3011 RMK AO2 SLP181 T02000144 CXDB 021600Z AUTO 05003KT 22/09 RMK AO1 T02220092 CXCK 021600Z AUTO 15001KT 11/08 RMK AO1 2PAST HR 6008 SLP103 P0001 T01060078 50017 NZDN 021600Z 07001KT 20KM BKN100 04/02 Q0996 RMK ALT VATSIM USE ONLY KBHM 021553Z 24010KT 10SM -RA SCT080 BKN100 BKN250 27/22 A3006 RMK AO2 RAB37 SLP170 P0000 T02720222 KBID 021615Z 04004KT 10SM CLR 23/16 A2992 RMK AO1 KBIE 020355Z AUTO 06007KT 10SM CLR 24/22 A2989 RMK AO2 T02370215 CWLM 021600Z AUTO 08002KT 22/12 RMK AO1 SLP169 T02150121 51011 CXBW 021500Z AUTO 25004KT 20/14 RMK AO1 T02010143 CWME 021600Z AUTO 24006KT 16/12 RMK AO1 SLP214 T01560115 50001 CXDE 021500Z AUTO 12007KT 14/07 RMK AO1 SLP138 T01420069 57006 EDVE 021620Z 11013KT CAVOK 32/13 Q1021 KBIF 021558Z AUTO 15003KT 10SM CLR 29/10 A3002 RMK AO2 SLP090 T02900102 $ KAQO 021610Z AUTO 18008G15KT 10SM FEW035 29/19 A3007 RMK AO2 CWKW 021600Z AUTO ///// 02/ A2997 RMK SLP175 KAPY 020355Z AUTO 14003KT 10SM CLR 23/17 A2999 RMK AO2 T02350180 KD95 021614Z AUTO 02004KT 10SM SCT037 BKN046 20/10 A3004 RMK AO2 T01950099 KAQP 021615Z AUTO 15006KT 10SM CLR 22/09 A3001 RMK AO2 CWKX 021600Z AUTO 23008KT 13/06 RMK AO1 SLP164 T01310055 51002 KARG 021615Z AUTO 23004KT 10SM CLR 26/21 A2988 RMK AO1 OPNH 021555Z 27008KTS 3000M HZ FEW035 FEW100 35/20 Q1000 CXCP 021600Z AUTO 26002KT 23/14 RMK AO1 T02310144 CWLP 021600Z AUTO 29013KT 14/12 RMK AO1 PK WND 29017/1526 SLP222 T01430118 53004 EDTY 021620Z 10007KT 080V140 CAVOK 31/13 Q1021 KBIH 021556Z AUTO 00000KT 10SM CLR 28/13 A3014 RMK AO2 SLP149 T02780133 KAQR 020355Z AUTO 18008KT CLR 28/21 A2993 RMK AO2 PWINO UNBB 021600Z 15002MPS CAVOK 28/12 Q1004 R06/CLRD66 NOSIG RMK QFE731 KBIJ 020820Z AUTO 24004KT 10SM CLR 23/23 A3005 RMK AO2 CXDI 021600Z AUTO 08004KT 19/09 RMK AO1 SLP152 T01900091 51004 OPMT 021457Z 23006KTS 5000 FU FEW040 SCT120 33/26 Q1001 NOSIG CXCS 021500Z AUTO 30006KT 20/15 RMK AO1 T02040154 CXEA 021600Z AUTO 02001KT 20/18 RMK AO1 SLP131 T02030179 58006 CWLS 021600Z AUTO 36006KT 17/07 RMK AO1 SLP168 T01740070 51009 CWMJ 021600Z AUTO 29005KT 20/06 RMK AO1 SLP114 T01950061 55000 KE11 020355Z AUTO 16008KT 10SM CLR 25/17 A3003 RMK AO2 T02460171 CXDK 021600Z AUTO 11001KT 16/08 RMK AO1 SLP111 T01640078 58011 KBJC 021550Z 20010KT 15SM SCT007 SCT012 BKN200 18/13 A3028 KBIL 021553Z 09006KT 10SM FEW100 23/12 A3020 RMK AO2 SLP193 T02330122 EDVK 021620Z 16008KT 130V200 CAVOK 33/15 Q1020 RMK ATIS Z KARM 021535Z AUTO 16007KT 7SM SCT020 SCT030 SCT035 29/25 A3006 RMK AO2 T02930251 CXEC 021600Z AUTO 17005KT 24/12 RMK AO1 SLP181 T02410123 58004 CWNC 021600Z AUTO 24008KT 16/12 RMK AO1 SLP143 T01590117 51005 KASD 021620Z AUTO 21007KT 10SM SCT019 SCT023 BKN028 30/26 A3010 RMK AO2 T03000261 KAQV 021556Z AUTO 22008KT 180V250 10SM CLR 29/22 A3005 RMK AO2 SLP174 T02940222 KCAD 021614Z AUTO 11006KT 10SM CLR 20/07 A3005 RMK AO2 T01990070 DNMM 021600Z 27006KT 110V260 7000 SCT008 FEW018CB 24/23 Q1010 NOSIG CWMM 021600Z AUTO 19002KT 24/16 RMK AO1 SLP166 T02360155 51006 KASE 021553Z 02004KT 10SM SCT100 20/10 A3032 RMK AO2 SLP130 T02000100 KAQW 021552Z AUTO VRB04KT 10SM FEW043 BKN050 21/12 A2992 RMK AO2 SLP130 T02110122 KCAE 021556Z 22010G17KT 10SM FEW060 SCT180 29/19 A2999 RMK AO2 SLP152 T02940194 CWNE 021600Z AUTO 23012KT 18/15 RMK AO1 PK WND 20017/1503 SLP049 T01810154 56003 KAQX 021615Z AUTO VRB05KT 10SM CLR 29/22 A3002 RMK AO2 KASG 021548Z 24012G22KT 10SM BKN026 27/22 A2991 KCAG 021553Z AUTO 00000KT 10SM CLR 23/11 A3024 RMK AO2 SLP157 T02330111 CWLX 021600Z AUTO 17008KT 03/ A2986 RMK SLP123 CXEG 021600Z AUTO 23/17 RMK AO1 T02330172 CXDP 021600Z AUTO 22003KT 22/14 RMK AO1 T02220140 KASH 021551Z VRB06KT 10SM BKN043 BKN055 24/13 A2990 RMK AO2 T02380133 SLP367 $ KE16 021615Z AUTO 15007KT 10SM CLR 20/13 A3000 RMK AO2 SOUTH WIND SOCK OUT OF SERVICE CWLY 021600Z AUTO 01003KT 320V040 9SM CLR 25/10 A3006 RMK SLP174 DENSITY ALT 1900FT PFWS 012156Z AUTO 30009KT 10SM CLR 16/11 A3018 RMK AO2 SLP224 T01610106 KBJI 021613Z AUTO 22006KT 10SM SCT080 21/13 A3001 RMK AO2 T02140132 UMKK 021600Z 36004MPS 330V040 CAVOK 20/12 Q1029 R24/CLRD70 NOSIG RMK QFE771/1028 CWMQ 021600Z AUTO 28006KT 20/15 RMK AO1 SLP206 T02030149 50003 CWNH 021600Z AUTO 21012G25KT 16/12 RMK AO1 PK WND 20025/1559 SLP023 T01550115 53011 KARR 021552Z 06011KT 10SM BKN019 19/13 A3001 RMK AO2 SLP161 T01890128 ZSHC 021600Z 07002MPS 6000 NSC 24/20 Q1004 NOSIG KBIS 021552Z 36004KT 5SM HZ SCT016 BKN042 22/18 A3000 RMK AO2 SLP153 T02220178 VECC 021620Z 17005KT 2500 -TSRA SCT015 FEW025CB OVC080 25/24 Q1003 TEMPO TL1650 1500 TSRA KBJJ 021556Z AUTO 04005KT 8SM CLR 22/16 A2999 RMK AO2 SLP150 T02170156 TSNO KASJ 021615Z AUTO 00000KT 10SM CLR 28/22 A2990 RMK AO2 T02830223 KCAK 021551Z VRB05KT 6SM HZ OVC011 21/16 A2998 RMK AO2 SLP149 T02060156 KBKB 021554Z AUTO VRB03KT 10SM CLR 30/23 A3005 RMK AO2 SLP200 T03000228 KART 021556Z AUTO 26011KT 10SM CLR 19/11 A2996 RMK AO2 SLP141 T01890111 KASL 020355Z AUTO 20003KT 10SM CLR 26/21 A3003 RMK AO1 T02580213 CWNK 021600Z AUTO 29004KT 21/18 RMK AO1 T02140177 CWMT 021600Z AUTO 29005KT 19/14 RMK AO1 SLP123 T01890135 58004 CWOB 021621Z AUTO ///// 07/ A3002 KBKD 020355Z AUTO 17008KT 10SM CLR 28/19 A2995 RMK AO2 T02810193 CWNL 021500Z AUTO 32004KT 17/10 RMK AO1 SLP171 T01650103 CWOC 021600Z AUTO 21006KT 21/15 RMK AO1 SLP028 T02070149 56002 KBIV 021553Z AUTO 07006KT 10SM BKN016 BKN025 20/14 A3003 RMK AO2 SLP168 T02000139 KARV 021610Z AUTO 00000KT 10SM CLR 21/11 A3007 RMK AO2 T02090114 KASN 020355Z AUTO 21005KT 10SM CLR 23/23 A3006 RMK AO2 T02260226 CWOD 021600Z AUTO 27017G25KT 13/12 RMK AO1 3PAST HR 3016 PK WND 26028/1516 SLP989 P0001 T01320118 50003 CWNM 021600Z AUTO 03003KT 24/12 RMK AO1 SLP171 T02440119 58005 KBKE 021553Z AUTO 28004KT 10SM CLR 25/09 A3010 RMK AO2 SLP162 T02500094 KARW 021615Z AUTO 29008G18KT 270V330 10SM SCT041 SCT049 SCT060 32/24 A3003 RMK AO2 LTG DSNT E KCBE 021620Z AUTO 13004KT 10SM CLR 22/17 A2997 RMK AO1 ZSFZ 021600Z 04001MPS CAVOK 26/24 Q1003 NOSIG KCBF 020355Z AUTO 08009KT 10SM CLR 21/19 A2994 RMK AO2 CXDW 021600Z AUTO 30005KT 22/19 RMK AO1 T02180187 CWOE 021600Z AUTO 33009KT 21/13 RMK AO1 SLP207 T02050131 50002 KCAO 021555Z AUTO 05010KT 10SM CLR 25/16 A3014 RMK AO2 SLP128 T02500161 KBKF 021558Z 21010KT 10SM FEW020 FEW040 BKN220 18/12 A3027 RMK AO2A SLP188 T01760120 KBIX 021558Z AUTO VRB06KT 10SM FEW017 29/25 A3011 RMK AO2 SLP199 T02920247 KCBG 021615Z AUTO 00000KT 10SM CLR 23/13 A3002 RMK AO2 CWNP 021600Z AUTO 27001KT 22/14 RMK AO1 SLP177 T02190142 58002 CWMZ 021500Z AUTO 33010KT 15/10 RMK AO1 SLP157 T01520099 CWNQ 021600Z AUTO 26013G18KT 19/12 RMK AO1 5PAST HR 5002 PK WND 25022/1519 SLP074 P0006 T01940121 50015 KCAR 021554Z AUTO 25014G20KT 10SM BKN033 OVC041 17/09 A2969 RMK AO2 SLP056 T01720094 $ KCCA 021615Z AUTO 21004KT 10SM FEW018 FEW029 28/23 A2990 RMK AO2 KCBK 020355Z AUTO 10006KT 10SM CLR 25/16 A3001 RMK AO2 KAST 021605Z AUTO 00000KT 6SM BR OVC005 16/14 A3004 RMK AO2 T01610144 EFET 021620Z AUTO 30004KT CAVOK 17/06 Q1018 CXET 021600Z AUTO 33008G16KT 18/06 RMK AO1 SLP159 T01840055 KBKL 021553Z 01012KT 10SM SCT017 20/16 A2999 RMK AO2 SLP153 T02000156 KATL 021552Z 25009KT 10SM FEW030 SCT150 BKN250 28/21 A3003 RMK AO2 SLP159 T02830211 KCAV 020355Z AUTO 08005KT 10SM CLR 14/12 A2999 RMK AO2 CWPC 021600Z AUTO 02003KT 18/10 RMK AO1 SLP157 T01800096 52003 KCBM 021558Z AUTO 20009KT 10SM SCT100 SCT210 29/22 A3001 RMK AO2 SLP163 T02850221 $ VEDG 021400Z 22010KT 3000 HZ SCT015 FEW025CB OVC090 27/25 Q1003 NOSIG RMK CB TO S KASW 020355Z AUTO 00000KT 10SM 12/11 A2999 RMK AO2 CXFM 021600Z AUTO 32006KT 23/12 RMK AO1 T02340115 CWPD 021600Z AUTO 21010G19KT 09/08 RMK AO1 3011 SLP017 T00880083 50020 UMMG 021600Z 35002MPS 9999 SCT033 25/10 Q1026 NOSIG KBKN 021615Z AUTO 03007G13KT 360V060 10SM -DZ CLR 33/22 A2990 RMK AO2 CWPE 021600Z AUTO 13006KT 12/11 RMK AO1 SLP092 T01180114 52010 KASX 021553Z AUTO 23006KT 10SM CLR 22/13 A3003 RMK AO2 SLP172 T02170133 KBLF 021624Z AUTO 00000KT 5SM -RA FEW010 BKN017 OVC032 20/16 A3003 RMK AO2 P0000 T02000161 KAUG 021553Z AUTO 29008KT 10SM CLR 21/11 A2983 RMK AO2 SLP101 T02110106 CWPF 021615Z AUTO 18007KT 14/11 RMK AO1 T01420109 KATP 021615Z AUTO 12014KT 10SM FEW023 29/25 A3012 RMK A01 KAUH 021622Z AUTO 00000KT 7SM BKN005 BKN011 BKN020 23/22 A2996 RMK AO2 KBLH 021552Z AUTO VRB06KT 10SM CLR 32/19 A2989 RMK AO2 SLP113 T03220189 PHHI 021558Z AUTO 36002KT 10SM CLR 20/18 A2989 RMK AO2 SLP111 T02000184 $ NZGS 021600Z 30002KT 20KM SCT015 08/04 Q1015 RMK ALT VATSIM USE ONLY CXGH 021600Z AUTO 15005KT 23/17 RMK AO1 T02300173 CWNZ 021600Z AUTO 20005KT 21/07 RMK AO1 SLP154 T02050070 58009 KBLI 021553Z 00000KT 10SM CLR 22/16 A3002 RMK AO2 SLP171 T02220161 OPPS 021600Z 05010KT 4000 HZ FEW040 SCT100 30/20 Q1003 NZHK 021600Z 02016KT 7000 SHRA BKN015 11/10 Q1005 RMK ALT VATSIM USE ONLY KE38 020355Z AUTO 00000KT 10SM CLR 23/15 A3016 RMK AO2 T02290151 KCDA 021535Z AUTO 24008G16KT 200V260 10SM SCT046 18/08 A2991 RMK AO2 T01750081 KBKS 020355Z AUTO 10004KT 10SM CLR 23/20 A3002 RMK AO1 T02250196 CXFR 021600Z AUTO 22004KT 22/11 RMK AO1 T02200111 ULWC 021600Z 32004G09MPS 9999 FEW020 SCT/// 17/08 Q1021 R03/010060 NOSIG RMK QFE756/1008 KATS 021615Z AUTO VRB04KT 10SM CLR 26/19 A3007 RMK AO2 KBKT 020355Z AUTO 20010KT 10SM CLR 23/21 A2992 RMK AO1 T02300213 EFHA 021620Z AUTO 25012KT CAVOK 26/13 Q1024 CXHA 021600Z AUTO 03006KT 20/13 RMK AO1 SLP154 T01960126 53007 UMMM 021600Z 01005G08MPS 9999 FEW048 FEW200 22/07 Q1026 R30/CLRD60 NOSIG RMK QFE750 KATT 021612Z AUTO VRB06KT 10SM SCT025 BKN035 27/22 A3004 RMK AO2 T02720222 PFYU 021616Z 22004KT 4SM BKN100 14/08 A2981 RMK AO1 WX; FU KBMC 020355Z AUTO 30004KT 10SM CLR 30/05 A3001 RMK AO1 T02970048 KAVC 021536Z AUTO 00000KT 10SM BKN085 OVC110 26/20 A2996 RMK AO2 T02590202 UNEE 021600Z 33002MPS CAVOK 26/17 Q1004 R23/CLRD60 NOSIG RMK QFE730 CWPK 021600Z AUTO 28010G18KT 14/09 RMK AO1 PK WND 31019/1524 SLP074 T01360086 53009 KCDC 021553Z AUTO 00000KT 10SM SCT110 23/14 A3021 RMK AO2 SLP142 T02280139 NZHN 021600Z 19002KT 15KM VCSH SCT055 06/05 Q1017 RMK ALT NZTG VATSIM USE ONLY KCDD 021601Z AUTO 29003KT 10SM CLR 21/16 A3000 RMK AO2 KBKV 021553Z 21006KT 9SM SCT041 BKN050 31/21 A3014 RMK AO2 SLP205 T03060206 KBLM 021615Z AUTO 04003KT 10SM OVC075 22/16 A2991 RMK AO1 KAUM 021616Z AUTO 14006KT 10SM CLR 20/12 A3004 RMK AO2 KAUN 020355Z AUTO 00000KT 10SM CLR 30/08 A2991 RMK AO1 KATW 021545Z 08007KT 10SM SKC 18/07 A3008 CXHD 021500Z AUTO 28002KT 22/13 RMK AO1 T02190132 KBKW 021551Z AUTO 26003KT 6SM HZ OVC050 19/16 A3002 RMK AO2 SLP138 T01940161 KCCO 020355Z AUTO 24004KT 10SM SCT005 SCT026 21/21 A3008 RMK AO2 T02060206 EDXW 021620Z 11015KT CAVOK 27/16 Q1021 RMK ATIS TAN KAUO 021615Z AUTO 26009KT 240V300 10SM BKN018 BKN025 OVC031 27/21 A3010 RMK AO1 KBKX 021615Z AUTO 20008KT 10SM CLR 18/09 A3003 RMK AO1 EFHF 021620Z 21007KT 160V240 CAVOK 23/10 Q1026 CXHF 021600Z AUTO 19/08 RMK AO1 T01870080 CWPO 021600Z AUTO 28004KT 22/18 RMK AO1 SLP149 T02150179 51003 KBMG 021627Z 00000KT 10SM SCT012 BKN075 23/19 A2990 RMK AO2 T02280189 KATY 021553Z AUTO 15006KT 10SM FEW080 20/10 A3000 RMK AO2 SLP153 T02000100 KCDH 020355Z AUTO 10SM CLR 27/22 A2995 RMK AO2 CWOY 021600Z AUTO 30003KT 19/16 RMK AO1 SLP165 T01870160 51004 UMMS 021600Z 36006MPS CAVOK 22/09 Q1026 R31/CLRD// NOSIG NZHS 021600Z 34006KT 40KM BKN080 09/03 Q1013 RMK ALT NZNR VATSIM USE ONLY CWQH 021600Z AUTO 24014G20KT 17/11 RMK AO1 PK WND 23021/1544 T01740109 KCCR 021553Z 29007KT 10SM BKN180 23/11 A2993 RMK AO2 SLP122 T02280111 KBMI 021556Z 06013KT 10SM BKN016 19/14 A2997 RMK AO2 T01940144 SLP144 NZHT 021600Z 30010KT 30KM BKN008 12/10 Q1002 RMK ALT VATSIM USE ONLY CWPR 021600Z AUTO 07001KT 20/08 RMK AO1 SLP186 T01950081 58008 KBNA 021553Z 18009KT 10SM BKN007 BKN080 BKN140 23/22 A2994 RMK AO2 RAE00 SLP132 P0000 T02330222 KAUS 021553Z 17011G17KT 10SM SCT024 SCT250 28/23 A3003 RMK AO2 SLP161 T02780228 KCDJ 021552Z AUTO 04007KT 21/18 A2996 RMK AO1 SLP135 T02060178 CWPS 021500Z AUTO 16/13 RMK AO1 SLP149 T01560128 51007 CWRA 021600Z AUTO 05009KT 10/07 RMK AO1 SLP189 T00950070 53002 CXIB 021600Z AUTO 02005KT 19/15 RMK AO1 SLP087 T01940152 58016 CWQK 021600Z AUTO 12001KT 15/ RMK AO1 SLP170 T0152 51013 KBLU 021552Z AUTO 00000KT 10SM CLR 25/09 A3022 RMK AO2 SLP118 T02500089 KBML 021552Z AUTO 30008KT 260V330 10SM BKN044 19/08 A2986 RMK AO2 SLP111 T01890083 KCEC 021556Z AUTO 18011KT 1/4SM FG VV002 12/12 A2995 RMK AO2 SLP143 T01220122 KAVL 021554Z 25003KT 7SM -RA HZ SCT049 OVC080 20/18 A3005 RMK AO2 RAB24 SLP155 P0000 T02000178 KCCU 021615Z AUTO 28015KT 10SM BKN060 BKN080 16/05 A3066 RMK AO2 EFHK 021620Z 21012KT CAVOK 23/11 Q1026 NOSIG EEPU 021250Z 20011KT CAVOK 23/11 Q1027 KBLV 021624Z AUTO VRB03KT 5SM BR SCT004 OVC011 18/18 A2990 RMK AO2 DZE04RAB04E19DZB19E24 CIG 007 RWY14R OPRN 021600Z 27004KT 7000 FEW040 29/20 Q1005.0/29.68 CXHM 021600Z AUTO 11004KT 19/08 RMK AO1 SLP151 T01940077 52005 PGRO 020950Z 05007KT 7SM FEW022 BKN100 27/25 A2976 RMK LAST KAUW 021554Z AUTO 00000KT 10SM CLR 20/08 A3007 RMK AO2 SLP184 T02000078 KCDN 021615Z AUTO 24009G14KT 9SM SCT036 SCT044 SCT110 30/20 A2999 RMK AO2 TSNO KCEF 021558Z 28007KT 10SM SCT049 SCT140 BKN190 24/13 A2991 RMK AO2A SLP133 T02350133 KAWG 020355Z AUTO 06007KT 10SM SCT075 OVC110 19/15 A2997 RMK AO2 KCCY 020355Z AUTO 02004KT 10SM CLR 13/13 A3001 RMK AO2 PHJH 021600Z 08005KT 15SM FEW025 23/20 A2990 CWQO 021600Z AUTO 23026G31KT 13/11 RMK AO1 PK WND 22032/1526 T01300106 KAVP 021554Z AUTO 30005KT 10SM SCT036 23/14 A2994 RMK AO2 SLP132 T02330139 CWPX 021600Z AUTO 35016KT 06/ A2995 RMK SLP159 CWRF 021600Z AUTO ///// 03/ A2977 RMK SLP109 KAVQ 020355Z AUTO 19009KT 10SM CLR 30/17 A2993 RMK AO2 T03010170 CWQP 021600Z AUTO 23013KT 17/14 RMK AO1 SLP150 T01660136 53007 CXHP 021600Z AUTO 24003KT 24/14 RMK AO1 T02360135 KBMQ 021616Z AUTO 19012KT 10SM SCT026 SCT032 27/19 A3007 RMK AO2 T02670194 CWPZ 021600Z AUTO 17003KT 17/08 RMK AO1 SLP200 T01680076 50000 KCDR 021553Z AUTO 30011G18KT 10SM CLR 23/16 A3010 RMK AO2 SLP170 T02330156 CWRH 021600Z AUTO ///// 06/ A3005 RMK SLP201 KAXA 020355Z AUTO 07006KT 10SM OVC060 15/12 A3000 RMK AO2 CXHR 021600Z AUTO 01002KT 22/13 RMK AO1 T02190134 CWQR 021600Z AUTO 07014KT 09/ RMK AO1 PK WND 09019/1501 T0094 KCDS 021553Z AUTO 22010KT 10SM CLR 29/19 A2995 RMK AO2 SLP113 T02890189 OPSK 021600Z 00000KT 4000 HZ SCT100 35/26 QNH.998 RH.63 PC KBMT 020355Z AUTO 00000KT 10SM CLR 23/22 A3007 RMK AO2 T02270221 CWQS 021600Z AUTO 33009KT 13/11 RMK AO1 SLP236 T01330110 52012 CWRJ 021600Z AUTO 30005KT 21/18 RMK AO1 SLP178 T02130180 51006 EGAA 021620Z 23007KT 9999 FEW032 19/12 Q1017 CWSA 021600Z AUTO 18009KT 1/2SM FG BKN003 OVC010 16/16 A2992 RMK SLP131 DENSITY ALT 100FT CYAB 021600Z 29011KT 3SM BR FEW004 BKN010 OVC020 05/04 A2989 RMK FG1SF1ST4SC3 SF TR VIS SW 6 SLP123 CWRK 021600Z AUTO 33006KT 18/M00 RMK AO1 SLP146 T01781004 53004 KBNL 021615Z AUTO 26007KT 10SM SCT001 SCT016 29/22 A3003 RMK AO2 KCFD 020355Z AUTO 17004KT 10SM CLR 23/22 A3006 RMK AO2 T02250215 EGAC 021620Z 17009KT 9999 FEW024 SCT040 18/11 Q1017 UMOO 021400Z 34006MPS 9999 BKN030 23/14 Q1023 R31/CLRD// NOSIG KAWM 021553Z AUTO 23009G16KT 10SM CLR 26/21 A2991 RMK AO2 SLP125 T02560211 PGSN 021554Z 06013KT 10SM BKN048 BKN065 27/25 A2972 RMK AO2 PK WND 06027/1524 RAB27E42 SLP085 P0000 T02720250 CYAD 021600Z 32010G15KT 15SM FEW060 BKN220 18/05 A2974 RMK SC2CI2 SLP077 CWSD 021600Z AUTO 22017G26KT 21/19 RMK AO1 PK WND 21027/1502 SLP064 T02090189 50000 CWQV 021600Z AUTO 28021KT 16/11 RMK AO1 PK WND 27030/1503 T01640113 CWRM 021600Z AUTO 16005KT 21/12 RMK AO1 8006 SLP193 T02080115 50005 KCDW 021553Z AUTO 00000KT 10SM CLR 25/14 A2990 RMK AO2 SLP130 T02500139 TSNO KCFE 021615Z AUTO 00000KT 10SM CLR 21/12 A3005 RMK AO2 T02090118 EGAE 021620Z 05010KT 9999 FEW011 SCT040 16/13 Q1017 CWRN 021600Z AUTO 20015G20KT 17/ RMK AO1 PK WND 19021/1515 T0165 KBNO 021553Z AUTO 00000KT 10SM CLR 29/06 A3014 RMK AO2 SLP152 T02890056 KAVX 021551Z AUTO VRB03KT 10SM CLR 23/16 A3005 RMK AO2 SLP151 T02280161 KAWO 021615Z AUTO 00000KT 10SM CLR 23/13 A3003 RMK AO1 CWRO 021600Z AUTO 30015KT 14/11 RMK AO1 PK WND 30018/1550 SLP228 T01390112 51015 CWSF 021600Z AUTO 21007KT 22/14 RMK AO1 PK WND 20019/1507 SLP011 T02180137 53009 NZKI 021600Z 17004KT 45KM BKN083 17/M02 Q1001 RMK ALT VATSIM USE ONLY KAXH 020355Z AUTO 00000KT 3/4SM BR OVC001 18/18 A3007 RMK AO2 T01800180 CWSG 021600Z AUTO 30002KT 14/13 RMK AO1 SLP006 T01410128 51012 PHJR 021553Z AUTO 02003KT 10SM CLR 19/18 A2990 RMK AO2 SLP130 T01940178 TSNO $ ORBI 021630Z 31012KT 4700 DU NSC 42/01 Q1001 KBOI 021553Z 00000KT 10SM CLR 28/09 A3002 RMK AO2 SLP129 T02830089 PGUA 021558Z AUTO 03011KT 10SM BKN012 27/25 A2973 RMK AO2 SLP058 T02720246 $ CYAH 021600Z AUTO 02011G20KT 350V050 9SM -RA BKN016 OVC022 11/10 A2964 RMK SLP047 NZKK 021553Z 02009KT 30KM SCT045 07/06 Q1015 RMK NZAA VATSIM USE ONLY OPST 021600Z 27006KT 4000 FU FEW040 31/20 Q1002 NOSIG RH51 KCFJ 021615Z AUTO 02008KT 10SM SCT037 20/13 A2993 RMK AO2 T01950134 CXKA 021600Z AUTO 32003KT 19/03 RMK AO1 SLP147 T01920033 58006 KBOK 021624Z AUTO 17004KT 1 3/4SM BR OVC001 14/14 A2996 RMK AO2 CYBB 021600Z 05014KT 15SM BKN016 07/02 A2981 RMK SC7 SLP097 KBPC 020355Z AUTO 00000KT 10SM CLR 26/15 A2993 RMK AO2 CWSK 021600Z AUTO 34003KT 25/12 RMK AO1 SLP159 T02460122 50002 CWRT 021600Z AUTO 13003KT 21/12 RMK AO1 T02070121 EGBB 021620Z 29010KT 9999 -SHRA SCT013 BKN029 16/13 Q1020 KCEU 021554Z AUTO 25006KT 10SM BKN016 OVC021 26/21 A3001 RMK AO2 SLP153 T02610211 KCGC 021615Z AUTO 28007KT 10SM BKN035 BKN041 BKN050 31/22 A3013 RMK AO2 CWRU 021600Z AUTO 33033KT 13/11 RMK AO1 PK WND 33036/1533 SLP190 T01290113 50005 CWSL 021600Z AUTO 01001KT 22/15 RMK AO1 SLP182 T02230151 58001 CYBC 021300Z AUTO 22015G21KT 9SM SCT025 OVC031 14/12 A2951 RMK SLP992 DENSITY ALT 400FT CYBD 021600Z VRB03KT 15SM FEW300 20/12 A3016 RMK CI1 CONTRAIL SLP213 DENSITY ALT 400FT KBNW 020355Z AUTO 06008KT 10SM 16/13 A2997 RMK AO2 EFIV 021620Z AUTO 21009KT 9999 -RA OVC049 14/08 Q1019 KAXN 021553Z AUTO 16011KT 10SM CLR 21/12 A3005 RMK AO2 SLP173 T02060122 KCEW 021553Z AUTO 23005KT 9SM VCTS FEW035 FEW043 BKN100 27/23 A3012 RMK AO2 LTG DSNT ALQDS RAB03E27 TSB03E45 SLP195 P0005 T02720228 PHKO 021553Z 32006KT 10SM BKN031 27/23 A2987 RMK AO2 SLP116 T02670233 KCGE 021617Z AUTO 02004KT 7SM BKN007 23/20 A2987 RMK AO1 VDPP 021600Z 24007KT 9000 FEW017 SCT040 30/24 Q1007 CYAM 021600Z 30011KT 15SM SKC 14/08 A3006 RMK CF TR AC TR SLP185 KCGF 021545Z 35010KT 10SM SCT016 21/17 A3000 EGBE 021620Z 28015KT 250V310 8000 -SHRA FEW009 SCT012 SCT024 17/15 Q1019 EFKE 021620Z AUTO 23008KT 200V270 9999 -RA FEW008 OVC063 15/14 Q1021 CXKE 021600Z AUTO 28006KT 19/06 RMK AO1 SLP129 T01860057 53005 KBPG 020355Z AUTO 15010KT 10SM CLR 26/18 A3003 RMK AO2 T02610176 EFJO 021620Z 23001KT CAVOK 18/11 Q1024 KCEY 021615Z AUTO 23006KT 10SM SCT019 BKN031 BKN039 27/23 A2989 RMK AO1 CWRX 021600Z AUTO 13012KT 02/ A2981 CWTG 021600Z AUTO 27016KT 14/11 RMK AO1 PK WND 26021/1510 SLP005 T01420112 53009 CWSP 021600Z AUTO 29007KT 14/12 RMK AO1 SLP173 T01410115 53012 CWRY 021600Z AUTO 36004KT 23/12 RMK AO1 SLP211 T02330118 51001 KCEZ 021553Z AUTO 06004KT 10SM CLR 22/13 A3022 RMK AO2 SLP151 T02220133 PHLI 021553Z 28005KT 10SM CLR 21/18 A2989 RMK AO2 SLP118 T02110183 ZSNB 021600Z 12002MPS 6000 NSC 23/22 Q1004 NOSIG CYBG 021621Z 24012G19KT 25SM BKN018 OVC028 15/10 A2959 RMK SC5SC3 SLP022 CWRZ 022200Z AUTO 09001KT 14/12 RMK AO1 SLP106 T01410119 56014 KBPI 021553Z AUTO 18014KT 10SM FEW120 23/10 A3032 RMK AO2 SLP162 T02280100 KCGI 021553Z 25008KT 10SM BKN038 BKN080 28/22 A2985 RMK AO2 SLP105 T02780222 KAXS 020930Z AUTO 18005KT 10SM CLR 24/19 A2992 RMK AO2 T02430190 CXKI 021600Z AUTO 18/05 RMK AO1 SLP154 T01750048 50001 CWSR 021500Z AUTO 33005KT 20/15 RMK AO1 SLP166 T01950153 53007 KCHA 021620Z 02006KT 1 1/2SM TSRA BR FEW003 BKN010CB OVC020 22/21 A3002 RMK AO2 OCNL LTGICCC OHD TS OHD MOV SE P0013 T02170206 $ KBOS 021554Z VRB05G14KT 10SM FEW050 SCT250 25/13 A2989 RMK AO2 SLP120 T02500128 KCFS 021615Z AUTO 05003KT 10SM SCT041 SCT050 20/12 A3004 RMK AO2 T02010115 EFKI 021620Z 25008KT 230V290 9999 SCT032 BKN048 BKN075 17/14 Q1023 NZMC 021600Z 30010KT 30KM BKN008 12/10 Q1002 RMK ALT NZHT VATSIM USE ONLY EGBJ 021620Z 08004KT 9999 FEW010 SCT018 15/14 Q1020 CWSS 021600Z AUTO 23008KT 23/14 RMK AO1 SLP075 T02300138 53005 KBPK 021553Z AUTO 17005KT 10SM OVC039 22/21 A2988 RMK AO2 RAE00 SLP109 P0000 T02220206 KE80 021615Z AUTO 00000KT 10SM CLR 29/09 A3014 RMK AO2 T02890087 KAZC 020915Z AUTO 32014G18KT 10SM CLR 25/13 A3012 RMK AO2 T02510132 EFKK 021620Z 29003KT CAVOK 22/14 Q1022 CXLB 021600Z AUTO 22016KT 17/ RMK AO1 PK WND 21021/1535 SLP093 T0173 57002 CWST 021600Z AUTO 22026G34KT 18/12 RMK AO1 PK WND 22040/1507 SLP032 T01770124 53010 CYAT 021600Z AUTO 30010G17KT 9SM CLR 23/07 A2987 RMK SLP116 DENSITY ALT 900FT PGUM 021554Z 02007KT 10SM CLR 27/25 A2972 RMK AO2 SLP056 T02720250 CYBK 021600Z 35013KT 20SM SCT040 BKN100 15/05 A2972 RMK SC4AC3 SLP067 DENSITY ALT 200FT CYCB 021600Z 02009KT 15SM FEW050 FEW110 FEW220 10/04 A2994 RMK SC1AC1CI1 CI TR SLP141 CYBL 021600Z 30010G16KT 30SM SKC 20/10 A3007 RMK SLP182 DENSITY ALT 900FT KCHD 021547Z VRB04KT 40SM SCT250 33/15 A2993 KAXV 021611Z AUTO 06005KT 10SM BKN044 BKN050 22/18 A2996 RMK AO2 KCFV 021552Z AUTO 35007KT 10SM FEW025 30/23 A2985 RMK AO2 SLP099 T03000228 EGCC 021620Z 30007KT 260V330 9999 -RA FEW012 BKN034 15/15 Q1020 RESHRA TEMPO SHRA NZMF 021600Z 26004KT 25KM BKN055 07/05 Q0998 RMK ALT NZQN VATSIM USE ONLY CYCD 021600Z 01011KT 30SM SKC 26/13 A3003 RMK SLP167 DENSITY ALT 1200FT KAZE 021535Z AUTO 24004KT 10SM CLR 28/22 A3006 RMK AO2 T02830224 CXKM 021600Z AUTO 32003KT 23/13 RMK AO1 T02320134 KBOW 021247Z 00000KT 10SM SCT150 26/21 A3014 CWSW 021600Z 36002KT 20SM FEW050 21/13 A3020 RMK CF2 SLP205 DENSITY ALT 5000FT KAXX 020355Z AUTO 01011KT 2 1/2SM +RA SCT016 BKN021 OVC060 13/11 A3047 RMK AO2 P0030 T01290108 CYAW 021600Z 19010G15KT 12SM FEW008 FEW025 FEW150 BKN250 19/15 A2983 RMK SF1CU1AC1CI1 DA941FT SLP101 CWTN 021600Z AUTO 25011G19KT 17/12 RMK AO1 PK WND 26022/1504 SLP042 T01690124 53007 CYBN 021600Z AUTO 32008KT 260V350 9SM BKN039 19/08 A3001 RMK SLP165 EETN 021620Z 33005KT 280V020 CAVOK 23/10 Q1027 NOSIG ZSNJ 021600Z VRB01MPS 2500 BR NSC 24/23 Q1004 NOSIG CYCG 021600Z 36005KT 15SM SKC 23/13 A3006 RMK SLP169 DENSITY ALT 2700FT EFJY 021620Z AUTO 28003KT CAVOK 23/14 Q1023 CYAY 021600Z AUTO 11019G24KT 9SM FEW150 10/08 A2998 RMK SLP152 CYAZ 021600Z 18003KT 15SM SKC 19/15 A3002 RMK SLP167 DENSITY ALT 400FT KAYS 020355Z AUTO 25005KT 10SM CLR 27/23 A3009 RMK AO2 LTG DSNT N T02650232 PHMK 021554Z 00000KT 10SM CLR 22/20 A2991 RMK AO2 SLP129 T02170200 KCGS 021615Z AUTO 00000KT 7SM OVC060 21/19 A2990 RMK AO1 CYBR 021600Z 27009KT 3SM FU FEW050 BKN240 20/18 A2994 RMK SC2CI3 SLP143 DENSITY ALT 2200FT VEIM 020900Z 28004KT 7000 FEW018 SCT020 BKN100 31/22 Q1005 NOSIG CYDA 021600Z 03003KT 010V070 1SM -RA VCFG OVC004 08/07 A2984 RMK ST8 VIS E 2 SLP118 KBQK 020355Z AUTO 24007KT 10SM CLR 27/21 A3009 RMK AO1 KCHK 021140Z AUTO 21006KT 10SM CLR 23/20 A2992 RMK AO2 EFKS 021620Z AUTO 14006KT CAVOK 16/08 Q1022 EFMA 021620Z 21010KT CAVOK 24/15 Q1025 KBPT 021553Z 18007KT 10SM FEW024 31/25 A3006 RMK AO2 SLP179 T03110250 EFKT 021620Z 06001KT 9999 OVC043 16/10 Q1018 CXKT 021600Z AUTO 22009KT 24/15 RMK AO1 PK WND 24022/1539 SLP081 T02350153 51004 CWTT 021600Z AUTO 25017G23KT 17/10 RMK AO1 PK WND 24024/1549 T01660102 CYCK 021603Z AUTO 03009KT 350V050 9SM FEW030 SCT039 20/14 A3001 RMK SLP161 DENSITY ALT 1200FT KCIC 021547Z VRB05KT 25SM SCT150 BKN200 28/12 A2988 ZSOF 021600Z 09001MPS 3000 BR NSC 25/23 Q1004 BECMG TL1700 2500 CYDB 021600Z VRB02KT 6SM -RA BR FEW010 SCT022 BKN030 OVC045 08/06 A2979 RMK SF2CF2SC3SC1 VIS E 15 SLP109 CYDC 021600Z 00000KT 25SM FEW030 20/09 A3014 RMK CF1 CF TR HZ E WND ESTD SLP191 DENSITY ALT 3100FT CYBU 020900Z AUTO 24003KT 1/8SM FG BKN014 14/13 A2994 RMK SLP146 DENSITY ALT 1300FT EFKU 021620Z AUTO 17003KT 9999 SHRA OVC053 17/15 Q1024 CXLL 021600Z AUTO 01002KT 17/12 RMK AO1 SLP112 T01740124 KBRD 021553Z AUTO VRB06KT 10SM CLR 22/12 A3004 RMK AO2 SLP169 T02220117 EETU 021550Z VRB02KT CAVOK 25/09 Q1027 KCID 021552Z 08007KT 10SM CLR 19/12 A3001 RMK AO2 SLP160 T01940117 CWTU 021600Z AUTO 16012G17KT 12/ A2992 RMK SLP144 CYBV 021600Z 27002KT 10SM HZ FEW015 OVC080 21/19 A2985 RMK SC2AS6 WND ESTD SLP109 DENSITY ALT 1600FT CXMD 021600Z AUTO 25003KT 22/18 RMK AO1 SLP133 T02170178 51001 CWVD 021600Z AUTO 31003KT 05/ A2994 RMK SLP174 KAZO 021553Z 06007KT 10SM BKN019 18/13 A3003 RMK AO2 SLP167 T01830128 KCHO 021553Z 36006KT 6SM HZ BKN045 OVC065 24/17 A2992 RMK AO2 SLP124 T02390167 EGCN 021620Z 23008KT 9999 SCT038 25/16 Q1018 PHNG 021557Z AUTO VRB03KT CLR 23/22 A2986 RMK AO2 SLP107 T02330217 PWINO $ CYBW 021600Z AUTO 13003KT 060V180 9SM CLR 20/12 A3020 RMK SLP217 DENSITY ALT 5100FT KBQP 020355Z AUTO 21008KT 10SM CLR 25/21 A3002 RMK AO2 T02520214 KF05 021624Z AUTO 22013G18KT 10SM CLR 32/17 A2994 RMK AO2 CWVF 021600Z AUTO 32022G28KT 18/13 RMK AO1 PK WND 32028/1557 T01790126 CYDF 021600Z 18009KT 15SM SCT065 BKN200 24/13 A2988 RMK SC4CI3 SLP119 DENSITY ALT 1200FT CYCO 021600Z 08007KT 15SM FEW020 FEW050 SCT300 11/06 A3002 RMK CU1SC1CI2 SLP166 CYBX 021600Z 10026KT 15SM FEW030 SCT120 SCT220 18/11 A2991 RMK CU1AC2CI1 SLP130 DENSITY ALT 500FT CYCP 021600Z VRB02KT 15SM FEW060 18/12 A3013 RMK CU1 CU TR SLP204 DENSITY ALT 2900FT CXMG 021500Z AUTO 17008KT 19/14 RMK AO1 T01890141 EFLP 021620Z AUTO 22009KT 190V260 CAVOK 22/11 Q1025 CWTY 021600Z AUTO 26007KT 19/10 RMK AO1 PK WND 23019/1529 SLP066 T01940104 55003 KCGZ 021615Z AUTO 00000KT 10SM CLR 32/15 A2994 RMK AO1 CWUP 021600Z AUTO 03004KT 07/ A2995 RMK SLP161 CYCQ 021600Z 25004KT 220V280 35SM FEW060 FEW070 SCT100 BKN150 OVC200 20/11 A3000 RMK SC1AC2AC2AC2CS2 SC TR CONTRAIL SLP159 DENSITY ALT 2900FT CWVH 021600Z AUTO 27006KT 12/ A2988 RMK SLP129 EFMI 021620Z AUTO 22002KT CAVOK 22/13 Q1024 CWVI 021600Z AUTO 33002KT 23/13 RMK AO1 0001 SLP177 T02310130 50002 CXMI 021600Z AUTO 22015KT 18/ RMK AO1 PK WND 23019/1559 SLP093 T0183 53001 KDAA 021558Z AUTO VRB02KT 10SM SCT060 22/18 A2990 RMK AO2 RAB14E24DZB24E26RAB26E38DZB38E41 SLP128 P0000 T02190183 KCHS 021556Z 26006KT 10SM FEW080 SCT150 BKN250 31/22 A3002 RMK AO2 SLP163 T03060222 ZSPD 021600Z 17002MPS CAVOK 22/21 Q1004 NOSIG CYCS 021600Z 06015KT 5SM VCFG SCT040 BKN080 BKN250 04/02 A2967 RMK SC3AC2CI1 SLP048 CWUS 021600Z AUTO 06004KT 24/13 RMK AO1 SLP172 T02400129 58001 CWWA 021600Z AUTO 20001KT 21/15 RMK AO1 SLP168 T02120146 51009 KDAB 021553Z 26008KT 10SM FEW035 FEW150 32/22 A3012 RMK AO2 SLP198 T03170222 PHNL 021553Z 00000KT 10SM CLR 24/19 A2988 RMK AO2 SLP119 T02390194 CWWB 021600Z AUTO 12007KT 17/11 RMK AO1 SLP158 T01650106 51005 KBRL 021553Z AUTO 06009KT 10SM CLR 19/14 A2998 RMK AO2 SLP149 T01890139 EGEC 021550Z 29005KT 240V320 9999 SHRA BKN022 15/13 Q1017 CYDL 021600Z AUTO 23009KT 200V270 9SM SCT049 SCT055 BKN076 BKN091 13/07 A2999 RMK SLP151 DENSITY ALT 2900FT KCIN 020355Z AUTO 07008KT 10SM OVC036 17/14 A2996 RMK AO2 CXMM 021600Z AUTO 26008KT 22/11 RMK AO1 SLP127 T02190111 58004 EGDM 021550Z 32011KT 9999 FEW018 SCT060 17/13 Q1020 BLU NOSIG CYED 021600Z 18007KT 15SM FEW230 24/11 A3009 RMK CI1 DA3763FT SLP186 NZNP 021600Z 36013KT 30KM BKN037 11/10 Q1014 RMK ALT VATSIM USE ONLY CWVN 021600Z AUTO 36014KT 21/16 RMK AO1 PK WND 35019/1550 SLP197 T02090160 51008 CWWE 021600Z AUTO 19013KT 15/14 RMK AO1 PK WND 20018/1507 SLP103 T01540144 50004 KBRO 021628Z 14005KT 10SM VCTS SCT018 BKN075 OVC110 23/21 A3002 RMK AO2 PK WND 19031/1603 WSHFT 1543 LTG DSNT N RAE27 P0060 T02330211 PHOG 021554Z 00000KT 10SM CLR 22/19 A2989 RMK AO2 SLP128 T02170194 CYDN 021608Z AUTO 33006KT 2 1/2SM HZ BKN012 BKN024 21/18 A2993 RMK SLP136 DENSITY ALT 1900FT KBQX 021615Z AUTO 15007KT 7SM FEW023 30/24 A3006 RMK A01 CWUW 021603Z AUTO 16017KT 9SM FEW006 SCT014 OVC029 OVC090 04/ A2989 NZOH 021600Z 35008KT 30KM BKN045 09/07 Q1013 RMK ALT NZPM VATSIM USE ONLY CXMO 021500Z AUTO 28001KT 20/14 RMK AO1 T01990137 VDSR 021600Z 24008KT 9000 FEW020 28/25 Q1007 CWWF 021600Z AUTO 34008KT 22/17 RMK AO1 SLP169 T02220168 51007 CWUX 021600Z AUTO 25013G21KT 15/12 RMK AO1 PK WND 24024/1527 SLP017 T01520117 53015 KDAG 021550Z AUTO 28009KT 10SM FEW100 29/12 A2999 RMK AO2 SLP127 T02940117 CYCX 021600Z 26010G16KT 15SM SCT037 BKN250 22/14 A2972 RMK CU4CI2 DA1477FT SLP066 NZNR 021600Z 34006KT 40KM BKN080 09/03 Q1013 RMK ALT VATSIM USE ONLY VEJS 020200Z 27004KT 2500 HZ SCT015 SCT025 BKN100 27/24 Q1005 CYDP 021600Z 05013KT 2 1/2SM -RA BR OVC002 05/04 A2995 RMK ST8 SLP142 ORER 021600Z 30007KT CAVOK 40/00 Q1006 NOSIG CWVP 021600Z AUTO 34005KT 17/14 RMK AO1 SLP209 T01680136 50010 CYCY 021600Z 12006KT 090V150 25SM FEW060 SCT250 07/04 A2992 RMK SC1CI2 SLP135 CYEG 021600Z 25005KT 190V270 15SM SCT260 23/15 A3010 RMK CI3 CONTRAILS SLP190 DENSITY ALT 3600FT NZNS 021600Z 34005KT 40KM BKN045 10/09 Q1010 RMK ALT VATSIM USE ONLY KF17 020355Z AUTO 00000KT 10SM SCT120 24/21 A3002 RMK AO2 T02410210 KCIR 020355Z AUTO 13006KT 10SM SCT027 BKN034 BKN041 24/22 A2988 RMK AO2 LTG DSNT S AND NW T02370220 CWVQ 021600Z AUTO 25010G15KT 19/12 RMK AO1 PK WND 25019/1548 SLP108 T01920115 53002 CYDQ 021600Z AUTO 14005KT 130V200 9SM CLR 22/12 A3001 RMK SLP159 DENSITY ALT 3300FT KBTA 020355Z AUTO 06007KT 10SM CLR 20/18 A2993 RMK AO2 T02020177 UNKL 021600Z 00000MPS CAVOK 19/15 Q1006 R29/CLRD65 NOSIG RMK QFE729 PGWT 020950Z 04015KT 7SM FEW016 BKN180 27/25 A2975 RMK LAST EGDR 021550Z 21012KT 9999 FEW010 18/14 Q1021 BLU TEMPO SCT022 WHT ZSQD 021600Z 14002MPS 5000 BR NSC 22/18 Q1005 NOSIG TVSV 021600Z 10012KT 9999 BKN016 BKN032 28/24 Q1017 CWXA 021600Z AUTO 26006KT 19/10 RMK AO1 SLP200 T01900099 58005 KCKB 021553Z 00000KT 10SM CLR 22/16 A2996 RMK AO2 SLP132 T02220161 NZNV 021600Z 33005KT 20KM BKN060 07/05 Q0997 RMK ALT VATSIM USE ONLY CWWK 021600Z AUTO 10002KT 22/15 RMK AO1 SLP169 T02210154 52008 CWVT 021600Z AUTO 20003KT 21/15 RMK AO1 SLP164 T02050154 58005 KDAL 021553Z 21014G23KT 10SM FEW040 FEW250 29/18 A3000 RMK AO2 SLP150 T02940183 KCIU 021615Z AUTO 31006KT 10SM CLR 19/08 A3006 RMK AO1 KCKC 021613Z AUTO 19004KT 10SM CLR 21/13 A3002 RMK AO2 CYFB 021600Z 16009KT 30SM BKN043 BKN150 05/01 A3003 RMK SC5AC1 OBS TAKEN +06 SLP170 CYEK 021600Z 04009KT 15SM BKN080 15/07 A2969 RMK AC5 SLP053 DENSITY ALT 200FT CWWL 021600Z AUTO 16006KT 14/12 RMK AO1 SLP219 T01410118 53010 CWXC 021600Z AUTO 19007KT 12/12 RMK AO1 SLP993 T01240123 CWVU 021600Z AUTO 15011KT 14/12 RMK AO1 SLP122 T01400120 51013 CYFC 021600Z AUTO 26013G18KT 210V290 9SM FEW041 23/11 A2972 RMK SLP064 DENSITY ALT 1200FT CXNM 021600Z AUTO 23012G20KT 24/16 RMK AO1 PK WND 25021/1514 T02420162 KDAN 021553Z AUTO 28007KT 10SM CLR 27/19 A2992 RMK AO2 SLP119 T02720194 KCKF 021535Z AUTO 27009G15KT 10SM SCT023 30/23 A3008 RMK AO2 T03010231 PHNY 021558Z AUTO 34005KT 10SM CLR 21/20 A2995 RMK AO2 SLP121 T02110200 CYEN 021600Z 33007KT 3SM FU OVC250 22/19 A3002 RMK CI8 SLP166 DENSITY ALT 3000FT EGEO 021450Z 27010KT 9000 FEW008 SCT026TCU 18/14 Q1016 EGDX 021550Z 25008KT CAVOK 17/11 Q1020 BLU EGFF 021620Z AUTO 25010KT 9999 FEW003 17/12 Q1021 CXMY 021600Z AUTO 20/16 RMK AO1 T01950155 CXNP 021600Z AUTO 26009KT 19/16 RMK AO1 SLP081 T01940164 51006 EGDY 021550Z 30008KT 9999 FEW012 17/13 Q1021 BLU NOSIG KCJR 021615Z AUTO 00000KT 10SM BKN050 BKN065 OVC080 22/18 A2993 RMK AO2 T02200176 KCKI 021615Z AUTO 22008G14KT 10SM SCT046 31/27 A3000 RMK AO2 CWXI 021600Z AUTO 16012KT 20/13 RMK AO1 PK WND 13017/1514 SLP120 T02000126 56009 CYER 021614Z AUTO 19007KT 140V220 9SM CLR 21/07 A2981 RMK SLP096 DENSITY ALT 900FT KDCA 021552Z 02006KT 8SM OVC060 23/18 A2990 RMK AO2 RAB1456E35 SLP126 P0000 T02330183 CWWS 021500Z AUTO 31007KT 19/16 RMK AO1 SLP105 T01870163 CXPA 021600Z AUTO 15003KT 22/16 RMK AO1 T02210157 NZPM 021600Z 35008KT 30KM BKN045 09/07 Q1013 RMK ALT VATSIM USE ONLY KBTL 021553Z 05009KT 10SM BKN021 20/14 A3002 RMK AO2 SLP164 T02000139 CYET 021600Z AUTO 00000KT 9SM CLR 21/13 A3012 RMK SLP190 DENSITY ALT 4200FT CWWU 021600Z 33004KT 15SM FEW025 FEW120 FEW180 BKN270 15/10 A3007 RMK SC1AC1AC1CI2 SLP182 CXOL 021500Z AUTO 22003KT 19/14 RMK AO1 T01920143 CWXL 021600Z AUTO 32004KT 23/16 RMK AO1 T02260159 CXPC 021600Z AUTO 20/04 RMK AO1 SLP147 T01960035 53003 KBTM 021553Z AUTO 04003KT 7SM CLR 20/11 A3027 RMK AO2 SLP187 T02000106 KCKM 021615Z AUTO 23011G17KT 10SM CLR 25/21 A2997 RMK AO1 KDBN 020355Z AUTO 20005KT 10SM CLR 22/22 A3010 RMK AO2 LTG DSNT SE EGGD 021620Z 25008KT 9999 FEW007 16/13 Q1021 KDAW 021551Z AUTO 27007KT 230V300 10SM FEW041 SCT050 23/12 A2987 RMK AO2 SLP110 T02280122 KCLE 021551Z 02011KT 10SM SCT018 21/16 A3001 RMK AO2 SLP158 T02110156 $ KCKN 021615Z AUTO 22013KT 10SM CLR 21/14 A2998 RMK AO2 CYEV 021600Z CCA 26003KT 220V320 15SM SCT009 16/12 A2985 RMK ST4 FU SLP109 DENSITY ALT 400FT NZPP 021600Z 36017KT 45KM BKN032 12/08 Q1012 RMK ALT VATSIM USE ONLY CYGE 021600Z 30004KT 20SM FEW075 SCT110 21/11 A3014 RMK CU1AC2 SLP199 DENSITY ALT 3500FT KBUF 021554Z 34005KT 10SM FEW031 BKN050 BKN065 19/09 A2998 RMK AO2 SLP152 T01940094 CYFO 021600Z 30012KT 2SM FU VV014 23/14 A2986 RMK FU8 SLP115 DENSITY ALT 2200FT KCKP 021600Z AUTO 14007KT 10SM CLR 19/14 A3001 RMK AO2 T01860140 CWWX 021600Z AUTO 30004KT 16/11 RMK AO1 SLP166 T01590107 KBTP 021615Z AUTO 00000KT 10SM CLR 21/15 A2998 RMK AO1 KDAY 021556Z 07008KT 9SM BKN040 22/17 A2995 RMK AO2 SLP134 T02170167 KDBQ 021553Z 06009KT 10SM CLR 19/11 A3004 RMK AO2 SLP171 T01890106 $ CYGH 021600Z 00000KT 15SM BKN080 BKN220 19/15 A2983 RMK AC6CI1 SLP103 DENSITY ALT 900FT KCLI 020355Z AUTO 00000KT 10SM CLR 13/09 A3003 RMK AO2 CWWZ 021600Z AUTO 36004KT 17/13 RMK AO1 SLP159 T01720131 52007 KBTR 021553Z 24006KT 10SM CLR 29/24 A3010 RMK AO2 SLP193 T02890244 CYFR 021600Z VRB02KT 3SM FU SKC 18/14 A2986 RMK FU3 SLP116 DENSITY ALT 1100FT KCMA 021555Z 24004KT 10SM FEW110 19/16 A3000 RMK AO2 SLP166 T01940161 CWXR 021600Z AUTO 14008KT 14/ A2997 RMK SLP159 NZRC 021600Z 33005KT 20KM BKN060 07/05 Q0997 RMK ALT NZNV VATSIM USE ONLY CYHA 021600Z 13012G17KT 15SM FEW050 BKN120 BKN260 09/04 A3001 RMK SC1AC6CS1 SLP164 KCLK 021555Z AUTO 22009KT 10SM CLR 28/17 A2991 RMK AO2 CWZA 021600Z AUTO 17001KT 24/16 RMK AO1 SLP164 T02370158 51009 CWYJ 021600Z AUTO 02003KT 22/12 RMK AO1 SLP166 T02210121 51009 CYFS 021600Z VRB02KT 8SM BKN050 OVC210 18/12 A2988 RMK SC7CI1 FU SLP120 DENSITY ALT 1000FT CYGK 021600Z 21009KT 15SM BKN055 19/10 A2995 RMK CU5 SLP142 DENSITY ALT 700FT CYFT 021600Z VRB02KT 15SM FEW001 BKN035 OVC120 09/08 A2988 RMK ST1SC5AS2 SLP122 KCLL 021553Z 18011KT 10SM BKN015 OVC025 28/23 A3004 RMK AO2 SLP166 T02780233 KDDC 021552Z AUTO 03014KT 9SM FEW120 24/19 A3000 RMK AO2 SLP126 T02390189 CWYK 021600Z AUTO ///// 09/ A2989 RMK SLP144 NZQN 021600Z 26004KT 25KM BKN055 07/05 Q0998 RMK ALT VATSIM USE ONLY KCMD 020355Z AUTO 17003KT 10SM CLR 21/20 A3005 RMK AO2 T02050198 KDCM 021615Z AUTO 26004KT 10SM SCT120 28/18 A2999 RMK AO2 CXPL 021500Z AUTO 31005KT 22/15 RMK AO1 T02160153 CWYL 021600Z AUTO 06006KT 18/08 RMK AO1 SLP204 T01760075 58007 KCLM 021553Z AUTO 07003KT 10SM CLR 23/13 A3004 RMK AO2 SLP170 T02280128 KCKV 021552Z AUTO 20007KT 10SM FEW110 24/22 A2990 RMK AO2 SLP118 T02440217 EFOU 021620Z AUTO 25005KT 9999 -RA SCT009/// BKN016/// OVC021/// 15/14 Q1022 KBTV 021554Z 28011G14KT 10SM FEW060 FEW120 21/07 A2990 RMK AO2 SLP123 T02110067 CYGL 021600Z 32010G24KT 300V030 15SM SCT240 18/04 A2981 RMK CI3 SLP100 DENSITY ALT 1200FT KBVE 021551Z AUTO 17004KT 10SM CLR 29/25 A3013 RMK AO2 SLP202 T02890250 CYHD 021600Z AUTO 21008KT 9SM FEW048 21/16 A2994 RMK SLP142 DENSITY ALT 2300FT CWYM 021600Z AUTO 22007KT 04/ A3000 RMK SLP196 KF44 021540Z AUTO 19006KT 160V250 10SM CLR 27/21 A3002 RMK AO2 EGHE 021620Z 17009KT 9999 FEW012 19/15 Q1021 CYHE 021600Z AUTO 07006KT 030V100 9SM CLR 26/12 A3000 RMK SLP160 DENSITY ALT 1200FT EFPO 021620Z AUTO 21007KT CAVOK 25/14 Q1024 CXOX 021600Z AUTO 28004KT 22/14 RMK AO1 SLP150 T02170135 51005 KF46 021600Z AUTO 22013G22KT 10SM CLR 29/20 A3000 RMK AO2 T02860196 CXOY 021500Z AUTO 31005KT 20/16 RMK AO1 T02010159 CWZG 021600Z AUTO 26002KT 18/09 RMK AO1 SLP207 T01790093 58011 EGGP 021620Z 31005KT 270V350 9999 -RA FEW018 SCT044 16/13 Q1020 KCMH 021551Z 00000KT 10SM OVC043 21/16 A2995 RMK AO2 SLP139 VCSH SW T02060161 KDDH 021554Z AUTO 24007KT 210V280 10SM FEW035 BKN050 21/13 A2993 RMK AO2 SLP132 T02060133 CYGP 021600Z 08006KT 15SM 19/16 A2960 RMK SLP023 DENSITY ALT 900FT CYHH 021600Z 32019KT 15SM FEW024 FEW080 SCT150 BKN250 18/05 A2970 RMK SC1AC2AC1CI0 SLP064 KBVI 021547Z 00000KT 10SM BKN022 BKN029 BKN044 21/16 A2998 CYGQ 021600Z 18006KT 160V280 15SM FEW032 SCT240 22/13 A2997 RMK CU2CI1 SLP153 DENSITY ALT 2100FT KBUR 021553Z 14005KT 10SM CLR 25/14 A2999 RMK AO2 SLP143 T02500144 KCMI 021553Z 05008KT 10SM FEW032 20/14 A2994 RMK AO2 SLP134 T02000144 EGHH 021620Z 34006KT 290V080 9999 FEW018 20/12 Q1020 CYHI 021600Z 21004KT 15SM SCT100 SCT200 10/05 A3003 RMK AC3CS1 CS TR SLP171 CYGR 021600Z 20015G22KT 10SM FEW005 FEW030 BKN240 19/16 A2974 RMK SF1SC1CI6 SF TR SC TR SLP070 DENSITY ALT 700FT KCLS 021615Z AUTO VRB04KT 10SM CLR 24/16 A3002 RMK AO2 EGHI 021620Z 32006KT 280V010 9999 FEW015 SCT022 17/12 Q1021 KCLT 021552Z 25004G15KT 9SM SCT030 SCT090 28/18 A2997 RMK AO2 SLP138 T02830183 KCNB 021614Z AUTO 12006KT 10SM CLR 19/12 A3002 RMK AO2 T01860115 KBUU 020355Z AUTO 00000KT 5SM BR CLR 09/08 A3002 RMK AO2 T00860081 KCNC 020355Z AUTO 04006KT 10SM BKN036 OVC085 19/16 A2994 RMK AO2 CYGT 021628Z 12012KT 10SM SCT003 BKN005 BKN008 OVC100 01/M01 A2982 RMK ST4ST2SC1AS1 SLP102 CXRB 021600Z AUTO 15003KT 07/02 RMK AO1 2PAST HR 8001 SLP136 P0001 T00700023 50002 KDCU 021553Z AUTO 25014G20KT 10SM BKN060 BKN080 28/21 A2997 RMK AO2 LTG DSNT N AND E SLP142 T02830211 KDEC 021554Z 07009KT 10SM BKN031 20/14 A2994 RMK AO2 SLP136 T02000144 CYHK 021600Z 07012KT 15SM SKC 05/02 A2988 RMK SLP123 CWZL 021600Z AUTO 26007KT 18/13 RMK AO1 SLP230 T01830128 53010 KDED 021615Z AUTO 21009KT 32/20 A3012 RMK AO1 KBWD 021615Z AUTO 19012G19KT 8SM CLR 28/17 A3003 RMK AO2 NZRO 021600Z 19002KT 15KM VCSH SCT055 06/05 Q1017 RMK ALT NZTG VATSIM USE ONLY KCLW 020355Z AUTO 32003KT 10SM SCT070 27/23 A3014 RMK AO2 KBVN 021030Z AUTO 14005KT 4SM BR OVC005 19/17 A2996 RMK AO2 T01930173 CYHM 021600Z 06006KT 040V100 15SM FEW040 FEW120 19/09 A3001 RMK CU1AC1 AC TR SLP162 DENSITY ALT 1200FT PHSF 021556Z AUTO 12004KT 6SM M CLR 11/06 A3024 RMK AO2 SLP126 T01050059 $ CYGV 021624Z AUTO 10013G18KT 2 1/4SM -RA BR OVC002 13/13 A2965 RMK SLP040 CWZN 021500Z AUTO 00011KT 13/10 RMK AO1 SLP163 T01310100 KBVO 021553Z VRB03KT 10SM FEW020 29/24 A2987 RMK AO2 SLP104 T02890239 EGGW 021620Z 22012KT 9999 FEW033 SCT044 25/16 Q1019 CYGW 021600Z AUTO 34007KT 310V020 9SM CLR 06/02 A2989 RMK SLP122 KDCY 021600Z AUTO 35006KT 7SM BKN007 BKN013 OVC017 22/20 A2988 RMK AO2 T02210200 CWZO 021600Z AUTO 16007KT RMK AO1 KBWG 021553Z AUTO 24009KT 10SM CLR 26/20 A2989 RMK AO2 SLP115 T02560200 KBUY 021554Z AUTO 21007KT 9SM FEW030 28/20 A2993 RMK AO2 SLP128 T02780200 ZSSS 021600Z 14002MPS CAVOK 23/20 Q1004 NOSIG CYGX 021600Z 23007KT 15SM OVC030 21/13 A2969 RMK ST8 SLP056 DENSITY ALT 1500FT KDEH 020355Z AUTO RMK AO2 PNO PWINO CWYY 021600Z AUTO 32003KT 24/12 RMK AO1 SLP165 T02430121 58001 KCNI 021535Z AUTO 25007KT 7SM BKN015 BKN038 25/18 A3003 RMK AO2 EGHQ 021620Z 27007KT 9999 FEW025 FEW032TCU 18/12 Q1022 CXRH 021600Z AUTO 15007G15KT 24/12 RMK AO1 19 T02400116 UNNT 021600Z 14004MPS CAVOK 26/17 Q1002 R25/090070 R16/090070 NOSIG RMK QFE742/0989 CWZQ 021620Z AUTO 19013G20KT 27/18 RMK AO1 T02690182 KBWI 021554Z 04004KT 6SM HZ BKN060 OVC100 22/18 A2990 RMK AO2 SLP123 T02220183 KCMR 021615Z AUTO 31007KT 280V340 10SM CLR 23/14 A3038 RMK AO2 KBVS 021410Z AUTO 32005KT 10SM CLR 20/15 A3002 RMK A01 KBXA 021555Z AUTO 22005KT 10SM 29/23 A3013 RMK AO2 T02900233 EGJA 021620Z 28007KT 240V330 9999 FEW004 16/15 Q1022 EFSA 021620Z AUTO 21001KT CAVOK 20/13 Q1025 CWZS 021600Z AUTO 19007G15KT 17/11 RMK AO1 3012 PK WND 18017/1531 SLP020 T01720112 50020 KCNK 021555Z AUTO 17005KT 4SM BR BKN005 BKN028 OVC110 22/21 A2992 RMK AO2 LTG DSNT E RAE52 TSB14E29 SLP117 P0005 T02220211 CYIK 021600Z 19019G24KT 15SM FEW009 SCT040 BKN080 BKN220 07/03 A2989 RMK CF0SC2AC4CI0 SLP125 EGJB 021620Z 30009KT 9999 FEW008 17/15 Q1022 KBVU 021615Z AUTO VRB03KT 10SM CLR 32/16 A2999 RMK AO2 CXSC 021600Z AUTO 30006KT 21/16 RMK AO1 T02060155 UNOO 021600Z 16002MPS 100V190 9999 -SHRA BKN014 BKN033CB 18/17 Q0998 R25/290150 TEMPO TSRA RMK QFE741 CXRL 021600Z AUTO 22/14 RMK AO1 T02240142 KCNM 021553Z AUTO 11006KT 10SM CLR 26/18 A3005 RMK AO2 SLP115 T02560183 KCOD 021615Z 03009KT 10SM CLR 22/11 A3023 RMK AO1 CYHU 021600Z AUTO 25015G21KT 9SM CLR 20/13 A2983 RMK SLP101 DENSITY ALT 700FT CWZV 021600Z AUTO 30017KT 14/13 RMK AO1 PK WND 30022/1508 SLP227 T01380132 KDEN 021553Z 22011KT 10SM FEW014 FEW030 BKN220 19/12 A3025 RMK AO2 SLP176 T01890117 KCOE 021615Z AUTO 03009KT 10SM CLR 27/12 A3004 RMK AO1 NZTG 021600Z 19002KT 15KM VCSH SCT055 06/05 Q1017 RMK ALT VATSIM USE ONLY NZSP 021150Z 13009KT 9999 SKC M74/ A2823 RMK CLN AIR 12008KT ALL WNDS GRID CWZW 021600Z AUTO 20006KT 13/07 RMK AO1 SLP136 T01290067 55001 KCNO 021553Z 29007KT 10SM FEW120 SCT160 BKN200 27/17 A3000 RMK AO2 SLP153 T02670167 KCMX 021553Z AUTO 20005KT 10SM CLR 21/08 A3002 RMK AO2 SLP163 T02110083 KBVX 021615Z AUTO 22006KT 10SM FEW070 BKN090 24/23 A2988 RMK AO1 TSE1556 KCOF 021558Z AUTO 14005KT 10SM CLR 32/24 A3013 RMK AO2 SLP207 T03200240 CYIN 021600Z AUTO 35004KT 330V040 9SM CLR 21/10 A3018 RMK SLP197 DENSITY ALT 4900FT CYJF 021600Z 00000KT 3SM FU FEW120 SCT210 19/11 A2986 RMK AC2CI2 SLP110 DENSITY ALT 1400FT KCMY 020355Z AUTO 00000KT 10SM CLR 10/09 A3002 RMK AO2 T01010090 KBWP 020355Z AUTO 14005KT 10SM CLR 16/12 A2999 RMK AO1 EFRO 021620Z AUTO 20008KT 9999 -RA FEW037 BKN045 BKN075CB 15/12 Q1020 KBVY 021553Z 24010G17KT 10SM CLR 24/13 A2987 RMK AO2 SLP110 T02440133 CYIO 021600Z 26005KT 30SM BKN065 06/02 A2988 RMK SC7 SLP123 KDEQ 021553Z AUTO 26011G21KT 10SM CLR 28/21 A2995 RMK AO2 SLP136 T02830211 ZUCK 021600Z VRB01MPS 6000 -SHRA SCT010 SCT030 OVC050 23/21 Q1006 NOSIG CYHY 021600Z 07007KT 15SM FU BKN060 17/14 A2988 RMK FU5SC2 SLP122 DENSITY ALT 900FT KDFI 021620Z AUTO 04012KT 10SM FEW027 BKN035 BKN045 22/14 A2999 RMK AO2 T02170144 CYHZ 021600Z 22014G20KT 15SM FEW030 BKN260 23/16 A2980 RMK CU1CI5 SLP092 DENSITY ALT 1500FT CWZZ 021618Z AUTO ///// 03/ A2996 EFSI 021620Z AUTO 26003KT CAVOK 24/14 Q1023 KF70 020355Z AUTO 17004KT 10SM CLR 24/15 A2996 RMK AO1 EGKA 021620Z 20008KT 9999 FEW010 18/17 Q1021 EGJJ 021620Z 30009KT 9999 FEW007 19/16 Q1022 NOSIG KDET 021553Z 36008KT 10SM SCT038 BKN047 21/10 A3002 RMK AO2 SLP163 T02110100 KBXK 021615Z AUTO 22005KT 10SM CLR 34/13 A2993 RMK AO1 CYKA 021600Z 23004KT 180V270 40SM SKC 22/13 A3009 RMK SLP185 DENSITY ALT 2000FT KCPC 020355Z AUTO 22004KT 10SM CLR 25/22 A2998 RMK AO2 T02450216 EGKB 021620Z 23008KT 190V260 9999 FEW030CB 20/16 Q1020 RESHRA KCNU 021606Z AUTO 03009KT 10SM BKN016 28/22 A2988 RMK AO2 T02780222 EHAK 021625Z AUTO 21010KT 9999 NSC 16/15 Q1018 KCOM 020355Z AUTO 17008KT 10SM CLR 26/20 A3000 RMK AO2 T02550198 CXSL 022300Z AUTO 34008KT 25/14 RMK AO1 T02450135 CYKD 021600Z 34005KT 15SM HZ SCT009 SCT240 14/11 A2986 RMK SC3CI1 SF ASOCTD SLP113 KCNW 021555Z 21012KT 10SM SCT025 28/21 A3002 CXTD 021600Z AUTO 19014G20KT 25/19 RMK AO1 PK WND 20024/1544 SLP099 T02490190 58002 KCON 021551Z AUTO 28010KT 10SM SCT050 23/11 A2989 RMK AO2 SLP118 T02280111 KDEW 021553Z AUTO 03006KT 10SM CLR 27/11 A3005 RMK AO2 SLP157 T02670111 PHTO 021553Z 00000KT 10SM BKN041 24/21 A2990 RMK AO2 RAB42E52 SLP124 P0000 T02390211 EHAM 021625Z 33010KT 300V020 CAVOK 23/18 Q1019 NOSIG CYIV 021600Z 24003KT 210V280 12SM BKN100 22/15 A2980 RMK AC7 FU SLP095 DENSITY ALT 1800FT CYKF 021600Z AUTO 01007KT 360V100 9SM SCT050 19/07 A3001 RMK SLP162 DENSITY ALT 1600FT KBYG 021553Z AUTO 35008KT 9SM CLR 21/13 A3023 RMK AO2 SLP182 T02110133 KCNY 021553Z AUTO 12004KT 10SM CLR 29/12 A3007 RMK AO2 SLP109 T02890122 CZBF 021600Z 24010G20KT 210V270 15SM BKN040 BKN240 22/12 A2964 RMK SC6CI1 CI TR SLP038 DENSITY ALT 1300FT KBYH 012055Z 21011KT 10SM BKN120 BKN250 28/20 A2992 CYKG 021600Z 13010KT 15SM FEW060 SCT120 14/06 A2993 RMK CU2AC1 SLP144 CXSP 021500Z AUTO 23003KT 20/10 RMK AO1 T01960101 50005 KCOQ 021615Z AUTO 18004KT 10SM CLR 22/13 A3003 RMK AO2 CXTH 021600Z AUTO 27003KT 22/14 RMK AO1 T02190135 KBYI 021553Z AUTO 00000KT 10SM CLR 24/13 A3011 RMK AO2 SLP145 T02440128 VEPT 021450Z 26005KT 4000 HZ SCT018 FEW030CB BKN100 32/26 Q1000 NOSIG CXSR 021600Z AUTO 24008KT 20/10 RMK AO1 SLP171 T01960099 56003 KCOS 021554Z 03013KT 10SM FEW013 SCT028 BKN050 BKN200 18/12 A3031 RMK AO2 SLP193 T01780117 NZTU 021600Z 03003KT 45KM BKN100 09/04 Q0997 RMK ALT VATSIM USE ONLY CYLA 021600Z 05010KT 15SM SCT050 BKN090 09/04 A2998 RMK SC3AC4 SLP155 KCPK 020355Z AUTO 19004KT 10SM CLR 24/22 A2993 RMK AO2 KCQB 021535Z AUTO 25009KT 10SM CLR 31/24 A2989 RMK AO2 KCOT 021553Z AUTO 15012G20KT 10SM -RA SCT025 BKN033 29/23 A2999 RMK AO2 RAB30 SLP149 P0000 T02890228 CYKJ 021600Z AUTO 30004KT 250V360 5SM HZ CLR 20/12 A2993 RMK SLP143 DENSITY ALT 2600FT KCQC 021553Z AUTO 29008KT 10SM CLR 22/11 A3026 RMK AO2 SLP136 T02170111 EGKK 021620Z 23008KT 190V260 9999 FEW022CB 22/17 Q1020 KCOU 021607Z 05010KT 5SM BR OVC005 21/19 A2993 RMK AO2 T02060189 EHBK 021625Z AUTO 32012KT 280V010 9999 ////// 30/20 Q1017 NOSIG CYJT 021600Z 12012G18KT 15SM BKN045 BKN080 22/14 A2985 RMK SC5AC2 SLP110 DENSITY ALT 1000FT CYLC 021600Z 14008KT 15SM BKN040 BKN100 BKN250 06/02 A3003 RMK SC5AS1CI1 TR CI SLP172 CYKL 021620Z AUTO 13008G17KT 9SM BKN011 BKN017 OVC035 14/13 A2966 RMK SLP055 DENSITY ALT 2200FT EGLC 021620Z 22013KT 170V240 9999 -SHRA FEW030 25/16 Q1019 CYLD 021600Z VRB04KT 15SM FEW045 FEW170 SCT250 19/05 A3004 RMK CF1AC1CI1 SLP182 DENSITY ALT 2100FT KDFW 021553Z 23018G26KT 10SM FEW015 FEW280 29/18 A2999 RMK AO2 PK WND 22027/1459 SLP144 T02940178 KCQF 020355Z AUTO RMK AO2 PWINO PNO EGLF 021620Z 24015KT 9999 FEW024 SCT032 22/15 Q1020 CXTO 021600Z AUTO 19/10 RMK AO1 SLP157 T01890098 51007 EFTP 021620Z AUTO 24008KT CAVOK 26/12 Q1025 CXTP 021600Z AUTO 06004KT 19/10 RMK AO1 SLP169 T01860104 58008 CYKP 021600Z AUTO 16006KT 130V260 9SM FEW055 23/09 A2990 RMK SLP129 DENSITY ALT 1600FT OSDI 021600Z 26009KT CAVOK 38/08 Q1010 CYKQ 021600Z 31011G19KT 280V340 15SM FEW035 FEW095 SCT250 17/07 A2989 RMK CU1AC1CI3 CU TR AC TR SLP122 DENSITY ALT 300FT CYLH 021600Z AUTO 17008KT 130V220 9SM CLR 23/11 A2988 RMK SLP122 DENSITY ALT 2000FT KCPR 021553Z 00000KT 10SM FEW060 22/14 A3023 RMK AO2 SLP175 T02170139 NZWB 021600Z 34005KT 40KM BKN045 10/09 Q1010 RMK ALT NZNS VATSIM USE ONLY KCPS 021553Z 02007KT 5SM HZ OVC010 19/17 A2990 RMK AO2 RAE25 SLP123 P0002 T01940167 KBYS 021555Z AUTO 35005KT 10SM FEW220 29/13 A3002 RMK AO2 SLP109 T02870126 $ CYLJ 021600Z 26005KT 4SM FU SKC 21/16 A3004 RMK FU5 SLP176 DENSITY ALT 2400FT KCPT 020355Z AUTO 16010KT 10SM CLR 25/23 A2999 RMK AO2 TSNO EFVA 021620Z AUTO 24009KT 210V270 //// R34/P2000 // ///////// 22/13 Q1022 CYMA 021600Z 00000KT 5SM -RA VCFG FEW010 SCT018 OVC030 10/09 A2981 RMK SF2ST2SC4 SLP109 CYLK 021500Z 27005KT 25SM FEW025 18/12 A2987 RMK SC1 SLP119 DENSITY ALT 1100FT ORMM 021600Z 28012KT CAVOK 43/02 Q1000 NOSIG CZDB 021600Z AUTO 23012G17KT 24/16 RMK AO1 PK WND 21017/1542 SLP080 T02440159 58008 EFTU 021620Z AUTO 22007KT 170V250 CAVOK 24/12 Q1026 EGMC 021620Z 21013KT CAVOK 25/15 Q1019 EGLL 021620Z 23012KT 190V260 9999 SCT032 25/15 Q1019 NOSIG KCQM 021614Z AUTO 29003KT 10SM CLR 22/16 A3001 RMK AO2 CYLL 021600Z 29004KT 240V340 6SM FU SKC 23/15 A3009 RMK SLP189 DENSITY ALT 3400FT EGMD 021620Z 23012KT CAVOK 20/18 Q1021 CXTV 021600Z AUTO 31005KT 16/12 RMK AO1 SLP107 T01620115 KCRE 021553Z 28009KT 10SM CLR 31/20 A2998 RMK AO1 SLP154 T03060200 KDGW 021553Z AUTO 31007KT 10SM CLR 23/16 A3021 RMK AO2 SLP172 T02280161 KDHN 021553Z 27011KT 7SM SCT023 30/23 A3012 RMK AO2 SLP193 T03000233 KBZN 021556Z 32004KT 7SM CLR 22/12 A3022 RMK AO2 SLP193 T02170122 KBYY 020355Z AUTO 11003KT 10SM CLR 22/22 A3006 RMK AO2 T02290229 KCRG 021553Z 27010G15KT 10SM SCT043 32/20 A3009 RMK AO2 SLP188 T03220200 $ KCRH 012355Z AUTO 22008G19KT 5SM HZ SCT019 SCT028 BKN055 29/22 A3005 RMK A01 ORNI 021600Z 32009KT 8000 NSC 42/M04 Q1002 NOSIG CZCP 021600Z AUTO 09024KT 9SM CLR 08/ A2994 RMK SLP147 CYKY 021600Z 28005KT 10SM SKC 21/16 A3011 RMK FU SLP192 DENSITY ALT 3200FT CYKZ 021600Z 35009KT 320V020 15SM SCT050 SCT250 19/09 A3000 RMK CU4CI1 CI TR SLP157 DENSITY ALT 1200FT CYMH 021616Z AUTO 14013G20KT 9SM SCT005 OVC010 10/08 A3004 RMK SLP173 NZWK 021600Z 19002KT 15KM VCSH SCT055 06/05 Q1017 RMK ALT NZTG VATSIM USE ONLY CZCR 021600Z AUTO 22007KT 20/13 RMK AO1 PK WND 25019/1513 SLP035 T01960129 53007 KDIJ 021556Z AUTO 00000KT 10SM CLR 24/11 A3025 RMK AO2 T02440105 SLP146 $ CYMJ 021600Z 33005KT 3SM FU SKC 22/17 A3007 RMK FU5 VIS E QUAD 2 W QUAD 4 SLP182 KCQT 021547Z AUTO 27003KT 10SM BKN120 22/16 A2999 RMK AO2 SLP154 T02170161 $ KDHT 021553Z AUTO VRB04KT 10SM CLR 27/16 A3007 RMK AO2 SLP114 T02720161 KDIK 021556Z AUTO 32009KT 10SM CLR 21/15 A3004 RMK AO2 SLP161 T02060150 CYNA 021627Z AUTO 13017G22KT 5SM BR OVC003 12/11 A2973 RMK SLP068 CYLT 021600Z 36002KT 15SM FEW010 FEW030 SCT120 BKN220 03/02 A2999 RMK ST1CU1AC4CI0 ACSL ASOCTD SLP158 CXWB 021500Z AUTO 07/00 RMK AO1 T00740000 EFUT 021620Z AUTO 21009KT 170V230 CAVOK 22/11 Q1025 CYLU 012100Z 28010KT 15SM FEW020 BKN220 11/06 A3003 RMK CU1CI2 LAST OBS/NEXT 021200Z SLP174 EGNC 021550Z 28005KT 5000 VCSH BKN005 15/14 Q1018 NZWN 021600Z AUTO 34021G40KT 9999 BKN021/// 13/09 Q1007 NOSIG EHDL 021625Z AUTO 32012KT 9999 SCT140 BKN310 28/19 Q1018 BLU TXKF 021555Z 22011KT 9999 SCT021 SCT180 29/23 Q1024  CYND 021600Z 28010KT 260V330 15SM FEW042 20/09 A2988 RMK CU1 SLP118 DENSITY ALT 900FT CXVM 021500Z AUTO 28003KT 20/16 RMK AO1 T01990158 CYMM 021600Z AUTO 25008KT 9SM CLR 22/12 A2996 RMK SLP150 DENSITY ALT 2200FT KCQW 021615Z AUTO 22009KT 10SM CLR 29/19 A2996 RMK AO2 NZWP 021553Z 02009KT 30KM SCT045 07/06 Q1015 RMK NZAA VATSIM USE ONLY CXVN 021600Z AUTO 01005KT 17/12 RMK AO1 SLP151 T01710124 52007 KCQX 021552Z AUTO 23006KT 10SM CLR 23/17 A2992 RMK AO2 SLP132 T02330172 CYLW 021600Z AUTO VRB02KT 9SM CLR 24/13 A3007 RMK SLP175 DENSITY ALT 2500FT CYNE 021600Z AUTO 26005KT 210V330 9SM CLR 24/14 A2981 RMK SLP098 DENSITY ALT 2000FT KCSG 021618Z 28007KT 10SM SCT023 BKN031 BKN038 29/22 A3005 RMK AO2 KCRP 021621Z 15013G21KT 10SM SCT026 BKN032 BKN041 BKN250 30/23 A3002 RMK AO2 T03000233 CYMO 021600Z AUTO 32009KT 9SM BKN085 21/06 A2990 RMK SLP125 DENSITY ALT 800FT NZWR 021553Z 02009KT 30KM SCT045 07/06 Q1015 RMK NZAA VATSIM USE ONLY KCRQ 021553Z AUTO 23005KT 4SM BR OVC004 20/19 A3000 RMK AO2 SLP157 T02000189 TSNO NZWS 021600Z 02021G32KT 2000 DZ BKN007 12/11 Q1007 RMK ALT VATSIM USE ONLY EGNH 021620Z 25016KT 9999 -RA FEW024 15/13 Q1020 EHEH 021625Z AUTO 33012KT 9999 BKN170 BKN310 29/19 Q1018 BLU 34012G22KT CAVOK KEBA 020355Z AUTO 22006KT 7SM CLR 24/23 A3006 RMK AO2 T02360231 EFVR 021620Z AUTO 00000KT 9999 -SHRA FEW055 OVC080 20/14 Q1024 KCRS 021553Z AUTO 20014KT 10SM CLR 28/21 A3003 RMK AO2 SLP165 T02830211 NZWU 021600Z 35008KT 30KM BKN045 09/07 Q1013 RMK ALT NZPM VATSIM USE ONLY CYOA 021600Z 06009KT 15SM BKN026 12/06 A2994 RMK SC6 SLP157 CZFA 021600Z 13007KT 30SM FEW050 SCT075 BKN090 11/08 A2982 RMK SC1AC3AC2 SLP112 DENSITY ALT 2500FT KDKB 021540Z AUTO 06009KT 10SM OVC017 16/12 A3003 RMK AO2 T01550119 EGNJ 021620Z 13007KT 9999 FEW025 SCT035 24/19 Q1018 KCTB 021556Z AUTO VRB03KT 10SM SCT110 22/12 A3021 RMK AO2 SLP205 T02170117 CYMT 021600Z 30014G21KT 3SM -SHRA BR BKN007 OVC020 11/09 A2962 RMK CF6CU2 SLP037 DENSITY ALT 1300FT CYOC 021600Z 27004KT 220V280 15SM SCT042 BKN090 OVC200 16/11 A2983 RMK SC4AC3CI1 FU SLP108 DENSITY ALT 1100FT CYMU 021600Z 36015G20KT 15SM FEW020 FEW100 SCT280 11/03 A2985 RMK CU1AC2CI0 SLP113 CZEL 021600Z AUTO 01006KT 17/06 RMK AO1 SLP166 T01680064 51008 KCSM 021553Z 23009KT 10SM CLR 29/19 A2993 RMK AO2 SLP107 T02940189 CZEM 021600Z 30012KT 15SM FEW025 FEW270 13/06 A2986 RMK CU1CI1 CU TR SLP110 CXWM 021600Z AUTO 33004KT 23/13 RMK AO1 T02270133 EGNM 021620Z 28017KT 2500 RA SCT003 SCT006 BKN010CB 15/15 Q1019 KCRW 021554Z 00000KT 5SM -RA BR FEW007 SCT015TCU OVC095 22/19 A2995 RMK AO2 RAB33 SLP135 OVC V BKN TCU SW-NW P0000 T02170194 EHDV 021625Z AUTO 20007KT 150V260 7000 -RA NSC 16/15 Q1019 RERA REDZ EHFD 021625Z AUTO 19027KT 9999 NSC 18/15 Q1019 CYOD 021600Z 24004KT 10SM FEW250 22/16 A3006 RMK CI1 SLP182 CYNM 021600Z AUTO 35019G33KT 9SM SCT055 18/05 A2984 RMK SLP112 DENSITY ALT 1500FT CXVW 021500Z AUTO 16009KT 17/14 RMK AO1 T01670136 CXWN 021600Z AUTO 20003KT 22/17 RMK AO1 SLP124 T02180168 58003 KCRX 021615Z AUTO 23008G16KT 10SM CLR 27/21 A2994 RMK AO2 KEBG 020355Z AUTO 15003KT 10SM CLR 23/20 A3002 RMK AO2 T02300200 EGNO 021620Z 27013KT 7000 -SHRA FEW020 SCT027 15/13 Q1020 CYMX 021600Z 25010G18KT 200V290 45SM SCT040 SCT250 19/12 A2984 RMK CF3CI1 SLP106 DENSITY ALT 800FT KCSQ 020355Z AUTO 07010KT 10SM OVC070 19/17 A2994 RMK AO2 UNTT 021600Z 12002MPS CAVOK 24/18 Q1003 R21/////// NOSIG RMK QFE737 KEAR 021615Z AUTO 32012KT 10SM CLR 26/17 A2997 RMK AO1 KCTJ 020355Z AUTO 00000KT 10SM SCT110 20/20 A3011 RMK AO2 T02040204 EGNR 021620Z VRB01KT 9999 -SHRA FEW010 16/12 Q1020 EGPA 021620Z 30004KT 260V330 9999 7000N VCFG FEW000 BKN038 17/14 Q1016 EGNS 021620Z 20006KT 170V230 9999 FEW007 SCT025 14/13 Q1019 NOSIG KCUB 021553Z AUTO 24010G17KT 10SM FEW120 29/19 A3001 RMK AO2 SLP158 T02940194 TSNO KDKK 021553Z AUTO 35008KT 10SM FEW013 18/14 A2999 RMK AO2 SLP155 T01830144 KEAT 021555Z AUTO 28004KT 10SM CLR 27/10 A3001 RMK AO2 SLP148 T02670100 CYOJ 021600Z 18003KT 130V250 12SM FEW100 BKN260 20/11 A2986 RMK AC1CS6 AC TR FU SLP115 DENSITY ALT 2000FT CYPA 021600Z 33005KT 290V360 2 1/2SM FU VV012 23/17 A3000 RMK FU8 SLP163 DENSITY ALT 2500FT EGPB 021620Z 23005KT 6000 FEW006 13/12 Q1015 NOSIG EGNT 021620Z 28005KT 250V310 9999 FEW036 21/16 Q1017 KEAU 021556Z 00000KT 10SM CLR 21/12 A3005 RMK AO2 SLP176 T02060122 CYPC 012300Z 04004KT 350V140 15SM FEW040CB FEW090 FEW210 14/07 A2991 RMK CB1AC1CI1 CB TR AC TR CI TR 14.8/6.3/0 LAST OB/NEXT 021300Z SLP129 EGPC 021620Z 32010KT 9999 FEW008 SCT032 16/14 Q1016 KCSV 021617Z AUTO 23006KT 2SM RA BR FEW048 BKN080 OVC095 21/18 A3003 RMK AO2 P0007 T02060183 ZUGY 021600Z VRB01MPS 5000 -RA BR SCT010 BKN020 OVC036 22/21 Q1009 NOSIG CZFM 021600Z 33006KT 290V020 15SM SCT050 BKN160 15/12 A2985 RMK SC4AC3 CIG RAG SLP108 CZEV 021600Z AUTO 31003KT 15/11 RMK AO1 SLP114 T01490109 56007 EGOM 021550Z AUTO 26012KT 9999 -RADZ FEW024/// BKN032/// 15/14 Q1018 EGNV 021620Z 25005KT 220V280 9999 FEW030 BKN040 23/15 Q1017 EGPD 021620Z 25006KT 200V290 CAVOK 21/15 Q1014 NOSIG CYPD 021600Z AUTO 18011G16KT 9SM CLR 23/18 A2982 RMK SLP097 DENSITY ALT 1500FT CZFN 021600Z 09005KT 050V140 30SM FEW020 BKN090 19/15 A2986 RMK CU1AC5 SLP114 DENSITY ALT 900FT EGPE 021620Z 25010KT 9999 FEW040 21/13 Q1015 KDLF 021628Z AUTO 16014KT 5SM HZ SCT023 BKN029 26/21 A3000 RMK AO2 CIG 022V029 CIG 022 RWY31 $ CYPE 021600Z 20008KT 15SM BKN250 21/14 A3000 RMK CI7 SLP158 DENSITY ALT 2900FT CYOO 021600Z AUTO 34005G15KT 260V010 9SM SCT055 20/08 A2999 RMK SLP154 DENSITY ALT 1000FT EGPF 021620Z 22009KT 9999 SCT035 18/14 Q1017 EGNX 021620Z 27023KT 9000 TSRA FEW008 SCT028CB 15/14 Q1019 KECG 021554Z 21009KT 160V240 8SM BKN100 29/23 A2990 RMK AO2 SLP124 T02890233 CYPG 021600Z 22006KT 5SM FU FEW050 23/19 A2992 RMK SC2 DA2256FT SLP132 KCUH 020355Z AUTO 20008KT CLR 28/22 A2985 RMK AO2 PWINO EGOP 021050Z 20006KT 9999 RA FEW025 BKN050 16/13 Q1018 BLU EHGG 021625Z AUTO VRB08KT 9999 NSC 32/21 Q1017 NOSIG KDLH 021555Z 27006KT 10SM FEW040 23/14 A3003 RMK AO2 SLP167 T02280139 KDKR 021535Z AUTO 19007KT 10SM CLR 28/25 A3007 RMK AO2 EGPH 021620Z 22012KT 9999 SCT042 19/14 Q1017 CYPH 021600Z AUTO 03007KT 9SM CLR 12/05 A2992 RMK SLP134 KEBS 021600Z AUTO 13012KT 10SM CLR 20/14 A3000 RMK AO2 EGPI 021620Z 34006KT 330V030 9999 FEW014 BKN048 16/13 Q1017 KDMA 021558Z AUTO 27007KT 10SM CLR 28/18 A3003 RMK AO2 SLP126 T02810175 $ EGQA 021250Z 29009KT 9999 FEW021 SCT030 22/// Q1014 BLU CZFS 021600Z AUTO 03002KT 18/12 RMK AO1 SLP121 T01770122 58007 EGOS 021550Z 27006KT 9999 FEW018 OVC050 15/13 Q1020 BLU TEMPO 7000 RA SCT018 WHT CYQA 021600Z AUTO 28008KT 250V030 9SM SCT055 19/06 A2998 RMK SLP155 DENSITY ALT 1400FT EHFS 021625Z AUTO 03010KT 360V060 9999 NSC 24/14 Q1019 KCVB 021535Z AUTO 17009KT 7SM OVC019 27/21 A3004 RMK AO2 T02660209 KDLL 021600Z AUTO 04007KT 360V060 10SM CLR 18/08 A3007 RMK AO2 T01760079 KCVC 020355Z AUTO 00000KT 3SM BR 22/21 A3006 RMK AO2 KCUL 021624Z AUTO 00000KT 10SM BKN014 OVC090 24/18 A2987 RMK AO2 EGPK 021620Z 25009KT 9999 -SHRA SCT020 SCT045 16/14 Q1018 CYQB 021600Z 25012G20KT 15SM OVC029 16/12 A2971 RMK SC8 SLP062 DENSITY ALT 600FT KEDC 021615Z AUTO 19009G16KT 150V220 5SM HZ SCT022 SCT029 28/22 A3004 RMK AO2 CYPL 021600Z 20005KT 10SM BKN024 BKN260 21/15 A2989 RMK SC5CI2 FU SLP126 DENSITY ALT 2200FT CXZC 021600Z AUTO 32006KT 22/06 RMK AO1 SLP125 T02210057 58011 EGPL 021620Z 21011KT 9999 FEW007 SCT035 15/13 Q1017 KEDE 020355Z AUTO 25008KT 10SM CLR 26/22 A2995 RMK AO2 T02580222 KDLN 021553Z AUTO 36004KT 7SM CLR 22/11 A3024 RMK AO2 SLP185 T02170106 EGPM 021620Z 24010KT 9999 FEW011 17/14 Q1014 NOSIG VGEG 021550Z 17004KT 3100 RA FEW008 SCT015 FEW026CB OVC080 26/25 Q1004 TEMPO P/VIS EGOV 021550Z 17010KT 9999 FEW015 SCT090 BKN150 16/13 Q1019 BLU NOSIG CYQD 021600Z 27008KT 4SM FU SKC 23/16 A2987 RMK FU4 FU ALF SLP117 DENSITY ALT 2000FT EGPN 021620Z 22004KT 180V250 9999 FEW030 19/16 Q1015 CYOW 021600Z 29011G17KT 15SM FEW040 FEW250 20/08 A2990 RMK CU1CI1 CU TR CI TR SLP126 DENSITY ALT 1000FT CYPO 021600Z AUTO 11004KT 060V230 9SM CLR 19/04 A2987 RMK SLP118 DENSITY ALT 700FT KECP 021610Z 23010KT 10SM SCT016 BKN100 BKN120 28/23 A3010 RMK AO2 LTG DSNT NE AND E T02780233 KCVG 021552Z 12006KT 3SM HZ FEW009 BKN019 OVC050 22/19 A2991 RMK AO2 SFC VIS 6 RAE1454B12E30 SLP119 P0000 T02170189 KCTY 021553Z AUTO 26009KT 32/23 A3010 RMK AO1 SLP193 T03220228 EGPO 021620Z 06003KT 9999 FEW014 BKN026 14/11 Q1016 KDLP 021615Z AUTO 18008KT 8SM FEW016 29/26 A3012 RMK A01 CYQF 021600Z 21005KT 15SM FEW025 FEW250 21/14 A3014 RMK CU1CI1 CU TR CI TR SLP207 DENSITY ALT 4000FT KCTZ 020355Z AUTO 00000KT 7SM CLR 24/23 A2998 RMK AO2 T02360228 KCVH 021610Z AUTO 25005KT 10SM CLR 21/14 A3001 RMK AO1 CYOY 021600Z 25008KT 15SM OVC020 15/11 A2970 RMK SC8 SLP059 KDMH 021554Z AUTO 23/17 A2991 RMK AO1 SLP127 T02280167 CYQG 021600Z 05007KT 15SM BKN030 21/14 A3002 RMK CU5 SLP164 DENSITY ALT 1300FT EHFZ 021625Z AUTO 27011KT 240V320 8000 -DZ ///////// 17/15 Q1019 CYQH 021600Z 15003KT 30SM FEW040 OVC080 15/07 A2989 RMK SC2AC6 FU SLP126 DENSITY ALT 2800FT CYPQ 021600Z AUTO 33008KT 280V360 9SM BKN055 20/08 A2998 RMK SLP151 DENSITY ALT 1200FT KECS 020355Z AUTO 14008KT 7SM RA SCT004 BKN010 BKN016 21/16 A2999 RMK AO2 P0002 LTG DSNT NW THRU E KCWA 021545Z 00000KT 10SM SKC 18/09 A3009 KDLS 021553Z AUTO 32007KT 10SM CLR 27/14 A2993 RMK AO2 SLP133 T02720139 EHGR 021625Z AUTO 31013KT 9999 NCD 26/18 Q1018 BLU KEDJ 021615Z AUTO 05007KT 10SM FEW027 OVC039 22/16 A2997 RMK AO1 CYQI 021600Z 25010KT 6SM BR FEW010 FEW220 BKN250 17/14 A2988 RMK SF1CC1CI5 SF TR CC TR SLP117 DENSITY ALT 400FT CYPR 021626Z AUTO 26004KT 230V350 9SM OVC023 16/12 A3021 RMK SLP229 CYRA 021600Z 08006KT 030V100 15SM BKN070 18/08 A2991 RMK AC6 SLP133 DENSITY ALT 1200FT KCUT 021553Z AUTO 35012G16KT 310V010 10SM SCT045 21/09 A3021 RMK AO2 SLP166 T02060094 KCWC 020355Z AUTO 17007KT 10SM CLR 29/19 A2993 RMK AO2 T02850191 CYQK 021600Z 25009KT 8SM BKN055 BKN230 22/17 A2995 RMK SC5CI2 FU SLP141 DENSITY ALT 2400FT EGQK 021550Z 29011KT 9999 FEW030 BKN070 23/13 Q1014 BLU CYRB 021600Z VRB02KT 15SM OVC110 07/03 A2994 RMK AC8 SLP146 KECU 021615Z AUTO 17011G16KT 5SM HZ BKN018 BKN024 23/19 A3009 RMK AO2 EGQL 021550Z 25007KT 9999 FEW020 OVC100 21/14 Q1015 BLU KEED 021556Z AUTO VRB03KT 10SM CLR 34/15 A2991 RMK AO2 SLP093 T03440150 EGPU 021620Z 17004KT 9999 FEW009 15/13 Q1017 CYQL 021600Z 30005KT 210V330 20SM FEW004 FEW100 23/14 A3018 RMK CU1AC1 CU TR AC TR SLP207 DENSITY ALT 4300FT KEDN 020355Z AUTO 00000KT 10SM CLR 21/21 A3010 RMK AO2 P0001 KDMN 021553Z AUTO VRB05KT 10SM CLR 29/13 A3007 RMK AO2 SLP096 T02940133 KCVN 021615Z 08007KT 10SM SCT120 24/16 RMK AO1 EGQM 021550Z AUTO 09004KT 9999 OVC130/// 17/14 Q1017 CYQM 021600Z 22016KT 15SM BKN025 BKN250 24/16 A2971 RMK CU6CI1 SLP060 DENSITY ALT 1500FT CYPW 021600Z 28010KT 50SM SKC 18/12 A3006 RMK SLP179 DENSITY ALT 700FT KCWF 021550Z 19006KT 10SM SCT018 BKN022 29/25 A3008 KDMO 021604Z AUTO 05008KT 4SM BR OVC005 22/21 A2991 RMK AO2 T02220206 TSNO KCVO 021615Z 00000KT 10SM CLR 26/14 A3001 RMK AO1 CYPX 021600Z AUTO 03005KT 350V090 9SM CLR 08/04 A2996 RMK SLP147 KDLZ 021615Z AUTO 10003KT 10SM BKN055 21/15 A2997 RMK AO2 CYPY 021600Z AUTO 27008KT 3/4SM HZ VV018 22/17 A2987 RMK SLP119 DENSITY ALT 1800FT KCWI 021615Z 07013G18KT 10SM CLR 19/11 A3003 RMK AO1 CYQQ 021600Z 35015KT 20SM SKC 19/12 A3007 RMK SLP182 KCVS 021558Z 11008KT 10SM BKN140 24/16 A3007 RMK AO2A SLP123 T02370163 $ CYQR 021600Z 30008KT 6SM FU FEW024 SCT300 23/17 A3004 RMK CF1CI2 SLP174 DENSITY ALT 3000FT CYRJ 021600Z 26013G25KT 25SM SCT015 OVC025 15/10 A2957 RMK SC3SC5 SLP014 DENSITY ALT 1100FT EGQS 021550Z 30011KT 9999 FEW040 SCT050 BKN200 22/14 Q1014 BLU NOSIG EHJA 021625Z AUTO VRB05KT 6000 -RA FEW042/// 16/15 Q1018 CYSB 021600Z 01006KT 340V070 20SM FEW030 FEW220 18/03 A3001 RMK CF1CI1 CF TR SLP167 DENSITY ALT 1600FT KDNL 021553Z AUTO 21007G16KT 190V250 10SM CLR 31/19 A3002 RMK AO2 SLP159 T03060189 KEDU 021620Z AUTO 24004KT 10SM CLR 27/13 A2987 RMK AO1 OTBD 021600Z 02002KT CAVOK 34/24 Q1001 NOSIG CYQT 021600Z VRB02KT 20SM FEW028 OVC230 21/14 A2997 RMK CU1CS7 SLP151 DENSITY ALT 1400FT CYRL 021600Z 22004KT 180V240 10SM SCT014 BKN040 OVC100 20/17 A2989 RMK SC3SC2AS3 FU SLP126 DENSITY ALT 2100FT EGSC 021620Z 23011KT 160V270 9999 FEW046 27/16 Q1018 KEFD 021550Z 18010KT 6SM BR BKN200 30/26 A3006 CXZU 021600Z AUTO 00000KT 21/13 RMK AO1 SLP179 T02130132 58007 UOOO 021600Z 01004MPS 9999 BKN036CB 08/02 Q1014 R01/19//57 NOSIG RMK QFE746 CYSC 021600Z AUTO 25013G20KT 210V280 9SM OVC032 16/10 A2982 RMK SLP099 DENSITY ALT 1200FT CYQU 021600Z 22007KT 25SM FEW160 SCT220 21/13 A3005 RMK AC1CI2 SLP175 DENSITY ALT 3200FT KDNN 021435Z AUTO 17004KT 10SM OVC009 22/22 A3000 RMK AO2 LTG DSNT N KCXE 021544Z AUTO 23003KT 10SM SCT026 27/22 A2990 RMK AO2 CXZV 021600Z AUTO 13007KT 12/12 RMK AO1 0PAST HR 3003 PK WND 08017/1508 SLP015 P0008 T01240124 50072 KEEN 021615Z AUTO 30008G15KT 270V330 10SM FEW048 SCT060 23/11 A2990 RMK AO1 KCWN 021556Z AUTO 34016G27KT 10SM OVC007 14/11 A3001 RMK AO2 SLP096 T01420113 $ KEDW 021558Z 01003KT 90SM FEW060 SCT100 BKN150 30/13 A3000 RMK AO2A SLP131 T02960133 KDMW 021620Z AUTO 00000KT 7SM BKN070 22/19 A2993 RMK AO2 KCVW 021615Z AUTO 20010KT 6SM HZ CLR 29/25 A3011 RMK A01 CYQV 021616Z AUTO 34006KT 3/4SM BR OVC009 18/16 A2999 RMK SLP160 DENSITY ALT 2300FT KEEO 021553Z AUTO 20005KT 10SM CLR 23/11 A3024 RMK AO2 SLP144 T02280111 KCVX 021615Z AUTO 34006KT 10SM CLR 17/11 A3010 RMK AO2 T01660113 CYQW 021600Z AUTO 31005KT 4SM HZ CLR 21/16 A3009 RMK SLP191 DENSITY ALT 2700FT CYQX 021600Z 12013KT 20SM SCT032 SCT160 BKN260 22/14 A3001 RMK SC3AC1CI3 CU TR SLP164 DENSITY ALT 1200FT CYSF 021600Z AUTO VRB02KT 9SM CLR 19/11 A2988 RMK SLP124 DENSITY ALT 1500FT CZHY 021600Z AUTO 07005KT 18/14 RMK AO1 SLP117 T01750135 57001 CYQY 021600Z 19013G20KT 10SM SCT012 BKN140 BKN250 24/20 A2983 RMK SC3AC3CI1 CU ASOCTD SLP101 DENSITY ALT 1300FT CYRQ 021600Z AUTO 25013G18KT 230V300 9SM OVC047 20/09 A2974 RMK SLP073 DENSITY ALT 1000FT EGSH 021620Z 18005KT 110V240 9999 FEW048 26/17 Q1018 NOSIG CYQZ 021600Z AUTO 19005KT 130V220 8SM CLR 19/12 A3013 RMK SLP203 DENSITY ALT 2400FT KDNS 020355Z AUTO 07006KT 10SM FEW070 18/16 A2994 RMK AO2 KDPA 021625Z 02013KT 10SM BKN021 18/12 A3001 RMK AO2 T01780122 KEFK 020355Z AUTO 19008KT 10SM OVC026 16/12 A2976 RMK AO2 T01570120 ORSU 021600Z 29012KT 8000 SKC 39/00 Q1008 KEET 021553Z AUTO 21006KT 9SM FEW019 BKN085 26/22 A3006 RMK AO2 SLP173 T02610222 OSKL 021500Z 26022KT CAVOK 37/11 Q1006 CYSJ 021600Z 20011KT 10SM OVC003 17/15 A2980 RMK SF8 VIS S-W 3 SLP091 DENSITY ALT 700FT CYSK 021600Z 02006KT 15SM FEW030 04/01 A2993 RMK SC2 SLP136 CYRT 021600Z 28008KT 270V350 15SM FEW050 SCT090 BKN250 16/07 A2965 RMK SC2AC2CI3 SLP042 DENSITY ALT 500FT KDNV 020355Z AUTO 05008KT 10SM CLR 17/13 A2993 RMK AO2 T01650125 KCWV 020355Z AUTO 00000KT 10SM SCT055 SCT075 23/21 A3008 RMK AO2 LTG DSNT W EGTC 021550Z 22012KT 190V250 9999 FEW030 SCT035 23/16 Q1019 CYRV 021600Z AUTO VRB02KT 9SM CLR 22/13 A3007 RMK SLP177 DENSITY ALT 2400FT EHKD 021625Z AUTO 29010KT 9000 BR FEW015TCU BKN160 21/18 Q1020 BLU 31011KT 8000 BR FEW030 BKN080 TEMPO 23017KT SCT070CB BIKN080 KEGE 021550Z 00000KT 10SM FEW150 22/10 A3028 CYSM 021600Z VRB02KT 2SM FU OVC080 20/14 A2987 RMK FU7AC1 SLP120 DENSITY ALT 1400FT CYSN 021600Z 02006KT 330V060 15SM FEW020 19/12 A3000 RMK SC1 SC TR SLP157 DENSITY ALT 700FT CYTE 021625Z AUTO 16018G23KT 9SM SCT044 BKN060 BKN074 03/01 A2983 RMK SLP106 EGTE 021620Z 32004KT 260V060 9999 SCT030 20/13 Q1021 KCXO 021614Z 18012KT 10SM FEW017 SCT027 28/23 A3005 RMK AO2 T02830233 KCXP 021615Z AUTO 00000KT 10SM CLR 25/09 A3017 RMK AO2 CYSP 021600Z 24005KT 160V290 15SM FEW040 FEW110 SCT220 12/06 A3004 RMK SC1AC1CI1 SLP181 KEGI 021555Z 22006KT 10SM VCTS FEW013 SCT021CB BKN120 BKN250 27/23 A3010 RMK AO2A TS 9NE AND 9NW MOV E SLP194 P0008 T02720228 $ CYTH 021600Z 27008G15KT 6SM FU OVC150 20/14 A2973 RMK AC8 SLP073 DENSITY ALT 1600FT OSLK 021600Z 25005KT CAVOK 27/21 Q1011 KEHA 021608Z AUTO 36009KT 27/15 RMK AO1 PK WND 13 000 T02670151 EHJR 021555Z AUTO 05005G07KT //// ///////// 16/16 Q1019 W///H5 KEFT 021510Z AUTO 04007KT 360V060 10SM SCT019 16/11 A3005 RMK AO2 EGSS 021620Z 23013KT CAVOK 26/15 Q1019 CYUA 021603Z AUTO 32005KT 9SM BKN009 11/ A2989 KDPL 021600Z AUTO 21004KT 10SM CLR 30/20 A2995 RMK AO2 T02950200 KCXU 020355Z AUTO 21003KT 10SM CLR 27/23 A3009 RMK AO2 T02660231 EGTK 021620Z 28018KT 9999 BKN020 16/13 Q1020 RESHRA EGUB 021550Z 25018G30KT 9999 FEW018 BKN020 18/14 Q1020 WHT BECMG FEW020 BLU KEHC 021615Z AUTO 11008KT 9SM CLR 32/24 A3009 RMK A01 CYUB 021600Z 29005KT 15SM FEW005 FEW240 14/10 A2984 RMK SC1CI2 SC TR SLP104 KDOV 021619Z AUTO 05005KT 9SM SCT044 21/21 A2987 RMK AO2 LTG DSNT SE RAB1559E10DZB10E19 VISNO RWY19 CHINO RWY19 $ CYTL 021600Z AUTO 14005KT 9SM CLR 23/11 A2982 RMK SLP104 DENSITY ALT 1900FT KCXY 021556Z 00000KT 10SM CLR 24/16 A2991 RMK AO2 SLP127 T02440156 CYSY 021600Z 12006KT 10SM SCT090 11/05 A2998 RMK AC4 SLP158 KDQH 020355Z AUTO 21005KT 10SM SCT070 26/22 A3010 RMK AO2 LTG DSNT NE VGHS 021550Z 19005KT 4000 HZ SCT015 29/24 Q1002 NOSIG CYTQ 021600Z 03008KT 15SM BKN042 11/05 A2996 RMK SC7 SLP147 KDRA 021553Z AUTO 23012KT 10SM CLR 28/14 A3005 RMK AO2 SLP120 T02830139 KCYS 021553Z 28007KT 10SM CLR 21/14 A3026 RMK AO2 SLP170 T02110139 CYTR 021600Z 26004KT 15SM SCT045 20/09 A2996 RMK CU4 SLP147 EHMA 021625Z AUTO 30021KT 9000 NSC 21/17 Q1018 EGVA 021618Z AUTO 31012KT 9999 SCT032 BKN050 OVC080 18/12 A3012 RMK AO2 CYTS 021600Z 32005KT 270V030 15SM FEW050 FEW200 19/03 A2999 RMK CU1CI1 SLP161 DENSITY ALT 1500FT KCZL 020355Z AUTO 00000KT 10SM SCT120 21/18 A3005 RMK AO2 T02060179 EICK 021600Z 20013KT 9999 BKN018 17/14 Q1018 NOSIG KEGV 021622Z AUTO 00000KT 10SM CLR 19/08 A3007 RMK AO2 CYVC 021600Z 27006KT 3/4SM FU VV005 22/15 A2996 RMK FU8 SLP151 DENSITY ALT 2200FT EGUL 021558Z AUTO 23008KT 9999 CLR 27/16 A3003 RMK AO2 SLP172 T02690159 CYUL 021600Z 25013G20KT 30SM FEW030 SCT240 20/12 A2984 RMK CU2CI1 SLP106 DENSITY ALT 700FT CZMD 021600Z AUTO 21005KT 170V250 9SM FEW080 24/13 A2980 RMK SLP096 DENSITY ALT 2300FT EHKV 021625Z AUTO 32004KT 250V360 7000 RA FEW010/// 17/15 Q1019 KEHO 021624Z AUTO 22010G15KT 10SM SCT021 SCT027 26/19 A2998 RMK AO2 EGUN 021558Z AUTO 21009KT 9999 CLR 27/16 A3004 RMK AO2 SLP175 T02730159 $ EHMG 021625Z AUTO 29013KT 260V010 9999 NSC 19/17 Q1019 KDRI 021555Z AUTO 16005KT 10SM SCT013 SCT017 SCT070 27/23 A3009 RMK AO2 T02730226 KEHR 021615Z AUTO 09004KT 10SM OVC015 24/21 A2985 RMK AO1 CYTZ 021600Z AUTO 17009KT 9SM BKN060 18/12 A2999 RMK SLP156 DENSITY ALT 500FT KCZT 021555Z AUTO 14006KT 10SM BKN020 OVC028 25/21 A3000 RMK AO2 CZMJ 021600Z AUTO 33006KT 22/16 RMK AO1 SLP185 T02220160 51008 KEIK 021615Z AUTO 19011G15KT 10SM CLR 20/14 A3023 RMK AO2 T02030137 CYWA 021600Z 35009G15KT 15SM FEW045 19/07 A2991 RMK CU2 DA1168FT SLP131 CYUS 021600Z AUTO 04012G17KT 9SM BKN021 BKN064 BKN080 07/ A2986 RMK SLP116 CYUT 021600Z 05003KT 300V070 25SM SCT015 BKN050 BKN100 06/01 A2971 RMK SC4SC2AC1 AC TR SLP063 EIDL 021600Z 36005KT 9999 FEW035 17/11 Q1017 EGWC 021150Z 23005KT 9999 BKN025 18/16 Q1018 BLU CYVL 021600Z AUTO 22006KT 200V330 9SM OVC130 19/12 A2988 RMK SLP126 DENSITY ALT 1500FT KDRM 021615Z AUTO 08003KT 10SM CLR 20/03 A3005 RMK AO2 T02000030 CYVM 021600Z 21007KT 15SM FEW035 FEW060 BKN120 05/03 A3000 RMK SC1SC1AC3 SLP160 KDRO 021553Z AUTO 36003KT 10SM CLR 23/12 A3026 RMK AO2 SLP150 T02280122 EHLW 021625Z AUTO 30013KT 9999 FEW100 OVC160 25/19 Q1018 BLU EGUW 021550Z 20009KT CAVOK 26/18 Q1018 BLU NOSIG EGVN 021550Z 28012KT 9999 SCT020 BKN030 17/13 Q1020 WHT TEMPO FEW020 BKN030 BLU KFAF 021558Z AUTO 21004KT 10SM FEW120 27/25 A2985 RMK AO2 SLP111 T02650249 $ CYWE 021600Z AUTO 06012KT 9SM CLR 16/09 A2991 RMK SLP140 DENSITY ALT 1600FT CYVO 021600Z 32011G19KT 260V350 15SM FEW050 BKN300 17/06 A2989 RMK CU1CI6 CU TR SLP130 DENSITY ALT 1600FT CYUX 021619Z 11011KT 4SM -DZ BR BKN004 OVC007 01/01 A2982 RMK SF5ST3 SLP098 EGVO 021605Z 25017KT 9999 FEW017 BKN017 18/14 Q1020 WHT BECMG SCT025 BLU EGVP 021550Z 31009KT 9999 FEW012 BKN028 16/12 Q1021 BLU NOSIG KCZZ 021552Z AUTO 23012KT 24/17 A3003 RMK AO1 SLP137 T02440172 CYVP 021600Z 03010G16KT 15SM -RA BKN062 OVC110 09/05 A2992 RMK SC6AS2 SLP134 CYWG 021600Z 20007KT 6SM FU FEW060 21/17 A2991 RMK SC1 SLP130 DENSITY ALT 1700FT CYUY 021600Z 32012KT 15SM FEW040 BKN240 16/06 A2994 RMK CU1CI5 SLP144 DENSITY ALT 1300FT CYWH 021600Z 21006KT 15SM SKC 17/12 A3003 RMK SLP168 CYVQ 021600Z 13010KT 30SM FEW030 FEW050 BKN120 BKN250 18/14 A2984 RMK CU1SC2AC3CI1 CU TR SLP108 DENSITY ALT 700FT KEIR 021615Z AUTO 00000KT 9SM CLR 30/25 A3012 RMK A01 KDTA 020355Z AUTO 03005KT 10SM CLR 29/07 A3004 RMK AO1 T02890071 CYVR 021600Z 30017G23KT 30SM SKC 20/14 A3003 RMK SLP168 DENSITY ALT 400FT CYWJ 021600Z 12005KT 15SM FEW070 12/07 A2990 RMK AC2 FU SLP133 KDRT 021553Z AUTO 14012G20KT 10SM OVC022 26/19 A3000 RMK AO2 SLP142 T02560194 CZMT 021600Z 33005KT 280V360 15SM FEW008 SCT030 BKN045 OVC200 14/11 A3022 RMK SC1SC3SC2CI2 SLP233 CYVT 021600Z 23006KT 3SM FU SKC 21/16 A2997 RMK FU4 SLP152 DENSITY ALT 2300FT CYWK 021600Z 11010G17KT 8SM -SHRA FEW012 OVC020 14/13 A2956 RMK SF2SC6 SLP017 DENSITY ALT 2500FT CZMU 021500Z AUTO 31005KT 21/14 RMK AO1 T02140135 CYXC 021600Z 32004KT 290V350 25SM FEW100 24/10 A3015 RMK AC1 SLP186 DENSITY ALT 4500FT KDSM 021554Z 09008KT 10SM FEW020 FEW190 SCT220 OVC260 19/13 A3000 RMK AO2 SLP154 T01890133 KFAM 021615Z AUTO 32006KT 10SM BKN021 OVC025 24/20 A2993 RMK AO1 EGXC 021550Z 19004KT 9999 SCT035 SCT220 25/16 Q1018 BLU NOSIG CYWL 021600Z 17004KT 130V240 15SM FEW030 FEW230 19/11 A3017 RMK CU1CI1 CU TR CI TR SLP207 DENSITY ALT 3900FT EGXD 021550Z 24006KT 9999 FEW036 BKN043 BKN090 24/15 Q1017 BLU NOSIG CYVV 021600Z 04007KT 340V070 15SM FEW030 19/05 A3003 RMK SC2 SLP171 DENSITY ALT 1200FT EGXE 021550Z 22005KT 9999 BKN035 BKN100 23/16 Q1017 BLU NOSIG CYXE 021600Z 35005KT 300V010 2SM FU BKN250 22/17 A3006 RMK FU4CI3 SLP181 DENSITY ALT 2700FT EIDW 021600Z 23010KT 9999 FEW022 SCT060 BKN180 19/10 Q1018 NOSIG KFBG 021558Z AUTO 25008KT 10SM FEW120 SCT140 SCT170 27/19 A2994 RMK AO2 RAB37E47 SLP139 P0000 T02730194 $ KFAR 021553Z 17009KT 10SM CLR 22/12 A2999 RMK AO2 SLP153 T02170117 CYXH 021600Z VRB02KT 4SM FU SKC 22/16 A3015 RMK SLP202 DENSITY ALT 3400FT KELA 021540Z AUTO 17013G16KT 7SM BKN016 BKN026 29/25 A3005 RMK AO2 T02880251 KDUA 021555Z AUTO 24018G23KT 10SM CLR 28/19 A2997 RMK AO2 KDUB 020355Z AUTO 31009KT 10SM CLR 21/02 A3024 RMK AO2 LTG DSNT SE KFAT 021553Z 07003KT 10SM FEW070 BKN110 OVC150 27/18 A2992 RMK AO2 RAB1456E06 SLP127 VIRGA DSNT N MTNS OBSC E-S P0000 T02720183 CYXJ 021600Z 23012KT 15SM FEW120 BKN230 23/11 A2999 RMK AC1CI6 SLP152 DENSITY ALT 3600FT KDUC 020355Z AUTO 17004KT 10SM CLR 26/21 A2992 RMK AO2 KFBL 021614Z AUTO 15005KT 10SM CLR 22/12 A3005 RMK AO2 CYYB 021600Z 32010KT 290V010 30SM FEW055 FEW240 18/05 A2998 RMK CF1CI1 SLP155 DENSITY ALT 1700FT KDTL 021614Z AUTO 19010KT 10SM CLR 21/12 A3003 RMK AO2 KEKM 021550Z 09006KT 10SM SCT025 20/13 A2999 CZOL 021500Z AUTO 27002KT 21/14 RMK AO1 T02140143 EGWU 021550Z 23012KT 9999 SCT035 SCT090 26/16 Q1019 NOSIG CYXL 021600Z 18004KT 12SM HZ FEW040 BKN110 OVC240 18/16 A2994 RMK CU1AC6CS1 SLP146 DENSITY ALT 1800FT KELD 021553Z AUTO 21009KT 10SM CLR 27/21 A3001 RMK AO2 SLP160 T02720206 KDSV 021554Z AUTO VRB06KT 10SM SCT029 BKN065 21/13 A2997 RMK AO2 SLP156 T02060128 CYYC 021600Z 14005KT 100V180 40SM FEW040 FEW180 22/11 A3019 RMK CU1AC1 CU TR AC TR SLP212 DENSITY ALT 4900FT CZPC 021600Z AUTO 32003KT 300V020 9SM CLR 20/15 A3021 RMK SLP215 DENSITY ALT 5000FT EGYD 021550Z 18005KT 9999 SCT034 24/15 Q1018 BLU NOSIG KDTN 021553Z 22010KT 10SM CLR 28/21 A3002 RMK AO2 SLP162 T02780206 KEKN 021551Z AUTO 00000KT 9SM CLR 22/16 A2999 RMK AO2 SLP149 T02170156 TSNO CYYD 021600Z 00000KT 25SM FEW140 SCT240 18/06 A3013 RMK AC2CI2 SLP198 DENSITY ALT 2200FT CYXN 021600Z VRB03KT 15SM SCT070 SCT240 16/08 A2966 RMK AC3CI1 CC ASOCTD SLP045 DENSITY ALT 400FT EGYE 021550Z 16004KT 9999 FEW030 SCT090 ///// Q1018 BLU KDTO 021553Z 21016KT 10SM CLR 29/19 A2998 RMK AO2 SLP143 T02890189 KEKO 021556Z AUTO VRB03KT 10SM CLR 27/11 A3018 RMK AO2 SLP152 T02670106 CYYE 021600Z 15003KT 15SM FEW050 BKN080 19/12 A2988 RMK SC2AC3 SLP120 DENSITY ALT 2100FT KFAY 021553Z AUTO 25008G15KT 8SM CLR 28/20 A2995 RMK AO2 SLP135 T02830200 KDUG 021556Z AUTO 33007KT 10SM CLR 28/14 A3011 RMK AO2 SLP120 T02830144 OTHH 021600Z 02002KT CAVOK 33/23 Q1001 NOSIG CYYF 021600Z 34008KT 15SM SKC 25/13 A3006 RMK SLP172 DENSITY ALT 2300FT CYWY 021600Z 00000KT 15SM FEW030 BKN080 17/13 A2988 RMK CU1AC6 SLP121 DENSITY ALT 800FT CYXP 021600Z 25010KT 15SM FEW050 FEW210 08/04 A3002 RMK CF1CS1 SLP168 EGXP 021550Z 19005KT 9999 SCT031 BKN100 24/15 Q1017 BLU KDUH 021615Z AUTO 07005KT 10SM BKN025 BKN043 BKN050 21/14 A3002 RMK AO2 T02050137 KEKQ 021556Z AUTO 20004KT 10SM FEW010 22/21 A2995 RMK AO2 PWINO T02220205 SLP138 EHPG 021625Z AUTO 04010KT 9999 FEW008/// 19/16 Q1019 CYYG 021600Z 20011G17KT 15SM SCT026 BKN280 23/18 A2975 RMK CU4CI3 SLP073 DENSITY ALT 1200FT KFCI 012155Z AUTO 22007KT 10SM CLR 29/16 A2988 RMK AO1 CYXQ 021600Z 29005KT 2SM -RA OVC004 09/08 A2982 RMK SC8 /R05 AFT 18/ CLIMAT 15.5/6.5/3.6MM SLP115 KFBR 020355Z AUTO 31006KT 10SM CLR 23/05 A3027 RMK AO2 LTG DSNT E T02330050 EGYH 021450Z 12006KT CAVOK 25/18 Q1017 BLU CYYH 021600Z 06014KT 15SM FEW015 SCT020 SCT090 SCT210 08/00 A2990 RMK CF1SC3AC1CC1 CF TR AC TR CU EMBD SLP128 KDUJ 021553Z AUTO 05005KT 10SM BKN032 BKN060 23/13 A2996 RMK AO2 SLP135 T02280133 KDTS 021553Z AUTO 23009G18KT 10SM CLR 29/22 A3012 RMK AO2 SLP199 T02890222 TSNO KEKS 021615Z AUTO VRB04KT 10SM CLR 21/11 A3025 RMK A01 CYXR 021600Z AUTO 32012KT 9SM CLR 18/06 A2998 RMK SLP155 DENSITY ALT 1200FT KELK 021455Z AUTO 24011KT 10SM CLR 26/19 A2998 RMK AO2 EGXS 021550Z AUTO 10011KT 9999 // SCT110/// 20/17 Q1018 CYXS 021600Z AUTO 17008KT 9SM CLR 21/11 A3012 RMK SLP196 DENSITY ALT 3200FT CYYJ 021600Z 13006KT 30SM SKC 22/12 A3003 RMK SLP168 DENSITY ALT 700FT EGXT 021550Z 23011KT 9999 FEW040 25/15 Q1018 BLU CYXT 021600Z 21008KT 20SM BKN064 BKN100 18/10 A3016 RMK SC6AC1 SLP213 DENSITY ALT 900FT EGXU 021550Z AUTO 18006KT 9999 // FEW045/// BKN090/// 24/14 Q1017 CYXU 021600Z 02009KT 350V070 15SM SCT045 20/11 A3001 RMK SC4 SLP163 DENSITY ALT 1500FT KELM 021553Z 00000KT 10SM BKN037 BKN047 21/14 A2994 RMK AO2 SLP136 T02110139 KFCM 021553Z 00000KT 10SM CLR 21/13 A3003 RMK AO2 SLP167 T02110128 CYYL 021600Z AUTO 32010G15KT 300V010 9SM 20/13 A2984 RMK CLD MISG SLP111 DENSITY ALT 2100FT KELN 021553Z AUTO 00000KT 10SM CLR 25/12 A3004 RMK AO2 SLP154 T02500122 KDTW 021553Z VRB03KT 10SM FEW030 SCT070 SCT220 21/12 A3002 RMK AO2 SLP166 T02110122 EGXV 021550Z AUTO 13005KT 9999 OVC090/// 23/18 Q1017 EGYM 021550Z 20006KT 9999 FEW045 SCT110 26/16 Q1018 BLU NOSIG KELO 021613Z AUTO 22006KT 10SM CLR 21/15 A3000 RMK AO2 EGXW 021550Z 21005KT 9999 SCT035 24/15 Q1018 BLU NOSIG EHQE 021625Z AUTO 34013KT 3900 BR NSC 16/16 Q1019 CYZE 021600Z AUTO 35008KT 280V010 9SM CLR 20/07 A3004 RMK SLP172 DENSITY ALT 1200FT CYYN 021621Z AUTO 28009KT 3SM BR BKN008 18/16 A3013 RMK SLP200 DENSITY ALT 3400FT KELP 021551Z 09003KT 10SM FEW120 BKN250 29/11 A3002 RMK AO2 SLP081 T02940111 CYXX 021600Z 20003KT 160V250 30SM SKC 23/17 A3003 RMK SLP167 DENSITY ALT 1000FT CYZF 021600Z 28005KT 220V320 12SM FEW030 SCT240 20/13 A2985 RMK CF1CI4 CF TR FU SLP114 DENSITY ALT 1500FT EGYP 021550Z 30016KT 9999 FEW038 SCT140 BKN220 02/M01 Q1008 BLU NOSIG CYXY 021600Z 16009G15KT 40SM FEW040 BKN090 11/06 A2984 RMK SC2AC5 SLP121 DENSITY ALT 2400FT CYXZ 021600Z VRB07KT 15SM SCT035 12/06 A3006 RMK SC3 SLP188 EGXZ 021550Z AUTO 19005KT 9999 SCT036/// SCT050/// BKN090/// 23/15 Q1017 CYZH 021600Z AUTO VRB02KT 9SM CLR 24/13 A3003 RMK SLP168 DENSITY ALT 3200FT CYYQ 021621Z 30006KT 10SM SCT010 BKN065 OVC079 16/16 A2966 RMK SF4SC2AC2 SLP044 DENSITY ALT 500FT KFCS 021558Z AUTO 35020G24KT 10SM FEW039 19/13 A3027 RMK AO2 SLP203 T01890130 CYYR 021600Z 07010KT 15SM -SHRA FEW025 FEW050 BKN110 OVC150 17/14 A2981 RMK CF1SC2AC3AC2 SLP095 KDVK 020355Z AUTO 21005KT 7SM SCT003 BKN022 OVC095 20/20 A2998 RMK AO2 CZPS 021500Z AUTO 21003KT 21/15 RMK AO1 T02070150 KFDK 021549Z 00000KT 5SM BR OVC070 22/20 A2995 KDVL 021615Z AUTO 23004KT 7SM FEW013 BKN046 BKN055 22/17 A2995 RMK AO1 CYYT 021600Z 11008KT 15SM SCT160 BKN220 15/10 A3008 RMK AC3CI2 FG BNK NE E S SLP187 KEMM 021600Z AUTO 12014G19KT 10SM CLR 23/08 A3033 RMK AO2 CYYU 021600Z VRB07KT 15SM FEW060 SCT210 21/06 A2999 RMK CU2CI1 SLP160 DENSITY ALT 1400FT KEND 021558Z AUTO VRB01KT 10SM CLR 31/21 A2987 RMK AO2 SLP100 T03120207 TSNO $ KDVN 021552Z AUTO 06010KT 10SM CLR 19/11 A3001 RMK AO2 SLP161 T01940111 EHRD 021625Z AUTO 36007KT 310V040 9999 NSC 24/18 Q1019 NOSIG KDUX 020355Z AUTO 18010KT 10SM CLR 26/14 A2999 RMK AO2 T02610140 KDVO 020355Z AUTO 14004KT 10SM CLR 24/14 A2987 RMK AO2 CYYW 021600Z AUTO 18007KT 140V200 9SM CLR 21/15 A2994 RMK ICG MISG SLP143 DENSITY ALT 2000FT KEMP 021553Z AUTO 03007KT 10SM OVC012 23/21 A2992 RMK AO2 SLP123 T02330206 KDVP 021613Z AUTO 11003KT 10SM CLR 18/12 A3004 RMK AO2 T01790123 KELY 021553Z AUTO 00000KT 10SM FEW120 23/10 A3029 RMK AO2 SLP142 T02330100 CYZP 021600Z AUTO 25009KT 9SM OVC021 17/13 A3020 RMK SLP227 KDWH 021553Z 17007KT 10SM FEW022 29/24 A3005 RMK AO2 SLP173 T02890244 KELZ 021607Z AUTO 28004KT 10SM FEW024 SCT055 19/12 A3000 RMK AO2 T01940122 CYYY 021600Z 22014G22KT 15SM -SHRA BKN020 OVC040 18/12 A2955 RMK SC6SC2 SLP008 DENSITY ALT 900FT KFDR 021553Z AUTO 23016KT 10SM CLR 30/21 A2991 RMK AO2 SLP108 T03000211 CYYZ 021600Z VRB05KT 15SM SCT048 20/08 A3000 RMK CU4 SLP157 DENSITY ALT 1100FT KFFA 020355Z AUTO 23006KT 10SM CLR 26/23 A2993 RMK AO2 T02580228 403820087 CYZR 021600Z AUTO 01010KT 9SM SCT010 17/14 A3004 RMK SLP171 DENSITY ALT 800FT KEMT 021546Z 20005KT 10SM CLR 24/17 A3001 KDVT 021553Z AUTO VRB05KT 10SM CLR 32/14 A2993 RMK AO2 SLP108 T03220139 EHSA 021555Z AUTO 05009G10KT 9000 ///////// 18/15 Q1019 W16/H5 CYZS 021600Z 27005KT 1 1/2SM -DZ BR OVC003 03/03 A2967 RMK ST8 WND ESTD SLP051 CYZT 021600Z 01007KT 20SM FEW015 SCT240 18/12 A3019 RMK SC1CI2 SLP224 KFFC 021553Z AUTO 23008G14KT 180V260 10SM FEW065 28/22 A3004 RMK AO2 SLP167 T02780217 KENL 021619Z AUTO 05004KT 1SM +RA OVC004 17/16 A2990 RMK AO2 P0018 CYZU 021600Z VRB02KT 15SM SCT230 20/13 A3009 RMK CI4 SLP187 DENSITY ALT 3500FT KEMV 021535Z AUTO 20003KT 10SM 26/21 A2990 RMK AO2 EHSC 021555Z AUTO 06013G14KT 9999 ///////// 18/16 Q1018 W17/H5 KFDW 021615Z AUTO 23010KT 10SM SCT028 28/20 A2999 RMK AO1 KEOE 021615Z AUTO 25012G19KT 10SM SCT030 28/20 A3002 RMK AO2 CYZV 021621Z 11010KT 3SM BR BKN002 OVC006 13/13 A2957 RMK SF6SF2 SLP014 DENSITY ALT 400FT CYZW 021600Z 21004G15KT 160V240 30SM FEW032 BKN040 BKN042 13/06 A2989 RMK CF1CU4SC1 SLP136 DENSITY ALT 2600FT KFEP 020355Z AUTO 09005KT 10SM CLR 14/12 A3002 RMK AO2 T01380123 KFDY 021625Z AUTO 05010KT 10SM FEW021 BKN034 OVC041 21/15 A2997 RMK AO2 T02110150 CYZX 021600Z 25016G23KT 15SM FEW030 SCT230 BKN250 24/14 A2980 RMK CU2CC2CI1 WNDY HILL 23011G16KT SLP090 CZRP 021600Z AUTO 04002KT 04/03 RMK AO1 SLP144 T00390031 57004 CYZY 021600Z AUTO 16007KT 9SM CLR 19/11 A3007 RMK SLP180 DENSITY ALT 3100FT KEOK 020355Z AUTO 07008KT 10SM SCT049 OVC055 21/18 A2992 RMK AO2 KFET 021624Z AUTO 09005KT 2 1/2SM RA BKN007 BKN020 OVC031 18/17 A2997 RMK AO2 P0010 CZSJ 021600Z AUTO 18005KT 160V250 8SM CLR 23/16 A2982 RMK SLP102 DENSITY ALT 2200FT KDYB 021615Z AUTO 23003KT 10SM SCT120 29/23 A3003 RMK AO1 KFFL 020355Z AUTO 06008KT 10SM BKN055 OVC070 19/15 A2995 RMK AO2 CZTB 021600Z AUTO 28002KT 21/14 RMK AO1 SLP151 T02100142 57010 KDWU 021615Z AUTO 00000KT 5SM SCT010 BKN019 OVC070 A2990 RMK AO1 KFFM 021614Z AUTO 18010KT 10SM CLR 21/13 A3001 RMK AO2 KENV 021615Z AUTO 11009KT 10SM CLR 33/09 A3009 RMK AO1 CZSM 021600Z AUTO 02002KT 20/13 RMK AO1 SLP117 T01990127 56001 KENW 021553Z 06008KT 10SM FEW021 18/11 A3005 RMK AO2 SLP175 T01780106 KFEW 021556Z AUTO 35004KT 10SM CLR 21/13 A3022 RMK AO2 SLP164 T02060128 $ KDWX 020355Z AUTO 05010KT 10SM CLR 18/12 A3020 RMK AO2 LTG DSNT N T01790121 KFFO 021558Z AUTO 05007KT 10SM CLR 21/17 A2993 RMK AO2 SLP134 T02110167 VHHH 021600Z 17007KT 120V200 9999 FEW020 31/26 Q1003 NOSIG PLCH 021500Z 00000KT 9999 DEW SCT019 26/26 Q1007 CZSP 021600Z AUTO 20015G20KT 25/17 RMK AO1 PK WND 20020/1512 SLP072 T02510174 57006 KEPH 021553Z AUTO 02010KT 10SM CLR 32/09 A2998 RMK AO2 SLP139 T03170094 KDXR 021553Z VRB03KT 10SM FEW037 SCT046 23/13 A2993 RMK AO2 SLP131 T02330133 ZUUU 021600Z VRB01MPS 7000 FEW013 SCT050 26/20 Q1007 NOSIG KH78 021424Z 06007KT 20SM BKN040 28/25 A3012 RMK SEAS 1-2 KEQA 021615Z AUTO 03009KT 10SM OVC012 26/22 A2993 RMK AO2 KFHB 020355Z AUTO 23005KT 10SM CLR 28/20 A3008 RMK AO1 KDZB 020355Z AUTO 18005KT 10SM CLR 24/20 A3004 RMK AO2 T02400201 KFFT 021553Z AUTO 23007KT 10SM OVC009 22/20 A2990 RMK AO2 RAE22 CIG 006V014 SLP118 P0005 T02170200 CZST 021600Z 24003KT 120V270 15SM OVC055 15/11 A3017 RMK SC8 SLP215 KDYL 021554Z AUTO 00000KT 10SM CLR 21/17 A2991 RMK AO2 SLP125 T02110167 FABL 021600Z VRB02KT CAVOK 15/M01 Q1028 NOSIG KFGN 021614Z AUTO 21006KT 10SM CLR 21/16 A2994 RMK AO2 KDXX 021613Z AUTO 14008KT 10SM CLR 20/08 A3001 RMK AO2 KFFX 021611Z AUTO 07006KT 10SM CLR 20/09 A3003 RMK AO2 T01950093 EIKN 021600Z 14007KT 110V170 9999 FEW015 FEW018CB BKN060 BKN100 15/12 Q1016 NOSIG KFFZ 021547Z 24005KT 40M FEW200 31/14 A2994 PKMJ 012259Z COR 27014KT 15SM SCT014 SCT050 BKN300 30/25 A2969 KDZJ 020355Z AUTO 00000KT 2 1/2SM HZ 19/15 A3009 RMK AO2 T01900151 KDYS 021558Z AUTO 20012KT 10SM CLR 26/19 A3000 RMK AO2 SLP115 T02640191 $ KDYT 021614Z AUTO 23009KT 10SM CLR 23/16 A3001 RMK AO2 CZUM 021619Z AUTO 11012G17KT 5SM RA BR FEW019 SCT030 OVC038 15/14 A2968 RMK SLP058 DENSITY ALT 2000FT KFGX 021615Z AUTO 19005KT 7SM DZ OVC006 21/20 A2993 RMK AO2 T02070198 EIME 021600Z 21007KT 9999 FEW025 SCT100 BKN250 19/10 Q1018 KFIG 021554Z AUTO 00000KT 10SM SCT030 22/13 A2996 RMK AO2 SLP139 T02170133 EIKY 021600Z 20013KT 170V230 9999 SCT028 SCT050 20/11 Q1016 PKMR 022355Z 29008KT 15SM SCT014 BKN050 BKN120 OVC300 28/25 A2970 RMK SLP059 8/872 T02790253 10289 20268 58007 KERI 021551Z 35011KT 10SM FEW015 20/14 A2999 RMK AO2 SLP153 T02000139 KFHR 021553Z AUTO 12003KT 10SM CLR 19/12 A3005 RMK AO2 SLP173 T01940122 KESC 021615Z AUTO 16007KT 8SM CLR 19/09 A3006 RMK AO1 EHVK 021625Z AUTO 32011G23KT 9999 BKN080 OVC086 28/18 Q1018 BLU KFHU 021558Z AUTO 28009KT 8SM CLR 26/15 A3017 RMK AO2 SLP141 T02600154 $ FACT 021600Z 16005KT CAVOK 14/09 Q1022 NOSIG KGAD 021615Z 24010KT 10SM FEW018 33/21 A3000 RMK AO1 EHVL 021625Z AUTO 26021KT 9000 -RA FEW009 SCT060 OVC076 19/17 Q1020 BLU CZVL 021600Z AUTO 17006KT 9SM CLR 23/16 A3009 RMK SLP185 DENSITY ALT 3500FT KFIN 021550Z 21007KT 7SM BKN040 32/21 A3011 FACV 021053Z 10010KT CAVOK 18/M00 Q1023 KESF 021553Z AUTO 23006KT 10SM CLR 30/22 A3007 RMK AO2 SLP182 T03000217 KGAF 021615Z AUTO 19009KT 9SM CLR 23/18 A2995 RMK AO2 VIAR 021600Z 27004KT 3000 HZ FEW035 FEW040TCU SCT100 31/24 Q1002 KEQY 021553Z AUTO 23012G17KT 10SM FEW030 29/19 A2996 RMK AO2 SLP141 T02890194 KGAG 021553Z AUTO 26012KT 10SM CLR 27/19 A2995 RMK AO2 SLP110 T02670189 KI16 021535Z AUTO 5SM BR OVC027 20/20 A3003 RMK AO2 T02020197 KGAI 021615Z AUTO 00000KT 10SM OVC060 21/17 A2996 RMK AO1 KFKA 021614Z AUTO 11004KT 10SM CLR 19/10 A3007 RMK AO2 T01860103 KETB 021537Z AUTO 08009KT 10SM CLR 17/08 A3005 RMK AO2 KFIT 021552Z AUTO 27012G18KT 10SM FEW044 24/13 A2991 RMK AO2 SLP128 T02390128 KETC 020355Z AUTO 19003KT 10SM 25/22 A2995 RMK AO2 T02510215 VIBN 021530Z 21003KT 5000 HZ NSC 31/25 Q1002 KERV 020355Z AUTO 15007KT 10SM CLR 22/21 A3008 RMK AO2 T02200205 KGBD 021615Z AUTO 08011KT 10SM TS FEW009 SCT039 BKN080 19/17 A3000 RMK AO1 LTG DSNT NE P0003 FAEL 021600Z VRB01KT CAVOK 12/12 Q1025 KESN 021550Z 06005KT 5SM BR OVC120 22/22 A2992 KGAO 020355Z AUTO 20004KT 10SM -DZ SCT024 SCT031 SCT070 26/24 A3010 RMK AO2 LTG DSNT W P0001 T02550240 EINN 021600Z 15013KT 9999 SCT018CB SCT050 19/14 Q1016 NOSIG KGBG 021600Z AUTO 06008KT 030V090 10SM CLR 19/13 A2999 RMK AO2 T01890134 FAEO 020747Z 31008KT CAVOK 12/02 Q1033 EHWO 021625Z AUTO 01006KT 9999 BKN140 25/16 Q1019 BLU KERY 021614Z AUTO 35004KT 10SM CLR 19/10 A3006 RMK AO2 T01940095 FADY 021027Z 29002KT CAVOK 17/01 Q1027 KETH 021615Z AUTO 14009KT 10SM CLR 19/11 A3002 RMK AO2 KEST 021552Z AUTO 12008KT 10SM CLR 18/12 A3002 RMK AO2 SLP165 T01780117 KGBK 021615Z AUTO 09006KT 10SM CLR 29/24 A3010 RMK A01 KGCC 021553Z AUTO 02008KT 10SM CLR 23/13 A3018 RMK AO2 SLP179 T02280128 KFKL 021615Z AUTO 36006KT 320V020 10SM FEW020 FEW043 SCT050 20/14 A2999 RMK AO1 KGCD 020355Z AUTO 02003KT 10SM CLR 29/07 A3003 RMK AO2 T02930065 KFLD 021553Z AUTO 06010KT 10SM CLR 18/08 A3006 RMK AO2 SLP180 T01830083 KFKN 021535Z AUTO 21006KT 10SM OVC110 26/22 A2990 RMK AO2 T02600222 KEUF 021558Z AUTO 25006KT 10SM FEW029 SCT034 SCT090 31/23 A3007 RMK AO2 SLP178 T03110228 $ KI35 020355Z AUTO 01004KT 3SM 20/20 A3001 RMK AO1 KEUG 021554Z 31004KT 10SM CLR 24/14 A3000 RMK AO2 SLP156 T02390139 KFLG 021557Z VRB04KT 10SM CLR 22/14 A3034 RMK AO2 SLP156 T02220144 FAGG 021600Z 10004KT 9999 BKN020 13/11 Q1024 KFKR 020355Z AUTO 35008KT 10SM SCT031 SCT037 SCT046 17/13 A2998 RMK AO2 T01650125 KFKS 021614Z AUTO 05005KT 10SM CLR 21/08 A3005 RMK AO2 T02080083 KEVB 021547Z 23008G15KT 10SM SKC 30/21 A3013 KI39 020355Z AUTO 20003KT 7SM SCT044 BKN050 OVC065 21/19 A2996 RMK AO2 KGDB 021612Z AUTO 12010KT 10SM CLR 20/09 A3004 RMK AO2 T02010092 KGCK 021554Z 04012KT 8SM BKN110 24/18 A3001 RMK AO2 RAE20 SLP124 P0006 T02390178 KFLL 021553Z 12010KT 10SM BKN030 32/24 A3013 RMK AO2 SLP203 T03170239 KEUL 021615Z AUTO 30005KT 10SM CLR 28/09 A3002 RMK AO1 KGCM 021455Z AUTO 26012G16KT 2SM HZ 28/21 A2988 RMK AO2 VIS 1 1/4V4 FAGM 021500Z 25005KT CAVOK 17/M01 Q1030 VIDP 021600Z 26009KT 3500 TS SCT030 FEW040CB BKN100 32/22 Q1002 TEMPO 15020KT 1500 TSRA KGCN 021554Z 20005KT 10SM CLR 23/13 A3030 RMK AO2 SLP161 T02280128 $ KFME 021621Z AUTO 00000KT 7SM OVC065 21/18 A2992 RMK AO1 KFLO 021553Z 21011KT 10SM CLR 29/21 A2998 RMK AO2 SLP150 T02940206 KFLP 021615Z 17004KT 10SM SCT050 BKN055 OVC065 24/22 A2986 RMK AO1 KFMH 021615Z AUTO 25008KT 10SM CLR 25/16 A2990 RMK AO2 PWINO KGDJ 020355Z AUTO 16013KT 10SM CLR 28/20 A2998 RMK AO2 T02770204 CZZJ 021600Z AUTO 24002KT 21/12 RMK AO1 SLP191 T02060121 58004 KEWB 021553Z 26007KT 10SM CLR 26/13 A2989 RMK AO2 SLP122 T02560133 KFNB 021553Z AUTO 04005KT 9SM OVC009 21/19 A2994 RMK AO2 SLP131 T02110189 KEVM 020950Z AUTO 00000KT 7SM SCT055 08/08 A3001 RMK AO2 URFF 021600Z 01004MPS 330V040 9999 FEW030CB BKN100 21/16 Q1018 01010095 TEMPO -TSRA KGED 021620Z AUTO 03007G15KT 4SM -RA BR FEW009 BKN075 OVC095 21/19 A2988 RMK AO2 WSHFT 1548 LTG DSNT NE-S TSE01 P0004 T02060189 KFMM 021615Z AUTO 25011KT 10SM CLR 21/13 A3021 RMK AO2 T02050133 KFMN 021553Z VRB04KT 10SM CLR 24/12 A3017 RMK AO2 RAB16E27 SLP145 P0000 T02390122 KGDP 021551Z AUTO 06016KT 10SM CLR 26/16 A3016 RMK AO2 SLP124 T02560161 KGEG 021553Z 04007KT 10SM CLR 26/10 A3005 RMK AO2 SLP151 T02610100 KFLY 021615Z AUTO 35007KT 10SM SCT017 SCT022 OVC028 17/11 A3034 RMK AO2 T01730106 KFOA 020355Z AUTO 00000KT 5SM +VCTSRA SCT040 BKN046 OVC060 21/21 A2990 RMK AO2 LTG DSNT E THRU SW P0041 T02100205 KGFA 021556Z AUTO 22002KT 10SM CLR 22/12 A3021 RMK AO2 SLP209 T02150117 TSNO $ KEWK 021615Z AUTO 02011KT 10SM OVC013 24/19 A2998 RMK AO1 FAJB 021600Z AUTO 00000KT //// // ////// 14/02 Q1030 KFNL 021615Z AUTO 17010KT 10SM CLR 21/13 A3023 RMK AO1 KEVV 021554Z 15006KT 9SM FEW013 BKN070 OVC095 23/21 A2989 RMK AO2 SLP116 T02330206 $ KFOD 021615Z AUTO 11010KT 10SM FEW019 19/14 A3002 RMK AO1 KGDV 021615Z AUTO 34012KT 5SM CLR 23/16 A3009 RMK AO1 KI63 020355Z AUTO 06004KT 10SM BKN038 OVC048 A2991 RMK AO2 DRRM 021600Z 28006KT CAVOK 36/19 Q1011 KEVW 021553Z AUTO 20004KT 10SM CLR 24/06 A3030 RMK AO2 SLP149 T02390056 KFOE 021553Z 06007KT 7SM OVC015 24/19 A2992 RMK AO2 SLP121 T02440194 KEWN 021554Z 23009KT 10SM FU CLR 31/21 A2995 RMK AO2 SLP140 T03060211 DRRN 021600Z 20012KT 180V240 8000 FEW040 37/17 Q1009 NOSIG KFMY 021553Z 16004KT 10SM FEW036 32/23 A3013 RMK AO2 SLP203 T03170233 EISG 021600Z 18006KT 9999 FEW013 SCT034 15/12 Q1015 KEWR 021551Z 09007KT 10SM FEW048 SCT080 SCT210 BKN250 26/14 A2990 RMK AO2 SLP123 T02610144 EKAH 021620Z AUTO 13012G22KT 100V170 9999NDV NCD 24/03 Q1026 KI67 021615Z AUTO 00000KT 7SM SCT007 BKN012 OVC044 20/18 A2991 RMK AO1 KI69 021616Z AUTO 09004KT 3SM RA SCT011 BKN019 OVC029 21/20 A2991 RMK AO1 P0004 KGFK 021553Z 21007KT 10SM CLR 21/15 A2995 RMK AO2 SLP143 T02110150 KFNT 021553Z 36006KT 10SM FEW032 OVC042 20/12 A3005 RMK AO2 SLP173 T02000117 KFOK 021553Z VRB05KT 10SM SCT028 25/17 A2993 RMK AO2 SLP133 T02500172 KGEU 021550Z 21007KT 20SM FEW180 34/15 A2993 DRRT 021600Z 28008KT 7000 NSC 38/18 Q1010 KGFL 021553Z AUTO 27008KT 240V310 10SM BKN050 OVC065 21/11 A2990 RMK AO2 SLP125 T02110106 KGEV 021555Z AUTO 25004KT 10SM BKN025 OVC029 20/14 A3004 RMK AO2 T02030141 KEYE 021553Z AUTO 08007KT 10SM FEW060 22/16 A2991 RMK AO2 SLP124 T02170156 KGGE 021615Z AUTO 23010KT 10SM SCT038 30/24 A3001 RMK AO2 KEYF 021610Z AUTO 23006KT 10SM CLR 29/20 A2996 RMK AO2 T02930201 KI75 020355Z AUTO 04007KT 10SM SCT090 OVC120 20/16 A2995 RMK AO2 T01950160 KGGG 021553Z 22014G19KT 10SM CLR 30/21 A3002 RMK AO2 SLP156 T03000211 KGEY 021553Z AUTO 00000KT 10SM CLR 24/11 A3015 RMK AO2 SLP166 T02440106 KGEZ 021553Z AUTO 05006KT 10SM FEW065 BKN080 23/17 A2991 RMK AO2 SLP121 T02280167 KGGI 020355Z AUTO 04009KT 10SM OVC075 17/14 A2998 RMK AO2 T01680143 EKBI 021620Z AUTO 13014KT 9999NDV NCD 26/14 Q1023 KFPK 021615Z AUTO 07009KT 10SM SCT025 SCT033 SCT041 19/12 A3001 RMK AO2 T01920119 KFOT 021615Z AUTO 00000KT 10SM OVC004 14/13 A2996 RMK AO1 KGHB 021615Z AUTO 00000KT 9SM CLR 29/24 A3011 RMK A01 FALA 021600Z 31005KT CAVOK 16/03 Q1030 NOSIG KFQD 020355Z AUTO 00000KT 5SM BR SCT090 21/21 A3000 RMK AO2 T02110211 FAKM 021600Z 03003KT CAVOK 15/M03 Q1026 KEZF 020355Z AUTO 00000KT 10SM CLR 25/21 A2989 RMK AO2 T02490212 KEXX 021620Z AUTO 29003KT 10SM SCT080 BKN090 BKN110 28/19 A2994 RMK AO2 FAKN 021600Z 05006KT 9999 FEW030 15/08 Q1028 NOSIG FALE 021600Z 04005KT CAVOK 16/13 Q1025 NOSIG KGHG 020355Z AUTO 25004KT 10SM CLR 21/19 A2982 RMK AO2 KGGP 021626Z AUTO 06007KT 10SM SCT034 22/14 A2996 RMK AO2 WAAA 021600Z VRB02KT 8000 FEW020 24/24 Q1013 NOSIG KFOZ 021613Z AUTO 23007G14KT 10SM CLR 23/14 A3001 RMK AO2 EKCH 021620Z 13015KT CAVOK 23/09 Q1027 NOSIG KFPR 021553Z 13007KT 9SM SCT036 32/23 A3013 RMK AO2 SLP202 T03170233 PKWA 021620Z AUTO 35006KT 10SM SCT023 28/23 A2975 RMK AO2 T02760229 KGIC 020355Z AUTO 00000KT 10SM CLR 26/03 A3003 RMK AO1 T02630027 KEZM 020355Z AUTO 00000KT 10SM CLR 23/23 A3012 RMK AO2 LTG DSNT E AND SE T02260226 FALM 021100Z 12005KT 9000 SCT030 21/// Q1029 KGGW 021618Z AUTO 31010KT 5SM HZ BKN019 22/15 A3010 RMK AO2 T02170150 KEYW 021553Z 11007KT 10SM CLR 32/25 A3012 RMK AO2 LTG DSNT W SLP200 T03170250 KGIF 021553Z AUTO 23005KT 9SM CLR 32/22 A3015 RMK AO2 SLP207 T03220217 TSNO KFRG 021553Z VRB03KT 10SM FEW070 25/16 A2991 RMK AO2 SLP126 T02500156 URKA 021600Z 02004MPS 9999 FEW043TCU 25/18 Q1015 R04/010070 NOSIG RMK QFE758/1010 KFRI 021618Z AUTO 03004KT 10SM OVC019 25/21 A2997 RMK AO2 KEZS 021410Z AUTO 05003KT 10SM CLR 17/10 A3009 RMK AO2 T01670104 EKEB 021620Z AUTO 13016KT 9999NDV NCD 26/15 Q1022 KFRM 021615Z AUTO 11010KT 10SM CLR 19/09 A3003 RMK AO1 KFSD 021556Z 12007KT 10SM BKN150 OVC250 18/14 A3000 RMK AO2 SLP156 T01830139 KGHW 021613Z AUTO 16006KT 10SM CLR 21/13 A3004 RMK AO2 VIJP 021600Z 30004KT 2500 HZ SCT035 SCT100 28/23 Q1006 NOSIG KFSE 021613Z AUTO 20012KT 10SM CLR 21/12 A3001 RMK AO2 KHAE 021615Z AUTO 07003KT 10SM OVC030 21/13 A2997 RMK AO2 FAMM 021600Z 35004KT CAVOK 16/01 Q1028 NOSIG KHAF 021615Z AUTO 16009KT 6SM BR OVC005 15/14 A3000 RMK AO2 PMDY 021556Z AUTO 35008KT 10SM BKN033 26/22 A2999 RMK AO2 PWINO TSNO T02550222 BKN V SCT SLP462 $ FALW 021600Z AUTO 23006KT //// // ////// 14/08 Q1021 EIWF 021600Z 19011KT 160V260 9999 SCT012 18/14 Q1019 KFRR 021631Z AUTO 00000KT 7SM SCT005 OVC050 21/19 A2993 RMK AO1 URKK 021600Z 01002MPS 9999 FEW040CB BKN100 28/18 Q1014 R23C/CLRD70 NOSIG RMK QFE757 KHAI 021615Z AUTO 05008KT 10SM SCT021 19/13 A3001 RMK AO2 T01910134 KFSI 021558Z AUTO 21012G18KT 10SM FEW110 29/22 A2991 RMK AO2 SLP118 T02940224 USCC 021600Z 26005MPS 9999 SCT033CB 17/13 Q1002 R27/000060 NOSIG RMK QFE731 FAOB 021600Z AUTO 16005KT //// // ////// 12/09 Q1025 KFSM 021553Z 26014KT 10SM CLR 28/21 A2988 RMK AO2 SLP111 T02830206 KFSO 020355Z AUTO 24004KT 10SM OVC045 17/14 A2976 RMK AO2 T01730135 KHAO 021553Z AUTO VRB03KT 5SM HZ BKN013 BKN075 23/20 A2992 RMK AO2 SLP127 T02330200 KFTG 021550Z 21007KT 20SM SCT120 BKN200 19/13 A3027 KHBG 021553Z AUTO 27010KT 10SM FEW017 29/24 A3010 RMK AO2 SLP191 T02890239 KHBI 021626Z AUTO 00000KT 10SM SCT035 SCT095 27/19 A2997 RMK AO2 VILK 021530Z 00000KT 4000 HZ FEW025 SCT200 33/26 Q1001 NOSIG KGKJ 021553Z AUTO VRB05KT 7SM SCT050 21/13 A2999 RMK AO2 SLP149 T02060133 TSNO WADD 021600Z 14008KT 9999 BKN016 26/22 Q1014 NOSIG USDD 021600Z 06006MPS 9999 FEW041 BKN100 12/03 Q1013 NOSIG RMK QFE754/1005 USCM 021600Z 35004G09MPS 9999 FEW040 18/11 Q1006 R01/090065 NOSIG RMK QFE717 KGJT 021553Z VRB06KT 10SM CLR 28/11 A3011 RMK AO2 SLP113 T02830111 KFST 021553Z AUTO 12009KT 10SM CLR 28/19 A3001 RMK AO2 SLP113 T02780189 KFTK 021624Z AUTO 23004KT 2SM +RA BKN028 OVC050 23/20 A2989 RMK AO2 VIS 2V10 DZB14E20RAB20 CIG 028V050 KHCD 021612Z AUTO 17003KT 10SM CLR 21/13 A3005 RMK AO2 T02080129 KGLD 021625Z AUTO 27008KT 10SM VCTS FEW070 SCT110 21/13 A3011 RMK AO2 RAB00E12 P0000 T02060133 KGLE 020355Z AUTO 17011KT 10SM CLR 27/22 A2997 RMK AO2 T02710215 KFSW 020355Z AUTO 06006KT 10SM OVC050 19/17 A2994 RMK AO2 KFTN 021615Z AUTO 16013G19KT 10SM 27/21 A2999 RMK A01 FAPE 021600Z 15003KT CAVOK 13/10 Q1025 NOSIG KGLH 021553Z AUTO 24013G20KT 10SM CLR 29/21 A3000 RMK AO2 SLP163 T02890211 $ KHBR 021553Z AUTO 24016KT 10SM FEW110 31/21 A2991 RMK AO2 SLP107 T03060206 URML 021600Z 13006MPS 9999 NSC 26/20 Q1015 R14/01//70 NOSIG RMK QFE761/1015 WADL 021200Z 20003KT 180V240 8000 FEW016 24/21 Q1014 NOSIG FAOR 021630Z 29004KT 260V320 CAVOK 15/00 Q1031 NOSIG DRZA 021600Z 12008KT CAVOK 41/03 Q1010 URMM 021600Z 11003MPS 9999 NSC 25/16 Q1016 R12/000070 NOSIG RMK QFE734/0978 KGKT 021615Z AUTO 23004KT 10SM FEW030 SCT085 20/19 A2998 RMK KHDC 020355Z AUTO 00000KT 10SM CLR 22/21 A3011 RMK AO2 LTG DSNT SW URMN 021600Z 21001MPS 9999 BKN044 OVC110 23/17 Q1016 R24/010070 NOSIG RMK QFE725 KFUL 021553Z 00000KT 9SM CLR 23/18 A2998 RMK AO2 RAB24E34 SLP152 P0000 T02280178 FBFT 021600Z 11006KT CAVOK 20/01 Q1026 URMO 021500Z 27003MPS 9999 BKN048 OVC130 23/17 Q1017 R10/010070 NOSIG RMK QFE719/0958 KHBV 021610Z AUTO 14014G20KT 7SM 28/23 A3002 RMK AO2 T02830226 KHDE 020355Z AUTO 00000KT 10SM CLR 22/19 A2994 RMK AO2 T02220192 KFVE 021553Z AUTO 21015G22KT 10SM BKN024 OVC030 14/10 A2966 RMK AO2 PK WND 21026/1530 SLP043 T01440100 KFTW 021553Z 22014G21KT 10SM CLR 29/19 A2999 RMK AO2 SLP145 T02890189 ZWSH 021600Z AUTO 06002MPS 030V100 CAVOK 28/07 Q1016 KHCO 021601Z AUTO 18007KT 10SM CLR 22/17 A2994 RMK AO2 FAPN 021600Z AUTO 00000KT //// // ////// 17/02 Q1028 KGKY 021553Z 20012G19KT 10SM CLR 29/18 A3000 RMK AO2 SLP148 T02890183 KFTY 021553Z 25009G15KT 10SM CLR 28/21 A3001 RMK AO2 SLP154 T02830211 FAPP 021600Z 05005KT 8000 NSC 16/07 Q1028 NOSIG URMT 021600Z 12003MPS 9999 FEW033 24/15 Q1016 R07/010070 NOSIG RMK QFE722 KGLR 021553Z AUTO 05006KT 10SM CLR 19/06 A3008 RMK AO2 SLP185 T01890056 KGMJ 020355Z AUTO 21015G21KT 10SM CLR 29/21 A2983 RMK AO2 LTG DSNT N KGLS 021552Z 16010KT 10SM FEW020 30/26 A3007 RMK AO2 SLP181 T03000256 KFWA 021554Z 05012G16KT 8SM BKN015 BKN024 BKN041 21/17 A2998 RMK AO2 SLP148 T02060167 KGNA 021556Z AUTO 23005KT 12/09 A2999 RMK AO1 SLP158 T01220094 KFWB 021615Z AUTO 00000KT 10SM BKN024 OVC030 23/22 A2989 RMK AO2 KGNC 020355Z AUTO 16008KT 10SM CLR 25/16 A3004 RMK AO2 T02460162 KFWC 020355Z AUTO 04003KT 10SM BKN020 BKN025 OVC048 23/21 A2988 RMK AO1 LTG DSNT N THRU SE T02250208 KGLW 020355Z AUTO 19003KT 10SM CLR 21/20 A2997 RMK AO2 T02080195 402750201 KHDN 021615Z AUTO 09006KT 10SM CLR 23/08 A3025 RMK AO1 KHDO 021618Z AUTO 17009KT 10SM SCT021 BKN032 27/22 A3005 RMK AO2 T02670217 KHEF 021545Z 00000KT 9SM OVC055 22/20 A2991 KGLY 021615Z AUTO 07008KT 10SM BKN014 OVC021 24/22 A2989 RMK AO2 KHEI 021553Z AUTO 31010KT 10SM CLR 22/14 A3007 RMK AO2 SLP170 T02170144 ZYCC 021600Z VRB01MPS 9999 FEW026 13/12 Q1005 NOSIG DRZR 021600Z 18006KT 9999 FEW040 BKN300 40/13 Q1010 FASB 021053Z 36003KT CAVOK 20/M01 Q1023 KGMU 021553Z 23009KT 10SM BKN020 27/20 A3000 RMK AO2 SLP148 T02670200 KHFD 021553Z 26010G14KT 250V310 10SM FEW042 FEW085 24/13 A2991 RMK AO2 SLP127 T02440128 KFWN 021553Z AUTO 00000KT 10SM FEW034 24/14 A2992 RMK AO2 SLP130 T02390144 KFXE 021553Z 14008KT 10SM SCT036 32/23 A3014 RMK AO2 SLP208 T03170228 KFVX 020355Z AUTO 21004KT 10SM SCT090 BKN120 25/20 A2990 RMK AO2 T02490202 KHFF 021556Z AUTO 23007KT 10SM FEW120 28/20 A2999 RMK AO2 SLP154 T02780202 TSNO $ KHEQ 021615Z AUTO 28014G17KT 10SM CLR 26/17 A3012 RMK AO2 KGNR 021556Z AUTO VRB03KT 18/09 A2978 RMK AO1 SLP083 T01830094 KFWS 021547Z 22016G23KT 10SM FEW040 28/18 3003 FASI 021600Z AUTO /////KT //// // ////// 14/M01 Q1030 KHFJ 021615Z AUTO 25009KT 10SM OVC022 25/22 A2988 RMK AO2 KGNT 021540Z AUTO 31007KT 10SM CLR 23/09 A3028 RMK AO2 T02330091 DTKA 021600Z 05019KT CAVOK 37/14 Q1016 NOSIG KGOK 021553Z AUTO 22009KT 10SM CLR 31/21 A2988 RMK AO2 SLP104 T03060211 EKKA 021620Z AUTO 14013G23KT 090V180 9999NDV NCD 26/14 Q1023 FCBB 021600Z 23005KT 8000 NSC 26/19 Q1013 NOSIG KGNV 021626Z 25009KT 10SM VCTS BKN040 BKN048 31/22 A3011 RMK AO2 LTG DSNT ALQDS T03060217 KGON 021556Z 20007KT 10SM CLR 22/16 A2991 RMK AO2 SLP127 T02220156 USHH 021600Z 04005G11MPS 3300 -SHRA BR BKN005CB 15/14 Q0995 R06/290055 TEMPO 1000 BR BKN003 RMK QFE742 KGOO 021615Z AUTO 00000KT 10SM CLR 31/10 A3008 RMK AO1 FBKE 021600Z 12007KT CAVOK 22/05 Q1024 KGOP 020355Z AUTO 18006KT 10SM CLR 26/21 A3003 RMK AO2 KHEY 021553Z AUTO 28009G15KT 240V310 10SM FEW023 29/25 A3007 RMK AO2 SLP071 T02890250 $ KFYG 021555Z AUTO 00000KT 8SM SCT008 OVC013 18/17 A2991 RMK AO2 KFWZ 020355Z AUTO 34004KT 10SM VCTS CLR 19/04 A3028 RMK AO2 KGPH 021615Z AUTO 03006KT 10SM 21/20 A2992 RMK AO2 KHEZ 021615Z AUTO 22005KT 10SM SCT019 27/22 A3009 RMK AO1 KGPI 021555Z 00000KT 10SM CLR 27/11 A3012 RMK AO2 SLP175 T02670106 KFYJ 020355Z AUTO 00000KT 10SM CLR 24/21 A2991 RMK AO2 T02420213 KGPM 021550Z 20013G21KT 10SM SKC 28/20 A3002 KFYM 021615Z AUTO 27006KT 10SM FEW017 SCT025 BKN032 24/23 A2998 RMK KGOV 021615Z AUTO 01008KT 10SM CLR 20/06 A3007 RMK AO2 T02000056 KHHF 020355Z AUTO 21011KT 10SM CLR 28/19 A2991 RMK AO2 T02820188 KHHG 020355Z AUTO 34003KT 10SM SCT042 15/12 A2996 RMK AO2 T01520121 KFZG 020410Z AUTO 00000KT 10SM BKN050 OVC060 28/21 A3011 RMK AO2 T02760211 KFXY 020355Z AUTO 07003KT 10SM CLR 13/10 A3001 RMK AO2 WAHS 021500Z 00000KT 6000 FEW018 26/21 Q1013 NOSIG UTAA 021600Z 29006MPS 9999 FEW100 37/15 Q1011 NOSIG KHGR 021553Z VRB03KT 7SM BKN090 24/16 A2992 RMK AO2 SLP137 T02390161 KGRB 021553Z 04007KT 10SM CLR 19/09 A3007 RMK AO2 SLP182 T01940094 KGPT 021600Z 24006KT 10SM SCT019 SCT026 BKN044 29/24 A3011 RMK AO2 T02890244 KHIB 021553Z AUTO VRB04KT 10SM BKN034 22/14 A3002 RMK AO2 SLP165 T02220144 DTMB 021600Z 09018KT CAVOK 29/21 Q1020 NOSIG KFYV 021553Z 23011G19KT 10SM FEW032 27/22 A2989 RMK AO2 SLP106 T02670222 KGRD 021556Z AUTO 20010KT 10SM CLR 28/21 A3001 RMK AO2 SLP155 T02830211 KHIE 021552Z AUTO 26009KT 10SM BKN044 BKN055 18/10 A2988 RMK AO2 SLP119 T01830100 TSNO KGRF 021558Z AUTO 32005KT 10SM CLR 25/14 A3003 RMK AO2 SLP171 T02470138 KHIF 021558Z AUTO 10009KT 10SM CLR 27/11 A3013 RMK AO2 SLP133 T02670111 URRR 021600Z 05004MPS 9999 FEW040 SCT100 27/14 Q1016 R04/CLRD70 NOSIG RMK QFE755/1007 KGPZ 021615Z AUTO 20008KT 10SM CLR 22/13 A3003 RMK AO1 WAJJ 021300Z 00000KT 7000 FEW014 25/23 Q1009 FAUP 021600Z 02005KT CAVOK 17/04 Q1023 NOSIG KHHR 021553Z 26005KT 10SM CLR 21/17 A3000 RMK AO2 SLP158 T02110172 KGRI 021600Z 34006KT 10SM FEW009 SCT014 26/20 A2996 RMK AO2 T02560200 KHII 021610Z AUTO 14006KT 10SM CLR 34/15 A2991 RMK AO2 UTAK 021600Z 34006MPS CAVOK 31/15 Q1012 NOSIG KGSB 021558Z AUTO 25009KT 10SM FEW130 29/20 A2991 RMK AO2 SLP130 T02860198 $ KIAB 021558Z AUTO 07007KT 10SM FEW210 26/21 A2991 RMK AO2 SLP116 T02610210 $ KGRK 021601Z AUTO 20014KT 10SM FEW028 27/21 A3003 RMK AO2 WSHFT 1554 ZWWW 021600Z 16003MPS CAVOK 26/09 Q1011 NOSIG UTAM 021600Z 02002MPS 6000 SKC 37/14 Q1006 NOSIG FAUT 021600Z AUTO /////KT //// // ////// ///// Q//// FAWB 021600Z AUTO 01002KT //// // ////// 15/03 Q1028 KIAD 021552Z 34007KT 10SM OVC055 23/16 A2991 RMK AO2 SLP127 T02280161 KHHV 021615Z AUTO 12012G20KT 9SM CLR 29/24 A3006 RMK A01 KHHW 020415Z AUTO 10SM CLR 28/22 A2994 RMK AO2 T02770215 KHIO 021553Z VRB03KT 10SM CLR 24/14 A2999 RMK AO2 SLP150 T02440144 FBMN 021600Z VRB02KT CAVOK 23/04 Q1023 KIAG 021553Z 05008KT 10SM FEW020 FEW050 FEW120 19/11 A2999 RMK AO2 SLP154 T01940106 KFZY 021554Z AUTO 32004KT 10SM FEW037 19/10 A2997 RMK AO2 SLP147 T01940100 KHJH 020355Z AUTO 00000KT 10SM CLR 23/20 A2989 RMK AO2 T02320202 URSS 021600Z 11002MPS 080V150 9999 OVC080 23/17 Q1015 WS ALL RWY R02/090070 R06/090070 NOSIG RMK R06/17001MPS QFE760 KGSH 021553Z AUTO 08009KT 9SM FEW023 FEW033 21/14 A2999 RMK AO2 SLP153 T02060144 KIAH 021553Z 17007KT 10SM SCT020 SCT180 OVC250 29/24 A3004 RMK AO2 SLP173 T02940244 ZYHB 021600Z 31002MPS CAVOK 15/13 Q1005 NOSIG KGRR 021553Z 09007KT 10SM FEW024 BKN033 19/13 A3003 RMK AO2 SLP167 T01890133 UTAT 021600Z 32004MPS CAVOK 35/17 Q1009 NOSIG KHKA 021553Z AUTO 23011G21KT 10SM FEW019 27/23 A2989 RMK AO2 PK WND 22027/1525 SLP117 T02720233 KGTB 021558Z AUTO VRB05KT 10SM FEW049 19/08 A2994 RMK AO2 SLP138 P0001 T01930082 UTAV 021600Z 35002MPS 7000 SKC 33/13 Q1005 NOSIG FAWK 021600Z AUTO 01003KT //// // ////// 13/02 Q1030 EKOD 021550Z 11018KT CAVOK 23/09 Q1024 FAVV 021600Z AUTO /////KT //// // ////// 15/M04 Q1030 KGTF 021553Z 20004KT 10SM FEW110 22/11 A3021 RMK AO2 SLP199 T02220111 KHJO 021553Z AUTO 00000KT 6SM HZ CLR 26/19 A2990 RMK AO2 SLP124 T02610194 KGSO 021554Z 28009G16KT 10SM FEW040 SCT140 OVC250 28/18 A2993 RMK AO2 SLP122 T02780178 KGSP 021553Z 21008KT 10SM SCT022 28/21 A2998 RMK AO2 SLP139 T02780206 KGRY 021620Z AUTO 12010KT 10SM FEW022 29/24 A3012 RMK A01 WALL 021230Z 23004KT 9000 SCT018 28/24 Q1012NOSIG UTDD 021600Z VRB01MPS 9999 NSC 31/13 Q1008 R09/CLRD// NOSIG RMK QFE688/0917 KHLC 021553Z AUTO VRB06KT 10SM -RA FEW016 25/19 A2999 RMK AO2 SLP132 P0000 T02500189 KGUC 021615Z 36003KT 10SM CLR 20/09 A3038 RMK AO1 KIBM 021540Z AUTO RMK AO2 PWINO PNO TSNO KHLG 021553Z VRB04KT 10SM CLR 22/16 A2996 RMK AO2 SLP143 T02170156 URWA 021600Z 36003MPS 330V040 CAVOK 30/10 Q1015 R27/010070 NOSIG KGTR 021550Z 23010G16KT 10SM OVC110 27/21 A3002 UTDK 021600Z 04004MPS 9999 SKC 31/10 Q1006 01CLRD70 RMK QFE698/0931 KIDA 021553Z 01007KT 10SM FU CLR 24/12 A3015 RMK AO2 SLP156 T02390122 KHKS 021553Z 22008KT 10SM CLR 27/21 A3008 RMK AO2 SLP177 T02720211 UTDL 021600Z VRB01MPS 9999 FEW200 31/12 Q1009 NOSIG RMK QFE718/0957 88CLRD70 WAMM 021530Z 16015KT 9999 FEW024 28/16 Q1011 NOSIG KICL 020355Z AUTO 06008G13KT 10SM FEW050 SCT055 21/19 A2992 RMK AO2 KGTU 021547Z 17012G17KT 10SM BKN025 BKN033 26/21 A3002 KGUL 021615Z AUTO 12010KT 9SM FEW021 29/24 A3008 RMK A01 KGVE 021622Z AUTO 03007KT 10SM OVC044 24/17 A2991 RMK AO1 KHLN 021553Z VRB03KT 10SM CLR 24/11 A3019 RMK AO2 SLP202 T02390106 URWI 021600Z 08005MPS CAVOK 28/11 Q1016 R27/010065 KGUP 021553Z AUTO 06009KT 10SM CLR 25/10 A3026 RMK AO2 SLP046 T02500100 KHKY 021553Z 24005KT 10SM -RA FEW048 BKN110 27/17 A2997 RMK AO2 RAB52 SLP125 P0000 T02670167 UTFA 012100Z 05009KT 9999 NSC 26/11 Q1011 R88/09//70 KGUR 020355Z AUTO 18004KT 10SM 26/15 A3005 RMK AO2 LTG DSNT N T02570147 PWINO KICR 021613Z AUTO 01007KT 10SM FEW007 OVC080 20/17 A2999 RMK AO2 RAE07 P0000 T02000172 KIDI 021615Z AUTO VRB04KT 10SM FEW023 22/17 A2998 RMK A01 KHLR 021558Z AUTO 19013KT 8SM SCT027 28/21 A3002 RMK AO2 SLP155 T02780207 UTDT 021600Z VRB01MPS 9999 SKC 31/16 Q1004 35CLRD70 RMK QFE714/0952 KGUS 021558Z AUTO 04009KT 10SM CLR 21/16 A2994 RMK AO2 SLP139 T02100164 KGWB 020355Z AUTO 00000KT 10SM CLR 15/12 A2997 RMK AO2 KICT 021553Z 06007KT 10SM FEW100 BKN150 BKN180 27/22 A2991 RMK AO2 SLP112 T02720217 KHNB 021615Z AUTO 21009KT 10SM OVC032 23/19 A2989 RMK AO1 USNN 021600Z 09005MPS 7000 -TSRA BKN027CB 19/16 Q0998 R03/250350 TEMPO VRB15MPS 2000 TSRA BKN015CB RMK QFE744 KGVL 021618Z AUTO 25011G16KT 10SM SCT023 SCT029 BKN042 28/22 A3004 RMK AO2 T02780217 UTFF 021600Z 10002KT 050V140 9999 NSC 32/11 Q1010 R18/CLRD70 KHND 021556Z 20006KT 10SM CLR 31/18 A3003 RMK AO2 SLP133 T03060178 KHMN 021558Z AUTO 27008KT 10SM CLR 29/10 A3004 RMK AO2 SLP095 T02930102 $ KHLX 020355Z AUTO 25004KT 7SM -DZ BKN100 19/17 A3004 RMK AO2 T01860173 KIDP 020355Z AUTO 21016G19KT 10SM CLR 28/20 A2978 RMK AO2 KGUY 021553Z AUTO 35013KT 10SM CLR 28/17 A3002 RMK AO2 SLP113 T02780167 WBGB 021600Z 00000KT 9999 FEW016 SCT150 BKN300 25/23 Q1011 KIFA 020915Z AUTO 00000KT 10SM CLR 12/11 A2999 RMK AO2 T01210110 KGXA 021555Z AUTO 29009KT 29/09 A3006 RMK AO2 SLP123 T02850090 TSNO $ KGVT 021535Z AUTO 22012G24KT 10SM CLR 28/17 A3001 RMK AO2 KHOB 021550Z 10006KT 10SM SKC 24/18 A3007 UTFN 021600Z 33006KT 9000 NSC 31/13 Q1009 R28/CLRD70 NOSIG URWW 021600Z 32003MPS CAVOK 28/08 Q1016 R29/010070 NOSIG EKSB 021550Z 11021KT CAVOK 25/14 Q1023 EKRK 021620Z AUTO 14015KT 9999NDV NCD 20/11 Q1027 WAOO 021200Z 14002KT 9999 SCT018 27/22 Q1011 NOSIG KHOE 020355Z AUTO 23003KT 10SM CLR 25/22 A3010 RMK AO2 WBGG 021600Z 19002KT 9999 FEW020 BKN300 27/23 Q1012 NOSIG KIEN 021600Z AUTO 34006KT 10SM SCT022 BKN030 BKN035 22/17 A3009 RMK AO2 T02170167 KGWO 021553Z AUTO 22010KT 10SM CLR 27/21 A3001 RMK AO2 SLP162 T02720211 EKRN 021620Z AUTO 09015KT 9999NDV NCD 22/09 Q1028 KGXF 021558Z 25007KT 230V290 10SM CLR 33/16 A2991 RMK AO2A SLP114 T03330156 KGVX 021615Z AUTO 15015KT 10SM SCT021 29/24 A3007 RMK A01 KHMZ 020355Z AUTO 00000KT 7SM CLR 15/14 A2995 RMK AO2 T01450135 KHNR 020355Z AUTO 08009KT 10SM BKN060 OVC070 20/18 A2997 RMK AO2 KGWR 021615Z AUTO 19008KT CLR 22/12 A3000 RMK AO1 KGYB 020355Z AUTO 17004KT 10SM CLR 22/21 A3009 RMK AO2 T02200210 DTTA 021600Z 06010KT 030V090 CAVOK 33/12 Q1019 NOSIG DTTB 021600Z 06016KT CAVOK 32/17 Q1019 FBSK 021600Z 09007KT 080V150 CAVOK 19/02 Q1027 NOSIG KGWW 021634Z AUTO 22009KT 10SM BKN110 27/21 A2993 RMK AO2 USPP 021600Z 35002MPS CAVOK 16/11 Q1008 R03/090060 TEMPO VRB15MPS -TSRA SQ BKN020CB RMK QFE745 KHON 021555Z AUTO 12008KT 10SM -RA FEW070 OVC095 17/14 A2998 RMK AO2 LTG DSNT NW RAB44 SLP148 P0000 T01720144 DTTD 021600Z 09006KT CAVOK 35/04 Q1017 EKSN 021350Z 16018KT CAVOK 24/09 Q1026 DTTF 021600Z 12010G22KT 050V180 CAVOK 34/14 Q1016 WBGR 021600Z 25004KT 9999 FEW014 BKN150 29/25 Q1011 KIFP 021615Z AUTO 15006KT 10SM CLR 34/15 A2991 RMK AO2 KHOP 021558Z AUTO 20007KT 10SM FEW130 25/22 A2989 RMK AO2 SLP118 T02510220 KHNZ 021628Z AUTO 25008KT 10SM SCT035 SCT044 BKN060 28/18 A2992 RMK AO2 DTTG 021600Z 08016KT CAVOK 31/17 Q1018 NOSIG WBGS 021600Z 14002KT 9999 FEW018 SCT150 BKN300 26/23 Q1011 EKSP 021620Z 11022KT CAVOK 24/15 Q1023 KGYH 021547Z 23010G16KT 10SM BKN015 25/19 A3000 FBSP 021600Z 09006KT CAVOK 20/08 Q1026 KGYI 020355Z AUTO 18010KT 10SM CLR 28/23 A2996 RMK AO2 T02760230 DTTJ 021600Z 09015KT CAVOK 29/19 Q1018 NOSIG KHOT 021553Z AUTO 24013G18KT 10SM CLR 27/20 A2995 RMK AO2 SLP132 T02720200 KGYL 021615Z AUTO 14003KT 10SM CLR 22/13 A3003 RMK AO2 T02220131 KHOU 021553Z 18007KT 10SM FEW020 SCT180 OVC250 30/24 A3004 RMK AO2 SLP178 T03000244 DTTK 021600Z 11004KT 360V170 CAVOK 36/11 Q1018 DTTL 021100Z VRB04KT 9999 FEW020 29/17 Q1022 KIGM 021551Z AUTO 23005KT 10SM CLR 29/14 A3010 RMK AO2 SLP115 T02890139 WBGY 021600Z 00000KT 9999 FEW022 BKN300 24/23 Q1011 KHPN 021556Z 00000KT 10SM SCT040 25/14 A2991 RMK AO2 SLP122 T02500139 DTTN 021600Z 04019KT CAVOK 38/19 Q1016 SIROCCO KGXY 021615Z AUTO 25010KT 10SM CLR 22/14 A3022 RMK AO1 KIGQ 021540Z AUTO 05009G15KT 10SM CLR 19/12 A3000 RMK AO2 T01860122 KGZH 021553Z AUTO 26007G22KT 10SM SCT022 SCT030 BKN065 29/23 A3010 RMK AO2 LTG DSNT E AND SE SLP189 T02890233 KGYR 021547Z 25010KT 10SM FEW200 FEW250 32/16 A2993 KHQI 021615Z AUTO 13011G16KT 9SM FEW021 29/24 A3009 RMK A01 DTTR 021600Z 05008KT CAVOK 38/04 Q1016 KIIB 020355Z AUTO 05005KT 10SM OVC090 15/12 A3000 RMK AO2 KGZL 021615Z AUTO 25014G20KT 10SM CLR 29/20 A2989 RMK AO2 KHQM 021553Z AUTO 18005KT 5SM HZ CLR 17/14 A3005 RMK AO2 SLP179 T01670139 EKVD 021620Z AUTO 13014KT 090V160 //// ///////// 25/13 Q1023 KIGX 021556Z AUTO VRB05KT 9SM FEW026 SCT110 28/19 A2993 RMK AO2 SLP129 T02780194 TSNO KGYY 021545Z 01012KT 10SM BKN009 19/15 A3001 DTTX 021600Z 10013KT CAVOK 29/18 Q1019 NOSIG USRR 021600Z 06005MPS 6000 SCT018CB BKN100 16/16 Q0995 RETS R07/290350 TEMPO 1000 TSRA VV003 RMK OBST OBSC QFE741 WARR 020500Z 11009KT 080V140 9999 FEW020 29/18 Q1013 NOSIG EKVG 021620Z AUTO 23003KT 3000NDV BR BKN001/// 10/10 Q1014 DTTZ 021600Z 08012KT CAVOK 36/13 Q1016 NOSIG KHRI 021553Z AUTO 00000KT 10SM CLR 27/11 A2996 RMK AO2 SLP138 T02670106 KHSA 021550Z 23005KTS 7SM SCT015 BKN030 28/23 A3011 KHRJ 021626Z AUTO 23006KT 10SM BKN120 27/19 A2995 RMK AO2 KHSB 020915Z AUTO 08006KT 10SM -RA SCT010 SCT060 SCT080 21/21 A2985 RMK AO2 LTG DSNT N AND S T02140214 EKVJ 021250Z 13014G26KT CAVOK 27/12 Q1024 KHQU 020355Z AUTO 19003KT 10SM SCT120 23/21 A3008 RMK AO1 T02320210 KHRL 021616Z 19025G34KT 9SM SCT025 BKN041 BKN050 29/23 A3002 RMK AO2 PK WND 20034/1615 LTG DSNT W PRESRR T02890233 KJAC 021615Z AUTO 20006KT 10SM CLR 21/11 A3027 RMK AO1 KIJD 021552Z AUTO 34005KT 10SM SCT038 24/14 A2992 RMK AO2 SLP129 T02440144 KHSE 021551Z AUTO 21008KT 10SM CLR 28/24 A2995 RMK AO2 SLP140 T02830239 TSNO KHRO 021611Z AUTO 24005KT 10SM SCT027 OVC034 26/22 A2989 RMK AO2 T02610222 ELLX 021620Z 15009KT 100V210 CAVOK 34/16 Q1019 NOSIG KHQZ 021550Z 20011G14KT 10SM CLR 27/19 A3002 USSS 021600Z 32007MPS 9999 SCT010 OVC021CB 15/14 Q1001 R26R/110050 R26L/110070 TEMPO 31012MPS RMK QFE730 WBKK 021600Z 13003KT 9999 FEW014 SCT140 BKN270 28/25 Q1011 NOSIG KHSI 021600Z AUTO VRB04KT 10SM SCT009 24/21 A2995 RMK AO2 T02390206 KL18 021540Z AUTO 00000KT 5SM BR OVC004 20/19 A3002 RMK AO2 WBKL 021600Z 25003KT 9999 FEW012 BKN290 29/24 Q1011 KHRT 021558Z AUTO 21013G20KT 10SM FEW150 29/22 A3011 RMK AO2 LTG DSNT N SLP198 T02910215 $ UUBP 021600Z 29003MPS 9999 SCT033 22/15 Q1021 R34/CLRD70 NOSIG RMK QFE748/0997 KJAN 021554Z 23008KT 10SM FEW050 SCT150 BKN250 27/21 A3008 RMK AO2 SLP181 T02670206 KHRX 021615Z AUTO 10SM BKN095 30/17 A3006 RMK AO2 T02980168 KIIY 021540Z AUTO 21006KT 10SM CLR 30/23 A3001 RMK AO2 USTR 021600Z 27006MPS 9999 -SHRA BKN010 OVC020CB 18/17 Q0995 R30/290060 TEMPO 2000 SHRA RMK QFE737/0982 KHSP 021615Z AUTO 32005KT 10SM BKN005 OVC013 18/17 A3004 RMK AO2 T01800172 WBKS 021600Z 18001KT 9999 FEW016 SCT140 OVC270 28/25 Q1010 WATT 021500Z 12004KT 8000 FEW020 23/21 Q1016 NOSIG WBKT 021600Z 24004KT 9999 FEW014 SCT033 BKN260 26/25 Q1010 KJAS 021540Z AUTO 19010KT 10SM CLR 29/25 A3009 RMK AO2 T02870246 KHUA 021606Z 23010G18KT 10SM VCTS SCT022 BKN050 BKN060 28/23 A2996 RMK LTG DSNT NE-E KIKK 021559Z AUTO 06011KT 10SM BKN025 20/14 A2997 RMK AO2 UUDD 021600Z 36007MPS 330V060 9999 FEW050CB BKN100 23/13 Q1019 R32L/190095 R32R/010095 TEMPO VRB14MPS 2100 -TSRA KHST 021558Z AUTO 09007KT 10SM CLR 31/22 A3012 RMK AO2 SLP203 T03130224 UUBW 021600Z 04005MPS 9999 TS BKN050CB 22/14 Q1019 R30/////60 TEMPO VRB13MPS -TSRA BKN010CB WBKW 021600Z 00000KT 9999 FEW017 SCT140 BKN270 27/26 Q1010 KHTL 021553Z AUTO 06008KT 10SM CLR 19/06 A3007 RMK AO2 SLP185 T01940056 KJAU 021615Z AUTO 18004KT 10SM SCT009 BKN022 21/19 A2996 RMK KHSV 021553Z 23011KT 10SM FEW029 SCT060 SCT110 BKN250 29/22 A2997 RMK AO2 SLP140 CB DSNT N AND NE T02890222 KILE 021615Z AUTO 19011KT 10SM SCT031 BKN038 28/20 A3003 RMK AO1 KHTO 021555Z 00000KT 10SM SKC 24/ A2993 KIJX 020355Z AUTO 06006KT 10SM CLR 22/20 A2990 RMK AO2 T02200200 KHUF 021553Z 04005KT 10SM BKN070 20/16 A2992 RMK AO2 SLP127 T02000156 KJAX 021556Z 29011KT 10SM FEW035 SCT120 BKN250 31/21 A3008 RMK AO2 SLP188 T03110211 KL35 020355Z AUTO 25003KT 10SM CLR 16/11 A3028 RMK AO2 KILG 021551Z 04005KT 8SM SCT055 BKN090 OVC100 22/18 A2991 RMK AO2 RAE18 SLP129 P0001 T02170183 KJBR 021627Z AUTO 26010G16KT 10SM FEW015 SCT020 SCT027 27/22 A2987 RMK AO2 T02670222 KL38 020355Z AUTO 00000KT 10SM VCTS SCT030 24/24 A3009 RMK AO2 LTG DSNT SW T02380238 UUDL 021600Z 30004MPS 9000 -SHRA SCT033CB 17/16 Q1018 R23/190195 NOSIG RMK QFE755 KHTS 021551Z VRB03KT 6SM BR FEW008 BKN043 OVC050 20/18 A2993 RMK AO2 RAE44 SLP129 P0002 T02000183 KIKT 021615Z AUTO 09011KT 10SM CLR 29/21 A3012 RMK A01 UUEE 021600Z 32008MPS 9999 BKN050CB 21/13 Q1020 R25R/000062 R25L/000062 NOSIG KHUL 021553Z AUTO 23012G19KT 10SM FEW037 OVC049 19/11 A2972 RMK AO2 SLP065 T01940111 KIKV 020355Z AUTO 04006KT 10SM FEW050 17/15 A2996 RMK AO2 KHUM 021547Z 20006KT 7SM SCT020 BKN080 29/25 A3011 RMK VA RY18 ATIS L........DV KJDD 020355Z AUTO 19004KT CLR 26/22 A3000 RMK AO2 KILM 021553Z AUTO 23011KT 10SM CLR 31/21 A2997 RMK AO2 SLP147 T03060211 KHVE 020355Z AUTO 02012G20KT 10SM CLR 32/10 A2997 RMK AO2 KIKW 021613Z AUTO 00000KT 10SM OVC042 19/09 A3005 RMK AO2 T01940087 KILN 021611Z AUTO 08003KT 4SM BR OVC005 19/18 A2994 RMK AO2 T01940178 FCPP 021600Z 18008KT 8000 FEW013 24/20 Q1013 NOSIG KHUT 021552Z 02006KT 8SM FEW070 25/21 A2995 RMK AO2 SLP117 T02500211 KJCT 021551Z AUTO 19011KT 10SM FEW034 26/18 A3005 RMK AO2 SLP141 T02610183 UTNN 021600Z 33007KT 8000 NSC 34/14 Q1010 R33/CLRD60 NOSIG EKYT 021620Z 14017KT CAVOK 25/11 Q1024 KIML 021553Z AUTO 29008KT 10SM CLR 24/16 A3007 RMK AO2 SLP148 T02440156 KHWD 021554Z 32005KT 10SM CLR 18/14 A2996 RMK AO2 SLP155 T01780139 KIND 021554Z 06007KT 10SM SCT220 23/15 A2990 RMK AO2 SLP118 T02280150 KJDN 021548Z AUTO 34011KT 23/14 A3012 RMK AO1 SLP187 T02330139 KHVN 021553Z 17008KT 10SM FEW027 SCT040 23/17 A2991 RMK AO2 SLP129 T02330167 KJEF 021553Z 05010KT 9SM BKN008 BKN012 OVC042 22/19 A2990 RMK AO2 CIG 007V010 SLP111 T02170194 KINF 021615Z AUTO 26004KT 10SM CLR A3013 RMK AO2 KHVR 021624Z AUTO VRB06KT 8SM BKN028 BKN034 22/14 A3017 RMK AO2 T02220139 ZYTL 021600Z 32004MPS 280V340 9999 FEW033 22/13 Q1006 NOSIG KINJ 020355Z AUTO 17009KT 10SM CLR 25/19 A2999 RMK AO2 T02470190 KIMS 021613Z AUTO 16003KT 10SM OVC007 22/20 A2991 RMK AO1 UTNU 021600Z 32006KT 6000 NSC 32/18 Q1009 R31/CLRD70 NOSIG KHVS 021615Z AUTO 23007G14KT 10SM CLR 30/19 A2998 RMK AO2 KIOB 020355Z AUTO 24003KT 2 1/2SM BR SCT065 OVC090 20/20 A2997 RMK AO2 KINK 021553Z AUTO 11008KT 10SM CLR 26/18 A3000 RMK AO2 SLP112 T02560178 KIMT 021554Z AUTO 00000KT 10SM BKN085 19/08 A3006 RMK AO2 SLP183 T01940078 TSNO KINL 021555Z AUTO 26006KT 10SM CLR 22/16 A2998 RMK AO2 SLP152 T02220156 KHXD 021550Z 21010G16KT 10SM FEW025 SCT150 33/23 A3005 KHWO 021553Z VRB06KT 10SM FEW035 SCT070 32/23 A3014 RMK AO2 SLP207 T03170228 KJER 021553Z AUTO 23005KT 10SM CLR 26/07 A3010 RMK AO2 SLP146 T02560067 KJES 021540Z AUTO 29007KT 10SM CLR 31/23 A3008 RMK AO2 KHYA 021556Z 22010KT 10SM CLR 24/14 A2990 RMK AO2 SLP124 T02440144 KINS 021558Z AUTO 36004KT 10SM FEW140 30/14 A3004 RMK AO2 SLP117 T02990135 KJFK 021551Z VRB04KT 10SM FEW055 SCT100 SCT150 OVC260 27/12 A2991 RMK AO2 SLP127 T02670122 KINT 021554Z 34004KT 10SM CLR 28/17 A2994 RMK AO2 SLP127 T02780172 ZYTX 021600Z VRB01MPS CAVOK 14/13 Q1005 NOSIG ENAL 021620Z 08007KT CAVOK 25/15 Q1018 KHWV 021556Z AUTO 00000KT 10SM FEW070 26/16 A2992 RMK AO2 SLP129 T02560161 TSNO KINW 021556Z AUTO 10008KT 10SM CLR 25/16 A3018 RMK AO2 SLP144 T02500161 ENAN 021620Z 17007KT 9999 -RA FEW005 SCT008 BKN015 11/10 Q1018 TEMPO 2000 RADZ BKN006 KHWY 020355Z AUTO 00000KT 10SM SCT100 21/20 A2991 RMK AO2 T02070200 KJGG 020355Z AUTO 24005KT 10SM CLR 27/22 A2992 RMK AO1 KHYI 021550Z 15011KT 10SM SCT020 28/22 A3005 KIPJ 021610Z AUTO 21005KT 10SM SCT029 SCT036 SCT041 27/17 A2996 RMK AO2 FDJR 021600Z AUTO 03002KT //// // ////// 14/05 Q1029 FDLB 021600Z AUTO 08003KT //// // ////// 21/09 Q1028 ENAT 021550Z 32007KT CAVOK 14/06 Q1019 RMK WIND 700FT 31004KT KIPL 021553Z AUTO 29003KT 10SM CLR 31/21 A2987 RMK AO2 SLP115 T03110206 ENBL 021620Z VRB06KT CAVOK 24/07 Q1020 KIOW 021552Z AUTO 07010KT 10SM CLR 19/09 A3002 RMK AO2 SLP164 T01940094 KHZE 021615Z AUTO 33003KT 7SM CLR 21/17 A3002 RMK AO2 KIPN 021615Z AUTO 06007KT 10SM CLR 30/23 A3014 RMK A01 ENBN 021620Z VRB02KT CAVOK 20/12 Q1021 KJFX 021615Z AUTO 23008KT 020V030 9SM CLR 29/23 A3002 RMK A02 P-128 ENBO 021620Z 10013KT 9999 -RA SCT030 BKN040 13/12 Q1020 NOSIG KJFZ 020355Z AUTO 24006KT 7SM OVC008 19/18 A3005 RMK AO2 T01870178 UTSA 021500Z 07005KT 9999 NSC 36/06 Q1007 R07/CLRD70 NOSIG UTSB 021600Z 04004KT 6000 NSC 32/14 Q1007 R01/CLRD70 NOSIG WBSB 021600Z 23001KT 9999 FEW015 BKN270 27/23 Q1012 NOSIG KHYR 021553Z AUTO 00000KT 10SM CLR 21/11 A3006 RMK AO2 SLP179 T02110106 ENBR 021620Z 17013KT CAVOK 26/11 Q1019 NOSIG RMK WIND 1200FT 17022KT KHYS 021615Z 00000KT 10SM BKN010 22/17 A2998 RMK AO1 ENBS 021550Z 20014KT CAVOK 12/M01 Q1020 KIPT 021554Z 10SM FEW032 23/14 A2992 RMK AO2 SLP130 T02330139 KHZL 020355Z AUTO 00000KT 10SM CLR 16/13 A2997 RMK AO2 ENBV 021550Z 09006KT CAVOK 12/03 Q1020 KHYW 021615Z AUTO 25008KT 5SM HZ CLR 30/20 A2999 RMK AO2 KJHN 021615Z AUTO 02011G15KT 7SM CLR 27/16 A3005 RMK AO2 T02680162 ENCN 021620Z 09010KT CAVOK 23/15 Q1024 KHYX 021614Z AUTO 36009KT 10SM SCT039 20/09 A3004 RMK AO2 KHZR 020355Z AUTO 00000KT 10SM SCT019 SCT039 SCT065 A3010 RMK AO2 LTG DSNT S UTSK 021600Z 01012KT CAVOK 38/03 Q1006 R34/CLRD70 KIRK 021604Z AUTO 08009KT 10SM SCT024 21/15 A2996 RMK AO2 T02110150 KJHW 021615Z 31003KT 10SM CLR 19/11 A3000 RMK AO1 KHZX 021614Z AUTO 22005KT 10SM SCT080 22/13 A3004 RMK AO2 KHZY 021553Z AUTO 03007KT 10SM CLR 21/15 A3000 RMK AO2 SLP154 T02060150 UTSS 021600Z 04007KT 9999 NSC 30/09 Q1010 R88/CLRD70 NOSIG UTST 021600Z 17004KT CAVOK 35/11 Q1002 R88/CLRD70 NOSIG KJKA 021430Z AUTO 20010G14KT 10SM BKN095 BKN120 27/22 A3012 RMK AO2 T02710217 ENDR 021620Z AUTO 12021KT 20/13 Q1019 KIRS 021615Z AUTO 06009KT 040V100 10SM SCT026 BKN034 19/14 A3000 RMK AO2 FDMS 021600Z 08005KT 9999 BKN030 16/13 Q1027 NOSIG KM19 021556Z AUTO 22014KT 10SM FEW050 SCT075 SCT090 24/23 A2988 RMK AO2 T02440233 LTG DSNT W AND NW P0001 PK WND 23028/1459 SLP114 ENFB 021620Z AUTO 18034KT 9000NDV OVC010/// 14/12 Q1016 W///S4 ENEK 021620Z 16006KT CAVOK 15/14 Q1018 W13/S4 KISM 021552Z 16004KT 10SM FEW030 31/23 A3014 ENDU 021620Z 14002KT 9999 -RA FEW002 BKN035 12/11 Q1019 NOSIG FDMV 021500Z AUTO 05005KT //// // ////// 23/13 Q1031 KISN 021616Z AUTO 00000KT 3SM HZ CLR 23/16 A3005 RMK AO2 T02330156 KISO 021556Z 22010KT 5SM HZ CLR 30/20 A2994 RMK AO2 FEFF 021600Z VRB01KT 9999 TS SCT023 FEW033CB 30/24 Q1010 NOSIG KM25 021615Z AUTO 19008G15KT 10SM SCT024 BKN028 BKN035 27/22 A2988 RMK AO2 PWINO KISP 021556Z 00000KT 10SM FEW050 SCT075 SCT160 OVC210 26/16 A2989 RMK AO2 SLP121 T02560156 LBBG 021600Z 04005KT 350V060 9999 SHRA FEW033CB BKN046 22/19 Q1019 BECMG NSW ENFG 021520Z 18012KT 9999 FEW080 24/07 Q1026 KISQ 021615Z AUTO 21006KT 10SM CLR 20/08 A3006 RMK AO2 T01970081 KITH 021556Z 36007KT 10SM BKN023 BKN060 20/14 A2997 RMK AO2 T02000138 SLP146 UTTT 021600Z 25003KT CAVOK 34/10 Q1009 R08R/CLRD70 NOSIG KJKJ 021611Z AUTO 17010KT 10SM CLR 21/12 A3000 RMK AO2 KM30 021510Z AUTO 00000KT 10SM BKN080 BKN110 27/25 A2987 RMK AO2 T02650246 KJKL 021623Z AUTO 00000KT 1/2SM RA FG SCT003 OVC007 19/18 A2996 RMK AO2 P0009 T01890183 ENGC 021620Z 20035KT 9000 BKN010 14/12 Q1016 W11/S5 ENFL 021620Z 21005KT 170V240 CAVOK 22/10 Q1018 ENEV 021550Z 20005KT 160V240 9999 -RA FEW003 SCT007 BKN015 12/11 Q1020 RMK WIND 1400FT 23018G28KT KISW 021554Z AUTO 04007KT 10SM CLR 19/08 A3008 RMK AO2 SLP187 T01940078 KITR 021553Z AUTO 34010KT 10SM BKN070 BKN110 21/11 A3019 RMK AO2 LTG DSNT W-NE SLP175 T02060111 KM40 021615Z AUTO 22008G14KT 5SM BR CLR 29/29 A3001 RMK AO2 FEFT 021000Z 28012KT 9999 OVC020 25/22 Q1013 UUMO 021600Z 36007MPS CAVOK 22/14 Q1020 R26/090060 NOSIG RMK QFE749/0999 ENHD 021620Z 16017G28KT CAVOK 26/12 Q1019 ENGM 021620Z 22015KT 190V250 CAVOK 24/08 Q1026 NOSIG KJLN 021553Z 30005KT 10SM SCT026 OVC034 28/23 A2986 RMK AO2 SLP099 T02780228 ENHE 021550Z 19025KT CAVOK 16/11 Q1018 W///S4 ENHF 021550Z 05009KT CAVOK 11/04 Q1019 RMK WIND 1254FT 06006KT FDPP 020600Z AUTO 11001KT //// // ////// ///// Q1033 UUOB 021600Z 35004MPS 9999 FEW046 23/13 Q1019 R29/090060 NOSIG KIWA 021547Z 28006KT 45SM FEW250 32/14 A2996 ENHK 021420Z 29007KT CAVOK 13/04 Q1020 KIWD 021615Z AUTO 21004KT 10SM CLR 21/12 A3001 RMK AO1